ENHM 010420Z AUTO 31009KT //// NCD 11/06 Q1004 W13/S5 UUOK 301900Z 21006MPS CAVOK 14/11 Q1016 R12/CLRD70 NOSIG RMK QFE744/0992 KIWI 010353Z AUTO 00000KT 10SM CLR 11/06 A3045 RMK AO2 SLP311 T01060061 KJMR 010437Z AUTO 00000KT 10SM OVC006 11/10 A3026 RMK AO2 KIXA 010425Z AUTO 00000KT 10SM OVC022 21/21 A3005 RMK AO2 PPIT 010356Z AUTO 11013KT 10SM CLR 12/04 A2978 RMK AO2 SLP085 T01220044 KJMS 010356Z AUTO 13011KT 10SM CLR 14/09 A3014 RMK AO2 SLP208 T01390089 UUOO 010430Z 25003MPS CAVOK 12/09 Q1016 R30/090070 NOSIG RMK QFE748 KIXD 010353Z AUTO 07007KT 10SM CLR 15/12 A3014 RMK AO2 SLP200 T01500117 ENHV 302050Z VRB01KT 9999 SCT029 BKN043 08/07 Q0971 KM63 010358Z AUTO 17008KT 10SM CLR 19/16 A3015 RMK AO2 SLP157 T01880155 PPIZ 010356Z AUTO 09007KT 10SM CLR 08/04 A3010 RMK AO2 SLP196 T00780044 TSNO KIYA 010435Z AUTO 00000KT 10SM CLR 16/15 A3008 RMK AO2 T01560153 ENKB 010420Z AUTO 27011KT 9999 FEW029/// SCT039/// OVC170/// 09/04 Q1000 FDSK 010400Z 19009KT 9999 BKN030 18/17 Q1016 KJNX 010430Z AUTO 00000KT 10SM SCT005 20/20 A3002 RMK AO2 LTG DSNT SE VLPS 010400Z 36002KT 9999 FEW017 SCT050 29/24 Q1009 NOSIG OYMB 301200Z 20004KT 9999 SCT020 FEW025CB SCT070 27/16 Q1012 KIZA 010427Z AUTO 23003KT 10SM CLR 12/M33 A3005 RMK AO2 ENLA 010420Z AUTO 24003KT 200V290 9999NDV FEW020/// BKN064/// 12/08 Q1006 W///S4 KJOT 010435Z AUTO 03004KT 10SM OVC021 17/15 A3004 RMK AO2 T01720152 FDST 010300Z AUTO 22006KT //// // ////// 14/14 Q//// KJQF 010425Z AUTO 00000KT 10SM CLR 14/12 A3007 RMK AO2 LTG DSNT SE LBGO 010430Z AUTO 00000KT 0800 0700SW R09/0500N BCFG NCD 06/06 Q1018 BECMG 0600 BCFG KIZG 010354Z AUTO 00000KT 10SM SCT120 07/07 A3044 RMK AO2 SLP310 T00720067 ENKR 010420Z AUTO 18008KT 8000NDV -RA BKN004/// BKN006/// OVC011/// 07/06 Q0973 RMK WIND 731FT 20014KT KJRB 010435Z 03014G19KT 10SM OVC008 16/14 A3023 RMK AO1 ENLK 301850Z 29010KT 9999 VCSH SCT025 BKN035 09/05 Q0980 KN03 010435Z AUTO 08007KT 10SM OVC011 11/10 A3027 RMK AO2 VLSK 010400Z 09002KT 8000 SCT020 BKN100 30/25 Q1012 NOSIG ENMH 010020Z VRB02 9999 BKN020 07/06 Q0971 OYMT 301200Z 36005KT 9000 -RA FEW025CB SCT030 20/16 Q//// KLAA 010353Z AUTO 06007KT 10SM CLR 15/08 A3009 RMK AO2 SLP157 T01500078 TSNO $ FDUS 010000Z AUTO 11005KT //// // ////// 16/15 Q1017 ENNA 010420Z AUTO VRB03KT 9999 BKN025/// OVC046/// 08/04 Q0974 RMK WIND 1800FT 28025KT ENML 010420Z 21013KT 9999 RA SCT012 BKN023 07/06 Q1001 ENNE 010420Z AUTO 34028KT 9999NDV -SHRA BKN028/// 09/03 Q0993 W///S6 KLAF 010354Z AUTO 04008KT 10SM OVC018 16/15 A3000 RMK AO2 RAB07E26 SLP157 P0000 T01560150 TSNO ENOA 010350Z 35010KT 9999 FEW015 BKN040 10/07 Q1004 W///S5 KLBB 010353Z 16009KT 10SM BKN250 19/11 A3013 RMK AO2 SLP167 T01890111 ENMS 010420Z VRB02KT 9999 -SHRA FEW020 SCT026 BKN032 07/06 Q0989 RMK WIND 412FT VRB02KT KLAL 010435Z AUTO 00000KT 10SM SCT026 23/22 A3003 RMK AO2 LTG DSNT SW ENNK 301750Z 24021KT 9999 -SHRA FEW015 FEW020 BKN035 09/07 Q0978 KJSL 010440Z AUTO VRB04KT 10SM CLR 28/20 A3000 RMK A01 KJTC 010435Z AUTO 21005KT 10SM FEW055 10/09 A3034 RMK AO2 KLAM 010435Z AUTO 15003KT 10SM BKN085 17/02 A3029 RMK AO2 T01650024 KLAN 010353Z 08009KT 10SM OVC007 15/13 A3011 RMK AO2 CIG 005V009 SLP197 T01500133 ENNM 010420Z 26012KT 9999 -RA FEW020 SCT024 BKN032 09/06 Q0994 KLBE 010435Z AUTO 00000KT 10SM OVC013 14/14 A3011 RMK AO2 KLBF 010353Z AUTO 11006KT 10SM CLR 11/08 A3014 RMK AO2 SLP198 T01110078 KJSO 010435Z AUTO 00000KT 10SM CLR 18/11 A3011 RMK AO2 T01840117 KLAR 010353Z AUTO 00000KT 10SM OVC075 11/06 A3026 RMK AO2 SLP173 T01110056 LATI 010450Z 09003KT 3500 BR BKN220 11/10 Q1019 BECMG FM0530 6000 NSW VMMC 010430Z 02009KT 7000 FEW020 28/23 Q1010 NOSIG KLAS 010356Z 00000KT 10SM FEW110 29/06 A2994 RMK AO2 SLP115 T02940061 KJST 010354Z AUTO 08009G18KT 10SM OVC005 12/12 A3014 RMK AO2 RAB23E32 SLP208 P0000 T01170117 KLBL 010435Z 11010KT 10SM CLR 17/08 A3013 RMK AO1 ENOL 010420Z 29019KT 9999 FEW014TCU SCT030 09/04 Q0998 TEMPO SHRA BKN014CB KJSV 010435Z AUTO 00000KT 10SM CLR 13/10 A3010 RMK AO2 KLAW 010353Z AUTO 06005KT 10SM CLR 17/13 A3011 RMK AO2 SLP190 T01670133 KLAX 010353Z 22006KT 10SM CLR 22/15 A2994 RMK AO2 SLP136 T02170150 KLCG 010435Z AUTO 00000KT 10SM CLR 09/08 A3017 RMK AO2 T00880077 KLCH 010353Z AUTO 00000KT 10SM CLR 17/16 A3007 RMK AO2 SLP190 T01720156 KLCI 010356Z AUTO 08007KT 10SM BKN080 OVC110 12/06 A3042 RMK AO2 SLP319 T01170061 401500061 KN38 010435Z AUTO 00000KT 1/4SM FG OVC003 10/10 A3023 RMK AO2 KLBT 010440Z AUTO 00000KT 3/4SM BR BKN001 BKN050 19/19 A3002 RMK AO2 T01940189 $ KLCK 010435Z AUTO 16004KT 5SM BR SCT029 SCT090 13/13 A3003 RMK AO2 LTG DSNT N T01320133 ENQC 010420Z AUTO 30008KT 9999NDV -SHRA BKN053/// 10/07 Q1003 W///S4 ENOV 301750Z 24007KT 9999 FEW024 SCT038 BKN049 08/06 Q0994 RMK WIND 2175FT 26016G27KT KLBX 010353Z AUTO 00000KT 10SM CLR 17/15 A3008 RMK AO2 SLP185 T01670150 KLCQ 010435Z AUTO 00000KT 10SM CLR 18/16 A3004 RMK AO2 LTG DSNT S VLVT 010430Z 09002KT 7000 SCT016 BKN040 29/25 Q1010 NOSIG KKLS 010356Z AUTO 00000KT 10SM FEW048 SCT070 SCT100 13/09 A3001 RMK AO2 SLP165 T01280094 KLEB 010353Z 00000KT 10SM OVC090 10/08 A3040 RMK AO2 SLP292 T01000083 ENRA 010420Z 34002KT 9999 -SHRA SCT013 BKN030 05/05 Q0988 OYSD 301200Z 11003KT 9999 BKN030 23/05 Q//// KJVL 010435Z AUTO 36003KT 3SM -RA BKN006 OVC012 16/15 A3008 RMK AO2 KLDM 010435Z AUTO 07007KT 10SM -RA BKN013 BKN048 OVC120 14/14 A3012 RMK AO2 P0003 T01400140 KLEE 010353Z AUTO VRB03KT 10SM -RA FEW043 24/22 A3005 RMK AO2 RAE36B52 SLP173 P0000 T02440217 KJWG 010435Z AUTO 00000KT 10SM CLR 16/13 A3013 RMK AO2 T01600130 ENQR 010420Z AUTO 30009KT 9999NDV -SHRA BKN025/// 09/06 Q1004 W///S5 KN60 010352Z AUTO 10005KT 13/10 A3004 RMK AO1 SLP177 T01280100 UUWW 010430Z 24004MPS CAVOK 10/09 Q1011 R19/290045 NOSIG ENSB 010350Z 03021KT 9999 -SN SCT015 BKN028 03/M00 Q0989 RMK WIND 1400FT 03014KT OYSN 301200Z 05014KT 9999 FEW030 26/00 Q1024 UWGG 010430Z 25002MPS 220V300 9999 BKN013 12/11 Q1009 R18R/290050 NOSIG RMK QFE749 ENRM 301950Z 25011KT 9999 -SHRA FEW010 BKN029 09/07 Q0986 ENSD 301920Z 06007KT 9999 FEW027 BKN036 07/06 Q0997 RMK WIND 1138FT 21006KT KJVW 010435Z AUTO 00000KT 8SM CLR A3008 RMK AO2 KJWN 010435Z AUTO 00000KT 10SM BKN019 14/14 A3004 RMK LCEN 010420Z 25006KT 210V270 CAVOK 19/10 Q1014 NOSIG ENSE 010420Z AUTO 32012KT 9999NDV FEW051/// 09/05 Q1004 W///S5 OYSQ 300600Z 20035G45KT 9999 FEW018 29/21 Q1009 ENSF 010420Z AUTO 30016KT 9999NDV FEW027/// BKN044/// 10/05 Q1004 W///S5 ENRO 010420Z AUTO 28009KT 9999NDV SCT025/// BKN042/// OVC098/// 04/01 Q0998 ENSG 301750Z 23009KT 9999 -SHRA FEW/// SCT010 BKN015 04/04 Q0995 RMK WIND 3806FT 26029KT ENSH 301850Z 29005KT 9999 FEW027 SCT034 08/05 Q0979 KLFI 010408Z AUTO 12005KT 10SM BKN008 BKN013 24/23 A3006 RMK AO2 KJXI 010435Z AUTO 00000KT 10SM CLR 15/11 A3009 RMK AO2 T01450110 KLGA 010351Z 03012KT 3SM -DZ OVC008 14/13 A3023 RMK AO2 SFC VIS 8 RAE15DZB17 SLP237 P0000 T01440128 $ ENRS 301750Z 27010KT 9999 FEW020TCU SCT055 09/07 Q0980 KLFK 010353Z AUTO 00000KT 10SM CLR 15/13 A3008 RMK AO2 SLP183 T01500133 KLGB 010353Z 32003KT 10SM CLR 23/13 A2994 RMK AO2 SLP139 T02280128 ENSK 301950Z 28011KT 9999 SHRA FEW010 SCT020 BKN040 08/07 Q0979 KLGC 010435Z AUTO 00000KT 10SM CLR 12/12 A3009 RMK AO2 T01200120 ENSL 010420Z AUTO 30013KT 9999NDV FEW018/// 11/08 Q1006 W11/S4 ENTC 010250Z 22005KT 9999 -DZ FEW003 BKN013 OVC025 08/06 Q0977 REDZ RMK WIND 2600FT 32032G43KT KLGD 010435Z AUTO 29020G24KT 10SM BKN120 17/01 A2988 RMK AO1 WSHFT 00 LBPD 010430Z AUTO 31003KT 9999 NCD 10/05 Q1019 NOSIG KLEW 010356Z AUTO 00000KT 10SM CLR 08/07 A3044 RMK AO2 SLP324 T00830072 401670028 KJXN 010356Z AUTO 07005KT 9SM -RA OVC005 16/16 A3008 RMK AO2 RAB56 SLP186 P0000 T01560156 OYSY 301200Z 07008KT CAVOK 38/M02 Q1008 KLEX 010354Z 16005KT 10SM BKN018 BKN044 OVC100 14/12 A3004 RMK AO2 SLP169 T01390117 ENSO 301720Z 29005KT 250V330 9999 SCT025CB SCT045TCU BKN070 10/06 Q0999 KJYG 010435Z AUTO 00000KT 10SM OVC044 14/11 A3020 RMK AO2 KJWY 010435Z AUTO 00000KT 10SM CLR 16/12 A3012 RMK AO2 T01570122 ENRY 010420Z 22006KT CAVOK 07/03 Q1003 ENSR 302350Z 11004KT 8000 -SHRA VV030 07/06 Q0974 RMK WIND 1119FT 27013KT KLFT 010353Z 00000KT 10SM CLR 19/18 A3008 RMK AO2 SLP185 T01940178 ENSS 301850Z 13015KT 9999 SCT023 09/08 Q0972 RMK WIND 500FT 13015KT KLHB 010435Z AUTO 00000KT 10SM CLR 16/14 A3010 RMK AO2 T01600143 ENST 010420Z 31012KT 260V060 9999 SHRA SCT015CB BKN022 10/07 Q0990 RMK WIND 300FT 30018KT KJYM 010435Z AUTO 09004KT 3SM -RA OVC005 15/15 A3006 RMK AO2 UUYY 010430Z 17004MPS 5000 -SHRA SCT006 BKN015CB 07/07 Q1000 R19/29//51 NOSIG RMK QFE741/0989 EPCE 010430Z VRB01KT 9999 MIFG NSC 04/04 Q1013 RMK 042 100 0/0 = KJYO 010435Z AUTO 04006KT 3SM BR OVC005 17/17 A3013 RMK AO2 ENTO 010420Z 22008KT CAVOK 06/05 Q1004 ENUG 010420Z AUTO 33005KT 9999NDV /// 07/07 Q0972 W///S/ KJZI 010435Z AUTO 00000KT 10SM CLR 20/19 A3004 RMK AO2 KJYR 010435Z AUTO 00000KT 10SM CLR 11/07 A3017 RMK AO2 EPDA 010430Z 21006KT CAVOK 07/06 Q1013 RMK 065 096 0/0 = ENVA 010420Z 27018KT 240V310 9999 -SHRA FEW017 BKN020 09/06 Q0998 RMK WIND 670FT 28023G33KT FGBT 010400Z 18003KT 8000 -TSRA SCT010 FEW020CB OVC100 24/24 Q1010 KLGU 010351Z AUTO 22006KT 10SM CLR 16/09 A3009 RMK AO2 SLP156 T01610094 KLIC 010355Z AUTO 14004KT 10SM CLR 13/07 A3020 RMK AO2 SLP173 T01280067 KLHM 010435Z AUTO 14009KT 10SM CLR 17/06 A3000 RMK AO1 ENVD 302250Z 14012KT 9999 BKN020 08/05 Q0971 EPDE 010430Z VRB02KT CAVOK 12/11 Q1015 RMK 118 094 7/5= KJZP 010435Z AUTO 31003KT 10SM CLR 13/03 A3013 RMK AO2 T01330030 KLHQ 010445Z AUTO 00000KT 4SM BR BKN023 BKN080 13/13 A3005 RMK AO2 T01330128 EPBY 010430Z 15001KT 0200 R26/0550U FG FEW002 08/07 Q1014 ENVH 010420Z AUTO 27003KT 9999NDV FEW025/// SCT200/// 12/08 Q1007 W///S4 UWKD 010430Z 22004MPS 9999 BKN006 09/08 Q1010 R11/2/0050 TEMPO BKN005 RMK QFE747/0996 UWKE 010430Z 19008G13MPS 7000 -RA OVC100 07/06 Q1011 R21/210355 NOSIG RMK OBST OBSC QFE741/0988 VOBG 010430Z 28007KT 9999 SCT012 SCT080 24/17 Q1013 KMAE 010353Z AUTO 32016G21KT 9SM CLR 21/04 A2999 RMK AO2 SLP152 T02060044 KLHW 010358Z AUTO 00000KT 10SM CLR 17/15 A3003 RMK AO2 SLP172 T01680145 $ KLHX 010353Z AUTO 08012KT 10SM BKN110 19/08 A3011 RMK AO2 SLP152 T01940083 KMAF 010353Z 14005KT 10SM CLR 19/10 A3013 RMK AO2 SLP166 T01940100 KLJF 010433Z AUTO 07004KT 10SM CLR 14/11 A3022 RMK AO2 LBSF 010430Z 00000KT 8000 NSC 06/06 Q1020 NOSIG DXNG 010300Z 26002KT 9999 FEW006 FEW016CB 22/22 Q1014 KLHZ 010425Z AUTO 00000KT 7SM OVC006 21/21 A3006 RMK AO2 KMAI 010353Z AUTO 00000KT 10SM CLR 17/14 A3006 RMK AO2 SLP176 T01720144 VOCB 010430Z 17006KT 6000 FEW015 28/19 Q1011 NOSIG ENVR 301350Z 26007KT 200V330 9999 FEW015 SCT040 09/05 Q0979 VOBL 010430Z 28009KT 6000 SCT010 SCT012 BKN080 23/19 Q1014 NOSIG VOBM 010400Z 29006KT 8000 FEW015 SCT080 23/19 Q1013 KLIT 010353Z 05003KT 10SM FEW250 18/14 A3008 RMK AO2 SLP186 T01830144 $ KO22 010415Z AUTO 00000KT 10SM CLR 13/03 A3009 RMK AO1 KMAN 010435Z AUTO 13006KT 10SM 21/06 A2982 RMK A01 KMAO 010435Z AUTO 00000KT 7SM SCT050 18/17 A3004 RMK AO2 VOCI 010430Z 26003KT 4000 HZ FEW015 SCT020 28/25 Q1010 NOSIG KMBG 010352Z AUTO 14015G23KT 10SM CLR 17/06 A3004 RMK AO2 SLP167 T01720061 UWKS 010430Z 24004MPS 8000 OVC009CB 11/10 Q1008 R24/290260 NOSIG RMK QFE742 VNKT 010450Z VRB02KT 8000 FEW015 BKN100 25/20 Q1018 NOSIG VOCL 010430Z 31004KT 6000 FEW015 SCT020 29/23 Q1010 NOSIG KMCB 010353Z AUTO 34003KT 10SM CLR 16/14 A3008 RMK AO2 SLP181 T01610139 KMBL 010356Z AUTO 07009KT 10SM RA FEW039 BKN050 OVC070 14/13 A3014 RMK AO2 SLP226 P0004 T01440133 KMCC 010435Z AUTO 15010KT 10SM CLR 15/07 A3003 RMK AO2 KMCD 010434Z AUTO 08010G16KT 10SM SCT110 16/12 A3024 RMK AO2 T01640115 KMAW 010435Z AUTO 00000KT 10SM BKN065 18/15 A3006 RMK AO2 KMCE 010353Z AUTO 33014G23KT 10SM CLR 18/02 A3000 RMK AO2 SLP159 T01830017 TSNO EPGD 010430Z 29003KT 9999 FEW022 07/07 Q1013 VOBZ 010430Z 29006KT 2500 HZ SCT020 OVC080 29/25 Q1006 BECMG 3000HZ KMBO 010435Z AUTO 00000KT 10SM CLR 16/12 A3008 RMK AO2 KMCF 010358Z AUTO 09004KT 10SM CLR 24/24 A3004 RMK AO2 SLP175 T02430243 KLKR 010455Z AUTO 05003KT 10SM CLR 13/13 A3005 RMK AO2 PWINO KMCI 010353Z 06006KT 10SM FEW250 14/11 A3014 RMK AO2 SLP195 T01440111 $ KMBS 010437Z 05009KT 10SM FEW007 SCT011 OVC019 14/13 A3016 RMK AO2 P0002 T01390133 $ KMCJ 010435Z AUTO 03004KT 10SM CLR 22/12 A3006 RMK AO1 KLLJ 010355Z AUTO 00000KT 10SM CLR 12/05 A3003 RMK AO2 SLP136 T01170050 KMCK 010353Z AUTO 11007KT 10SM CLR 14/08 A3015 RMK AO2 SLP200 T01390078 LCLK 010430Z 30005KT CAVOK 22/11 Q1014 NOSIG UWLW 010400Z 20004MPS 4000 -SHRA BR BKN012CB 10/09 Q1012 R20/290150 TEMPO 1500 SHRA BR BKN007 RMK QFE753 KLKU 010435Z AUTO 02005KT 5SM BR OVC004 21/20 A3007 RMK AO2 KLKV 010435Z 19015G21KT 10SM OVC065 13/M03 A3002 RMK AO1 KMDD 010435Z AUTO 14006KT 10SM CLR 20/11 A3014 RMK AO2 T02030106 KMCN 010353Z AUTO 00000KT 10SM CLR 13/11 A3006 RMK AO2 SLP176 T01330111 KMCO 010353Z 21005KT 10SM FEW040 OVC250 23/22 A3003 RMK AO2 SLP167 CONS LTGIC DSNT E CB DSNT E T02280217 KMDH 010421Z AUTO 29005KT 9SM BKN010 OVC017 16/16 A3002 RMK AO2 CIG 007V013 T01610161 KLLQ 010353Z AUTO 00000KT 10SM CLR 16/14 A3008 RMK AO2 SLP185 T01560139 KMDJ 010435Z AUTO 05011KT 10SM CLR 25/13 A3008 RMK A01 KMEB 010352Z AUTO 00000KT 10SM CLR 18/18 A3003 RMK AO2 SLP166 T01830178 KLNC 010435Z AUTO 00000KT 10SM CLR 17/11 A3010 RMK AO2 T01710114 KLND 010353Z AUTO 25010KT 10SM SCT110 16/06 A3013 RMK AO2 SLP154 T01610056 KMCW 010353Z AUTO 04004KT 10SM OVC040 16/13 A3020 RMK AO2 SLP218 T01560128 KLMO 010434Z AUTO 27003KT 10SM CLR 13/09 A3019 RMK AO2 T01300087 KMCX 010435Z AUTO 06006KT 10SM OVC012 16/13 A3001 RMK AO2 T01550126 KMDQ 010435Z AUTO 00000KT 10SM CLR 12/09 A3007 RMK AO2 KMEH 010356Z AUTO 00000KT 10SM SCT120 12/00 A2994 RMK AO2 SLP134 T01170000 KMEI 010358Z AUTO 00000KT 10SM CLR 16/13 A3007 RMK AO2 SLP180 T01560128 KMDS 010430Z AUTO 09003KT 10SM CLR 09/09 A3018 RMK AO2 KLMT 010353Z 28008KT 10SM CLR 08/M06 A3001 RMK AO2 SLP148 T00781061 KLNK 010354Z 16004KT 10SM CLR 15/11 A3017 RMK AO2 SLP214 T01500106 KMDT 010421Z 06005KT 7SM OVC009 14/14 A3018 RMK AO2 CIG 007V012 T01440139 KLNL 010435Z AUTO 00000KT 10SM SCT070 11/09 A3028 RMK AO2 T01070090 LDDU 010430Z 03006KT 010V080 CAVOK 16/13 Q1019 NOSIG UWOO 010430Z 27002MPS 4900 BR NSC 07/07 Q1019 R26/CLRD65 NOSIG RMK QFE754/1005 KMFD 010352Z AUTO 08006KT 5SM -RA BR BKN007 OVC011 15/14 A3006 RMK AO2 RAB0253 CIG 006V011 SLP177 P0003 T01500144 KMEM 010354Z 32003KT 10SM SCT070 19/13 A3007 RMK AO2 SLP178 T01890133 KMFE 010353Z 05006KT 10SM CLR 25/18 A3007 RMK AO2 SLP181 T02500183 KMDW 010353Z 08012KT 10SM OVC017 17/14 A3004 RMK AO2 SLP169 T01720139 $ ENZV 010420Z 14005KT 9999 SCT022 10/09 Q1005 KLNN 010435Z AUTO 08004KT 10SM OVC015 15/14 A3009 RMK AO1 T01460135 LBWN 010430Z 00000KT 0250 R09/0300N BCFG BKN001 11/11 Q1018 NOSIG UWOR 010400Z 29004MPS 7000 BKN011 08/07 Q1017 R25/190062 NOSIG RMK QFE739/0985 KLNP 010435Z AUTO 08003KT 10SM OVC042 13/12 A3011 RMK AO2 KMDZ 010435Z AUTO 04003KT 10SM CLR 12/10 A3021 RMK AO2 T01190101 KMER 010435Z AUTO 35013KT 10SM CLR 17/06 A3003 RMK AO1 KMFI 010354Z AUTO 07008KT 10SM OVC032 17/11 A3019 RMK AO2 SLP222 T01670106 KLNR 010429Z AUTO 02007KT 10SM FEW012 BKN022 OVC055 16/14 A3014 RMK AO2 T01560139 EPIR 010430Z 21004KT 0800 FG NSC 08/08 Q1015 RMK 079 100 4/4 = KLNS 010353Z AUTO 08010KT 10SM OVC011 15/14 A3020 RMK AO2 SLP227 T01500139 KO69 010435Z AUTO 30004KT 10SM 12/08 A3011 RMK AO1 DXSK 010300Z 00000KT CAVOK 22/21 Q//// KLOL 010353Z AUTO VRB05KT 10SM CLR 18/M03 A2998 RMK AO2 SLP127 T01781033 KLPC 010356Z AUTO 27006KT 10SM CLR 13/11 A3004 RMK AO2 SLP177 T01330106 KMGC 010435Z AUTO 00000KT 10SM SCT090 14/14 A3005 RMK AO2 VOGO 010400Z VRB02KT 5000 BR FEW012 SCT090 28/24 Q1009 NOSIG KMEV 010435Z AUTO 17014G18KT 10SM CLR 15/M02 A3006 RMK AO2 KLOM 010435Z AUTO 07007KT 5SM OVC008 13/12 A3021 RMK AO1 KMGE 010358Z AUTO 00000KT 10SM CLR 14/10 A3007 RMK AO2 SLP179 T01360104 $ KMGG 010433Z AUTO 04003KT 10SM CLR 13/11 A3022 RMK AO2 T01260114 KMEZ 010435Z AUTO 00000KT 10SM CLR 12/11 A3011 RMK AO2 LCPH 010430Z 03006KT CAVOK 21/10 Q1013 KLOR 010353Z AUTO 00000KT 10SM CLR 14/13 A3006 RMK AO2 SLP178 T01440128 KMFR 010353Z 32010KT 10SM CLR 14/06 A3003 RMK AO2 SLP166 T01440056 KMGJ 010354Z AUTO 03010KT 4SM -RA BR OVC006 12/11 A3029 RMK AO2 CIG 004V009 SLP256 P0000 T01170111 TSNO KLOT 010435Z AUTO 05004KT 10SM OVC018 16/16 A3005 RMK AO2 T01620156 KLOU 010445Z 00000KT 8SM BKN014 13/12 A3003 RMK AO2 T01280117 EPKK 010430Z VRB02KT 9999 BKN065 10/09 Q1015 EPLB 010430Z 26004KT CAVOK 13/12 Q1015 KMGM 010353Z AUTO 00000KT 10SM CLR 14/11 A3007 RMK AO2 SLP180 T01440106 KMFV 010435Z AUTO 09006KT 7SM OVC003 A3009 RMK AO2 KMHE 010353Z AUTO 12005KT 10SM CLR 11/07 A3016 RMK AO2 SLP212 T01060067 KMGN 010434Z AUTO 06007KT 10SM SCT120 15/12 A3022 RMK AO2 T01550126 FHAW 010250Z 14012KT 9999 FEW013 23/21 Q1014 BLU VOHS 010400Z 25009KT 4000 BR SCT010 SCT015 BKN100 25/24 Q1010 NOSIG KLOZ 010353Z AUTO 00000KT 9SM CLR 11/09 A3006 RMK AO2 SLP178 T01110094 KO86 010430Z AUTO 00000KT 10SM CLR 11/M03 A3003 RMK AO1 KLPR 010353Z AUTO 10005KT 10SM -RA OVC013 14/13 A3007 RMK AO2 RAB50 SLP182 P0000 T01440128 KMGR 010430Z AUTO 00000KT 10SM CLR 17/15 A3007 RMK AO2 KMIA 010429Z 00000KT 10SM TS SCT028CB SCT100 BKN200 26/23 A3002 RMK AO2 LTG DSNT ALQDS TSE26B29 OCNL LTGICCG ALQDS TS ALQDS MOV NW T02610228 LCRA 010350Z 26001KT CAVOK 18/10 Q1013 NOSIG EPKS 010430Z VRB02KT 0200 R29/0350 FG NSC 10/10 Q1015 RMK 099 098 4/4 = KMHK 010352Z AUTO 00000KT 10SM CLR 11/10 A3014 RMK AO2 SLP204 T01110100 KLQK 010435Z AUTO 31004KT 10SM CLR 10/09 A3004 RMK AO2 T01010094 KMIB 010358Z AUTO 14010KT 10SM CLR 13/09 A3003 RMK AO2 SLP177 T01340093 EPMB 010430Z 20004KT CAVOK 08/07 Q1014 RMK 084 093 2/2= EPLK 010430Z VRB02KT CAVOK 12/11 Q1015 RMK 123 093 7/2= KMIC 010353Z AUTO 03005KT 10SM CLR 14/10 A3020 RMK AO2 SLP229 T01390100 KMHL 010435Z AUTO 01007KT 10SM OVC044 17/14 A3013 RMK AO2 EPKT 010430Z VRB01KT 1500 0700NW R27/2000N BCFG BR NSC 09/09 Q1015 KLRD 010356Z 09005KT 10SM CLR 23/14 A3008 RMK AO2 SLP190 T02280144 $ EPLL 010430Z 24001KT CAVOK 12/10 Q1015 VOHY 010430Z VRB03KT 4000 BR SCT010 SCT015 BKN100 24/21 Q1010 NOSIG KMIE 010426Z AUTO 20003KT 9SM -RA SCT026 OVC038 16/14 A3001 RMK AO2 RAB26 P0000 T01560144 KMGW 010353Z AUTO 09005KT 10SM OVC070 17/12 A3009 RMK AO2 RAB06E20 SLP182 T01670117 KLRF 010358Z AUTO 00000KT 10SM CLR 16/13 A3007 RMK AO2 SLP184 T01580134 KMGY 010353Z AUTO 17004KT 10SM CLR 13/11 A3002 RMK AO2 SLP163 T01280106 KMHR 010345Z 12005KT 10SM SKC 14/07 A3002 KLRJ 010435Z AUTO 00000KT 10SM BKN046 11/10 A3018 RMK AO2 KP08 010435Z AUTO 09005KT 10SM CLR 26/12 A3000 RMK AO2 KMHS 010356Z AUTO 06003KT 10SM CLR 08/M03 A3001 RMK AO2 SLP170 T00831033 LEAB 010400Z 15004KT 6000 NSC 14/13 Q1016 NOSIG KMHT 010353Z 01008KT 10SM -RA BKN016 OVC043 11/08 A3038 RMK AO2 SLP302 P0002 T01110083 KMHV 010420Z AUTO 27011G17KT 10SM CLR 24/06 A3002 RMK A01 EPMM 010430Z VRB02KT 8000 MIFG BKN050 BKN070 12/12 Q1015 RMK 123 098 7/5 = KLSE 010423Z AUTO 06010G15KT 10SM BKN029 BKN035 OVC090 18/13 A3016 RMK AO2 T01780128 KLSF 010358Z AUTO 00000KT 10SM CLR 12/11 A3007 RMK AO2 SLP185 T01210112 KLRO 010435Z AUTO 00000KT 5SM BR CLR 19/19 A3003 RMK AO2 LEAG 010430Z AUTO VRB06KT CAVOK 20/19 Q1015 EPMO 010430Z 21003KT 0150 R08/0150N FG OVC000 12/12 Q1015 UWSS 010430Z 20005MPS 5000 BR SCT030CB OVC066 10/09 Q1017 R12/200395 NOSIG RMK QFE751 LEBA 010430Z AUTO 00000KT CAVOK 17/11 Q1014 KMIS 010435Z AUTO 07007KT 10SM CLR 25/13 A3007 RMK A01 KLSK 010419Z AUTO 00000KT 10SM CLR 10/07 A3014 RMK AO2 LEBB 010430Z 00000KT 9999 FEW020 SCT030 BKN040 17/15 Q1014 TEMPO SHRA SCT025TCU KNAK 010354Z AUTO 06008G18KT 9SM OVC011 18/17 A3013 RMK AO2 SLP205 T01830167 $ LEAL 010430Z 28004KT CAVOK 17/15 Q1014 NOSIG KMKC 010354Z 06005KT 10SM CLR 16/12 A3013 RMK AO2 SLP199 T01560117 KNBC 010356Z AUTO 00000KT 10SM 20/17 A3004 RMK AO2 SLP174 T02000167 $ KLRU 010435Z AUTO 00000KT 10SM CLR 17/16 A3019 RMK AO2 T01720160 LEAM 010430Z 36005KT CAVOK 20/14 Q1014 KMIV 010442Z AUTO 04006KT 2SM BR OVC007 17/17 A3017 RMK AO2 T01720172 KMIW 010353Z AUTO 02005KT 10SM BKN013 OVC018 15/14 A3015 RMK AO2 SLP210 T01500139 KMKE 010445Z 07010KT 3SM RA BR BKN004 BKN009 OVC016 16/15 A3009 RMK AO2 P0016 T01610150 LEAO 301800Z 35001KT CAVOK 23/M00 Q1016 LEBG 010430Z AUTO 07001KT CAVOK 11/10 Q1015 KNBG 010355Z 00000KT 10SM FEW030 FEW050 17/16 A3007 RMK AO2 SLP181 T01670156 $ KMKG 010433Z AUTO 08009KT 10SM OVC012 16/15 A3010 RMK AO2 CIG 008 RWY 14 T01610150 KMJQ 010435Z AUTO 06005KT 10SM BKN041 16/10 A3019 RMK AO2 LEAS 010430Z 25006KT 9999 FEW020 SCT030 14/12 Q1015 NOSIG KNCA 010356Z AUTO 17003KT 7SM BKN085 24/23 A3003 RMK AO2 SLP170 T02390228 KP28 010356Z AUTO 10006KT 16/08 A3012 RMK AO1 SLP195 T01560078 KLUA 010435Z AUTO 03008KT 10SM SCT023 OVC030 A3012 RMK AO2 KMKJ 010435Z AUTO 00000KT 1/4SM FG OVC003 11/11 A3012 RMK AO2 T01130108 VOMD 010430Z 30004KT 6000 FEW020 32/20 Q1009 NOSIG KMLB 010353Z 00000KT 10SM CLR 23/23 A3004 RMK AO2 SLP170 T02330233 EPOK 010430Z 26007KT CAVOK 10/08 Q1012 RMK 102 089 2/2 = LEBL 010430Z 33009KT 9000 FEW025 18/15 Q1013 NOSIG KMLC 010353Z AUTO 00000KT 10SM CLR 12/09 A3010 RMK AO2 SLP188 T01220089 KMKL 010353Z AUTO A3006 RMK AO2 SLPNO PWINO $ KLSV 010358Z AUTO 11006KT 10SM CLR 30/10 A2992 RMK AO2 SLP109 T02950097 $ KLUD 010435Z AUTO 10003KT 7SM CLR 19/08 A3012 RMK AO2 T01880081 KMKN 010435Z AUTO 00000KT 10SM CLR 18/10 A3012 RMK AO2 T01760102 KMLE 010435Z AUTO 00000KT 10SM CLR 14/13 A3017 RMK AO2 T01350125 KMKO 010353Z AUTO 03003KT 10SM CLR 16/10 A3011 RMK AO2 SLP190 T01560100 KMLF 010352Z AUTO 22009KT 10SM CLR 17/06 A3013 RMK AO2 SLP153 T01720056 KMJX 010356Z AUTO 05013G17KT 5SM -RA BR OVC005 17/16 A3019 RMK AO2 SLP228 T01670161 PNO $ KLUF 010358Z AUTO 36003KT 10SM CLR 28/12 A2992 RMK AO2 SLP119 T02790122 $ LECH 010430Z AUTO 00000KT 3600 NSC 14/13 Q1014 KMLI 010435Z AUTO 01006KT 10SM BKN013 BKN042 OVC055 17/14 A3008 RMK AO2 T01670144 LEDA 301630Z 17010KT 9999 FEW050 26/11 Q1016 UWUU 010430Z 12002MPS 4000 BR SCT007 05/04 Q1017 R14L/0///60 TEMPO 0500 FG VV003 RMK QBB210 QFE752/1002 KMKS 010435Z AUTO 00000KT 7SM CLR 17/16 A3004 RMK AO2 KLTS 010358Z 11006KT 10SM CLR 15/11 A3011 RMK AO2A SLP189 T01500108 VOML 010430Z 00000KT 6000 SCT012 SCT020 28/24 Q1010 NOSIG KMLJ 010435Z AUTO 00000KT 10SM CLR 14/13 A3007 RMK AO2 VOND 010400Z 34002KT 1200 VCRA BKN020 OVC070 24/24 Q1010 LEBT 010400Z AUTO VRB01KT 2300 NCD 15/15 Q1014 VOMM 010430Z 27010KT 6000 SCT020 SCT100 32/23 Q1005 NOSIG KLUK 010353Z AUTO 00000KT 7SM SCT044 OVC080 12/12 A3004 RMK AO2 SLP173 T01220122 KMKT 010256Z AUTO 04005KT 10SM OVC044 17/11 A3020 RMK AO2 SLP229 T01670111 58002 KNBT 010356Z AUTO 16005KT 10SM CLR A3005 RMK AO2 SLP182 PNO $ KLUL 010535Z AUTO 00000KT 10SM CLR 14/14 A3008 RMK AO2 T01440144 KLUM 010435Z AUTO 02006KT 10SM CLR 15/12 A3021 RMK AO2 T01490116 LECO 010430Z VRB02KT 5000 0400S MIFG NSC 10/10 Q1016 NOSIG LDLO 301400Z 21005KT 9999 SCT025 22/16 Q1020 DXXX 010400Z VRB02KT 9999 -TSRA SCT010 FEW016CB SCT030 26/26 Q1011 NOSIG KMLP 010353Z AUTO A3001 RMK AO2 SLPNO PWINO FZRANO $ EPPO 010430Z 23002KT 0500 R28/0600 FG VV001 09/09 Q1014 LEBZ 301900Z 18001KT CAVOK 26/09 Q1014 KMMH 010435Z AUTO 31008KT 10SM CLR 11/00 A3022 RMK AO2 T01111001 KMMI 010355Z AUTO 00000KT 10SM CLR 10/09 A3010 RMK KMLS 010353Z AUTO 31004KT 10SM CLR 17/12 A2996 RMK AO2 SLP132 T01720117 KLVJ 010353Z AUTO 00000KT 10SM CLR 19/14 A3009 RMK AO2 RAE29 SLP189 P0000 T01890144 KLWA 010435Z AUTO 10004KT 10SM OVC011 16/15 A3007 RMK AO2 T01630153 KMMK 010353Z AUTO 02009G15KT 5SM -RA BR OVC006 12/10 A3029 RMK AO2 SLP258 P0000 T01220100 TSNO KMLT 010353Z AUTO 00000KT 10SM CLR 08/07 A3046 RMK AO2 SLP320 T00830067 KLVK 010353Z 23008KT 10SM CLR 14/09 A3007 RMK AO2 SLP180 T01390089 $ KLWB 010435Z AUTO 00000KT 10SM OVC010 15/14 A3009 RMK AO2 T01530141 EPRA 010430Z VRB03KT CAVOK 13/12 Q1015 LEEC 301200Z 06007KT 020V100 CAVOK 30/08 Q1015 KMLU 010353Z 00000KT 10SM CLR 16/14 A3008 RMK AO2 SLP186 T01610144 KLWC 010352Z AUTO 05005KT 10SM CLR 14/12 A3013 RMK AO2 SLP201 T01390122 KMML 010356Z AUTO 00000KT 10SM CLR 11/08 A3020 RMK AO2 SLP233 T01060078 KLVL 010435Z AUTO 11004KT 7SM OVC003 22/21 A3005 RMK AO1 T02150210 LECV 301800Z 20004KT 9999 FEW060 20/01 Q1017 KLVM 010353Z AUTO 20004KT 10SM CLR 16/04 A3006 RMK AO2 SLP143 T01560044 KLWD 010403Z AUTO 01003KT 10SM OVC029 16/13 A3015 RMK AO2 T01560133 VOMY 010400Z 25006KT 8000 SCT012 24/20 Q1015 KLVN 010430Z AUTO 05004KT 10SM OVC050 15/12 A3020 RMK AO2 KP53 010356Z AUTO 00000KT 14/13 A3026 RMK AO1 SLP248 T01440128 KMNE 010435Z AUTO 00000KT 10SM CLR 15/14 A3009 RMK AO2 T01510138 EPPW 010430Z VRB02KT 0100 FG VV001 11/11 Q1015 RMK 113 098 /// = KLUX 010435Z AUTO 24003KT 10SM CLR 14/11 A3005 RMK AO2 KMNH 010441Z AUTO 21003KT 10SM CLR 11/07 A3030 RMK AO2 KMNI 010435Z AUTO 00000KT 10SM CLR 15/14 A3004 RMK AO2 LTG DSNT E KLVS 010353Z AUTO 35005KT 10SM CLR 14/06 A3022 RMK AO2 SLP135 T01440056 KP59 010351Z AUTO 23004KT 11/11 A3028 RMK AO1 SLP254 T01110106 KMOB 010356Z 00000KT 10SM CLR 17/14 A3008 RMK AO2 SLP182 T01670144 KMMT 010358Z AUTO 00000KT 10SM CLR 14/13 A3003 RMK AO2 SLP170 T01420127 $ KP60 010356Z AUTO 30003KT 03/03 A3031 RMK AO1 SLP236 T00280028 $ UWWW 010430Z 21004MPS 160V230 9999 SCT033 10/07 Q1014 R23/CLRD60 NOSIG RMK QFE749/0999 KMMU 010435Z AUTO 02005KT 10SM OVC007 13/12 A3025 RMK AO2 LTG DSNT SE KNEL 010409Z AUTO 05008KT 2 1/2SM BR OVC007 16/16 A3018 RMK AO2 CIG 005V011 T01610161 $ KMOD 010353Z 33012KT 10SM CLR 18/05 A3002 RMK AO2 SLP165 T01780050 KLWM 010354Z AUTO 03007KT 9SM -RA OVC012 13/12 A3039 RMK AO2 RAB20 SLP291 P0000 T01280117 KMMV 010353Z AUTO 22005KT 10SM BKN050 12/07 A3001 RMK AO2 SLP163 T01220072 KMNM 010356Z AUTO 08012KT 10SM BKN095 BKN120 17/13 A3022 RMK AO2 SLP249 T01670133 EPSC 010430Z 11003KT CAVOK 05/05 Q1013 KMNN 010443Z AUTO 13006KT 7SM VCTS -RA SCT009 BKN015 OVC021 16/14 A3003 RMK AO2 RAB22 TSB19E43 P0029 T01560144 KNFE 010430Z AUTO 00000KT 3/4SM BR VV010 24/22 A3006 RMK AO2 T02390217 KNFG 010355Z 00000KT 7SM CLR 20/18 A2996 RMK AO2 SLP144 LAST T02000178 $ KNDZ 010356Z AUTO 06004KT 10SM CLR 20/13 A3007 RMK AO2 SLP168 T02000133 LEGA 301800Z 21011KT 9999 FEW060 21/11 Q1017 KP68 010353Z AUTO 20005KT 16/02 A3009 RMK AO1 SLP121 T01560022 KLWS 010356Z 25007KT 10SM FEW046 21/07 A2978 RMK AO2 RAB14E40 SLP079 P0001 T02110067 KP69 010352Z AUTO 33004KT 16/10 A2980 RMK AO1 SLP084 T01610100 KLWT 010354Z AUTO 11007KT 10SM CLR 13/09 A3003 RMK AO2 SLP149 T01280089 KLXL 010432Z AUTO 00000KT 10SM CLR 11/08 A3023 RMK AO2 KNFL 010356Z 34003KT 10SM FEW080 21/M01 A2997 RMK AO2 SLP121 T02061011 FGSL 010400Z 22002KT 9999 FEW008 21/20 Q1011 NOSIG KLWV 010430Z AUTO 12003KT 10SM SCT016 BKN070 14/13 A3001 RMK AO2 T01440133 KMNV 010435Z AUTO 00000KT 10SM FEW049 11/10 A3008 RMK A01 LEGE 010430Z 21001KT 9999 FEW025 13/12 Q1013 KNEW 010353Z AUTO 02007KT 10SM CLR 25/13 A3007 RMK AO2 SLP176 T02500133 KLXN 010435Z AUTO 00000KT 10SM CLR 12/08 A3016 RMK AO2 T01200078 EPSN 010430Z 18002KT 3000 MIFG BR NSC 06/05 Q1013 RMK 060 091 0/0 = KMOP 010435Z AUTO 08010G19KT 7SM OVC010 14/14 A3015 RMK AO2 T01410135 KLYH 010354Z AUTO 03004KT 10SM OVC003 17/17 A3008 RMK AO2 RAE05 SLP180 P0000 T01670167 KMNZ 010435Z AUTO 15003KT 10SM CLR 18/11 A3013 RMK AO2 T01780105 KMOR 010435Z AUTO 00000KT 10SM CLR 12/09 A3006 RMK A01 EPRZ 010430Z 19003KT CAVOK 10/09 Q1015 LDOS 010430Z 18008KT CAVOK 11/09 Q1016 KLXT 010353Z AUTO 08005KT 10SM CLR 14/12 A3013 RMK AO2 SLP199 T01440122 KMOT 010354Z AUTO 12009KT 10SM CLR 14/09 A3005 RMK AO2 SLP177 T01390094 KMQB 010435Z AUTO 34007KT 10SM OVC011 16/15 A3009 RMK AO2 T01600152 LEHC 010430Z AUTO 08006KT CAVOK 15/10 Q1014 LDPL 010430Z 07004KT 8000 MIFG NSC 16/15 Q1017 TEMPO 4000 KLXV 010353Z AUTO 03003KT 10SM OVC048 07/02 A3043 RMK AO2 SLP172 T00670017 TSNO KMQE 010354Z AUTO 07015G26KT 13/13 A3032 RMK AO1 PK WND 06026/0349 SLP279 P0002 T01280128 KNFW 010352Z 30004KT 10SM SCT200 19/13 A3010 RMK AO2 SLP175 T01890128 $ KMPO 010053Z AUTO 08011KT 4SM -RA BR OVC003 10/09 A3027 RMK AO2 RAB35 SLP257 P0001 T01000094 $ KMOX 010433Z AUTO 10006KT 10SM CLR 09/08 A3019 RMK AO2 KLXY 010435Z AUTO 00000KT 10SM CLR 16/12 A3009 RMK AO2 T01620118 KNGP 010356Z AUTO 07007KT 10SM CLR 24/14 A3006 RMK AO2 SLP179 T02440144 $ EPSY 010430Z 19001KT 0800 R19/0800 FG SCT003 06/06 Q1014 LEGR 010430Z VRB02KT CAVOK 11/08 Q1016 NOSIG KMQI 010425Z AUTO 18006KT 10SM SCT012 SCT019 25/23 A3007 RMK AO2 T02450230 KMQJ 010436Z AUTO 00000KT 10SM BKN080 13/12 A3002 RMK AO1 LEGT 301900Z VRB03KT CAVOK 22/00 Q1016 LEIB 010430Z VRB02KT 9999 FEW018 BKN024 20/18 Q1013 NOSIG KMRB 010420Z AUTO 01005KT 3SM -RA BR BKN004 OVC010 14/14 A3013 RMK AO2 CIG 003V008 P0000 T01440139 TSNO KNHK 010415Z AUTO VRB04KT 10SM -RA OVC004 20/18 A3011 RMK AO2 RAB13 P0000 T02000183 $ KMRC 010435Z AUTO 00000KT 10SM BKN060 OVC080 A3004 RMK KNGU 010359Z 11005KT 10SM BKN010 BKN016 BKN260 24/23 A3007 RMK AO2 SLP183 T02390228 KP92 010353Z AUTO 00000KT 20/16 A3007 RMK AO1 SLP181 T02000161 KMPV 010351Z AUTO 00000KT 10SM CLR 08/07 A3043 RMK AO2 SLP312 T00830067 KLYV 010436Z AUTO 00000KT 10SM CLR 11/07 A3019 RMK AO2 KNID 010356Z 20006KT 10SM CLR 26/03 A2995 RMK AO2 SLP123 T02610033 $ KMRF 010356Z AUTO 05003KT 9SM CLR 15/14 A3024 RMK AO2 SLP197 T01500144 KMRH 010436Z AUTO 13005KT 10SM SCT024 26/24 A3004 RMK AO2 T02560239 TSNO KMPZ 010435Z AUTO 35006KT 10SM OVC009 17/17 A3011 RMK AO2 T01670167 LDRI 010430Z 13006KT 9999 FEW025 SCT040 18/16 Q1017 KMQS 010435Z AUTO 07009G15KT OVC003 14/13 A3021 RMK AO2 KMRJ 010435Z AUTO 01005KT 5SM OVC004 15/15 A3013 RMK AO2 PWINO LDSB 301400Z 21006KT 160V250 CAVOK 20/12 Q1022 EPWA 010430Z VRB02KT CAVOK 12/11 Q1015 TEMPO 2000 BR KLZU 010045Z 00000KT 10SM CLR M/M A3004 VORY 010430Z 00000KT 4000 HZ SCT020 OVC080 31/23 Q1007 KMRN 010425Z AUTO 00000KT 7SM CLR 11/11 A3009 RMK AO2 T01050105 KNIP 010353Z 25005KT 10SM SCT060 27/18 A3002 RMK AO2 SLP161 OCNL LTGICCC DSNT NE CB DSNT NE T02720183 KMQY 010356Z AUTO 19004KT 10SM OVC055 16/12 A3006 RMK AO2 SLP104 T01610122 $ KLZZ 010435Z AUTO 00000KT 10SM CLR 16/12 A3011 RMK AO2 T01560118 VOTK 010430Z 27006KT 8000 FEW020 33/22 Q1008 LFBA 010430Z AUTO VRB02KT 9999 BKN048/// OVC058/// ///CB 17/15 Q1013 KOAJ 010446Z AUTO 00000KT 1 3/4SM BR BKN011 22/22 A3003 RMK AO2 KOAK 010353Z 28017KT 10SM FEW015 SCT200 16/11 A3008 RMK AO2 SLP186 T01560106 KMRT 010433Z AUTO 19003KT 10SM BKN007 BKN030 16/15 A3002 RMK AO2 T01580151 KNJK 010356Z 23011KT 10SM CLR 32/11 A2985 RMK AO2 SLP125 T03170106 $ LFBC 010430Z AUTO VRB02KT 9999 BKN034/// OVC070/// ///TCU 17/16 Q1013 TEMPO VRB15G30KT 2500 TSRA BKN005 BKN025CB KMSL 010353Z AUTO 00000KT 10SM OVC085 15/10 A3008 RMK AO2 SLP182 T01500100 KMTC 010423Z AUTO 06012KT 10SM BKN014 OVC023 14/13 A3009 RMK AO2 CIG 014V024 $ LFBD 010430Z AUTO 32003KT 9999 -RA FEW005/// SCT022/// BKN040/// ///TCU 16/15 Q1012 TEMPO 4000 SHRA KNJM 010418Z AUTO 19004KT 10SM SCT017 SCT070 27/24 A3004 RMK AO2 T02720244 VOTP 010430Z 25006KT 6000 FEW020 SCT100 31/22 Q1007 LFBE 010430Z AUTO 16004KT 7000 RA FEW048/// OVC086/// ///CB 16/15 Q1012 TEMPO 24010KT 2000 TSRA BKN005 BKN020CB KMSN 010434Z 00000KT 1 3/4SM -RA BR BKN004 OVC010 15/15 A3012 RMK AO2 RAB0359 P0003 T01500150 KOBE 010435Z AUTO 00000KT 10SM CLR 22/22 A3004 RMK AO2 KMSO 010430Z AUTO 06009G17KT 10SM -RA FEW025 SCT060 BKN100 21/06 A2989 RMK AO2 RAB21 PRESFR P0000 T02110056 LFBG 010430Z AUTO 25003KT 7000 2000 FEW010 BKN027 BKN120 15/14 Q1012 VOTR 010430Z 25012KT 7000 SCT016 31/21 Q1007 NOSIG KMSP 010353Z 03008KT 10SM FEW049 16/11 A3020 RMK AO2 SLP229 T01560111 KMRY 010354Z 00000KT 10SM CLR 14/09 A3011 RMK AO2 SLP207 T01390094 LDSP 010430Z 35004KT 320V030 9999 FEW024 15/12 Q1019 NOSIG LFAQ 010430Z AUTO 17006KT 7000 OVC002 12/12 Q1009 LFBH 010430Z AUTO VRB03KT CAVOK 13/11 Q1011 TEMPO BKN010 KMTH 010353Z AUTO 12003KT 8SM -RA OVC110 24/23 A3003 RMK AO2 SLP168 P0010 T02390228 LFBI 010430Z AUTO VRB02KT 9999 BKN018 BKN027 12/12 Q1011 TEMPO BKN008 LEJR 010430Z VRB01KT CAVOK 17/14 Q1013 KMTJ 010353Z AUTO 14007KT 10SM CLR 12/07 A3026 RMK AO2 SLP197 T01170072 KMSS 010353Z AUTO 08005KT 10SM SCT110 14/08 A3035 RMK AO2 SLP279 T01440083 EPWR 010430Z 12004KT 100V160 CAVOK 12/11 Q1014 LFAT 010430Z AUTO 14006KT 9999 BKN017 BKN024 OVC032 11/10 Q1008 VOTV 010430Z 28010KT 5000 HZ FEW015 SCT020 29/24 Q1010 NOSIG LELC 302100Z 32004KT 300V050 9999 FEW018 21/19 Q1016 NOSIG LFBL 010430Z AUTO 19008KT 8000 -RA BKN004/// OVC010/// ///TCU 14/14 Q1012 TEMPO 24015G25KT 4000 SHRA SCT023CB KNLC 010356Z AUTO 33015KT 10SM -RA CLR 23/06 A2997 RMK AO2 RAB24 SLP147 P0000 T02280056 LFBM 010430Z AUTO 03004KT 6000 -TSRA FEW026/// OVC044/// ///CB 17/16 Q1013 TEMPO 3000 TSRA BKN008 BKN030TCU KMSV 010435Z AUTO 09009G15KT 9SM OVC005 09/08 A3029 RMK AO1 KMTN 010145Z 06011KT 10SM OVC011 18/17 A3018 RMK LAST LFBO 010430Z AUTO 11004KT 9999 -RA SCT019 OVC100 18/15 Q1012 TEMPO BKN014 KMTO 010353Z AUTO 00000KT 7SM RA FEW049 OVC070 15/14 A3000 RMK AO2 RAB0259 SLP156 P0008 T01500139 KOCF 010435Z AUTO 00000KT 10SM BKN046 OVC060 23/18 A3004 RMK AO1 LFBP 010430Z AUTO 27002KT 9000 OVC040 17/16 Q1013 TEMPO VRB18G30KT 4000 SHRA BKN004 BKN025 BKN070TCU KMSY 010353Z 01004KT 10SM FEW050 23/14 A3006 RMK AO2 SLP183 T02330139 KMTP 010354Z AUTO 05012G21KT 16/16 A3024 RMK AO1 SLP239 T01610156 KOCH 010435Z 00000KT 10SM CLR 14/12 A3008 RMK AO1 KMUI 010424Z AUTO 06007G14KT 020V100 10SM OVC008 14/12 A3021 RMK AO2 LFCK 010430Z AUTO 24004KT 9999 SCT035 BKN046 BKN140 18/15 Q1013 LFBT 010430Z AUTO 33004KT 310V010 7000 -RA OVC030 16/15 Q1013 TEMPO 4000 RA BKN004 BKN080TCU KNKT 010354Z AUTO 15007KT 10SM CLR 24/23 A3005 RMK AO2 RAB02E21 SLP172 P0001 T02440233 LELL 010430Z AUTO 00000KT //// R31///// ////// 00/00 Q//// LFBU 010430Z AUTO 27007KT 9999 FEW006 SCT012 OVC029 15/13 Q1012 LEMD 010430Z 00000KT CAVOK 13/04 Q1014 NOSIG KMTV 010435Z AUTO 01004KT 10SM OVC006 18/17 A3008 RMK AO2 T01810170 LELN 010400Z VRB02KT 9999 BKN050 11/07 Q1014 KMVE 010432Z AUTO 00000KT 10SM CLR 11/07 A3021 RMK AO2 KMTW 010356Z AUTO 06009KT 5SM -RA BR OVC006 16/15 A3016 RMK AO2 SLP231 T01610150 PNO $ LELO 010400Z 25003KT CAVOK 15/13 Q1013 KMUO 010358Z AUTO 13016KT 10SM FEW140 22/09 A2988 RMK AO2 SLP097 T02220089 $ KNKX 010355Z 28004KT 10SM CLR 22/15 A2997 RMK AO2 SLP143 T02170150 LEMG 010430Z 29009KT 9999 BKN018 17/14 Q1015 NOSIG LFBY 010430Z AUTO VRB02KT 9999 // BKN005/// BKN018/// BKN034/// ///CB 17/17 Q1013 LFBZ 010430Z AUTO 33007KT 280V010 4100 -TSRA BR OVC008/// ///CB 17/16 Q1013 TEMPO VRB18G30KT 2000 TSRA BKN004 BKN025 BKN070TCU LEMH 010430Z VRB02KT 9999 FEW018 FEW020CB 22/19 Q1013 KMVH 010435Z AUTO 00000KT 10SM CLR 10/08 A3009 RMK AO2 KOCQ 010435Z AUTO 08008KT 10SM SCT030 SCT037 OVC090 16/13 A3019 RMK AO1 T01630132 EPZG 010430Z VRB01KT 0100 R24/0200N FG VV001 09/09 Q1014 LFCR 010430Z AUTO VRB03KT 9999 BKN020/// OVC028/// ///TCU 15/13 Q1014 TEMPO 3000 SHRA BKN010 BKN035TCU KMWA 010435Z AUTO 29003KT 7SM OVC004 17/17 A3002 RMK AO2 KMUT 010435Z AUTO 35004G10KT 10SM OVC009 16/14 A3010 RMK AO2 KOEB 010434Z AUTO 07005KT 10SM BKN005 OVC013 16/16 A3006 RMK AO2 T01550155 KMVL 010354Z AUTO 00000KT 10SM CLR 09/08 A3041 RMK AO2 SLP301 T00940078 TSNO KMWC 010435Z AUTO 04007KT 5SM RA SCT006 BKN009 OVC020 15/13 A3011 RMK AO2 P0003 KNMM 010356Z AUTO 00000KT 10SM CLR 16/12 A3007 RMK AO2 SLP192 T01560117 KOCW 010425Z AUTO 17005KT 10SM SCT085 23/22 A3005 RMK AO2 T02290220 KMVN 010435Z AUTO 00000KT 10SM SCT006 BKN033 17/13 A3001 RMK AO1 VOVZ 010400Z CALM 3000 -DZ/BR FEW010 SCT012 OVC080 28/25 Q1006 TEMPO 2500 FU/BR LEMO 010400Z 18004KT CAVOK 17/12 Q1014 NOSIG KODO 010353Z AUTO 17008KT 10SM CLR 21/11 A3013 RMK AO2 SLP167 T02110106 KMWH 010352Z 31004KT 10SM SCT100 17/06 A2983 RMK AO2 SLP101 T01670061 KMWK 010425Z AUTO 00000KT 10SM CLR 18/17 A3007 RMK AO2 T01810169 KMWL 010353Z AUTO 00000KT 10SM CLR 15/11 A3010 RMK AO2 SLP183 T01500111 KMWM 010435Z AUTO 04003KT 10SM BKN042 14/11 A3019 RMK AO2 KMWN 010357Z 12024KT 130SM FEW060 BKN090 OVC120 07/M24 RMK BINOVC KODX 010353Z AUTO 00000KT 10SM CLR 10/06 A3015 RMK AO2 RAB42E50 SLP212 P0000 T01000061 KMWO 010435Z AUTO 00000KT 1/2SM FG BKN065 13/10 A3004 RMK AO2 T01250100 KMXF 010358Z AUTO 22002KT 10SM CLR 15/13 A3006 RMK AO2 SLP181 T01460125 KOEO 010435Z AUTO 06004KT 10SM BKN049 13/12 A3025 RMK AO2 T01340119 KOFF 010358Z AUTO 00000KT 10SM CLR 12/12 A3015 RMK AO2 SLP213 T01170115 KMVY 010436Z AUTO 06017G27KT 1 3/4SM -RA BR BKN005 OVC009 16/16 A3025 RMK AO2 PK WND 06030/0408 P0003 T01610156 KNOG 010356Z AUTO 01003KT 10SM CLR 19/16 A3009 RMK AO2 SLP169 T01890161 PNO $ LEPA 010430Z VRB01KT 9999 SCT020 19/19 Q1013 NOSIG LFGA 010430Z AUTO 22003KT 6000 OVC008 15/14 Q1011 KNPA 010356Z AUTO 00000KT 10SM CLR 16/14 A3006 RMK AO2 SLP181 T01610139 $ KOGA 010435Z AUTO 00000KT 10SM CLR 16/08 A3015 RMK AO2 T01580077 PTKK 010350Z VRB05KT 14SM -SHRA SCT012CB OVC120 27/26 A2978 RMK SHRAB45 CB ALQDS SLP084 T02680257 KOGB 010353Z AUTO 00000KT 10SM CLR 16/14 A3004 RMK AO2 SLP169 T01610144 KMWT 010353Z AUTO 00000KT 10SM CLR 14/13 A3007 RMK AO2 SLP176 T01390128 KOFK 010356Z AUTO 00000KT 10SM CLR 09/06 A3016 RMK AO2 SLP214 T00940061 KOGD 010353Z AUTO 17008KT 10SM CLR 18/08 A3007 RMK AO2 SLP138 T01780083 KMYF 010353Z 31003KT 10SM CLR 23/14 A2998 RMK AO2 SLP146 T02330144 KMXO 010435Z AUTO 02004KT 10SM OVC014 16/14 A3012 RMK AO2 KOFP 010441Z AUTO VRB06KT 5SM -RA BR BKN005 BKN012 OVC021 22/20 A3007 RMK AO2 P0008 T02170200 GABG 010300Z 00000KT 9999 FEW030 FEW040CB 25/22 Q//// ECLAIRS SECT S PTKR 010355Z 23010KT 15SM FEW018 SCT100 BKN120 OVC300 31/25 A2977 RMK SLP082 T03110251 LFGJ 010430Z AUTO 20006KT 180V260 7000 -RA FEW031/// BKN037/// BKN044/// ///TCU 16/15 Q1012 TEMPO 3000 SHRA BKN007 FEW018TCU BKN020 KNQA 010450Z 00000KT 10SM BKN070 19/16 A3007 KMYJ 010315Z AUTO 33005KT 10SM OVC050 16/13 A3010 RMK AO2 PWINO LDZA 010430Z 21005KT CAVOK 11/10 Q1015 TEMPO 23007KT KMYL 010351Z AUTO 00000KT 10SM BKN110 15/02 A2996 RMK AO2 SLP105 T01500017 LDZD 010430Z 12005KT CAVOK 13/13 Q1018 NOSIG KNOW 010435Z AUTO 25005KT 10SM CLR 11/08 A2996 RMK AO2 T01070083 LEPP 010430Z 28001KT 9999 FEW018 15/13 Q1014 ESCF 010420Z AUTO 23012KT 9999 NCD 10/08 Q1004 KMYP 010434Z AUTO 00000KT 2 1/2SM BR BKN003 OVC043 03/02 A3066 RMK AO2 VIS 1 1/4V5 KMZG 010435Z AUTO VRB04KT 10SM CLR 26/14 A3006 RMK A01 KMZH 010434Z AUTO 07004KT 10SM OVC005 11/10 A3024 RMK AO2 KMYR 010435Z 25003KT 10SM CLR 23/16 A3005 RMK AO1 KNQI 010356Z AUTO 00000KT 10SM CLR 20/15 A3007 RMK AO2 SLP180 T02000150 $ KOGS 010435Z AUTO 00000KT 10SM 13/10 A3033 RMK AO2 T01250102 TSNO KNRB 010352Z AUTO 20003KT 10SM CLR 26/23 A3001 RMK AO2 TSB0257B0258E13B19E48 SLP161 T02560233 PNO $ GABS 010430Z 20004KT 9999 FEW020 24/24 Q1013 NOSIG KMYV 010353Z AUTO 15013KT 10SM CLR 17/07 A2998 RMK AO2 SLP155 T01720067 ESDF 010420Z AUTO 25004KT 9999 NCD 10/09 Q1009 FJDG 010420Z 11018KT 9999 FEW020 SCT050 BKN080 27/24 A2992 RMK SLP129 KMYZ 010435Z AUTO 10006KT 10SM CLR 12/10 A3015 RMK AO2 WIBB 010400Z 09003KT 5000 -RA SCT010 25/24 Q1011 LERI 301800Z 11003KT CAVOK 24/17 Q1015 NOSIG KOJA 302315Z AUTO 19003KT 10SM CLR 23/09 A3012 RMK AO2 LESA 301830Z 23009KT 9999 FEW048 21/08 Q1016 KOJC 010353Z AUTO 07004KT 10SM CLR 14/12 A3013 RMK AO2 SLP198 T01440117 LGAD 010420Z 00000KT 9999 FEW020 13/12 Q1017 KPAE 010353Z AUTO 00000KT 10SM CLR 12/06 A2996 RMK AO2 SLP144 T01170061 KNSE 010356Z AUTO 03004KT 10SM CLR 15/14 A3007 RMK AO2 SLP170 T01500139 $ KNQX 010416Z AUTO 03003KT -RA FEW120 27/22 A3002 RMK AO2 TSE10 P0000 T02670222 $ KPAH 010407Z AUTO 26004KT 8SM BKN018 OVC035 16/15 A3002 RMK AO2 T01610150 KMZZ 010435Z AUTO 09004KT 7SM SCT009 SCT023 OVC065 15/14 A3002 RMK AO2 T01460140 FIMP 010400Z 08007KT 9999 VCSH BKN016 SCT050 22/19 Q1021 KNSI 010357Z AUTO 29017KT 10SM CLR 18/14 A2997 RMK AO2 SLP144 T01830144 PWINO $ LERS 010430Z AUTO 02003KT 9000 FEW028/// 18/17 Q1013 KNRS 010356Z AUTO 00000KT 4SM CLR 21/18 A2997 RMK AO2 SLP149 T02060183 $ FIMR 010400Z 12013KT 9999 BKN017 23/20 Q1020 LERT 010400Z 11005KT CAVOK 18/15 Q1013 NOSIG LFKB 010430Z 23005KT CAVOK 15/12 Q1017 NOSIG KOKB 010352Z AUTO 19003KT 7SM CLR 21/18 A2996 RMK AO2 SLP143 T02110183 LFJL 010430Z AUTO 16009KT 9999 -RA BKN015/// OVC021/// ///TCU 14/14 Q1010 TEMPO 2000 -TSRA FEW030CB LFKC 301700Z VRB03KT 9999 FEW053 SCT260 21/14 Q1019 NOSIG KOKC 010352Z 00000KT 10SM SCT200 BKN250 17/11 A3011 RMK AO2 SLP188 T01720106 LGAL 010420Z 00000KT CAVOK 11/08 Q1017 RCFN 010445Z 11013G23KT 070V150 1200 R04/P2000 +SHRA SCT000 BKN003 SCT015TCU OVC020 24/23 Q1013 TEMPO 1000 RMK TCU OVHD A2993 KPAM 010356Z AUTO 05006KT 10SM CLR 21/13 A3006 RMK AO2 SLP182 T02070131 $ KNTD 010356Z VRB04KT 10SM CLR 20/16 RMK AO2 SLPNO T02000156 PNO VISNO N $ KPAN 010435Z AUTO 05004KT 10SM CLR 16/08 A3024 RMK AO2 KPAO 010247Z 26009KT 10SM SKC 16/10 A3009 LESO 010430Z 26005G20KT 180V340 2000 R22/1200D RA FEW009 BKN012 OVC020 18/17 Q1013 LFKF 010430Z AUTO 06006KT CAVOK 18/15 Q1016 TEMPO 06020KT TS FEW030CB KPBF 010353Z AUTO 00000KT 10SM CLR 15/14 A3008 RMK AO2 SLP183 T01500139 KPBG 010353Z AUTO 00000KT 10SM CLR 12/10 A3036 RMK AO2 SLP282 T01170100 KPBH 010435Z AUTO 03004KT 10SM CLR 11/11 A3024 RMK AO2 T01140105 LFJR 010430Z AUTO 21002KT 8000 FEW004 SCT008 OVC090 12/11 Q1011 KPBI 010353Z 34003KT 10SM FEW025 SCT250 24/22 A3004 RMK AO2 SLP173 T02440222 LFKJ 010430Z 03007KT 010V070 CAVOK 16/10 Q1015 NOSIG WIDD 010430Z 24006KT 9999 FEW014 26/23 Q1013 NOSIG LFLB 010400Z 18003KT 150V210 CAVOK 13/11 Q1013 NOSIG LEST 010447Z VRB02KT 0300 R17/0600N R35/0250N FG VV001 08/08 Q1016 NOSIG KOKK 010439Z AUTO 09005KT 10SM BKN009 OVC017 15/14 A3002 RMK AO2 KNUC 010156Z 27009KT 10SM FEW006 18/16 A2997 RMK SLP146 T01830161 LESU 301700Z 23007KT 210V270 9999 FEW050 21/04 Q1018 LETL 010430Z AUTO 13006KT 5000 HZ VV/// 10/09 Q1017 LFLC 010430Z AUTO 15007KT 8000 -RA ///TCU 15/13 Q1012 TEMPO SCT030CB BECMG RA LGBL 010420Z 28004KT CAVOK 13/09 Q1017 NOSIG PTPN 012355Z 06010KT 15SM FEW018 SCT130 OVC300 31/26 A2983 LGAV 010420Z 23002KT CAVOK 12/07 Q1017 NOSIG KOKM 010435Z AUTO 00000KT 10SM CLR 12/09 A3010 RMK AO2 T01220091 KOLE 010435Z AUTO 11006KT 5SM BR OVC003 10/09 A3021 RMK AO2 LETO 010400Z 04004KT CAVOK 13/02 Q1014 NOSIG KOLF 010353Z AUTO 08004KT 10SM CLR 14/11 A2996 RMK AO2 SLP144 T01440111 KOLG 010435Z AUTO 04003KT 10SM SCT008 OVC065 10/10 A3027 RMK AO1 ESGG 010420Z 23008KT 9999 FEW021 09/08 Q1006 KNUI 010441Z AUTO 07008KT 10SM OVC004 21/20 A3009 RMK AO2 T02110200 LFKS 010430Z AUTO 29004KT 260V330 CAVOK 17/11 Q1016 KOMA 010352Z 14004KT 10SM FEW250 16/11 A3016 RMK AO2 SLP211 T01560111 ESGJ 301850Z 22012KT 9999 FEW026 09/08 Q1003 REDZ WIEE 010400Z 35003KT 320V080 9999 SCT020 30/23 Q1012 LEVC 010430Z VRB02KT 9999 FEW020 17/15 Q1014 NOSIG LFLL 010430Z 12006KT 090V160 9999 FEW033 BKN110 19/12 Q1012 TEMPO RA LFMC 010430Z AUTO VRB01KT 9999 FEW019 15/14 Q1016 KNTU 010356Z 11003KT 10SM FEW010 SCT120 OVC240 23/22 A3005 RMK AO2 SLP179 T02280222 KPDC 010435Z AUTO 00000KT 10SM BKN014 OVC050 16/13 A3013 RMK AO2 T01560130 LEVD 301930Z 24007KT CAVOK 20/05 Q1016 LFMD 010430Z AUTO 35003KT 300V030 9999 OVC094 16/13 Q1016 TEMPO SHRA SCT020 SCT030TCU KOLM 010354Z AUTO 19007KT 10SM BKN050 BKN080 12/06 A2997 RMK AO2 SLP150 T01220061 KPCM 010435Z AUTO 00000KT 10SM CLR 25/22 A3005 RMK AO2 KOKV 010435Z AUTO 00000KT 4SM -RA OVC004 15/15 A3013 RMK AO2 P0009 LFLN 010430Z AUTO 14004KT 5000 -RA BR FEW049/// OVC088/// ///TCU 15/14 Q1012 KPBX 010435Z AUTO 00000KT 10SM SCT060 13/13 A3007 RMK AO2 T01300130 LFLP 010430Z AUTO VRB02KT CAVOK 12/10 Q1014 NOSIG LFMH 010430Z 20008KT 160V260 9999 SCT043 BKN096 BKN180 18/12 Q1012 TEMPO SHRA ESGP 010420Z AUTO 24007KT 9999 FEW051/// SCT066/// 12/08 Q1006 KNUQ 010356Z AUTO 30005KT 10SM CLR 16/09 A3010 RMK AO2 SLP196 T01560094 KOKZ 010435Z AUTO 00000KT 10SM CLR 14/13 A3006 RMK AO2 T01350127 KOMH 010435Z AUTO 01005KT 5SM RA 17/17 A3011 RMK AO2 P0001 PTSA 010050Z 06013KT 10SM BKN022 BKN300 31/24 A2983 LFMI 010430Z AUTO 09010KT 9999 BKN019/// BKN024/// BKN031/// ///CB 18/17 Q1013 TEMPO VRB15G30KT 2000 TSRA LFLS 010430Z AUTO VRB02KT CAVOK 15/10 Q1013 NOSIG ESGR 010420Z AUTO 22006KT 170V260 9999 NCD 10/06 Q1004 KOLS 010354Z AUTO 06004KT 10SM FEW075 18/13 A3014 RMK AO2 SLP150 T01830133 KONA 010433Z AUTO 00000KT 10SM OVC039 16/14 A3017 RMK AO2 KPEA 010435Z AUTO 02004KT 10SM OVC033 15/14 A3015 RMK AO2 T01500136 LFMK 010430Z AUTO VRB02KT 9999 BKN026 BKN044 OVC190 18/15 Q1012 TEMPO BKN008 KPDK 010353Z 00000KT 10SM CLR 13/10 A3007 RMK AO2 SLP179 T01280100 KOMK 010353Z AUTO 00000KT 10SM FEW070 FEW085 BKN110 15/04 A2983 RMK AO2 SLP101 T01500044 LFLU 301800Z AUTO 18010KT 9999 BKN072 20/15 Q1016 LFML 010430Z AUTO 09010KT 9999 SCT035/// BKN046/// BKN056/// ///TCU 19/16 Q1014 TEMPO VRB15G25KT 3000 TSRA SCT015 BKN020CB ESIB 010420Z AUTO 22006KT 9999 NCD 07/06 Q1005 ESGT 301950Z 18008KT 9999 FEW032 10/08 Q1002 KOLU 010435Z AUTO 00000KT 10SM CLR 08/02 A3017 RMK AO2 RVRNO KOLV 010050Z 00000KT 10SM BKN065 A3004 KOMN 302250Z 06011KT 5SM TSRA SCT011 BKN038 23/22 A2997 RMK TS NE-SE MOV E OCNL LTGCG W LAST LFLW 010430Z AUTO VRB02KT 3800 RA BR SCT003/// SCT007/// BKN043/// ///CB 13/13 Q1014 LFMN 010430Z 34008KT 9999 FEW063 19/14 Q1016 NOSIG PTRO 010450Z 21011KT 15SM BKN015TCU BKN120 BKN300 31/26 A2975 RMK TCU VC ALQDS KPCW 010432Z AUTO 13011KT 7SM -RA OVC015 16/15 A3006 RMK AO2 RAB14 $ KNUW 010356Z 10003KT 8SM SCT030 SCT080 BKN120 07/06 A2999 RMK AO2 SLP155 T00720056 $ LFLX 010430Z AUTO 34006KT 330V040 9999 RA OVC009/// ///TCU 13/13 Q1010 TEMPO 4000 RA LFMO 010430Z AUTO 16004KT 8000 FEW050/// SCT064/// BKN100/// ///CB 16/14 Q1014 TEMPO 4000 SHRA LFLY 010430Z AUTO 19017KT CAVOK 20/13 Q1012 NOSIG LFMP 010430Z AUTO 31007KT CAVOK 18/14 Q1012 NOSIG KOLY 010435Z AUTO 00000KT 3/4SM -RA OVC002 14/14 A3000 RMK AO2 KOLZ 010435Z AUTO 04005KT 10SM SCT030 BKN065 14/14 A3015 RMK AO2 KPCZ 010435Z AUTO 03005KT 10SM BKN020 OVC025 15/15 A3017 RMK AO2 T01520147 LEVS 302000Z 00000KT CAVOK 20/M00 Q1016 LFOA 010430Z AUTO 20008KT 9999 OVC035/// ///TCU 15/14 Q1010 KOOA 010435Z AUTO 36004KT 10SM BKN014 OVC021 15/13 A3013 RMK AO2 T01520134 LEVT 010430Z 03004KT 8000 BKN010 15/15 Q1014 LFOB 010430Z AUTO 12005KT 0450 R30/0500D R12/0375D FG VV/// 09/08 Q1009 NOSIG LFMT 010430Z 16011KT 9999 FEW010 SCT016 BKN230 21/19 Q1013 NOSIG KPDT 010353Z AUTO 26021G25KT 10SM -RA SCT050 SCT075 BKN110 17/03 A2988 RMK AO2 RAB00E09B43 SLP108 P0000 T01670033 LFMU 010430Z AUTO 36004KT 9999 OVC007 20/18 Q1012 NOSIG LFOC 010430Z AUTO 30005KT 9999 FEW013 SCT030 BKN094 12/11 Q1010 KONL 010435Z AUTO 12004KT 10SM CLR 12/07 A3016 RMK AO2 T01190074 LGEL 010420Z VRB02KT CAVOK 14/08 Q1017 LFMV 010430Z AUTO 15006KT 6000 -TSRA FEW034/// SCT046/// BKN058/// ///CB 17/14 Q1014 TEMPO 4000 TSRA KONM 010435Z AUTO 16006KT 10SM CLR 17/14 A3017 RMK AO2 T01700136 LFOE 010430Z AUTO 22007KT 9999 OVC021 11/10 Q1009 ETAD 010444Z AUTO 06003KT 9999 -RA BKN009 10/10 A2981 RMK AO2 CIG 007V009 $ LEVX 010430Z 01003KT CAVOK 12/11 Q1016 TEMPO 0800 BCFG KPEO 010409Z AUTO 00000KT 10SM OVC009 12/10 A3027 RMK AO2 T01170100 $ KONO 010353Z AUTO 00000KT 10SM CLR 23/02 A2980 RMK AO2 SLP079 T02280017 KPDX 010353Z 21006KT 10SM FEW045 BKN075 16/06 A3001 RMK AO2 SLP163 T01560056 KNXF 010356Z AUTO 00000KT 4SM BR CLR 21/19 A2996 RMK AO2 SLP230 T02110194 $ RCKH 010430Z 27008KT 240V300 9000 FEW015 BKN038 BKN080 29/25 Q1010 NOSIG RMK A2985 LFMY 010430Z AUTO 07006KT 9999 -RA SCT035/// BKN047/// BKN058/// ///CB 16/15 Q1014 TEMPO 4000 TSRA KONP 010435Z AUTO 18015G21KT 10SM SCT021 SCT031 BKN070 12/08 A3003 RMK AO2 LFOH 010430Z AUTO 19006KT 9999 SCT011 OVC088 13/11 Q1008 KPEQ 010435Z AUTO 00000KT 10SM OVC065 20/17 A3010 RMK AO2 T02000165 LEXJ 010430Z 23006KT 200V260 9999 FEW024 OVC047 17/14 Q1014 LFOJ 010430Z AUTO 29005KT CAVOK 12/12 Q1010 KPGA 010353Z AUTO 20004KT 10SM CLR 21/12 A3013 RMK AO2 SLP152 T02060117 TSNO GAKA 010300Z 00000KT 9999 FEW030 BKN150 25/24 Q1009 LFPB 010430Z AUTO 00000KT 9999 FEW006 BKN028 BKN037 13/12 Q1009 TEMPO 4000 -RA BKN007 LFOK 010430Z AUTO 07002KT 9999 -RA FEW002/// OVC010/// ///CB 12/11 Q1009 TEMPO 3000 RA BKN003 BKN060CB KONT 010353Z 25005KT 10SM CLR 25/08 A2996 RMK AO2 SLP130 T02500083 KNYC 010351Z AUTO 05009G16KT 8SM OVC009 13/12 A3026 RMK AO2 SLP239 T01330122 KPGD 010353Z 12005KT 10SM CLR 24/22 A3006 RMK AO2 SLP178 T02390222 GAKD 010300Z 28004KT CAVOK 26/24 Q1011 KONX 010425Z AUTO 00000KT 10SM CLR 24/24 A3007 RMK AO2 T02350235 WIHH 010400Z 24009KT 7000 SCT020 32/22 Q1011 NOSIG PTTP 010351Z 05007KT 15SM SCT018 BKN300 31/24 A2982 RMK SLP097 T03110235 KOPF 010446Z AUTO 00000KT 10SM VCTS CLR 25/23 A3003 RMK AO2 LTG DSNT NE-SE T02500233 PNO $ KPEX 010434Z AUTO 00000KT 10SM CLR 12/12 A3022 RMK AO2 T01230124 VQPR 010400Z VRB03KT 9999 FEW015 SCT080 22/14 Q1025 NOSIG LFOP 010430Z AUTO 21005KT CAVOK 09/08 Q1009 LFPG 010430Z 00000KT 9000 FEW005 BKN022 13/12 Q1009 NOSIG KNYG 010356Z AUTO 08013KT 8SM BR OVC008 19/18 A3011 RMK AO2 RAE42 SLP196 P0001 T01940178 KNXP 010356Z AUTO 22015KT 10SM CLR 28/08 A3001 RMK AO2 SLP129 T02780083 KONZ 010433Z AUTO 05006KT 10SM SCT009 OVC016 16/15 A3006 RMK AO2 T01610154 KPEZ 010440Z AUTO 00000KT 10SM CLR 18/14 A3010 RMK AO2 T01800138 LFQA 010430Z AUTO 00000KT 9999 OVC018/// ///TCU 12/12 Q1009 ETAR 010437Z 00000KT 9999 -RA SCT032 BKN039 OVC060 15/14 A2982 RMK AO2A RAB37 LFQB 010430Z AUTO 28005KT 5000 +RA BR FEW008/// SCT038/// ///CB 14/14 Q1009 LFOT 010430Z 26004KT 9999 SCT020 BKN040 13/12 Q1010 NOSIG KNYL 010357Z 24006KT 10SM FEW100 32/11 A2986 RMK AO2 SLP107 T03220111 KOPL 010435Z AUTO 00000KT 10SM CLR 15/14 A3008 RMK AO2 T01470141 PWINO LFPM 010430Z AUTO 27003KT 8000 FEW015 13/13 Q1009 LFOV 010430Z AUTO 17004KT 4000 BR SCT002 BKN038 BKN045 11/11 Q1010 KPHD 010353Z AUTO 11009KT 10SM BKN017 OVC034 16/14 A3007 RMK AO2 SLP181 T01610139 LFPN 010430Z AUTO 28002KT 7000 FEW018 12/11 Q1009 ESKM 010420Z AUTO 25006KT 220V280 9999 ////// 06/01 Q0998 KOPN 010435Z AUTO 00000KT 10SM CLR 12/10 A3009 RMK AO2 LFPO 010430Z 31003KT 280V340 9999 SCT008 BKN025 BKN090 12/12 Q1009 TEMPO BKN004 ESKN 010420Z 25016KT 9999 FEW030 10/06 Q1002 KPHF 010441Z 10SM SCT008 BKN012 OVC110 24/23 A3006 RMK AO2 T02390228 GAKO 010300Z 18004KT CAVOK 24/22 Q//// WIII 010430Z 29009KT 9999 SCT020 32/24 Q1010 NOSIG LFQG 301800Z AUTO VRB01KT 9999 BKN044 BKN052 OVC066 18/15 Q1013 LEZG 010430Z 09009KT 9999 FEW060 18/15 Q1013 LGHI 010350Z 00000KT CAVOK 12/07 Q1014 KPIA 010443Z 01006KT 8SM BKN014 OVC021 17/16 A3004 RMK AO2 T01670161 LFRB 010430Z AUTO 27008KT 220V310 7000 -RA FEW010/// SCT020/// BKN032/// ///TCU 12/11 Q1007 LFPT 010430Z AUTO 18001KT 0550 0500 R05/0450D FG VV/// 11/11 Q1009 KORB 010433Z AUTO 00000KT 7SM CLR 06/04 A3027 RMK AO2 KPIB 010435Z AUTO 00000KT 10SM CLR 15/12 A3008 RMK AO1 GAKT 010300Z 00000KT 9999 FEW030 25/21 Q//// GAMB 010300Z VRB02KT CAVOK 25/24 Q1011 LEZL 010430Z 00000KT CAVOK 19/14 Q1013 NOSIG LFRC 010430Z AUTO 18007KT 0600 R28/0700N FG VV/// 10/10 Q1007 KPHL 010446Z 04008KT 10SM OVC009 16/14 A3020 RMK AO2 T01560139 LFRD 010430Z AUTO 19008KT 9999 NCD 10/10 Q1009 NOSIG LFPV 010430Z AUTO 27004KT 7000 FEW007 SCT110 12/12 Q1009 TEMPO 1200 DZRA BR OVC002 KORD 010351Z 05008KT 10SM FEW013 OVC022 17/14 A3005 RMK AO2 SLP174 T01670144 KPGV 010425Z AUTO 14003KT 7SM OVC090 22/22 A3006 RMK AO2 KORE 010432Z AUTO 34007KT 3SM -RA BR OVC011 09/09 A3036 RMK AO2 CIG 008V014 P0008 T00890089 $ KPIE 010353Z AUTO 05005KT 10SM CLR 27/21 A3004 RMK AO2 SLP171 T02670206 KPHN 010435Z AUTO 06005KT 10SM OVC016 14/13 A3013 RMK AO2 KORF 010421Z AUTO 12003KT 10SM FEW009 24/23 A3006 RMK AO2 T02390228 RCMQ 010430Z 25009KT 7000 FEW010 SCT025 BKN060 29/26 Q1010 NOSIG RMK A2983 LFRG 010430Z AUTO 23005KT CAVOK 10/09 Q1009 KPHP 010355Z AUTO 09007KT 10SM CLR 16/09 A3002 RMK AO2 SLP154 T01610089 KORG 010435Z AUTO 00000KT 10SM CLR 16/16 A3010 RMK AO2 T01590159 LFQQ 010430Z AUTO VRB01KT CAVOK 10/08 Q1008 BECMG BKN007 OVC013 LFRH 010430Z AUTO 25010KT 9999 BKN036 14/09 Q1009 TEMPO 28015G30KT 2000 SHRA SCT012 BKN025CB KPIH 010353Z 10003KT 10SM CLR 19/07 A3006 RMK AO2 SLP143 T01890067 KORH 010432Z AUTO 04009G21KT 1 1/4SM -RA BR OVC002 10/09 A3032 RMK AO2 P0000 T01000089 LFRI 010430Z AUTO 16005KT CAVOK 11/11 Q1011 LFRJ 010430Z AUTO 21008KT 9999 FEW024/// SCT056/// BKN072/// ///TCU 11/10 Q1007 KOSA 010435Z AUTO 00000KT 10SM CLR 16/13 A3010 RMK AO1 T01560130 LFSB 010430Z 17006KT CAVOK 13/12 Q1012 NOSIG LFRK 010430Z AUTO 19008KT CAVOK 11/10 Q1008 KPHT 010435Z AUTO 26003KT 10SM OVC075 14/14 A3004 RMK KOQT 010353Z AUTO 00000KT 10SM CLR 13/09 A3008 RMK AO2 SLP180 T01280094 KOQU 010250Z 06020KT 1 1/2SM -RABR BKN007 OVC016 15/13 A3029 RMK LAST LFRL 010430Z AUTO 23008KT 9999 // FEW020/// SCT028/// BKN056/// ///CB 12/11 Q1008 ESMK 010420Z AUTO 20005KT 9999 NCD 10/09 Q1010 KPIL 010353Z AUTO 03006KT 10SM CLR 24/18 A3004 RMK AO2 SLP172 T02440183 KORL 010353Z AUTO 19007KT 10SM CLR 23/22 A3002 RMK AO2 SLP167 T02330217 KOSC 010433Z AUTO 11009G16KT 090V150 10SM BKN043 OVC049 17/11 A3019 RMK AO2 T01680105 ETEB 010358Z AUTO 13006KT 9999 SCT095 13/12 A2989 RMK AO2 SLP125 T01290119 RCNN 010430Z 28004KT 7000 FEW012 BKN025 BKN040 31/26 Q1009 NOSIG RMK A2982 AWOS R36 N/A LFSD 010430Z AUTO 18008KT 6000 -RA NSC 15/15 Q1012 LFRM 010430Z AUTO 23004KT 200V270 9999 OVC007 12/11 Q1010 KPIM 010435Z AUTO 00000KT 10SM CLR 14/11 A3009 RMK AO2 T01350110 LFRN 010430Z AUTO 20003KT 8000 BKN003/// OVC011/// 10/09 Q1009 BECMG BKN030 ESND 010420Z AUTO 24003KT 200V310 9999 NCD 06/01 Q0996 LFRO 010430Z AUTO 16005KT 130V190 CAVOK 10/10 Q1007 KPHX 010351Z 09005KT 10SM FEW150 FEW250 30/09 A2992 RMK AO2 SLP114 T03000094 $ LGIO 010420Z AUTO /////KT //// -RA ////// 09/// Q1020 RE// LFSG 010430Z AUTO 20013KT 9999 -RA SCT011/// SCT045/// BKN056/// ///TCU 15/14 Q1010 KNZY 010352Z 30004KT 10SM FEW008 21/19 A2996 RMK AO2 SLP145 T02060189 $ KQC5 010356Z AUTO 00000KT 9999 CLR 21/20 A2987 RMK AO2 SLPNO T02050202 LFRQ 010430Z AUTO 25004KT 9999 -RA FEW012/// SCT032/// BKN058/// ///TCU 11/11 Q1008 ESNG 010420Z AUTO 32006KT 9999 SCT070/// 04/02 Q0980 KOSH 010353Z AUTO 06008KT 10SM FEW007 OVC012 16/15 A3014 RMK AO2 RAE23 SLP202 P0005 T01560150 LFSI 010430Z AUTO 18003KT 9000 RA OVC017/// ///CB 15/15 Q1009 ESMQ 010420Z AUTO 23008KT 9999 NCD 09/09 Q1009 KPIR 010353Z AUTO 13014KT 10SM CLR 16/07 A3006 RMK AO2 SLP173 T01610072 LGIR 010420Z 18004KT 9999 FEW025 16/14 Q1016 NOSIG PTYA 010353Z 18008KT 12SM VCSH SCT016CB BKN130 OVC300 30/26 A2976 RMK VCSH E AND W SHRAB17E34 CB ALQDS SLP079 T02950260 LFRS 010430Z AUTO 17005KT CAVOK 11/11 Q1010 TEMPO 4000 SHRA BKN025TCU KORS 010435Z AUTO 18005KT 10SM CLR 10/07 A2993 RMK AO2 LFRT 302100Z AUTO 24002KT 9999 FEW022 BKN036 BKN044 13/12 Q1012 ESMS 010420Z 23006KT CAVOK 09/09 Q1010 KPIT 010407Z 10006KT 10SM BKN007 BKN044 OVC055 14/14 A3010 RMK AO2 RAE07 P0002 T01390139 KPKB 010433Z AUTO 16004KT 6SM BR SCT006 OVC050 16/15 A3008 RMK AO2 T01610150 GANK 010300Z 00000KT CAVOK 27/20 Q//// LHBC 010345Z 18004KT CAVOK 11/09 Q1017 LGKC 301350Z 26006KT CAVOK 24/14 Q1021 LFSL 010430Z AUTO 08004KT 040V110 5000 +RA BR FEW002/// BKN068/// BKN100/// ///CB 15/15 Q1012 TEMPO -TSRA BKN005 LFRU 302000Z AUTO 16003KT CAVOK 12/12 Q1012 ESNK 010420Z AUTO 27001KT 0100 R17/0350N R35/1500N FG FEW000/// 00/00 Q0992 ESMT 010420Z AUTO 24009KT 9999 NCD 12/08 Q1008 LFRV 010430Z AUTO 17003KT 9999 FEW028/// SCT036/// BKN044/// 11/11 Q1009 ESNL 010420Z AUTO 24004KT 210V280 9999 NCD 05/02 Q0987 KPKD 010353Z AUTO 09005KT 10SM CLR 12/07 A3024 RMK AO2 SLP246 T01170072 TSNO KQBD 010425Z AUTO 15003KT 10SM CLR 19/07 A3006 RMK AO2 SLP089 WND DATA ESTMD T01880072 LFSN 010430Z AUTO 12003KT 080V170 9999 -RA FEW008/// OVC016/// ///TCU 15/14 Q1010 KQD3 010356Z AUTO 00000KT 6000 BR SCT004 BKN006 31/25 A2971 RMK AO2 SLP058 T03100250 KQBF 010356Z AUTO 00000KT 9999 CLR 24/20 A2979 RMK AO2 SLPNO T02370203 LFSO 010430Z AUTO 19012KT 9999 RA FEW015/// OVC082/// ///TCU 15/14 Q1010 TEMPO 3000 TSRA BKN005 BKN020CB OVC030 ESNN 010420Z AUTO 00000KT 1600 BCFG NCD 01/01 Q0993 ESOE 010420Z AUTO 23006KT 9999 NCD 10/05 Q1002 LGKF 010350Z 00000KT 9999 FEW018 18/17 Q1018 KS25 010435Z AUTO 13008KT 10SM CLR 13/09 A2999 RMK AO2 ESNO 010420Z AUTO 24008KT 9999 SCT100/// 05/02 Q0989 ESMX 010420Z AUTO 20008KT 9999 FEW005/// 08/08 Q1008 KOTG 010356Z AUTO 00000KT 10SM CLR 12/09 A3020 RMK AO2 SLP230 T01170094 LFTH 010430Z AUTO VRB03KT 9999 BKN020 BKN028 OVC120 20/17 Q1015 BECMG BKN023TCU LFRZ 010430Z AUTO 24004KT 9999 VV/// 13/12 Q1009 TEMPO BKN020TCU KOTH 010435Z 19006KT 10SM 13/09 A3004 RMK AO1 ESNQ 010420Z AUTO 22008KT 9999 FEW120/// 05/02 Q0978 GANR 010300Z 22004KT CAVOK 29/23 Q1012 LFST 010430Z AUTO 21004KT 160V230 4000 BR BKN003 BKN042 BKN049 15/14 Q1011 TEMPO 2000 -TSRA SCT030CB ESPA 010420Z 24007KT CAVOK 06/02 Q0984 ESNS 010420Z AUTO 24008KT 9999 SCT100/// 06/03 Q0986 ESOK 010420Z AUTO 26005KT 9999 NCD 06/03 Q1002 KOSU 010400Z AUTO 17004KT 10SM SCT007 BKN017 OVC022 17/16 A3002 RMK AO2 T01670161 LGKL 010420Z 00000KT CAVOK 15/12 Q1017 KQBL 010256Z AUTO 00000KT 10SM CLR 19/13 A3007 RMK AO2 SLP184 WND DATA ESTMD T01920129 52015 ESNU 010420Z 17004KT CAVOK 02/01 Q0988 KOTM 010433Z AUTO 35004KT 10SM BKN016 OVC037 16/13 A3012 RMK AO2 T01560128 KS32 010435Z AUTO 14008KT 10SM CLR 13/09 A3017 RMK AO2 ESNV 010420Z AUTO VRB02KT 9999 SCT017/// 02/00 Q0988 LFSX 010430Z AUTO 13004KT 6000 -RA NSC 15/15 Q1012 TEMPO 3000 TSRA BKN005 BKN020CB OVC030 ESPE 010420Z AUTO 27008KT 9999 FEW120/// 05/02 Q0984 LGKO 010420Z 35005KT CAVOK 19/13 Q1014 ESNX 010420Z AUTO 24006KT 9999NDV NCD 05/01 Q0984 LGKP 010420Z AUTO 29012KT //// -RA ////// 21/16 Q1014 RE// LHBP 010430Z 10004KT CAVOK 10/09 Q1016 NOSIG ETGG 010420Z 19010KT 9999 SCT025 BKN050 11/10 Q1010 BLU ESNZ 010420Z AUTO 29022KT 9999 FEW021/// 06/03 Q0993 LGKR 010420Z 00000KT 9999 FEW025 15/13 Q1018 NOSIG ETHA 010420Z AUTO 24004KT //// // ////// 08/06 Q1014 /// VRMM 010400Z 25005KT 9999 FEW018 BKN270 30/26 Q1011 NOSIG WIMM 010430Z 36005KT 330V040 8000 FEW018TCU SCT020 31/23 Q1011 NOSIG KS39 010435Z AUTO 00000KT 10SM CLR 09/M02 A2997 RMK AO2 ETHB 010420Z AUTO 18005KT 5000 // ////// 12/10 Q1011 /// LHDC 010415Z 14002KT 8000 SCT200 10/09 Q1016 TEMPO 5000 BR ETHC 010420Z AUTO 08003KT 9000 // ////// 09/08 Q1012 /// KPMD 010353Z AUTO 25015KT 10SM OVC100 24/07 A3003 RMK AO2 SLP142 T02440072 LGKV 010420Z 00000KT CAVOK 13/10 Q1017 LGLM 010420Z 30004KT 9999 FEW018 16/14 Q1016 KPKV 010359Z AUTO 00000KT 10SM CLR 20/15 A3008 RMK AO2 LFTW 010430Z AUTO 10008KT 9999 -RA BKN011/// OVC017/// ///CB 17/16 Q1013 TEMPO 1000 +TSRA BKN020CB KOVE 010353Z AUTO 16012KT 10SM CLR 19/06 A2998 RMK AO2 SLP153 T01890061 KPLN 010354Z AUTO 07006KT 10SM -RA FEW080 SCT100 BKN120 16/12 A3024 RMK AO2 RAB17 SLP240 P0000 T01610117 KOUN 010435Z AUTO 00000KT 10SM CLR 16/11 A3012 RMK AO2 ETHE 010420Z AUTO 15004KT //// // ////// 11/09 Q1010 /// ESOW 010420Z AUTO 24010KT 210V280 9999 NCD 10/05 Q1001 ETHF 010420Z AUTO 03002KT 4900 // ////// 11/10 Q1011 /// KQDG 010356Z AUTO 30012KT 9999 CLR 23/13 A3009 RMK AO2 SLP191 T02340125 PWINO $ LGKZ 301750Z /////KT CAVOK 15/13 Q1021 ETGQ 010420Z AUTO 36003KT //// // ////// 12/11 Q1010 /// KPLR 010435Z AUTO 00000KT 10SM CLR 10/10 A3009 RMK A01 LGLR 010350Z 16002KT 8000 NSC 09/09 Q1018 BLU KOWA 010435Z AUTO 00000KT 10SM OVC048 16/12 A3019 RMK AO2 KPNA 010435Z AUTO 28004KT 10SM SCT100 05/02 A3027 RMK AO2 KOWB 010256Z 16005KT 10SM SCT014 BKN029 A3000 LGMK 010350Z 35008KT CAVOK 19/15 Q1016 KPNC 010353Z AUTO 00000KT 10SM CLR 12/09 A3011 RMK AO2 SLP190 T01220094 KOVL 010433Z AUTO 08004KT 10SM CLR 12/08 A3019 RMK AO2 KPLU 010435Z AUTO 27004KT FEW047 BKN055 OVC110 13/06 A2998 RMK AO2 ETHL 010420Z 17001KT 9999 FEW070 SCT160 09/08 Q1013 BLU+ KOWD 010442Z AUTO 05005KT 3SM -RA BR SCT009 BKN015 OVC034 14/13 A3032 RMK AO2 RAB24 P0001 T01440133 ETIC 010358Z AUTO 00000KT 9999 FEW075 SCT100 10/10 A2990 RMK AO2 SLP122 KPNE 010354Z AUTO 05012G18KT 9SM OVC007 16/14 A3022 RMK AO2 SLP231 T01560139 TSNO ETHN 010420Z 13003KT 9999 FEW020 BKN050 BKN130 13/11 Q1012 BLU KPMP 010432Z AUTO 31005KT 8SM VCTS 24/24 A3002 RMK AO2 LTG DSNT E-S T02440239 $ LFVP 302200Z 30015KT CAVOK 13/09 Q1024 NOSIG KQEI 010440Z AUTO 24003KT 9999 CLR 24/12 A3008 RMK A02 TSNO ETIH 010358Z AUTO 00000KT 9999 FEW100 10/10 A2992 RMK AO2 SLP126 KOWI 010435Z AUTO 00000KT 4SM BR CLR 11/11 A3013 RMK AO2 KQEJ 010440Z AUTO 27001KT 9999 CLR 24/11 A3004 RMK A02 TSNO KOVS 010405Z AUTO 00000KT 10SM OVC010 16/15 A3015 RMK AO2 RAE03 CIG 007V011 P0000 T01560150 PWAK 010358Z AUTO 06011KT 9999 CLR 30/25 A2992 RMK AO2 SLP138 T03010250 $ ETHS 010420Z VRB02KT 9999 BKN090 BKN130 08/07 Q1012 BLU ESSA 010420Z 25014KT CAVOK 10/06 Q1000 NOSIG KQFB 010440Z AUTO 22001KT 9999 OVC023 23/16 A3012 RMK A02 TSNO KOXB 010353Z AUTO 06007KT 10SM OVC002 20/20 A3011 RMK AO2 SLP195 T02000200 LGMT 010420Z 00000KT CAVOK 17/13 Q1016 KPOB 010358Z AUTO M 10SM SCT006 21/21 A3002 RMK AO2 SLP167 T02140206 $ KPOC 010347Z 25005KT 10SM CLR 23/09 A3000 RMK LAST ESSB 010420Z AUTO 25010KT 210V270 9999 FEW027/// 11/06 Q1001 KQEL 010440Z AUTO 27001KT 9999 CLR 24/14 A3010 RMK A02 TSNO KOXC 010050Z 06010G20KT 2SM -RA BR OVC005 11/09 A3030 RMK LAST KPMU 010435Z AUTO 00000KT 7SM CLR 12/12 A3008 RMK AO2 T01220115 ETIK 010358Z AUTO 07003KT 9999 FEW070 BKN130 13/12 A2988 RMK AO2 SLP114 T01340117 KPNM 010434Z AUTO 02003KT 10SM SCT007 12/11 A3023 RMK AO2 KPMV 010435Z AUTO 00000KT 10SM CLR 13/10 A3017 RMK AO2 T01270097 ESSD 010420Z AUTO 25012KT 9999 NCD 06/02 Q0999 KQEN 010440Z AUTO 06005KT 9999 CLR 16/13 A3014 RMK A02 TSNO KPOE 010358Z AUTO 35001KT 9SM CLR 16/14 A3007 RMK AO2 SLP183 T01630140 KPOF 010353Z AUTO 32003KT 10SM OVC060 16/15 A3006 RMK AO2 SLP178 T01610150 TSNO KQEP 010440Z AUTO 06002KT 9999 CLR 22/15 A3000 RMK A02 TSNO KOWP 010435Z AUTO 00000KT 10SM CLR 16/09 A3011 RMK AO2 T01580094 GASG 010300Z 28004KT CAVOK 26/22 Q//// KQEQ 010440Z AUTO 33004KT 9999 CLR 24/14 A2991 RMK A02 TSNO RCSS 010441Z 11016G28KT 080V140 9999 FEW020 SCT035 BKN150 33/22 Q1010 NOSIG RMK A2983 KQER 010440Z AUTO 35001KT 9999 CLR 24/13 / RMK A02 TSNO KOXI 010435Z AUTO 09004KT 7SM SCT040 13/09 A3004 RMK AO1 KQES 010440Z AUTO 02001KT 6000 HZ CLR 23/16 A3007 RMK A02 TSNO KPNS 010353Z AUTO 05003KT 10SM CLR 20/13 A3007 RMK AO2 SLP183 T02000133 LGPA 010420Z AUTO 03005KT //// // ////// 18/12 Q1016 RE// KPPA 010435Z AUTO 15009KT 10SM CLR 16/11 A3013 RMK AO2 T01600107 ESTA 010420Z AUTO 23010KT 9999 SCT026/// BKN032/// OVC059/// 12/10 Q1009 REDZ KPNT 010435Z AUTO 02006KT 4SM RA SCT006 OVC012 16/16 A3004 RMK AO2 T01630163 GASK 010300Z 00000KT 9999 FEW016 24/21 Q//// ESSL 010420Z 25008KT 210V280 CAVOK 10/07 Q1004 KQEV 010440Z AUTO 11003KT 9999 CLR 21/15 A3006 RMK A02 TSNO WIPP 010400Z 22002KT 9999 SCT012 31/24 Q1011 NOSIG FKKD 010400Z 10002KT 3000 BR SCT002 SCT013 FEW016CB 24/23 Q1010 NOSIG KQEW 010440Z AUTO 03002KT 8000 HZ BKN011 18/15 A3008 RMK A02 TSNO KQGE 010356Z AUTO 00000KT 10SM CLR 19/13 A3007 RMK AO2 SLP187 T01880132 $ GASN 010300Z 22006KT CAVOK 26/23 Q//// KPPF 010352Z AUTO 00000KT 10SM CLR 11/11 A3013 RMK AO2 SLP199 T01110106 KQEX 010440Z AUTO 06003KT 9999 CLR 19/15 A3011 RMK A02 TSNO RCTP 010430Z 10012KT 060V130 9999 FEW020 BKN150 34/23 Q1009 WS R05L NOSIG RMK A2980 LGNX 010350Z 02008KT 9999 FEW020 20/15 Q1016 KOWX 010434Z AUTO 07005KT 7SM SCT021 BKN030 OVC037 15/15 A3004 RMK AO1 KQEY 010440Z AUTO 08003KT 9999 BKN008 20/16 A3008 RMK A02 TSNO ESSP 010420Z AUTO 25015KT 9999 NCD 10/07 Q1003 KOXR 010351Z AUTO 27004KT 9SM CLR 18/16 A2995 RMK AO2 SLP141 T01830156 KOZA 010435Z AUTO 21003KT 10SM CLR 17/12 A3017 RMK AO2 KQFT 010440Z AUTO 24003KT 9999 FEW060 23/15 A3003 RMK A02 TSNO ESST 010420Z AUTO 27006KT 230V310 9999 NCD 06/02 Q1002 KQFU 010440Z AUTO 35004KT 4000 /CLR 23/14 A3006 RMK A02 TSNO KPOU 010432Z 01007KT 3SM BR SCT005 SCT012 OVC019 11/11 A3029 RMK AO2 P0001 T01110106 ESTL 010420Z AUTO 23007KT 9999NDV NCD 10/09 Q1010 KQFV 010440Z AUTO 15006KT 1200 /CLR 23/13 A3006 RMK A02 TSNO KPOV 010419Z AUTO 08008KT 10SM OVC009 14/12 A3009 RMK AO2 KOXV 010435Z AUTO 03006KT 10SM FEW021 OVC029 16/13 A3012 RMK AO2 ESSV 010420Z AUTO 25019KT 9999 BKN019/// 12/09 Q1006 ESUD 010420Z AUTO 27005KT 240V300 9999 SCT098/// 06/02 Q0986 FKKN 301700Z 18004KT 9999 TS SCT016 FEW020CB 21/21 Q1015 KQFX 010440Z AUTO 17001KT 9999 FEW050 SCT070 24/13 A3006 RMK A02 TSNO KPPO 010435Z AUTO 07005KT 10SM CLR A3006 RMK AO2 KPOY 010435Z AUTO 34008KT 10SM -DZ SCT070 OVC100 17/06 A3010 RMK AO2 KPPQ 010435Z AUTO 33005KT 10SM OVC011 16/15 A3008 RMK AO2 T01640153 LFYR 010430Z AUTO VRB01KT 9999 FEW004 OVC034 13/13 Q1010 KPQI 010414Z AUTO 00000KT 5SM BR CLR 02/02 A3045 RMK AO2 FZRANO FKKR 010300Z 27004KT CAVOK 27/25 Q1009 KPRB 010353Z AUTO 30012G19KT 10SM CLR 16/05 A3002 RMK AO2 SLP164 T01610050 TSNO KPQL 010353Z AUTO 00000KT 10SM CLR 15/15 A3007 RMK AO2 SLP183 T01500150 TSNO KPRC 010353Z 20006KT 10SM CLR 14/12 A3020 RMK AO2 SLP171 T01390122 KQHN 010355Z 14003KT 9999 CLR 22/M09 A2994 RMK SLP082 Q1014 DA4896 KPQN 010434Z AUTO 11004KT 10SM CLR 13/09 A3020 RMK AO2 KPRG 010435Z AUTO 00000KT 7SM SCT033 SCT049 OVC060 15/15 A3000 RMK AO2 T01520152 ESUP 010420Z AUTO 22005KT 9999 NCD 04/01 Q0980 LGPZ 010420Z 04004KT CAVOK 16/14 Q1018 KOZR 010356Z AUTO 00000KT 10SM CLR 16/13 A3007 RMK AO2 SLP183 T01590132 LGSA 010420Z 17005KT 9999 FEW020 15/13 Q1016 KOZS 010435Z AUTO 00000KT 10SM SCT047 14/12 A3011 RMK AO2 VTBD 010430Z 29010KT 9999 FEW020 31/24 Q1009 NOSIG ESUT 010420Z AUTO 32004KT 270V030 9999 SCT016/// BKN026/// 04/03 Q0986 REDZ KRAC 010444Z AUTO 07009KT 10SM -RA BKN008 OVC019 17/15 A3009 RMK AO2 CIG 005V012 P0005 T01670150 KPSC 010353Z 25006KT 10SM FEW055 FEW090 20/03 A2984 RMK AO2 RAB34E44 SLP103 P0000 T02000033 ETND 300920Z 23011KT 9999 SCT013 BKN070 BKN130 15/12 Q1013 BLU KOZW 010434Z AUTO 07008KT 10SM OVC008 14/13 A3010 RMK AO2 T01350128 KPRN 010356Z AUTO 00000KT 10SM CLR 14/12 A3007 RMK AO2 SLP180 T01390117 ETMN 010420Z 17005KT 9999 FEW100 BKN280 10/07 Q1010 BLU+ KPSF 010445Z AUTO 05011KT 4SM BR FEW009 BKN014 OVC031 09/07 A3032 RMK AO2 T00890072 KPRO 010435Z AUTO 04004KT 10SM SCT024 OVC044 16/15 A3016 RMK AO2 T01600145 LGRP 010420Z 23006KT CAVOK 21/16 Q1013 NOSIG KQHY 010256Z AUTO 00000KT 10SM CLR 20/13 A3008 RMK AO2 SLP188 T01950131 $ ETNG 301650Z 22003KT 9999 FEW040 BKN300 17/10 Q1014 NOSIG ETNH 010445Z 14004KT 7000 MIFG FEW060 SCT260 08/08 Q1010 WHT LIBA 010255Z 24004KT CAVOK 15/14 Q1019 RMK SKC VIS MIN 9999 WIND THR11 23004KT WIND THR29 24001KT BLU VTCC 010430Z 07003KT 9999 BKN035 30/22 Q1013 A2991 NOSIG KQKA 010355Z AUTO 13010KT 10SM FEW180 20/07 A2984 RMK A02 SLP072 T01960067 KPRS 010435Z AUTO 00000KT 10SM CLR 23/18 A3013 RMK AO2 T02250182 KQKB 010355Z 15009G15KT 10SM CLR 21/06 A2991 RMK AO2 SLP095 T02060057 LGSK 010350Z 00000KT CAVOK 15/14 Q1017 KPSK 010435Z AUTO 00000KT 10SM SCT004 OVC011 17/16 A3009 RMK AO2 T01660164 KPTB 010435Z AUTO 00000KT 10SM OVC007 A3006 RMK AO2 KT20 010435Z AUTO 10003KT 10SM CLR 19/12 A3009 RMK AO2 T01880122 LIBC 301750Z 17004KT CAVOK 20/16 Q1021 KRAL 010353Z 26005KT 10SM CLR 26/09 A2997 RMK AO2 SLP131 T02610094 ETNL 010420Z VRB01KT 1300 R28/6000U VCFG MIFG SCT200 07/06 Q1012 AMB VTBO 010300Z 00000KT 9999 FEW020 31/26 Q1010 KRBD 010353Z 00000KT 10SM CLR 18/12 A3009 RMK AO2 SLP184 T01780117 LIBD 010420Z 23006KT CAVOK 13/12 Q1019 LGSM 010350Z VRB04KT CAVOK 19/12 Q1012 KPSM 010358Z 04008KT 10SM OVC017 13/09 A3039 RMK AO2A RAE23 SLP293 P0000 T01310090 LHKE 010415Z 17002KT 3000 MIBCFG BR FEW060 BKN200 09/08 Q1016 NOSIG RMK YLO KPSN 010435Z AUTO 00000KT 10SM CLR 15/14 A3011 RMK AO2 T01510142 ETNN 010420Z AUTO VRB02KT 9999 // ////// 11/10 Q1010 /// VTCH 010400Z VRB02KT 9999 FEW025 SCT030 30/21 Q1011 A2987 LIBF 301550Z 07008KT CAVOK 23/15 Q1020 LGRX 010420Z 00000KT CAVOK 13/13 Q1017 KPSO 010435Z AUTO 00000KT 10SM CLR 10/04 A3034 RMK AO2 T00950036 KPRX 010435Z 32004KT 10SM CLR 15/10 A3009 RMK AO1 LGSO 010350Z 32005KT CAVOK 20/11 Q1016 LGTG 010320Z 00000KT CAVOK 11/07 Q1017 BLU LIBG 301750Z VRB02KT CAVOK 18/13 Q1020 KRAP 010352Z 20009KT 10SM CLR 17/09 A3003 RMK AO2 SLP156 T01670089 KPSP 010353Z AUTO 00000KT 10SM CLR 33/11 A2988 RMK AO2 SLP114 T03280106 TSNO KRBG 010353Z AUTO 00000KT 10SM CLR 14/06 A3003 RMK AO2 SLP170 T01390056 LIBH 010255Z 30006KT CAVOK 15/15 Q1018 RMK SKC QUK / QUL / VIS MAR 20 KM VIS MIN 9999 VTBS 010430Z 29008KT 250V350 9999 FEW020 31/22 Q1010 NOSIG LGSR 010420Z 30007KT CAVOK 19/14 Q1015 VTCL 010400Z VRB02KT 9999 SCT025 BKN100 28/25 Q1012 A2988 VTBU 010400Z 26004KT 9999 VCTS SCT018CB SCT100 30/24 Q1009 TEMPO FM0430 TL0630 -TSRA LICA 010350Z 09005KT CAVOK 13/12 Q1019 KRAS 010435Z AUTO 02005KT 10SM CLR 22/14 A3006 RMK AO2 T02180139 KRCA 010358Z AUTO 18011KT 10SM CLR 17/10 A3002 RMK AO2 SLP156 T01720099 $ ETNS 010420Z AUTO 14003KT 4000 // ////// 09/08 Q1010 /// LICB 302050Z 08003KT CAVOK 20/17 Q1022 KPTK 010432Z AUTO 07008KT 10SM OVC008 13/12 A3010 RMK AO2 CIG 007V011 T01330117 $ KPUB 010353Z 32012KT 10SM OVC110 18/09 A3017 RMK AO2 SLP171 T01830089 ETNT 010420Z 14003KT 9999 SCT080 BKN260 08/08 Q1010 BLU+ VTCN 010300Z 23002KT 9999 BKN015 BKN100 29/23 Q1011 KPUC 010353Z AUTO 03005KT 10SM CLR 13/09 A3023 RMK AO2 SLP200 T01330089 LICC 010420Z 26005KT 6000 NSC 18/16 Q1018 KRBL 010354Z AUTO 33005KT 10SM CLR 21/M02 A2996 RMK AO2 SLP143 T02061017 LICD 010400Z 11010KT 7000 SCT020 24/24 Q1017 KQN2 010356Z AUTO 00000KT 9999 CLR 20/20 A2988 RMK AO2 SLPNO T02010198 KRCE 010415Z AUTO 16004KT 10SM 17/12 A3013 RMK AO2 LIBN 301755Z VRB03KT CAVOK 18/12 Q1021 RMK SKC VIS MIN 9999 WIND THR14 VRB02KT WIND THR32 VRB01KT BLU VTCP 010400Z 33003KT 9999 FEW018 30/24 Q1011 A2986 KPTN 010356Z AUTO 00000KT 10SM CLR 18/17 A3008 RMK AO2 RAB15E48 SLP186 P0000 T01780167 KQN3 010356Z AUTO 28003KT 9999 BKN150 29/21 A2983 RMK AO2 SLP090 T02880213 GAYE 010300Z 26002KT CAVOK 28/25 Q//// ETNW 010420Z AUTO 15004KT 5000 // ////// 11/09 Q1011 /// LICF 010355Z 29001KT 9999 FEW025 21/18 Q1018 RMK SCT SCT080 QUK / QUL / VIS MAR 12 KM MON INVIS NC VIS MIN 9999 KPSX 010353Z AUTO 10004KT 9SM CLR 20/17 A3008 RMK AO2 SLP184 T02000167 KRBO 010435Z AUTO 26003KT 10SM CLR 20/16 A3008 RMK AO2 T02000155 LIBP 010350Z AUTO 20006KT 9999 NCD 11/10 Q1018 LICG 301755Z /////KT 9999 FEW010TCU SCT025 23/21 Q1019 LGSY 010350Z 00000KT CAVOK 15/14 Q1015 BLU KT35 010435Z AUTO 00000KT 10SM CLR 18/13 A3010 RMK AO2 T01750131 VTCT 010400Z 21003KT 9999 FEW016 SCT025 29/25 Q1012 A2989 LIBR 010415Z 25002KT CAVOK 15/13 Q1019 NOSIG KPTS 010435Z AUTO 00000KT 10SM CLR 13/14 A3011 RMK AO2 T01330135 LICJ 010420Z 19001KT 9999 FEW030 22/18 Q1019 LGTS 010420Z 11006KT 9999 FEW020 10/07 Q1017 NOSIG KPUJ 010435Z AUTO 31003KT 10SM CLR 17/11 A3009 RMK AO2 KPVB 010435Z AUTO 35005KT 10SM OVC008 15/15 A3013 RMK AO1 T01500150 KPTT 010435Z AUTO 13003KT 10SM CLR 14/07 A3014 RMK AO2 T01410066 LICL 300955Z 18004KT 9999 SCT025 26/20 Q1022 RMK SCT QUK 1 QUL 0 VIS MAR 16 KM VIS MIN 9999 KPVC 010356Z AUTO 07011KT 3SM -RA BR OVC009 14/14 A3034 RMK AO2 CIG 008V014 SLP272 P0002 T01440139 KRCM 010355Z AUTO 31003KT 10SM CLR 12/11 A3012 RMK AO2 LIBV 010355Z 35003KT 6000 NSC 11/10 Q1019 RMK SKC VIS MIN 6000 WIND THR32 35002KT WIND THR14 34002KT WHT ETOU 010447Z AUTO 11006KT 9999 -RA OVC007 13/10 A2983 RMK AO2 DZB04E07RAB07E38DZB38E41RAB47 KPVD 010447Z 03012KT 2 1/2SM -RA BR BKN007 OVC011 14/13 A3029 RMK AO2 P0006 KRDD 010353Z 00000KT 10SM CLR 19/M02 A2994 RMK AO2 SLP134 T01941017 KPTV 010356Z AUTO 34006KT 10SM CLR 24/10 A2995 RMK AO2 SLP149 T02390100 GCFV 010000Z AUTO 34005KT 9999 NCD 22/18 Q1016 KPTW 010354Z AUTO 05008G14KT 10SM OVC009 13/13 A3022 RMK AO2 SLP232 T01330128 GCGM 010430Z AUTO 31003KT 9999 NCD 20/15 Q1016 RMK R09/31004KT ARP/31004KT KRBW 010435Z AUTO 00000KT 10SM CLR 17/17 A3005 RMK AO2 KPVE 010435Z AUTO 00000KT 10SM OVC080 16/14 A3005 RMK KPVF 010415Z AUTO 16006KT 10SM CLR 12/00 A3007 RMK AO1 LIBY 010355Z 01006KT CAVOK 19/15 Q1018 RMK SKC QUK / QUL / VIS MAR 15 KM VIS MIN 9999 KPVG 010435Z 00000KT 7SM BKN120 23/21 A3008 RMK AO1 KRDG 010354Z 06008KT 10SM OVC013 15/12 A3020 RMK AO2 SLP233 T01500117 LICR 010400Z 03003KT CAVOK 20/15 Q1018 KRCR 010435Z AUTO 07005KT 10SM SCT014 SCT031 BKN085 16/15 A3003 RMK AO2 GCHI 010430Z AUTO 03010KT 340V050 9999 FEW021/// 22/18 Q1016 KPWA 010353Z AUTO 09004KT 10SM CLR 18/11 A3012 RMK AO2 SLP190 T01780106 LIEA 010420Z 01004KT CAVOK 18/14 Q1015 KPVJ 010435Z AUTO 00000KT 10SM CLR 15/13 A3010 RMK AO2 T01520125 LIEB 010355Z 29007KT 9999 SCT030 SCT040 19/17 Q1017 RMK BKN QUK / QUL / VIS MAR 20 KM MON INVIS VIS MIN 9999 LICT 010355Z 13006KT 9999 FEW025 22/19 Q1017 KRDK 010435Z AUTO 00000KT 2 1/2SM BR FEW035 FEW042 12/10 A3017 RMK AO2 LIEC 010355Z 10010KT 9999 FEW015 SCT020 23/19 Q1015 RMK OVC BKN070 QUK / QUL / VIS MAR 15 KM VIS MIN 9999 KPWC 010433Z AUTO 11005KT 10SM CLR 09/09 A3027 RMK AO2 LIED 010355Z 11007KT 9999 FEW010 FEW018CB 22/20 Q1014 RMK OVC SCT110 VIS MIN 9999 WIND THR35 11007KT WIND THR17 12008KT BLU KRCV 010435Z AUTO 25010KT 10SM BKN110 10/04 A3034 RMK AO2 T01000035 KRDM 010356Z AUTO 01005KT 10SM FEW110 12/M02 A2995 RMK AO2 SLP134 T01171022 KQND 010356Z AUTO 00000KT 5000 HZ CLR 25/15 A2984 RMK AO2 SLPNO T02520148 KPUW 010353Z AUTO 32007KT 10SM -RA FEW075 BKN095 17/06 A2988 RMK AO2 RAB41 SLP110 P0000 T01720061 LIEE 010420Z 12010KT 9999 FEW015 23/22 Q1014 FLHN 301300Z 11009KT CAVOK 35/04 Q1014 KRCX 010435Z AUTO 03006KT 10SM SCT120 13/12 A3025 RMK AO2 T01270115 KPWG 010356Z AUTO 00000KT 10SM CLR 17/11 A3010 RMK AO2 SLP203 T01670111 KRCZ 010420Z AUTO 00000KT 10SM CLR 17/16 A3003 RMK AO2 T01710155 LICZ 010355Z 24003KT 8000 NSC 20/20 Q1018 RMK BKN BKN170 VIS MIN 8000 WIND THR28 24004KT WIND THR10 26003KT A3008 BLU KRDR 010358Z AUTO 17007KT 10SM CLR 13/10 A3018 RMK AO2 SLP227 T01340104 ETSA 010420Z 18003KT 9999 FEW080 BKN260 09/07 Q1013 BLU+ KPWK 010352Z AUTO 06004KT 10SM FEW013 OVC019 17/14 A3007 RMK AO2 RAE0257 SLP182 P0000 T01670144 ETSB 010420Z AUTO 05007KT 1400 // ////// 09/09 Q1009 /// KRDU 010351Z 16004KT 10SM OVC006 22/21 A3003 RMK AO2 SLP166 T02220211 KPVU 010356Z AUTO 11003KT 10SM CLR 17/09 A3011 RMK AO2 SLP157 T01670094 KPWM 010351Z 02003KT 10SM FEW030 SCT120 BKN200 11/06 A3043 RMK AO2 SLP304 T01110056 KRFD 010419Z 01006KT 5SM -RA BR BKN008 OVC013 16/14 A3009 RMK AO2 CIG 006V010 P0001 T01610144 KPXE 010435Z AUTO 00000KT 10SM CLR 14/11 A3008 RMK AO2 T01390107 KPVW 010435Z AUTO 18007KT 10SM SCT120 17/11 A3012 RMK AO2 T01710108 KREO 010352Z AUTO 21008KT 21/M03 A2990 RMK AO1 SLP090 T02061033 LIEO 010420Z VRB02KT 9999 SCT030 15/14 Q1016 KT65 010435Z AUTO 00000KT 10SM CLR 22/18 A3006 RMK AO2 T02210179 ETSH 010439Z VRB01KT 3000 MIFG BR BKN110 07/07 Q1013 YLO KRFI 010435Z AUTO 00000KT 10SM CLR 15/14 A3010 RMK AO2 T01450140 ETSI 010420Z AUTO 00000KT 0150 // ////// 09/09 Q1013 /// LHPA 010429Z 33002KT 5000 BR FEW083 10/09 Q1014 RMK WHT KRGA 010435Z AUTO 15004KT 10SM CLR 12/10 A3004 RMK AO2 KPWT 010435Z AUTO 20005KT 10SM CLR 10/06 A2999 RMK AO1 KT70 010444Z AUTO 19004KT 9SM -RA SCT220 21/15 A3004 RMK AO2 RAB0358E03DZB03E04RAB04E14RAB15E16RAB20E25RAB44 $ ETSL 010420Z AUTO VRB03KT 5000 // ////// 10/07 Q1013 /// ETSN 010435Z VRB01KT 0300 FG FEW070 BKN250 09/09 Q1012 RED LGZA 010420Z 00000KT 9999 FEW020 16/13 Q1018 KQOT 010355Z 07006KT 10SM FEW120 31/11 A2992 RMK A02 SLP114 T03140117 GCLA 010030Z AUTO 31007KT 9999 NCD 22/15 Q1017 KRGK 010435Z AUTO 00000KT 10SM OVC050 16/12 A3018 RMK AO2 FLKK 302100Z 16004KT CAVOK 20/10 Q1018 KPYM 010352Z AUTO 06013G19KT 3SM -RA BR OVC005 14/14 A3032 RMK AO2 SLP265 P0004 T01440139 KT82 010435Z AUTO 00000KT 10SM CLR 13/11 A3014 RMK AO2 T01310108 LHPP 301645Z 25003KT CAVOK 19/10 Q1018 FMCH 010400Z /////KT 9999 FEW020 21/20 Q1013 NOSIG KRHI 010353Z AUTO 07006KT 10SM CLR 13/10 A3025 RMK AO2 SLP246 T01280100 TSNO LHPR 010415Z AUTO 00000KT 4700 BR NSC 08/08 Q1014 RMK GRN AGGH 010400Z 07014KT 35KM FEW022 33/20 Q1009 KRIC 010354Z 08007KT 4SM BR OVC005 22/22 A3005 RMK AO2 CIG 004V010 SLP178 T02220217 KQRD 010358Z AUTO 00000KT 9SM CLR 18/18 A3007 RMK AO2 SLP187 KPYX 010435Z AUTO 14009KT 10SM CLR 17/11 A3011 RMK AO2 T01710107 KRHP 010425Z AUTO 00000KT 10SM CLR 07/07 A3011 RMK AO2 T00730073 GCLP 010430Z 36012KT 9999 FEW025 22/18 Q1015 NOSIG KPZQ 010434Z AUTO 08009KT 10SM BKN110 16/12 A3025 RMK AO2 T01600123 KQRH 010356Z AUTO 00000KT 9000 BR CLR 32/25 A2971 RMK AO2 SLP054 T03220247 KSAA 010435Z AUTO 15005KT 10SM CLR 07/04 A3027 RMK AO2 KRIL 010353Z AUTO 21004KT 10SM CLR 12/09 A3023 RMK AO2 SLP197 T01220089 KSAC 010353Z AUTO 19005KT 10SM CLR 16/08 A3001 RMK AO2 SLP161 T01560078 KSAD 010351Z AUTO 00000KT 10SM CLR 23/11 A3007 RMK AO2 SLP139 T02330111 KRHV 010447Z 34009KT 10SM SKC 15/10 A3012 RMK LAST FMEE 010430Z 11013KT 080V140 9999 FEW026 24/18 Q1019 NOSIG KSAF 010353Z 05004KT 10SM CLR 17/07 A3022 RMK AO2 SLP149 T01670067 KQQY 010355Z AUTO 00000KT 9999 SCT075 BKN100 26/23 A2993 RMK AO2 SLP109 WND DATA ESTMD T02570225 $ KU16 010258Z AUTO 15007KT 10SM CLR 19/09 A3003 RMK AO2 SLP793 T01940089 56007 $ FMCZ 010430Z VRB02KT 9999 FEW023 25/21 Q1015 NOSIG KSBA 010353Z 30005KT 10SM CLR 17/15 A2993 RMK AO2 SLP135 T01720150 KSBD 010433Z AUTO 00000KT 10SM CLR 26/09 A2999 RMK AO2 T02610089 KRKD 010356Z AUTO 00000KT 10SM CLR 06/06 A3043 RMK AO2 SLP307 T00610056 401560061 KRIV 010358Z AUTO 33004KT 10SM CLR 24/10 A3000 RMK AO2 SLP146 T02430095 LHSM 010415Z 10002KT 0800 BCFG FEW083 09/09 Q1014 ETWM 010420Z AUTO 00000KT 7000 // ////// 08/08 Q1010 /// KSAN 010351Z 30003KT 10SM FEW008 23/19 A2998 RMK AO2 SLP151 T02280189 LHSN 010415Z 16002KT CAVOK 11/09 Q1016 NOSIG RMK BLU KRIW 010353Z AUTO 13003KT 10SM CLR 17/04 A3014 RMK AO2 SLP159 T01670044 FMEP 010430Z AUTO 27006KT 9999 NSC 24/13 Q1019 NOSIG KSAR 010435Z AUTO 28006KT 10SM OVC005 16/16 A3004 RMK AO2 T01600156 KSAT 010351Z 08003KT 10SM SCT250 19/13 A3010 RMK AO2 SLP178 T01890128 KSBM 010446Z AUTO 05012KT 5SM -RA BR OVC005 16/14 A3013 RMK AO2 P0003 T01610144 KSAV 010353Z 00000KT 10SM CLR 18/16 A3005 RMK AO2 SLP174 T01830156 KSCD 010435Z AUTO 00000KT 10SM CLR 13/12 A3009 RMK AO2 T01270118 KRLD 010435Z AUTO 24013G17KT 10SM SCT110 21/M02 A2985 RMK AO2 T02101021 LHUD 010415Z 16003KT 7000 BKN200 11/09 Q1017 GBYD 010400Z 14004KT 9999 SCT010 24/23 Q1010 LJCE 010430Z 26007KT CAVOK 12/11 Q1015 KSBN 010414Z 08007KT 10SM BKN012 OVC019 15/14 A3007 RMK AO2 T01500139 KSAW 010436Z AUTO 06004KT 10SM SCT070 BKN080 OVC095 14/12 A3027 RMK AO2 T01410115 KSBO 010435Z AUTO 00000KT 10SM CLR 13/11 A3006 RMK AO2 KSCF 010435Z AUTO 06013KT 10SM SCT050 25/14 A3007 RMK A01 KRKP 010353Z AUTO 03003KT 10SM CLR 19/14 A3007 RMK AO2 SLP183 T01890139 KSBP 010356Z AUTO 32004KT 10SM CLR 15/11 A3003 RMK AO2 SLP168 T01500111 KSCH 010150Z 00000KT 10SM DZ OVC037 12/11 A3038 RMK LAST KSAZ 010434Z AUTO 00000KT 10SM CLR 09/08 A3024 RMK AO2 KRKR 010435Z AUTO 00000KT 10SM CLR 10/09 A3010 RMK AO2 T01030088 LIMA 301650Z 00000KT 8000 SCT030 22/15 Q1017 KRKS 010354Z AUTO 15007KT 10SM BKN110 14/07 A3024 RMK AO2 SLP181 T01390067 KSBS 010435Z AUTO 09007KT 10SM CLR 10/06 A3029 RMK AO1 T00980061 KSDA 010435Z AUTO 00000KT 10SM CLR 11/11 A3017 RMK AO2 KSDB 010448Z AUTO 34009KT 10SM CLR 20/04 A3016 RMK AO2 SLP157 T02000044 KSCK 010355Z AUTO 27012KT 10SM CLR 15/08 A3004 RMK AO2 SLP172 T01500083 LIMC 010420Z VRB02KT 9999 BKN025 16/13 Q1016 NOSIG KU42 010435Z AUTO 00000KT 10SM CLR 16/08 A3010 RMK AO1 T01630082 KRME 010400Z AUTO 09005KT 9SM -RA BKN022 OVC040 11/10 A3034 RMK AO2 RAB00 P0000 T01060100 LIME 010420Z 02006KT 360V060 9999 SCT090 15/12 Q1016 KQVF 010400Z AUTO VRB01KT 10SM CLR 23/20 A2993 RMK AO2 SLP135 WND DATA ESTMD T02340204 LIMF 010420Z VRB01KT 9999 FEW060 SCT100 15/12 Q1017 KSDF 010433Z 13003KT 5SM BR SCT007 SCT014 BKN070 OVC170 13/12 A3002 RMK AO2 T01330117 $ LIMG 301750Z 21003KT 140V250 9999 SCT035 21/15 Q1018 KRMG 010353Z AUTO 00000KT 10SM CLR 13/09 A3008 RMK AO2 SLP179 T01280094 KSBY 010354Z AUTO 07009KT 2SM BR OVC003 20/20 A3011 RMK AO2 SLP198 T02000200 TSNO LIMH 010355Z /////KT 0800 FZFG VV/// M02/M05 Q1022 RMK MON INVIS VAL INVIS VIS MIN 0800 KSCR 010425Z AUTO 00000KT 7SM BKN060 16/16 A3004 RMK AO2 T01570157 LIMJ 010420Z 13015KT 9999 -DZ BKN018 SCT030 21/18 Q1016 KSEA 010400Z 23006KT 10SM FEW040 SCT140 14/06 A2996 RMK AO2 T01440061 FKYS 010400Z 28004KT 240V320 9999 SCT003 BKN006 22/21 Q1015 TEMPO 4000 DZ LIMK 301655Z 13008KT 9999 SCT030 18/11 Q1019 RMK SCT VAL FOSCHIA VIS MIN 9999 KSDL 010353Z AUTO 00000KT 10SM CLR 29/09 A2996 RMK AO2 SLP122 T02890094 LIML 010420Z 16001KT 9999 FEW060 BKN090 15/12 Q1016 NOSIG KRNC 010435Z AUTO 00000KT 10SM BKN044 OVC055 13/12 A3007 RMK KSDM 010353Z AUTO 00000KT 10SM CLR 21/16 A2998 RMK AO2 SLP146 T02110161 KRND 010403Z AUTO 00000KT 10SM CLR 17/13 A3010 RMK AO2 LIMN 301755Z 17004KT CAVOK 18/11 Q1017 RMK FEW FEW200 VIS MIN 9999 BLU KRMN 010435Z AUTO 06008KT 3SM DZ OVC004 18/18 A3013 RMK AO2 T01770177 KSEE 010435Z AUTO 00000KT 10SM CLR 23/14 A2999 RMK AO2 LIMP 302150Z VRB01KT CAVOK 19/11 Q1019 KSEG 010353Z AUTO 34003KT 10SM OVC019 14/14 A3023 RMK AO2 SLP237 T01390139 KRNH 010435Z AUTO 04004KT 10SM SCT048 12/11 A3023 RMK AO2 T01210114 LIMS 301755Z 24007KT CAVOK 21/12 Q1017 KROA 010354Z 02004KT 10SM OVC012 18/16 A3009 RMK AO2 SLP182 T01780161 LIMT 301155Z 18006KT 4000 BR BKN014 12/10 Q1023 RMK BKN MON INVIS VAL INVIS VIS MIN 4000 KSFB 010353Z AUTO 23006KT 10SM CLR 23/21 A3000 RMK AO2 RAE18 SLP158 P0002 T02280211 LIMU 010355Z 23009KT 9999 SCT016 18/17 Q1017 RMK SCT QUK / QUL / VIS MAR 30 KM VIS MIN 9999 KROC 010429Z 11009KT 10SM SCT011 OVC021 12/11 A3026 RMK AO2 T01220106 KRNM 010353Z 00000KT 10SM CLR 19/11 A3001 RMK AO2 SLP145 T01940111 KSEM 010435Z AUTO 00000KT 10SM CLR 13/12 A3007 RMK AO2 VTPH 010400Z 10005KT 070V150 CAVOK 31/25 Q1009 KSFF 010353Z AUTO 36003KT 10SM FEW065 FEW080 SCT110 19/10 A2982 RMK AO2 SLP087 T01940100 KRNO 010355Z 00000KT 10SM FEW090 18/00 A3004 RMK AO2 SLP132 T01830000 LIMY 301355Z 09008KT 9999 SCT023 22/16 Q1020 RMK BKN SCT200 VAL FOSCHIA VIS MIN 9999 KRMY 010434Z AUTO 06004KT 7SM OVC004 16/15 A3007 RMK AO2 T01550151 KRNP 010434Z AUTO 07007KT 10SM OVC010 14/14 A3012 RMK AO2 T01350135 KSDY 010356Z AUTO 20004KT 10SM FEW110 15/09 A2997 RMK AO2 SLP153 T01500094 KSEP 010435Z AUTO 00000KT 10SM CLR 16/11 A3015 RMK AO2 T01600106 KROG 010358Z AUTO 00000KT 10SM CLR 14/12 A3013 RMK AO2 SLP195 T01390117 $ LIMZ 301950Z 22002KT CAVOK 14/13 Q1019 LIPA 301955Z 04004KT 8000 BKN055 18/17 Q1018 RMK BKN VIS MIN 8000 WIND THR05 05005KT WIND THR23 04004KT A3009 BLU GCRR 010000Z 02005KT 360V060 9999 FEW034 22/19 Q1016 KU68 010435Z AUTO 00000KT 10SM CLR 15/11 A3007 RMK AO2 VTPM 010400Z VRB01KT 9999 BKN020 29/24 Q1011 RMK RWY27 INFO LIPB 302050Z VRB03KT 9999 BKN070 21/12 Q1018 KRNT 010353Z AUTO 16003KT 10SM CLR 13/06 A2995 RMK AO2 SLP147 T01280061 KSET 010354Z AUTO 31009KT 10SM OVC055 17/16 A3004 RMK AO2 SLP171 T01720161 FLSK 301500Z 14006KT CAVOK 31/05 Q1014 LIPC 010355Z 23003KT CAVOK 13/13 Q1016 FNBC 301600Z 33007KT 9999 BKN020 26/26 Q//// VTPO 010100Z 00000KT 7000 FEW022 FEW025 27/25 Q1009 KRPD 010430Z AUTO 36004KT 10SM CLR 12/11 A3024 RMK AO2 T01200106 KRNV 010435Z AUTO 00000KT 10SM CLR 15/12 A3007 RMK AO2 T01500116 KSFM 010356Z AUTO 02005KT 10SM OVC080 11/07 A3042 RMK AO2 SLP313 T01060072 401500033 $ VTPP 010400Z VRB02KT 9999 SCT022 31/23 Q1010 LIPE 010420Z VRB02KT CAVOK 13/08 Q1017 LIPF 301755Z 17002KT 9999 FEW080 20/12 Q1018 KSGF 010352Z 00000KT 10SM CLR 13/11 A3009 RMK AO2 SLP185 T01280106 KQWX 010355Z AUTO VRB01KT 12SM CLR 14/11 A3017 RMK AO2 SLP215 WND DATA ESTMD T01410108 KSFO 010356Z 27015KT 10SM FEW017 FEW150 14/09 A3009 RMK AO2 PK WND 27026/0302 SLP188 T01440094 $ FNBG 301700Z 27006KT 9999 BKN020 23/18 Q1011 KRPH 010431Z AUTO 00000KT 10SM CLR 14/12 A3010 RMK AO2 KSGH 010356Z AUTO 18003KT 7SM FEW031 SCT042 12/12 A3003 RMK AO2 SLP170 T01220122 LIPH 010420Z AUTO 33002KT 3200 BCFG FEW013/// 15/14 Q1016 KSFQ 010435Z AUTO 15003KT 10SM BKN014 BKN043 BKN110 23/23 A3006 RMK AO2 T02320230 KSEZ 010435Z AUTO 03009KT 10SM CLR 18/09 A3019 RMK AO2 KROS 010359Z AUTO 05006KT 10SM OVC005 12/11 A3025 RMK AO2 KRPJ 010435Z AUTO 01005KT 10SM BKN005 OVC013 15/15 A3007 RMK AO2 T01520150 KSGJ 010358Z 22005KT 10SM CLR 25/22 A3001 RMK AO2 SLP163 T02500222 403060228 FNCA 301700Z 19006KT 9999 SCT010 BKN025 24/23 Q1010 LIPK 301550Z 23008KT 9999 FEW050 25/12 Q1018 EVLA 010420Z AUTO 25014KT 9999 FEW028/// SCT033/// 15/09 Q1009 KRQB 010434Z AUTO 09008G14KT 10SM OVC008 14/14 A3014 RMK AO2 P0001 T01420135 LIPL 010355Z /////KT 5000 BR FEW070 12/12 Q1016 RMK FEW VIS MIN 5000 WIND THR31 36001KT WHT LIQC 010355Z ///03KT 9999 SCT025 19/17 Q1020 RMK SCT QUK / QUL / VIS MAR 15 KM VIS MIN 9999 KSHD 010435Z AUTO 35004KT 3SM -DZ OVC004 14/14 A3012 RMK AO2 T01380135 KROW 010351Z 18007KT 10SM CLR 17/11 A3012 RMK AO2 SLP152 T01720111 KRQE 010353Z AUTO 07003KT 10SM CLR 12/08 A3029 RMK AO2 SLP179 T01170083 TSNO LIPO 010350Z 00000KT 9999 FEW060 14/11 Q1016 KROX 010435Z AUTO 13006KT 10SM CLR 13/10 A3023 RMK AO2 KSFY 010435Z AUTO 34005KT 10SM SCT010 OVC021 16/14 A3009 RMK AO2 T01570144 LIPQ 010420Z VRB01KT 8000 FEW070 16/13 Q1016 KSFZ 010356Z AUTO 05010KT 5SM -RA BR OVC005 13/13 A3031 RMK AO2 SLP284 P0001 T01330128 401560117 VTSB 010400Z 26007KT 9999 SCT020 31/24 Q1011 KSGR 010353Z 19003KT 10SM CLR 16/14 A3008 RMK AO2 SLP188 T01560139 LIPR 010415Z 18002KT CAVOK 14/14 Q1017 LIPS 010355Z 02003KT 6000 NSC 15/13 Q1016 RMK SKC VIS MIN 6000 WIND THR26 00000KT WIND THR08 00000KT WHT VTSC 010400Z 31012KT 270V340 9999 FEW022 33/22 Q1010 RWY20 INFO E LIRA 010420Z 05003KT 340V100 CAVOK 16/13 Q1019 KSGS 010430Z AUTO 36005KT 10SM OVC050 16/12 A3020 RMK AO2 T01570115 GCTS 010430Z 01003KT 9999 FEW019 SCT030 21/14 Q1015 NOSIG KSGT 010435Z AUTO 00000KT 10SM CLR 17/11 A3009 RMK AO1 LIPU 300600Z VRB02KT 5000 BR NSC 14/13 Q1020 VTSE 010400Z 27010KT 240V310 9000 SCT026 30/24 Q1010 KSGU 010435Z 14004KT 10SM CLR 23/09 A3006 RMK AO1 KSHL 010435Z AUTO 07003KT 10SM OVC044 11/11 A3017 RMK AO2 VTSF 010400Z VRB04KT 9999 FEW018 33/24 Q1010 LIRE 010355Z 09004KT CAVOK 18/15 Q1019 RMK SCT SCT100 VIS MIN 9999 WIND THR13 09002KT WIND THR31 10004KT BLU VTSG 010400Z 25007KT 220V280 9999 BKN020 32/23 Q1012 LIQN 010350Z VRB03KT 9000 FEW005 SCT045 11/09 Q1020 KSHN 010353Z AUTO 25007KT 10SM BKN120 11/08 A2996 RMK AO2 SLP148 T01110078 LIQO 301255Z 18005KT 9999 BKN001 21/16 Q1024 RMK BKN VAL CLD SCT NC VIS MIN 9999 KRPX 010435Z AUTO 00000KT 10SM 16/08 A2994 VTSH 010400Z 24006KT 9999 FEW020 32/24 Q1010 NOSIG KSIF 010425Z AUTO 00000KT 2 1/2SM BR OVC005 19/19 A3004 RMK AO2 VIS 2V4 T01910191 LIRF 010420Z 09005KT CAVOK 15/14 Q1018 NOSIG LIPX 010420Z VRB02KT 5000 BR NSC 12/11 Q1017 LIRG 301755Z 23002KT 9999 SCT033 21/14 Q1021 LIPY 010350Z 18003KT CAVOK 14/10 Q1017 WMBA 010400Z 34006KT 9999 FEW017CB SCT022 BKN280 32/25 Q1010 LIRH 301755Z 05002KT 9999 SCT040 20/15 Q1021 LIPZ 010420Z 27003KT 2000 PRFG NSC 15/14 Q1016 TEMPO 0800 FG VTSK 010300Z 25006KT 9999 FEW030 SCT100 BKN300 31/22 Q1009 A2982 LIRI 301650Z 20003KT 9999 FEW030 21/15 Q1021 KSHR 010353Z AUTO 19003KT 10SM CLR 12/09 A3005 RMK AO2 SLP155 T01220089 FMMI 010430Z VRB03KT 9999 FEW017 15/11 Q1022 NOSIG LIRK 010355Z AUTO 28009KT //// 06/05 Q1024 VTSM 010430Z 31014KT 9999 FEW020 32/24 Q1011 KSIK 010435Z AUTO 00000KT 10SM SCT070 BKN100 16/15 A3005 RMK AO2 PWINO LIRL 301755Z 21002KT 9999 FEW025 SCT040 21/16 Q1021 KSJC 010353Z 31009KT 10SM FEW010 SCT100 16/09 A3010 RMK AO2 SLP191 T01560094 KRRL 010435Z AUTO 07007KT 10SM BKN090 13/11 A3022 RMK AO2 T01300106 LIRM 010355Z 04005KT CAVOK 13/11 Q1018 KTAD 010354Z AUTO 29006G20KT 10SM BKN080 BKN100 17/07 A3023 RMK AO2 LTG DSNT SE AND S SLP162 T01720072 KSHV 010356Z 00000KT 10SM FEW280 17/13 A3008 RMK AO2 SLP182 T01720133 VTSP 010430Z 28014KT 8000 FEW020 30/24 Q1012 NOSIG LIQW 300955Z 00000KT 9999 SCT025 20/18 Q1023 LIRN 010420Z VRB02KT 8000 SCT065 16/13 Q1019 NOSIG VTSR 010000Z VRB01KT 9999 -RA FEW010 25/24 Q1010 ATIS U/S EXPECT ILS APCH RWY02 LIRP 010415Z 14006KT 9999 FEW025 SCT030 14/14 Q1017 NOSIG VTSS 010430Z 23009KT 9999 FEW020 34/22 Q1009 NOSIG LIRQ 010420Z VRB02KT 9999 FEW030 14/12 Q1018 VTST 010400Z 26012KT 9999 SCT020 31/24 Q1010 RWY26 INFO E WMAU 010400Z 28004KT 9999 FEW020 SCT140 BKN270 32/25 Q//// QFF1010 LIRS 010355Z 03004KT 9999 FEW025 16/14 Q1018 KSKA 010437Z AUTO 29004KT 10SM FEW041 SCT070 BKN140 15/05 A2985 RMK AO2 RAE06RAB17E35DZB35E37 LIRT 010355Z 30011KT CAVOK 11/09 Q1021 RMK SKC MON INVIS VAL INVIS VIS MIN 9999 VTUD 010400Z 11004KT 050V150 8000 FEW015 BKN047 28/24 Q1011 KRRT 010434Z AUTO 00000KT 10SM CLR 11/09 A3025 RMK AO2 FMMT 010400Z 22004KT 8000 -DZRA FE007 SCT017 BKN033 21/20 Q1018 TEMPO 4000 DZRA LIRU 301650Z 25006KT 9999 FEW040 22/15 Q1020 KRSL 010353Z AUTO 11008KT 10SM CLR 15/08 A3012 RMK AO2 SLP195 T01500083 LIRV 301755Z 22005KT 9999 SCT023 17/15 Q1021 FMNM 010400Z 10008KT CAVOK 24/13 Q1014 NOSIG KTAN 010352Z AUTO 05006KT 4SM -RA BR OVC007 14/13 A3030 RMK AO2 CIG 005V013 SLP260 P0002 T01440133 KSJN 010354Z AUTO 20009KT 10SM CLR 14/11 A3025 RMK AO2 SLP187 T01440106 TSNO KRSN 010435Z AUTO 00000KT 10SM CLR 15/14 A3011 RMK AO2 T01480137 FMNN 010400Z 05004KT 9999 SCT020 26/20 Q1014 LIRX 301755Z 18003KT CAVOK 18/17 Q1019 RMK FEW FEW200 VIS MIN 9999 VIS MAR 15 KM KSKF 010358Z AUTO 13002KT 10SM CLR 18/14 A3008 RMK AO2 SLP181 T01770138 $ VTUI 010400Z 12004KT 090V160 8000 FEW005 SCT022 BKN090 26/24 Q1011 KSIY 010353Z AUTO 31011KT 10SM CLR 13/00 A3002 RMK AO2 SLP169 T01280000 LIRZ 301950Z 02005KT 9999 FEW040 14/11 Q1021 VTUK 010400Z 07003KT 030V150 9999 FEW016 BKN025 BKN100 29/24 Q1011 NOSIG VTUL 010400Z 17003KT 120V230 9999 SCT032 29/25 Q1012 KSJS 302150Z AUTO 31003KT 10SM OVC040 18/12 A3003 RMK AO2 T01760121 KSLB 010435Z AUTO 11005KT 10SM OVC043 15/13 A3018 RMK AO2 KSJT 010351Z 00000KT 10SM CLR 19/12 A3012 RMK AO2 SLP186 T01890122 KRST 010354Z AUTO 11004KT 10SM OVC039 16/13 A3020 RMK AO2 SLP227 T01610133 KTCC 010353Z AUTO 20006KT 10SM CLR 18/11 A3009 RMK AO2 SLP141 T01830106 KSLC 010354Z 16008KT 10SM FEW140 19/09 A3006 RMK AO2 SLP136 T01940089 VTUO 010400Z 06003KT 9999 FEW020 29/24 Q1011 INFO E RWY 04 KRSV 010435Z AUTO 14003KT 10SM SCT011 SCT040 OVC110 14/13 A3001 RMK AO2 T01350133 KRSW 010353Z 06005KT 10SM CLR 24/22 A3004 RMK AO2 SLP171 T02440222 KRTN 010408Z AUTO 03012KT 10SM BKN060 16/07 A3022 RMK AO2 LTG DSNT NE AND E T01560067 KRUE 010353Z AUTO 00000KT 10SM CLR 15/13 A3008 RMK AO2 SLP178 T01500133 KSLE 010356Z AUTO 20006KT 10SM OVC060 13/06 A3001 RMK AO2 SLP161 T01330061 KTBN 010358Z AUTO 32004KT 10SM BKN050 16/13 A3010 RMK AO2 SLP191 T01590132 VTUQ 010400Z AUTO VRB01KT ////NDV ////// 30/26 Q1011 A2986 KSJX 010436Z AUTO 09010G16KT 10SM SCT110 17/12 A3024 RMK AO2 T01650122 VVCR 010430Z 07003KT 9999 FEW015 BKN230 31/24 Q1009 NOSIG GCXO 010400Z AUTO 30010KT 9999 SCT002/// 16/15 Q1017 KRUG 010435Z AUTO 14009KT 10SM CLR 14/10 A3009 RMK AO2 KSLG 010435Z AUTO 00000KT 10SM CLR 12/07 A3013 RMK AO1 KSLH 010434Z AUTO 08008KT 10SM CLR 16/11 A3022 RMK AO2 T01660116 KTAZ 010435Z AUTO 34005KT 5SM BR SCT006 OVC012 16/16 A3002 RMK AO2 P0001 T01600158 VVCT 010430Z 26006KT 230V310 9999 SCT015 FEW017TCU 32/25 Q1008 NOSIG TCU/SW/OVER RWY KSLI 010358Z 31002KT 10SM CLR 23/13 A2994 RMK AO2A SLP141 T02250133 KTBR 010435Z AUTO 00000KT 10SM CLR 15/15 A3005 RMK AO2 T01540150 FNGI 301500Z 29004KT 9999 FEW014 38/07 Q1012 VTUU 010400Z 05007KT 9999 SCT023 30/25 Q1010 NOSIG LJLJ 010430Z VRB02KT 9999 FEW033 SCT047 10/09 Q1016 NOSIG KRTS 010435Z AUTO 27009G24KT 10SM CLR 15/M03 A3006 RMK AO2 VTUV 010400Z 03006KT 9000 SCT020 BKN100 30/23 Q1010 A2985 INFO E RWY 36 LJMB 010430Z 30001KT 6000 NSC 09/09 Q1014 KSLK 010351Z AUTO 00000KT 10SM OVC100 09/08 A3034 RMK AO2 SLP279 T00890078 $ VVDN 010430Z VRB02KT 8000 SCT013 BKN060 29/24 Q1010 NOSIG VTUW 010400Z 28004KT 9000 FEW009 BKN012 28/24 Q1011 KTCL 010353Z AUTO 00000KT 10SM CLR 14/12 A3007 RMK AO2 SLP179 T01390117 LIVD 301755Z 09006KT 9999 BKN030 14/12 Q1021 RMK BKN VIS MIN 9999 KTCM 010358Z AUTO 27008KT 10SM OVC045 15/07 A2997 RMK AO2 SLP153 T01470069 $ LIVE 010355Z 18005KT 9999 OVC020 10/10 Q1017 RMK OVC VIS MIN 9999 KSLN 010353Z 00000KT 10SM CLR 16/11 A3014 RMK AO2 SLP202 T01560106 KSME 010435Z AUTO 15003KT 10SM CLR 12/12 A3006 RMK AO2 KTDF 010425Z AUTO 00000KT 1 1/2SM BR OVC003 20/20 A3006 RMK AO2 KSMF 010353Z 16009KT 10SM SCT220 16/07 A2999 RMK AO2 SLP153 T01610072 KSKX 010435Z AUTO 31003KT 10SM SCT110 12/M01 A3029 RMK AO1 KSLO 010435Z AUTO 00000KT 4SM BR BKN006 BKN010 OVC070 17/16 A3000 RMK AO2 T01710160 KTBX 010435Z AUTO 13004KT 10SM CLR 16/M02 A3033 RMK AO2 PWINO KRUQ 010425Z AUTO 00000KT 10SM CLR 13/13 A3004 RMK AO2 T01340134 KSLR 010435Z AUTO 00000KT 10SM CLR 17/10 A3012 RMK AO2 T01730101 KSNA 010353Z 20004KT 10SM CLR 23/16 A2995 RMK AO2 SLP141 T02280161 KTCS 010410Z AUTO 18004KT 10SM SCT028 20/15 A3018 RMK AO2 T02000150 KTEB 010351Z 01006KT 10SM -RA BR OVC013 14/12 A3024 RMK AO2 SLP241 P0000 T01390122 EVRA 010420Z 20007KT CAVOK 10/09 Q1009 R18/090095 NOSIG KRUT 010356Z AUTO 15009KT 10SM FEW043 OVC080 12/03 A3038 RMK AO2 SLPNO T01220033 401720122 $ KSNC 010435Z AUTO 01009KT 4SM BR BKN005 OVC010 13/12 A3026 RMK AO2 LKCV 010400Z VRB02KT CAVOK 13/10 Q1014 NOSIG RMK BLU BLU KSMN 010435Z AUTO 15003KT 10SM CLR 12/04 A2998 RMK AO1 LIVO 301755Z 29003KT 9999 FEW025 14/12 Q1019 RMK FEW VIS MIN 9999 KSMO 010351Z 16003KT 10SM CLR 21/16 A2995 RMK AO2 SLP138 T02110156 KRWF 010353Z AUTO 09004KT 10SM CLR 14/09 A3020 RMK AO2 SLP229 T01390094 LIVP 010355Z 22008KT 0600 FG VV/// 05/04 Q1020 RMK MON INVIS VAL INVIS VIS MIN 0600 KSMP 010406Z AUTO 00000KT SCT020 SCT027 06/03 A2998 RMK AO2 T00560028 $ KSMQ 010353Z AUTO VRB04G14KT 10SM OVC011 14/12 A3022 RMK AO2 SLP234 T01390117 KSNH 010435Z AUTO 00000KT 10SM SCT047 OVC085 15/14 A3005 RMK A01 LIVR 010355Z 10002KT 0100 FG VV/// 05/04 Q1020 RMK MON INVIS VIS MIN 0100 KRWI 010406Z AUTO 00000KT 10SM BKN007 22/22 A3004 RMK AO2 T02170217 KTDR 010356Z AUTO 34004KT 10SM CLR 20/14 A3006 RMK AO2 SLP183 T02020144 $ KRVS 010353Z 00000KT 10SM CLR 14/12 A3010 RMK AO2 SLP200 T01390117 KSMS 010435Z AUTO 00000KT 15/14 A3004 RMK AO2 KSOA 010435Z AUTO 00000KT 10SM CLR 16/14 A3018 RMK AO2 LIVT 010355Z 07002KT 9999 FEW050 19/15 Q1015 RMK SCT SCT090 QUK / QUL / VIS MAR 20 KM VIS MIN 9999 KSNK 010435Z AUTO 14005KT 18/12 A3013 RMK AO2 T01830122 PWINO KRWL 010353Z AUTO 24011KT 10SM CLR 14/04 A3024 RMK AO2 SLP169 T01390039 KSNL 010435Z AUTO 00000KT 10SM CLR 14/11 A3011 RMK AO2 T01410111 FNHU 301500Z 33004KT 9000 VCSH BKN012 FEW025CB 24/14 Q1018 FMSD 010400Z 06008KT CAVOK 23/16 Q1014 KRXE 010353Z AUTO VRB04KT 10SM CLR 14/08 A3010 RMK AO2 SLP169 T01390083 KSMX 010351Z AUTO 28004KT 8SM CLR 13/11 A3004 RMK AO2 SLP175 T01280106 KTDZ 010353Z AUTO 09007KT 10SM OVC018 17/16 A3007 RMK AO2 SLP180 T01670156 KSNS 010353Z 22012KT 10SM CLR 14/09 A3008 RMK AO2 SLP195 T01440089 KSPA 010435Z AUTO 00000KT 10SM CLR 12/10 A3004 RMK AO2 KSNT 010351Z AUTO 13006KT 11/02 A3010 RMK AO1 SLP126 T01110022 KSPB 010353Z AUTO 18004KT 10SM OVC070 16/06 A2999 RMK AO2 SLP155 T01560056 KSPD 010356Z AUTO 11006KT 14/09 A3012 RMK AO1 SLP150 T01390089 KTEW 010433Z AUTO 06006KT 7SM OVC005 14/13 A3010 RMK AO2 T01400133 KSPF 010415Z AUTO 00000KT 10SM CLR 14/08 A3006 RMK AO2 KTEX 010435Z AUTO 13005KT 10SM CLR 07/06 A3043 RMK AO2 T00700056 KSOP 010356Z AUTO 00000KT 10SM CLR 17/17 A3004 RMK AO2 SLP184 T01720167 KSNY 010353Z AUTO 16009KT 10SM CLR 15/08 A3016 RMK AO2 SLP189 T01500078 KSPG 010353Z AUTO 07009KT 10SM CLR 27/23 A3002 RMK AO2 SLP166 T02670233 KTFP 010435Z AUTO 00000KT 10SM CLR 20/16 A3007 RMK AO2 T02000157 KSPI 010436Z 34007KT 5SM BR BKN008 OVC015 17/16 A3003 RMK AO2 RAE17 P0001 T01670161 KTHA 010435Z AUTO 00000KT 7SM CLR 11/10 A3008 RMK KSPL 301915Z AUTO 04007KT 1 3/4SM 30/20 A3008 RMK AO1 KRYM 010356Z AUTO 09003KT 10SM CLR 11/10 A3025 RMK AO2 SLP252 T01110098 TSNO $ KRYN 010245Z 15004KT 10SM FEW110 23/17 A3004 RMK LAST KSOW 010435Z AUTO 14004KT 10SM CLR 11/07 A3030 RMK AO2 KSQE 010435Z AUTO 07012KT 10SM BKN048 26/17 A3005 RMK A01 KSQI 010356Z AUTO 36006KT 10SM -RA OVC010 16/14 A3009 RMK AO2 RAB55 SLP207 T01560144 PNO $ KSPR 301835Z AUTO 07011KT 10SM CLR 27/18 A3006 RMK A01 KSPS 010352Z AUTO 12003KT 10SM CLR 18/11 A3010 RMK AO2 SLP185 T01780111 MBGT 010000Z 06010KT 9999 SCT015 28/22 Q1013 FNMA 301400Z 27006KT 8000 FEW009 BKN057 28/23 Q1016 EVVA 010420Z AUTO 25013G23KT 9999 FEW028 14/09 Q1007 KSRB 010435Z AUTO 19004KT 10SM SCT034 OVC040 14/13 A3006 RMK KRYT 010416Z AUTO VRB04KT 2SM -RA BR OVC003 14/14 A3015 RMK AO2 P0000 TSNO $ KSQL 010435Z AUTO 28011KT 10SM CLR 15/10 A3011 RMK AO2 KSRC 010356Z AUTO 00000KT 10SM CLR 17/14 A3009 RMK AO2 SLP194 T01720144 KRZL 010435Z AUTO 05004KT 7SM SCT027 SCT040 15/15 A3003 RMK AO2 FNKU 300900Z VRB03KT CAVOK 26/21 Q1020 KRYV 010435Z AUTO 02005KT 10SM SCT007 OVC011 15/15 A3011 RMK AO2 P0001 T01470147 KSPW 010353Z AUTO 08004KT 10SM OVC041 15/13 A3018 RMK AO2 SLP219 T01500128 KRYW 010435Z AUTO 13003KT 10SM CLR 20/10 A3013 RMK AO2 T01980100 KRZN 010435Z AUTO 00000KT 10SM CLR 12/11 A3025 RMK AO2 T01150106 KTIF 010435Z AUTO 17005KT 10SM CLR 13/08 A3014 RMK AO2 T01330076 KRYY 010250Z 00000KT 10SM SKC 14/09 A3007 RMK LAST WMKA 010400Z 29010KT 250V340 9999 FEW020 BKN280 32/27 Q1010 LJPZ 010430Z 11006KT CAVOK 17/15 Q1016 WMKB 010400Z 32009KT 9999 SCT020 BKN270 31/24 Q1011 KRZR 010435Z AUTO 21003KT 10SM CLR 11/11 A3007 RMK A01 WMKC 010400Z 30008KT 9999 FEW018 BKN280 32/24 Q1010 WMKD 010400Z 35003KT 9999 FEW020 BKN280 30/27 Q1010 NOSIG KRZT 010434Z AUTO 21003KT 3SM BR CLR 12/12 A3005 RMK AO2 KTIK 010358Z AUTO 00000KT 10SM FEW230 19/10 A3010 RMK AO2 SLP191 T01860103 WMKE 010400Z 13003KT 9999 FEW018 BKN250 31/25 Q1009 KSSC 010358Z AUTO 00000KT 10SM CLR 17/12 A3001 RMK AO2 SLP162 T01680124 $ GEML 010430Z 00000KT 9999 FEW007 SCT012 BKN014 21/19 Q1014 KTHV 010353Z AUTO 07008KT 10SM OVC007 14/14 A3017 RMK AO2 SLP220 T01440144 FNLU 010400Z VRB02KT 6000 SCT018 BKN022 22/20 Q1011 NOSIG KW13 010435Z AUTO 00000KT 2SM OVC003 14/13 A3011 RMK AO1 P0001 T01390132 KSSF 010353Z AUTO 00000KT 10SM CLR 18/15 A3008 RMK AO2 SLP178 T01830150 FNMO 301600Z 31008KT 9999 BKN011 OVC016 19/16 Q1010 WMKI 010400Z 03006KT 9999 FEW017CB SCT150 BKN280 33/23 Q1010 KTIP 010435Z AUTO 02005KT 7SM BKN007 OVC015 17/16 A3001 RMK AO2 T01700164 WMKJ 010400Z 20005KT 150V280 9999 FEW018 BKN130 32/26 Q1011 KSRQ 010353Z AUTO 11004KT 10SM FEW060 26/23 A3002 RMK AO2 SLP165 T02560233 WMKK 010430Z 28005KT 190V350 9999 FEW018 SCT140 BKN280 32/23 Q1010 NOSIG KSSI 010353Z AUTO 34004KT 10SM CLR 23/14 A3002 RMK AO2 LTG DSNT SE AND S SLP167 T02330144 KSRR 010435Z AUTO 24008KT 10SM CLR 12/09 A3031 RMK AO2 LTG DSNT W WMKL 010400Z 31006KT 9999 FEW022 BKN280 32/26 Q1010 WMKM 010400Z 20005KT 140V260 9999 SCT020 BKN140 31/26 Q1011 LKKB 010400Z VRB01KT CAVOK 11/10 Q1014 NOSIG WMKN 010400Z 01009KT 320V050 9999 FEW020 BKN300 31/24 Q1009 KSTC 010353Z 06004KT 10SM CLR 12/11 A3023 RMK AO2 SLP247 T01170111 KTKC 010434Z AUTO 15003KT 10SM CLR 14/11 A3020 RMK AO2 T01350106 KW22 010435Z AUTO 00000KT 10SM 15/15 A3008 RMK AO2 PWINO WMKP 010430Z 32005KT 9999 FEW020 SCT140 BKN280 32/24 Q1010 NOSIG KTIW 010353Z AUTO 22004KT 10SM BKN055 13/08 A2997 RMK AO2 SLP150 T01330078 KUBE 010435Z AUTO 02005KT 10SM CLR 11/10 A3024 RMK AO2 KSTE 010435Z AUTO 06008KT 10SM OVC029 15/10 A3019 RMK AO2 T01470096 KTIX 010047Z 36008KT 3SM RA SCT021 BKN060 OVC090 23/21 A3003 RMK FRQ LTGCG VC VCTS LAST KSTF 010435Z AUTO 00000KT 10SM CLR 13/12 A3008 RMK AO2 KUAO 010353Z AUTO 19005KT 10SM SCT060 13/06 A3001 RMK AO2 SLP164 T01280056 LLBG 010420Z VRB02KT 9999 FEW025 19/14 Q1013 NOSIG KTKI 010353Z AUTO 00000KT 10SM CLR 17/14 A3009 RMK AO2 SLP191 T01670139 KSTJ 010353Z AUTO 32004KT 10SM CLR 12/11 A3014 RMK AO2 SLP206 T01170106 KSUA 010435Z AUTO 00000KT 10SM CLR 25/23 A3005 RMK AO2 LTG DSNT E AND W KW29 010445Z AUTO 10SM OVC008 18/17 A3013 RMK AO2 KSTK 010435Z AUTO 17003KT 10SM CLR 15/08 A3014 RMK AO2 KSTL 010411Z 30006KT 10SM FEW009 BKN021 BKN049 17/15 A3005 RMK AO2 RAE09 P0000 T01720150 KW31 010435Z AUTO 7SM OVC002 22/22 A3004 RMK AO1 T02150215 KSUE 010356Z AUTO 08009G15KT 10SM FEW023 OVC090 17/13 A3020 RMK AO2 SLP246 T01670128 KSTP 010353Z AUTO 00000KT 10SM CLR 16/11 A3022 RMK AO2 SLP230 T01560111 KTLH 010353Z AUTO 00000KT 10SM CLR 16/14 A3005 RMK AO2 SLP175 T01610139 VVNB 010430Z 07003KT 010V150 9999 SCT030 31/18 Q1011 NOSIG KSTS 010353Z AUTO 27006KT 10SM CLR 15/08 A3005 RMK AO2 SLP169 T01500083 KTMA 010435Z AUTO 00000KT 10SM CLR 15/14 A3005 RMK AO2 T01490138 KTMB 010425Z AUTO 33003KT 10SM VCTS CLR 24/22 A3002 RMK AO2 LTG DSNT NE-S T02440222 LKKU 301400Z 21007KT CAVOK 25/08 Q1015 KSVC 010435Z AUTO 30004KT 10SM CLR 17/15 A3023 RMK AO2 T01680145 LKKV 010400Z 11004KT CAVOK 11/10 Q1013 KTKV 010435Z AUTO 05004KT 10SM CLR 12/09 A3024 RMK AO2 T01220088 LKLN 010400Z AUTO 00000KT 9000 NSC 11/10 Q1014 FOGM 301500Z /////KT 9000 RA SCT010 OVC025 26/25 Q//// KSUN 010447Z 28006KT 10SM -RA BKN070 OVC085 12/11 A3012 KTME 010435Z AUTO 00000KT 10SM CLR 17/13 A3010 RMK AO2 KW43 010435Z AUTO 20003KT 10SM CLR 15/09 A3008 RMK AO2 KTKX 010435Z AUTO 30004KT 8SM CLR 15/14 A3006 RMK AO2 FOGO 301500Z 32004KT 9999 BKN010TCU 31/20 Q//// KUCP 010428Z AUTO 11006KT 9SM -RA BKN010 BKN027 OVC075 14/13 A3012 RMK AO2 CIG 007V012 P0004 $ KUDG 010356Z AUTO 00000KT 10SM CLR 17/16 A3003 RMK AO2 SLP174 T01670156 403000167 KSVH 010425Z AUTO 00000KT 10SM CLR 13/13 A3004 RMK AO2 T01280128 KSUS 010421Z AUTO 30006KT 10SM BKN020 BKN028 OVC040 17/16 A3005 RMK AO2 RAE05 P0000 T01670161 LKNA 010400Z 09005KT CAVOK 13/10 Q1015 NOSIG RMK BLU BLU KSUT 301315Z AUTO 27017G23KT 1 1/4SM RA SCT016 BKN030 OVC060 23/20 A3002 RMK AO2 VIS 1/2V3 P0012 T02280204 KTMK 010435Z AUTO 00000KT 7SM RA SCT029 SCT040 OVC060 12/08 A3001 RMK AO2 KTNB 010435Z AUTO 00000KT 7SM CLR 10/10 A3012 RMK AO2 T00950095 KSUU 010358Z AUTO 24015KT 10SM OVC220 15/09 A3000 RMK AO2 SLP166 T01540085 $ KSUW 010430Z AUTO 05005KT 10SM OVC003 11/11 A3028 RMK AO2 T01110108 KSVN 010358Z AUTO 28004KT 10SM CLR 18/17 A3002 RMK AO2 SLP169 T01790172 KSUX 010352Z 11004KT 10SM CLR 12/09 A3016 RMK AO2 SLP214 T01220094 KSWF 010445Z 05008KT 3SM BR BKN007 OVC015 11/11 A3029 KUCY 010435Z AUTO 00000KT 10SM OVC075 16/16 A3004 RMK VVPB 010430Z 33010KT 9999 SCT017 BKN050 31/24 Q1010 TEMPO 5000 RA KTOA 010247Z 00000 10SM SKC 23/09 A2994 FNSA 301600Z 00000KT 9999 BKN030 31/17 Q1019 LKMT 010444Z VRB01KT 4500 1200N R22/P2000N R04/P2000N BCFG BR NSC 11/10 Q1015 RMK REG QNH 1011 KTOB 010434Z AUTO 14004KT 10SM OVC043 16/12 A3020 RMK AO2 KTOC 010435Z AUTO 28004KT 10SM CLR 18/10 A3006 RMK AO2 T01750096 KW63 010435Z AUTO 00000KT 10SM OVC006 22/22 A3003 RMK AO1 KSWO 010353Z AUTO 00000KT 10SM CLR 11/09 A3011 RMK AO2 PK WND 09027/0309 SLP190 T01060094 KTOI 010353Z AUTO 00000KT 10SM CLR 13/12 A3008 RMK AO2 SLP184 T01280122 KUES 010435Z AUTO 05008KT 4SM DZ OVC005 14/13 A3011 RMK AO2 KTPA 010353Z 11003KT 10SM FEW035 SCT110 26/23 A3005 RMK AO2 SLP174 T02610228 LLET 010350Z 02014KT CAVOK 23/14 Q1010 KTOL 010421Z 09007KT 10SM BKN018 OVC050 16/16 A3005 RMK AO2 T01560156 KTNU 010435Z AUTO 02005KT 10SM BKN014 OVC018 15/14 A3014 RMK AO2 PWINO LKPD 010400Z VRB03KT CAVOK 14/10 Q1013 NOSIG RMK BLU BLU KSWW 010435Z AUTO 15006KT 10SM CLR 18/13 A3016 RMK AO2 T01760125 VVPQ 010430Z 29009KT 6000 -RA SCT010 FEW015CB BKN040 25/23 Q1009 NOSIG CB/W KTPF 010435Z AUTO 07003KT 10SM SCT022 26/24 A3003 RMK AO2 KSYF 010435Z AUTO 13004KT 10SM CLR 11/07 A3014 RMK AO2 T01090071 FNSO 301600Z 23005KT 9000 -DZ BKN006 ///// Q1011 KTOP 010353Z AUTO 11003KT 10SM CLR 13/11 A3013 RMK AO2 SLP201 T01330111 KW75 010435Z AUTO 10007KT 10SM OVC005 23/23 A3007 RMK AO1 T02250225 KTPH 010356Z AUTO 13004KT 10SM CLR 18/01 A3010 RMK AO2 SLP134 T01780011 KTOR 010353Z AUTO 09008KT 10SM CLR 13/08 A3010 RMK AO2 SLP170 T01280083 KSYI 010435Z AUTO 00000KT 10SM FEW041 SCT050 BKN060 13/12 A3007 RMK LLHA 010350Z VRB03KT CAVOK 19/16 Q1013 KW78 010435Z AUTO 00000KT 7SM SCT004 BKN009 21/21 A3004 RMK AO1 T02130205 KSXT 010441Z AUTO 22007KT 10SM BKN020 06/03 A3005 RMK AO2 T00560028 FNUB 301700Z 22004KT 9999 FEW040 27/06 Q1020 KTPL 010351Z AUTO 36003KT 10SM CLR 18/10 A3011 RMK AO2 SLP203 T01780100 KW81 010435Z AUTO 14003KT 7SM OVC003 22/22 A3004 RMK AO1 T02200220 FNSU 301700Z 19004KT 9999 BKN010 23/// Q1013 KSYM 010430Z AUTO 16004KT 9SM FEW032 OVC065 12/11 A3008 RMK AO2 KSYN 010359Z AUTO 05004KT 10SM OVC048 17/11 A3018 RMK AO2 KTQE 010354Z AUTO 00000KT 10SM CLR 11/08 A3016 RMK AO2 SLP207 T01060083 KUGN 010440Z AUTO 07008KT 10SM -RA SCT007 OVC013 16/15 A3006 RMK AO2 P0001 T01610150 FNUE 301600Z 09005KT 9999 FEW032 SCT065 31/15 Q1014 FNUG 301400Z 27008KT 9999 SCT025 29/20 Q1011 WMSA 010400Z 34007KT 280V030 9999 FEW020 BKN140 31/22 Q1011 KTQH 010435Z AUTO 00000KT 10SM CLR 11/08 A3011 RMK AO2 LKPR 010430Z 10005KT CAVOK 12/10 Q1013 NOSIG KSYR 010354Z 09009KT 5SM -DZ BR FEW008 SCT020 OVC046 11/10 A3029 RMK SLP258 T01120101 P0000 LLIB 301350Z 32011KT CAVOK 29/09 Q1013 KSZL 010358Z AUTO 00000KT 10SM CLR 13/13 A3011 RMK AO2 SLP197 T01320131 MBPV 010100Z 08012KT 9999 FEW010 28/23 Q1013 GFLL 010400Z 15006KT 9999 BKN012 FEW027CB 25/24 Q1011 RMK CB-NE KW96 010435Z AUTO 09010KT 10SM OVC005 22/22 A3006 RMK AO1 T02210221 KTRI 010353Z 00000KT 10SM BKN055 12/11 A3007 RMK AO2 SLP169 T01220106 MDAB 302200Z 02006KT 9999 FEW018CB BKN020 BKN300 27/24 Q1010 CB/E/SE/S/SW/NW KSZT 010435Z AUTO 34005KT 10SM SCT100 16/08 A2984 RMK AO2 KTRK 010435Z AUTO 20013G17KT 10SM CLR 11/M02 A3012 RMK AO2 KW99 010435Z AUTO 00000KT 2 1/2SM BR SCT005 SCT010 OVC015 14/14 A3014 RMK AO2 T01420138 KTRL 010353Z AUTO 00000KT 10SM CLR 16/13 A3009 RMK AO2 SLP186 T01610128 KUIL 010437Z AUTO 15003KT 10SM FEW010 BKN014 OVC110 09/08 A2997 RMK AO2 T00940078 KTRM 010352Z AUTO 30005KT 10SM FEW110 27/13 A2982 RMK AO2 SLP100 T02720128 TSNO KVAD 010358Z AUTO 00000KT 10SM CLR 16/12 A3004 RMK AO2 SLP173 T01580124 $ KUIN 010440Z AUTO 32007KT 10SM FEW009 BKN013 OVC023 16/14 A3007 RMK AO2 T01610144 KVAF 010435Z AUTO 07011KT 350V110 10SM BKN044 BKN055 25/15 A3005 RMK A01 KTTA 010425Z AUTO 00000KT 7SM SCT065 18/18 A3003 RMK AO2 T01810178 LKTB 010430Z 07005KT CAVOK 12/10 Q1014 NOSIG FOOB 301500Z /////KT 9999 TS FEW015CB BKN015 25/23 Q1008 KTTD 010353Z 20003KT 10SM FEW060 OVC070 16/07 A3001 RMK AO2 SLP161 T01560067 KUKF 010425Z AUTO 00000KT 10SM CLR 11/11 A3010 RMK AO2 LTG DSNT N AND SE KTTF 010434Z AUTO 10008KT 080V170 5SM DZ OVC014 17/16 A3006 RMK AO2 P0001 T01660161 KTSP 010435Z AUTO 27007KT 10SM CLR 17/05 A3014 RMK AO2 KVBG 010358Z AUTO 33009KT 10SM CLR 13/12 A3004 RMK AO2 SLP176 T01310119 TSNO MDBH 010000Z 13010KT 9999 FEW021CB FEW023 SCT100 BKN100 28/23 Q1010 CB/SE/S/NW VVTS 010430Z 34007KT 290V030 9999 SCT017 31/24 Q1008 NOSIG FOOG 302300Z /////KT 9999 SCT008 BKN023 26/23 Q1013 KUKI 010356Z AUTO 02005KT 10SM CLR 13/08 A3009 RMK AO2 SLP185 T01330078 KVCB 010353Z AUTO 21006KT 10SM CLR 19/03 A3001 RMK AO2 SLP161 T01890033 FOOK 301500Z 20002KT 9999 SCT018TCU FEW020CB 31/22 Q1008 FOOL 010400Z 15008KT 130V190 9999 SCT011 BKN033 26/23 Q1011 NOSIG KTTN 010353Z AUTO 04007KT 6SM BR OVC004 14/13 A3021 RMK AO2 SLP226 T01390128 FOON 301800Z /////KT 9999 SCT013 27/24 Q1010 KVAY 010354Z AUTO 03006KT 10SM OVC009 16/14 A3019 RMK AO2 SLP222 T01560139 KVBS 010435Z AUTO 12011KT 10SM CLR 25/14 A3006 RMK A01 FOOR 301500Z /////KT 9999 TS CHECK TEXT NEW ENDING ADDED DAAAYFYX KTTS 302336Z AUTO 29009KT 10SM -TSRA BKN024 OVC034 24/20 A2999 RMK AO2 LTG DSNT W-N AND SE-S RAB36 TSB06 $ KVBT 010435Z AUTO 00000KT 9SM CLR 13/10 A3012 RMK AO1 KUKT 010435Z AUTO 06004G15KT 10SM OVC008 13/12 A3023 RMK AO1 FOOT 301500Z 18008KT 150V220 9999 BKN011 OVC023 28/22 Q1011 KTUL 010353Z 34003KT 10SM SCT250 16/12 A3009 RMK AO2 SLP187 T01560122 KTVC 010353Z AUTO 05004KT 10SM BKN090 OVC110 16/13 A3018 RMK AO2 RAB08E22 SLP221 P0000 T01610128 KULM 010434Z AUTO 06005KT 10SM CLR 16/09 A3019 RMK AO2 KVBW 010435Z AUTO 02005KT 10SM OVC005 14/14 A3011 RMK AO2 T01390137 KVDF 010435Z AUTO 00000KT 5SM BR BKN090 24/23 A3003 RMK AO2 KTVF 010356Z AUTO 13008KT 10SM CLR 12/11 A3023 RMK AO2 SLP244 T01220106 KTUP 010353Z AUTO 00000KT 10SM CLR 16/12 A3006 RMK AO2 SLP178 T01610122 RJAA 010430Z 02007KT 9999 FEW005 BKN018 20/19 Q1018 NOSIG RMK 1ST005 7SC018 A3007 KTVI 010435Z AUTO 00000KT 10SM CLR 16/16 A3007 RMK AO2 KVDI 010435Z AUTO 00000KT 10SM CLR 16/15 A3006 RMK AO2 KTUS 010353Z 19006KT 10SM CLR 23/16 A3006 RMK AO2 SLP139 T02330156 KVCT 010351Z AUTO 04006KT 10SM CLR 17/14 A3008 RMK AO2 SLP184 T01720144 KTVL 010353Z AUTO 18009G19KT 10SM CLR 13/M02 A3013 RMK AO2 SLP152 T01281017 KVCV 010435Z AUTO 22006KT 10SM CLR 23/06 A3005 RMK AO2 RJAF 010400Z VRB02KT 9999 FEW010 SCT015 BKN/// 20/17 Q1019 LKVO 301300Z 24012KT 200V280 CAVOK 24/11 Q1014 KTWF 010409Z AUTO 12011KT 9SM -RA SCT055 BKN070 OVC095 16/10 A3000 RMK AO2 WSHFT 0349 P0002 T01560100 MDCY 010000Z 00000KT 9999 FEW012CB SCT012 BKN300 24/23 Q1011 CB/NE/E/S/W/NW RJAH 010400Z 02006KT 9999 -RA FEW008 BKN010 OVC025 20/17 Q1018 KUNI 010430Z AUTO 00000KT 3/4SM BR BKN001 OVC080 12/12 A3006 RMK AO2 T01220122 KTVR 010353Z AUTO 00000KT 10SM CLR 14/13 A3008 RMK AO2 SLP193 T01390128 RJAK 010441Z 03004KT 9999 -RA FEW010 BKN015 BKN025 20/18 Q1018 RMK 1ST010 5SC015 7SC025 A3008 RJBB 010430Z 36010KT 9999 FEW025 BKN070 26/21 Q1016 NOSIG KX60 010435Z AUTO 00000KT 10SM FEW044 FEW060 23/19 A3004 RMK A01 TSNO RJBD 010400Z 27007KT 240V330 9999 FEW020 29/24 Q1016 KVEL 010353Z AUTO 29005KT 10SM CLR 14/10 A3020 RMK AO2 SLP186 T01440100 RJBE 010400Z 05006KT 9999 -SHRA FEW015 SCT035 BKN060 25/22 Q1016 SABE 010400Z 07012KT CAVOK 15/10 Q1023 KTWM 010434Z AUTO 03004KT 10SM CLR 11/08 A3026 RMK AO2 KUNO 010353Z AUTO 30003KT 10SM SCT055 15/12 A3011 RMK AO2 SLP190 T01500122 KTVY 010435Z AUTO 16006KT 10SM CLR 17/08 A3008 RMK AO2 SAAR 010400Z 16004KT 9000 NSC 12/10 Q1022 KVER 010435Z AUTO 00000KT 10SM OVC049 17/14 A3011 RMK AO2 T01650135 RJAT 302112Z 03003KT 1200 -SHRA BR FEW000 SCT005 BKN008 16/16 Q1019 RMK 1ST000 4ST005 6ST008 A3011 RJCB 010400Z VRB02KT 9999 FEW050 21/08 Q1016 KVES 010435Z AUTO 00000KT 5SM BR BKN012 BKN026 OVC065 13/13 A3002 RMK AO2 RJCC 010430Z 15004KT 100V200 9999 FEW030 SCT050 21/12 Q1017 RMK 1CU030 4CU050 A3004 EYKA 010420Z 21004KT 180V240 CAVOK 09/07 Q1013 KTXK 010353Z AUTO 23004KT 10SM CLR 17/12 A3008 RMK AO2 SLP182 T01720122 KUNU 010435Z AUTO 02004KT 7SM OVC006 15/14 A3013 RMK AO2 T01450140 RJAW 010400Z 09020KT 9999 SCT015 SCT120 BKN230 29/24 Q1014 RMK 3CU015 3AC120 A2995 KUNV 010435Z AUTO 03005KT 5SM BR OVC007 13/12 A3020 RMK AO2 T01250121 RJCH 010400Z 22011KT 9999 FEW040 22/14 Q1018 RJCK 010400Z 17010KT 9999 FEW050 21/10 Q1016 RJBT 010400Z VRB02KT 9999 FEW008 SCT015 BKN070 21/21 Q1017 RJDC 010400Z 12006KT 9999 FEW015 SCT025 BKN045 25/23 Q1016 RJCM 010400Z 05006KT 360V110 9999 FEW040 21/09 Q1016 RJCN 010400Z 31007KT 260V350 9999 FEW030 22/07 Q1016 SADF 010400Z 05005KT CAVOK 14/09 Q1023 SACO 010400Z 36005KT CAVOK 11/06 Q1024 KUOX 010435Z AUTO 00000KT 10SM CLR 12/11 A3008 RMK AO2 KTYQ 010435Z AUTO 13003KT 5SM BR BKN050 OVC075 14/13 A3002 RMK AO2 T01350133 FQCH 010400Z /////KT CAVOK 18/15 Q1017 KTYR 010353Z 00000KT 10SM CLR 17/12 A3009 RMK AO2 SLP183 T01720122 RJEB 010400Z 27006KT 240V310 9999 FEW040 23/07 Q1016 FQBR 010300Z /////KT 9999 SCT019 21/20 Q1011 KTYS 010353Z 22005KT 10SM CLR 14/09 A3006 RMK AO2 SLP173 T01390089 RJEC 010400Z 31006KT 260V340 9999 FEW040 21/06 Q1017 KVGT 010353Z 19007KT 10SM SCT110 29/08 A2994 RMK AO2 SLP131 T02940083 RJDM 010237Z 26001KT 8000 -SHRA FEW006 SCT020 BKN030 26/25 Q1016 RMK 1ST006 3CU020 6CU030 A3000 RJCW 010400Z 26015KT 9999 FEW035 20/12 Q1015 MBYX 301825Z HKJKYMYX ?SAKN40 HKNC 301800 RRC METAR HKKR 301600Z 08004KT 9999 FEW020 SCT080 17/13 SADP 301341Z 09006KT 9000 -RA FEW010 BKN050 13/08 Q1024 KVIH 010353Z AUTO 35007KT 10SM OVC050 16/13 A3008 RMK AO2 SLP182 T01610133 KTZR 010435Z AUTO 20005KT 10SM SCT027 BKN034 14/14 A3004 RMK AO2 LTG DSNT N T01440139 RJDT 010400Z 06004KT 360V150 9999 FEW006 SCT008 BKN010 22/21 Q1016 MDJB 302300Z 36008KT 9999 BKN016 BKN300 26/23 Q1011 RJFE 300825Z 29006KT 9999 FEW010 SCT015 BKN025 26/24 Q1012 RMK 1CU010 3CU015 5CU025 A2989 LLSD 010350Z 09005KT CAVOK 21/16 Q1013 RJFF 010430Z VRB02KT 9999 FEW015 SCT/// 28/23 Q1015 RMK 1CU015 A2998 KUSE 010435Z AUTO 06004KT 5SM BR BKN020 OVC027 15/15 A3005 RMK AO2 RJFG 010400Z 27004KT 230V300 9999 -SHRA FEW004 SCT015 BKN020 26/25 Q1017 KVJI 010435Z AUTO 00000KT 3SM BR BKN041 13/13 A3009 RMK AO2 T01290129 RJFK 010400Z 17006KT 9999 FEW020 SCT030 29/24 Q1017 RMK 1CU020 4CU030 A3003 KUTA 010435Z AUTO 35003KT 10SM CLR 13/11 A3008 RMK AO2 TSNO KVIS 010356Z AUTO 32009KT 10SM CLR 23/08 A2995 RMK AO2 SLP147 T02280083 KY19 010435Z AUTO 13012KT 10SM CLR 15/07 A3007 RMK AO2 RJFM 010400Z 14008KT 9999 FEW025 30/25 Q1015 KWAL 010441Z AUTO 06011KT 1/2SM FG VV002 22/22 A3010 RMK AO2 T02170217 RJFO 010400Z 06007KT 9999 FEW005 SCT010 BKN013 25/23 Q1016 KY23 010435Z AUTO 05005KT 10SM CLR 14/12 A3023 RMK AO2 T01400117 RJGG 010430Z 23005KT 9999 FEW012 BKN160 25/20 Q1015 NOSIG SAEZ 010400Z 12005KT 7000 NSC 09/08 Q1023 RJFR 010400Z VRB01KT 9999 FEW010 SCT015 BKN/// 25/22 Q1016 RJFS 010400Z 18005KT 130V250 9999 FEW015 SCT030 29/26 Q1015 RJFT 010400Z 21005KT 150V260 9999 BKN030 29/23 Q1016 EYPA 010420Z VRB06KT 9999 SCT028 15/09 Q1011 RJFU 010400Z 24006KT 9999 FEW025 SCT050 29/24 Q1015 KY31 010434Z AUTO 00000KT 10SM DZ BKN007 BKN013 OVC060 12/11 A3018 RMK AO2 P0001 T01170111 KVLD 010353Z AUTO 00000KT 10SM CLR 15/14 A3005 RMK AO2 SLP183 T01500144 KUTS 010353Z AUTO 00000KT 10SM CLR 17/13 A3009 RMK AO2 SLP185 T01720128 KUVA 010435Z AUTO 00000KT 10SM CLR 18/14 A3011 RMK AO2 T01840135 KVKS 010435Z AUTO 00000KT 9SM BKN060 15/14 A3007 RMK A01 KVLL 010435Z AUTO 03006KT 4SM BR OVC011 14/13 A3012 RMK AO2 T01400125 GGOV 010200Z 11004KT 9999 FEW005 SCT014TCU 24/23 Q1011 NOSIG KVKY 010435Z AUTO 06008KT 10SM SCT048 BKN055 25/14 A3008 RMK A01 KWDG 010435Z AUTO 00000KT 10SM CLR 13/10 A3011 RMK AO2 MDLR 010300Z 00000KT 9999 FEW016 SCT300 24/23 Q1012 KY50 010441Z AUTO 05008KT 5SM -RA BR OVC005 14/14 A3016 RMK AO2 CIG 004V008 P0000 KY49 010435Z AUTO 10004KT 10SM CLR 10/09 A3025 RMK AO2 T01030088 KVNC 010435Z AUTO 12007KT 10SM CLR 25/23 A3003 RMK AO2 TSNO LMML 010415Z 14009KT 9999 SCT013 22/20 Q1018 BECMG BKN013 KUUU 010353Z AUTO 05014G20KT 6SM BR BKN009 OVC017 14/14 A3026 RMK AO2 RAE51 SLP244 P0004 T01440139 KY51 010435Z AUTO 03004KT 10SM OVC007 14/14 A3017 RMK AO1 T01380138 RJKA 010400Z 15006KT 090V190 9999 FEW020 SCT025 30/24 Q1015 KWDR 010435Z AUTO 00000KT 10SM CLR 13/10 A3010 RMK AO1 KVOA 010435Z AUTO 06005KT 10SM CLR 26/14 A3006 RMK A01 EYSA 010420Z 20008KT CAVOK 09/09 Q1011 BLU NOSIG SBBE 010400Z 08004KT CAVOK 24/22 Q1011 KY63 010439Z AUTO 14008KT 10SM CLR 12/10 A3021 RMK AO2 T01170097 SBBG 302145Z 12010KT CAVOK 16/08 Q1020 FQIN 301400Z 11010KT 9999 SCT020 27/21 Q1016 SBAR 010400Z 07010KT 9999 SCT012 SCT015 26/23 Q1014 SBCB 302100Z 15006KT 9999 SCT010 OVC018 22/18 Q1018 KVOK 010403Z AUTO 04004KT 10SM BKN011 14/13 A3017 RMK AO2 BKN V SCT KY70 010433Z AUTO 06009G16KT 10SM OVC006 15/14 A3010 RMK AO2 T01450137 KVPC 010353Z AUTO 00000KT 10SM CLR 12/09 A3009 RMK AO2 SLP182 T01170094 MDPC 010400Z 08011KT 9999 FEW018 SCT300 27/24 Q1011 KUXL 010435Z AUTO 00000KT 10SM CLR 18/16 A3009 RMK AO2 T01750158 PWINO SBCF 010400Z 10012KT CAVOK 19/16 Q1018 SBCG 010400Z 12007KT CAVOK 22/13 Q1015 KUYF 010435Z AUTO 7SM BKN033 OVC040 14/14 A3003 RMK AO2 LTG DSNT NE KVNY 010351Z 25004KT 10SM CLR 26/02 A2995 RMK AO2 SLP134 T02560022 SAKR 010200Z 00000KT 9999 SCT020 SCT080 18/17 A3011 REDZ SBBR 010400Z 18004KT 9999 FEW030 FEW040TCU BKN070 21/16 Q1018 SBCJ 302130Z 00000KT 3000 BR SCT004 20/19 Q1013 KUZA 010354Z AUTO 00000KT 10SM CLR 13/12 A3004 RMK AO2 SLP165 T01330117 SBBV 010400Z 15003KT CAVOK 29/22 Q1009 FPST 010400Z 21002KT 9999 FEW020 BKN040 25/23 Q1011 NOSIG SAME 010400Z 00000KT CAVOK 11/08 Q1020 FQLC 301900Z 07005KT CAVOK 19/13 Q1020 SBCP 010200Z 24004KT 9999 BKN010 OVC090 21/20 Q1020 MDPP 010300Z 00000KT 9999 SCT018 OVC300 24/23 Q1013 SBCR 010000Z 13005KT CAVOK 31/17 Q1007 SBCT 010400Z 12010KT 9999 FEW004 OVC006 11/10 Q1023 KVPS 010355Z 00000KT 10SM CLR 18/12 A3006 RMK AO2A SLP185 T01820123 $ FQMA 010400Z 20007KT 9999 BKN020 19/16 Q1016 NOSIG KVRB 010353Z 00000KT 10SM CLR 23/22 A3004 RMK AO2 SLP171 T02330217 SBEG 010400Z 00000KT CAVOK 25/23 Q1010 SBCY 010400Z 33006KT CAVOK 27/20 Q1010 RJNG 010242Z 19002KT 9999 FEW015 SCT025 BKN045 25/21 Q1016 RMK 2CU015 4CU025 5SC045 A3003 WIND EST KWHP 010253Z 21005KT 10SM SKC 27/04 A2998 RMK LAST SBCZ 010400Z 13002KT CAVOK 24/23 Q1009 KVPZ 010412Z AUTO 07006KT 10SM SCT009 14/13 A3005 RMK AO2 T01390133 KVQQ 010435Z AUTO 00000KT 10SM FEW042 SCT050 BKN065 20/19 A3001 RMK AO2 LTG DSNT S RJOA 010437Z 12004KT 090V150 2000 -SHRA BCFG BR FEW000 SCT002 BKN003 21/21 Q1017 RMK 1ST000 3ST002 5ST003 A3006 FG SE AND S-SW RJNK 010400Z 33004KT 260V360 9999 FEW015 SCT230 23/17 Q1017 RJOB 010400Z VRB02KT 4500 -SHRA BR BCFG FEW000 SCT003 BKN010 21/20 Q1018 EYVI 010424Z 19005KT 0550 R19/0750V1300U FG FEW049 06/05 Q1013 NOSIG RJOC 010400Z 07009KT 9999 FEW012 BKN090 BKN120 23/20 Q1016 SAOC 010400Z 27002KT 9999 SCT030 10/09 Q1021 KVQT 010435Z AUTO 08010KT 10SM CLR 25/16 A3005 RMK A01 RJOE 010128Z VRB02KT 9999 FEW005 BKN010 BKN015 23/21 Q1017 RMK 1ST005 5CU010 6CU015 A3005 MDSD 010400Z 02005KT 9999 FEW014CB FEW016 SCT300 24/22 Q1011 CB/S/SW RJOF 010411Z 18007KT 9999 -SHRA FEW010 SCT025 BKN040 26/19 Q1016 RMK 1CU010 3CU025 5CU040 A3000 KVSF 010354Z AUTO 00000KT 10SM BKN040 OVC047 11/07 A3041 RMK AO2 SLP301 T01110067 TSNO KWJF 010356Z 26013KT 10SM CLR 23/07 A3002 RMK AO2 SLP150 T02280072 RJOH 010400Z 06011KT 9999 -SHRA FEW010 BKN015 BKN100 22/17 Q1017 SBFI 010400Z 14002KT 9000 NSC 15/15 Q1015 RJOI 010355Z 09004KT 9999 FEW020 BKN030 OVC050 21/19 A3003 RMK SHRAE0257 SLP168 P0000 T02110189 RJNS 010400Z 12004KT 070V140 9999 FEW005 SCT008 BKN015 22/22 Q1017 RJOK 010400Z 17007KT 9999 FEW010 29/25 Q1015 RJNT 010400Z 34004KT 280V030 9999 FEW020 SCT/// 23/17 Q1017 SANT 010400Z 05005KT 6000 BKN025 OVC100 21/15 Q1019 KVTA 010354Z AUTO 10003KT 10SM OVC009 17/16 A3003 RMK AO2 RAE26 SLP166 P0003 T01670156 SANU 010300Z 20006KT CAVOK 14/07 Q1020 SBFL 010400Z 00000KT 9999 BKN025 17/14 Q1023 RJOM 010400Z 32007KT 9000 FEW015 27/22 Q1015 SBFN 302200Z 12007KT 9999 SCT019 25/23 Q1014 RJNW 010400Z 08007KT 050V120 9999 FEW020 23/16 Q1018 LOAN 301700Z 13004KT 40KM FEW050CU SCT100AC BKN300CI RMK BKN RJOO 010400Z VRB03KT 9999 FEW015 SCT070 BKN090 26/18 Q1016 RMK 1CU015 3AC070 5AC090 A3001 RJNY 010048Z 03002KT 9999 -SHRA FEW005 BKN010 BKN020 22/18 Q1016 RMK 1ST005 5CU010 6CU020 A3003 WIND BY EQPT/27 RJOP 010244Z 34004KT 310V020 9999 FEW008 SCT012 BKN030 25/22 Q1016 RMK 1ST008 4CU012 6CU030 A3003 RJOR 010400Z 02006KT 9999 FEW015 SCT100 BKN120 22/18 Q1017 FQNP 302000Z /////KT CAVOK 23/17 Q1016 KVTI 010435Z AUTO 02003KT 10SM SCT009 BKN017 OVC037 16/15 A3014 RMK AO2 RJOS 010133Z 36009KT 9999 FEW008 BKN015 BKN035 25/21 Q1017 RMK 1ST008 5CU015 6CU035 A3004 RJOT 010400Z 06004KT 040V100 7000 FEW002 SCT004 BKN006 23/22 Q1017 VYMD 010430Z 14003KT 7000 BKN018 FEW020CB 32/27 Q1010 MDST 010400Z 00000KT 9999 FEW017CB SCT018 BKN300 23/23 Q1012 CB/SW SBGL 010400Z 15005KT 8000 SCT012 OVC025 19/16 Q1020 FQPB 010400Z 29005KT 9999 FEW020 SCT100 22/21 Q1014 LOAV 301700Z 15007KT 35KM FEW050CU BKN300CI 22/11 RMK BKN RJOW 010422Z VRB02KT 7000 -SHRA FEW003 SCT007 BKN045 23/21 Q1016 RMK 1ST003 3ST007 5CU045 A3001 KWLD 010354Z AUTO 00000KT 10SM CLR 14/11 A3013 RMK AO2 SLP199 T01440111 SBGO 010400Z 28006KT CAVOK 24/13 Q1015 KVTN 010352Z AUTO 17009KT 10SM CLR 15/07 A3011 RMK AO2 SLP191 T01500067 TSNO RJOY 010400Z VRB02KT 9999 FEW015 SCT025 BKN120 27/20 Q1016 RJOZ 302110Z 35008KT 6000 -SHRA FEW005 SCT008 OVC015 FEW015CB 22/21 Q1015 RMK 1ST005 4ST008 8CU015 1CB015 A2999 CB 10KM E MOV E SBFZ 010400Z 09011KT 9999 BKN020 26/22 Q1013 KVTP 010427Z AUTO 10SM SCT022 06/03 A3046 RMK AO2 KXBP 010435Z AUTO 23003KT 10SM CLR 14/13 A3013 RMK AO2 T01390131 SBGR 010400Z 14008KT 9999 OVC009 14/13 Q1022 KVUJ 010425Z AUTO 00000KT 10SM CLR 14/13 A3008 RMK AO2 LTG DSNT SE AND SW T01360132 SARC 010400Z 20002KT 8000 NSC 13/12 Q1017 KWMC 010441Z AUTO VRB03KT 3SM HZ SCT014 18/M03 A2999 RMK AO2 T01781028 SARE 010400Z 23003KT 5000 BR NSC 12/11 Q1017 SARF 010400Z 18004KT 9999 FEW020 14/14 Q1016 KVUO 010353Z AUTO 16003KT 10SM BKN080 16/06 A3000 RMK AO2 SLP160 T01560056 KVVG 010435Z AUTO 00000KT 10SM 25/25 A2993 RMK A01 SARI 010400Z 18003KT CAVOK 16/15 Q1016 RJSA 010400Z 26005KT 210V330 9999 FEW035 SCT045 BKN/// 22/13 Q1018 SASA 010400Z 02004KT 9999 SCT030 BKN100 20/10 Q1021 RKJB 010400Z 10005KT 080V140 9999 BKN035 OVC100 22/22 Q1017 NOSIG RJSC 010400Z 07004KT 010V150 9999 FEW050 23/11 Q1018 SARL 010400Z 11016G26KT CAVOK 16/09 Q1018 FQQL 302000Z 12006KT CAVOK 24/21 Q1014 RJSF 010400Z 29003KT 230V350 9999 FEW020 BKN160 21/15 Q1019 SARP 010400Z 16003KT CAVOK 15/12 Q1016 RJSI 010400Z 25003KT 150V310 9999 FEW030 24/12 Q1018 SARS 301040Z 09001KT 4000 TSRA FEW050 CB BKN060 15/14 Q1012 SASJ 010400Z 18010KT 9999 SCT020 BKN100 23/11 Q1019 SCBA 010400Z AUTO 00000KT 9999 FEW017 SCT046 OVC068 07/06 Q1016 RJSK 010400Z VRB02KT 9999 FEW025 SCT030 BKN040 21/13 Q1019 RKJK 010358Z AUTO 10006KT 10SM FEW120 SCT140 SCT170 21/18 A3004 RMK AO2 SLP177 T02080183 $ HAAB 010400Z 07004KT 9999 BKN024 13/12 Q1024 RJTE 010424Z 01003KT 320V060 9999 -RA FEW007 BKN012 BKN015 21/20 Q1017 RMK 2ST007 5ST012 7SC015 A3006 RJSN 010400Z 36008KT 9999 FEW030 SCT/// 23/15 Q1018 KVVV 010432Z AUTO 00000KT 10SM CLR 12/07 A3018 RMK AO2 RJTF 010400Z 03006KT 9999 FEW015 BKN020 BKN035 21/17 Q1018 SBJP 010400Z 13008KT 9999 FEW021 BKN070 25/21 Q1014 SCAP 010400Z AUTO VRB01KT 5000 // NSC 10/05 Q1024 RJTI 010409Z 01005KT 260V050 3000 -RA BR FEW007 BKN010 BKN015 20/18 Q1018 RMK 1ST007 5ST010 7SC015 A3008 RJSR 010400Z 33004KT 280V020 9999 FEW030 SCT040 BKN/// 21/14 Q1018 SCAR 010400Z 16002KT 9999 OVC030 18/12 Q1016 SCAS 301900Z 00000KT 9999 -RA SCT010 OVC033 13/11 Q1014 RJSS 010400Z 16009KT 9999 FEW020 22/13 Q1018 RJTK 302105Z 36006KT 4000 -RA BR FEW005 BKN008 BKN012 19/18 Q1017 RMK 2ST005 5ST008 5SC012 A3004 SCAT 010440Z AUTO VRB03KT 7000 // ///009 13/10 Q1016 RJTL 010415Z 01004KT 330V050 5000 BR FEW005 SCT008 BKN015 19/18 Q1018 RMK 2ST005 4ST008 7SC015 A3008 SCCC 301900Z 17005KT 9999 VCSH SCT040 OVC050 13/07 Q1014 KVWU 010434Z AUTO 00000KT 7SM CLR 09/08 A3025 RMK AO2 RJTO 010400Z 03011KT 6000 -RA FEW004 BKN006 BKN009 20/19 Q1018 SCCF 010400Z 11013KT CAVOK 07/M12 Q1026 RJSY 010400Z 32006KT 280V340 9999 FEW030 SCT/// 22/12 Q1018 SBKP 010400Z 11017KT 9999 BKN020 16/11 Q1020 SCCH 010400Z AUTO 24006KT 9999 NCD 10/09 Q1017 RJTR 302353Z AUTO VRB04KT 6SM BR FEW015 SCT029 OVC040 19/18 A3008 RMK AO2 RAB44E53 SATR 301227Z 07013KT CAVOK 14/09 Q1016 RETS SCCI 010400Z 11006KT 9999 SCT040 BKN100 07/03 Q1020 NOSIG SBMA 010400Z 21001KT CAVOK 23/23 Q1012 SCDA 010400Z 20003KT 9999 OVC030 17/11 Q1017 RJTT 010440Z 01007KT 6000 -RA FEW005 SCT009 BKN015 20/19 Q1018 RMK 1ST005 4ST009 6SC015 A3007 RJTU 300639Z 24004KT 9999 FEW030 BKN045 21/09 Q1017 RMK 1CU030 7SC045 A3003 SAVC 010400Z 14001KT CAVOK 10/09 Q1015 SAVE 301819Z 29008KT 9000 -RA BKN027 10/06 Q1013 SBLO 010400Z 10010KT CAVOK 17/12 Q1018 RJTY 010358Z 02006KT 10SM OVC036 21/16 A3013 RMK AO2A SLP203 T02110161 KVYS 010435Z AUTO 02007KT 10SM OVC020 17/16 A3006 RMK AO2 T01670160 KWRB 010358Z AUTO 00000KT 10SM CLR 15/12 A3006 RMK AO2 SLP180 T01480123 FQTT 301700Z 13008KT CAVOK 33/14 Q1011 SBMN 010400Z 15004KT 9999 SCT011 25/23 Q1010 SAWE 010400Z 11005KT 9999 FEW023 BKN060 05/04 Q1021 SBNF 010300Z 14007KT 9999 SCT015 BKN030 17/// Q1023 SBMO 010400Z 07004KT 9999 FEW017 23/22 Q1014 SAWG 010400Z 14011KT 3000 -DZ BR OVC005 06/06 Q1017 SCCY 010443Z AUTO 05004KT 9999 FEW013 08/08 Q1015 SBMQ 010400Z 07009KT 9999 FEW013 28/24 Q1011 SAWH 010400Z 09008KT 9999 BKN020 BKN090 06/04 Q1021 LOIH 301600Z 05002KT 35KM FEW070SC 23/09 Q1016 RMK FEW KXIH 010435Z AUTO RMK A01 PNO KWRI 010444Z 05010KT 6SM -DZ OVC005 15/14 A3007 RMK AO2A DZB44 SLPNO WND DATA ESTMD ALSTG ESTMD $ SCFA 010400Z 23005KT 9999 FEW013 OVC025 15/09 Q1016 NOSIG SCEL 010400Z VRB02KT 9999 BKN170 15/06 Q1016 NOSIG KWRL 010353Z AUTO 33003KT 10SM CLR 13/08 A3006 RMK AO2 SLP159 T01280078 SBOI 302000Z 12007KT 9999 FEW048 32/31 Q1008 SBPA 010400Z 11011KT CAVOK 14/11 Q1021 SAWT 301230Z 20002KT 9999 FEW030 SCT100 BKN200 05/00 Q1017 SBPB 302145Z 07017KT CAVOK 28/23 Q1009 SBNT 010400Z 13008KT 9999 FEW019 25/22 Q1013 RKPC 010400Z 08014KT 6000 FEW005 BKN035 OVC100 23/21 Q1016 NOSIG SCFM 302100Z 07012KT 9999 BKN020 11/03 Q1018 SCGE 302100Z 00000KT 9999 FEW040 15/10 Q1020 RKNY 010400Z 03005KT 350V050 9999 FEW030 BKN200 21/18 Q1018 NOSIG SBPK 010400Z 09006KT 9999 FEW010 13/12 Q1023 LPBJ 010300Z 28004KT CAVOK 16/12 Q1015 RKPK 010400Z 03003KT 9000 -RA BKN015 OVC060 22/20 Q1018 NOSIG SCFT 010400Z AUTO 25005KT 170V300 //// SKC 09/03 Q1019 MGCB 010000Z 00000KT 9999 SCT018 OVC060 20/18 QFE 871.7 SBPL 010400Z 14006KT CAVOK 28/18 Q1013 KWST 010353Z AUTO 03007G15KT 360V060 4SM -RA BR OVC008 15/13 A3026 RMK AO2 RAB19 CIG 006V012 SLP247 P0004 T01500128 SBPP 302200Z 15020KT CAVOK 20/13 Q1014 LPAZ 010430Z 07004KT 9999 FEW022 16/14 Q1020 SBPS 010500Z 08006KT 9999 SCT012 SCT020 24/22 Q1015 SBRB 010400Z 05002KT CAVOK 25/21 Q1009 SCIC 010400Z AUTO 20002KT 9999 NCD 13/08 Q1016 SBPV 010400Z 05005KT 9999 FEW020 26/22 Q1009 SAZM 010300Z 09009KT 9999 OVC025 11/08 Q1026 KXLL 010435Z AUTO 04009KT 10SM OVC008 13/12 A3024 RMK AO2 SAZN 010400Z 11003KT CAVOK 11/09 Q1019 SCIE 010400Z 00000KT CAVOK 10/08 Q1019 SBRF 010400Z 12008KT 9999 SCT021 27/22 Q1014 SCGZ 301900Z 06003KT 9999 FEW040 BKN043 09/02 Q1019 SCHR 301900Z 30006KT 9999 SCT020 OVC060 13/08 Q1011 SBRJ 010400Z 12005KT 9999 -RA BKN010 OVC030 20/16 Q1020 SAZS 010400Z 29008KT 9999 SCT030 06/02 Q1020 KWVI 010353Z AUTO 23003KT 10SM CLR 13/09 A3008 RMK AO2 SLP187 T01280094 SAZT 301840Z 05005KT 5000 RA FEW020 OVC040 12/07 Q1023 LPCS 302000Z 01012KT 9999 FEW014 18/15 Q1016 KXNA 010353Z 00000KT 10SM CLR 14/12 A3012 RMK AO2 SLP191 T01390117 FSIA 010400Z 13008KT 9999 SCT017 28/23 Q1011 NOSIG KWVL 010356Z AUTO 00000KT 10SM CLR 08/06 A3041 RMK AO2 SLP339 T00780061 KWWD 010356Z AUTO 06013G18KT 4SM BR 18/18 A3014 RMK AO2 SLP209 T01830183 $ SBRP 010400Z 16012KT CAVOK 19/13 Q1016 SBSG 010400Z 17006KT 9999 FEW023 BKN043 25/22 Q1013 RKSG 010358Z VRB01KT 4SM HZ SCT170 SCT200 24/17 A3005 RMK AO2A SLP179 T02370167 $ SCIP 010400Z 30008KT 9999 FEW020 20/18 Q1020 NOSIG SCIR 302000Z 16010KT 9999 SCT030 14/08 Q1021 RKSI 010430Z 23004KT 200V360 4500 HZ SCT025 BKN120 BKN180 24/16 Q1017 NOSIG SBSJ 010400Z 16005KT 9999 SCT020 15/11 Q1021 KXMR 010358Z AUTO 18008KT 10SM VCTS CLR 24/22 A3000 RMK AO2 SLP162 T02380222 $ SBSL 010400Z 08009KT 9999 FEW017 27/21 Q1011 SBSN 010400Z 11002KT 9999 FEW015 SCT100 24/23 Q1010 SBTE 010400Z 01008KT CAVOK 28/20 Q1010 SCJO 302200Z 30008KT 9999 SCT025 BKN030 13/08 Q1020 SBTF 302245Z 00000KT 9999 TS FEW017 FEW025CB 28/25 Q1006 RKSO 010358Z 10005KT 4SM HZ FEW025 BKN160 BKN200 23/17 A3003 RMK AO2A SLP172 T02310166 $ SBSP 010400Z AUTO 15010KT 9999 SCT005 OVC007 13/11 Q1022 KWWR 010356Z AUTO 10004KT 10SM CLR 17/08 A3015 RMK AO2 RKSS 010400Z 01003KT 5000 HZ NSC 23/14 Q1017 NOSIG MGES 010000Z 03008KT 9999 SCT016 SCT090 24/20 QFE 909.0 SCT200 KXNT 010435Z AUTO VRB05KT 10SM OVC012 13/11 A3019 RMK AO2 SBSV 010400Z 10010KT 9999 SCT015 BKN070 26/22 Q1014 LPFL 301800Z VRB02KT CAVOK 20/11 Q1025 RKTN 010430Z 33001KT 9999 -RA BKN020 OVC050 21/18 Q1017 NOSIG SBUG 302200Z 13010KT CAVOK 19/10 Q1016 LPFR 010430Z 28003KT CAVOK 20/15 Q1013 SBTT 302300Z 27002KT CAVOK 30/23 Q1005 RKTU 010400Z 25002KT 9000 NSC 22/17 Q1017 NOSIG VYYY 010430Z 19005KT 8000 R21/2000N BKN014 FEW018CB BKN100 31/ 25 Q1011 CB S SCMK 302100Z 02010KT 5000 RA OVC020 11/10 Q1014 RERA KWYS 010435Z AUTO 21004KT 10SM CLR 05/04 A3022 RMK AO2 MGGT 010400Z 04008KT 9999 FEW014 18/16 Q1028 A3036 NOSIG KXPY 010435Z AUTO 03005KT 10SM CLR 24/15 A3007 RMK A01 YABA 010430Z AUTO 27028G43KT 6000 // SCT034 SCT041 BKN051 09/05 Q0995 LPHR 302100Z 04010KT 9999 FEW020 18/11 Q1023 SBVT 010400Z 33002KT 9999 FEW020 BKN040 22/19 Q1018 KXSA 010435Z AUTO 06007KT 5SM BR OVC003 21/21 A3008 RMK AO2 LTG DSNT S T02120212 MGHT 010000Z 08012KT 9999 SCT025 OVC0070 18/14 QFE 820.8 PCPN DIST N/NE WSAP 010400Z 23013KT 7000 -SHRA FEW012 FEW015CB SCT016TCU BKN150 28/24 Q1012 KYIP 010353Z 05010KT 4SM -RA BR OVC004 16/15 A3010 RMK AO2 RAB44 SLP188 P0001 T01560150 SCNT 301900Z 17011KT 130V200 CAVOK 06/01 Q1018 MHAM 010000Z 23006KT 9999 FEW030 SCT250 30/27 SCON 010400Z AUTO VRB02KT CAVOK 09/07 Q1020 MHCA 010400Z 10004KT 9999 SCT028CB 23/22 CB LTNG E ESE TCU N E HZ LPLA 010400Z /////KT 9999 FEW026 SCT040 17/14 Q1021 LQBK 010430Z 11004KT 070V210 CAVOK 14/10 Q1016 NOSIG KYKM 010353Z 27005KT 10SM OVC095 20/M06 A2988 RMK AO2 SLP116 T02001061 KYKN 010435Z AUTO 00000KT 10SM CLR 13/08 A3015 RMK AO1 SCPQ 010400Z AUTO 36006KT 9999 SCT033 BKN038 07/06 Q1020 MHCH 010000Z 27002KT 9999 SCT032CB SCT250 31/25 CB NE TCU NE E SE HZ LPMA 010430Z VRB05KT 9999 FEW016 22/14 Q1016 SCRD 302300Z 18007KT CAVOK 14/09 Q1016 SCRG 302000Z 20010KT CAVOK 21/06 Q1016 SCQP 010400Z 00000KT 9999 SCT039 BKN047 10/09 Q1020 KXVG 010355Z AUTO 00000KT 7SM CLR 06/06 A3025 RMK AO2 FSPP 010400Z 15004KT //// //// 28/23 Q1012 SCRM 010400Z 27029KT 8000 OVC003 M00/M00 Q1005 MGMM 010400Z 900000KT CAVOK 24/23 Q1017 A3003 SCT090 SCSE 010400Z 04004KT CAVOK 11/09 Q1016 KYNG 010432Z 10012KT 8SM -RA SCT011 BKN033 OVC090 14/12 A3009 RMK AO2 RAB09 P0001 T01390122 $ LOWG 010420Z 16002KT 0600 R17/1500U R35/P1500D BCFG FEW001 SCT002 07/07 Q1014 TEMPO 0300 BKN001 LOWI 010420Z 29002KT 9999 FEW060 SCT300 09/07 Q1015 NOSIG SCTB 302300Z 20004KT 9999 BKN140 19/00 Q1017 MGMT 010000Z 00000KT 9999 FEW015TCU BKN200 28/25 QFE 1009.9 FEW070 TCU E LOWK 010420Z AUTO 31004KT 9999 NCD 09/08 Q1017 SEAM 302300Z 00000KT 8000 -RA BKN020 BKN100 13/13 Q1025 RETSRA LOWL 010420Z VRB02KT 7000 1100E BCFG FEW002 SCT300 10/09 Q1014 TEMPO 0500 SCTE 010400Z VRB06KT 9999 OVC040 08/07 Q1021 NOSIG SCSN 010400Z AUTO 00000KT 9999 BCFG NCD 10/09 Q1016 SECA 302300Z 29007KT 9999 -RA BKN040 BKN090 22/18 Q1016 LOWS 010420Z 15008KT CAVOK 13/09 Q1013 NOSIG MGPB 010000Z 00000KT 9999 FEW020 BKN200 28/25 Q1013 A2991 FEW090 CB DIST E LPPD 010430Z 36005KT 9999 FEW020 16/11 Q1020 SCTN 010400Z AUTO 01009KT 9999 FEW037 SCT042 10/09 Q1020 LOWW 010420Z 14007KT 6000 FEW200 11/11 Q1014 NOSIG LOWZ 301700Z 00000KT 40KM SCT060CU 17/12 Q1016 RMK SCT LOXT 010350Z VRB01KT 10KM FEW003ST 09/09 Q1014 RMK FEW SCVD 010400Z AUTO 00000KT 0900 R35/0900V1400N FG FEW007 04/04 Q1021 SECO 302300Z 07003KT 9999 FEW026 SCT300 30/25 Q1006 LOXZ 010350Z 28002KT 2000 0800W BCFG SKC 06/05 Q1016 RMK SKC LPPR 010430Z 00000KT 1500 R17/0400 BCFG SCT001 12/12 Q1015 GKKR 300800Z 22003KT 9999 SCT016 28/24 Q1013 NOSIG LPPS 010430Z 35004KT 9999 SCT015 21/17 Q1016 SECU 010200Z 19003KT 5000 RA SCT010 OVC026 13/12 Q1026 LPPT 010430Z 34007KT 9999 FEW012 16/13 Q1015 SCVM 010400Z 00000KT CAVOK 12/06 Q1016 YBAF 010430Z AUTO 27016KT 9999 // NCD 26/03 Q1010 MGQZ 010000Z 02005KT 9999 BKN018 FEW020CB BKN080 15/12 QFE 773.3 CB/PCPN SW/W YBAS 010430Z AUTO 29008KT 9999 // BKN094 BKN115 28/M03 Q1010 MGSJ 010000Z 36004KT 9999 SCT026CB BKN090 26/24 Q1012 A2988 CB/PCPN W CB N/N/E/NW MGRT 010000Z 00000KT 9999 SCT018 FEW025CB SCT090 25/23 Q1014 A2994 FEW090 CB ENE/E VOL. STA. MARIA Y SANTIAGUITO EN ACTIVIDAD LRBC 010430Z 19005KT 9999 3900S BR NSC 12/12 Q1018 YBBN 010430Z 29015KT CAVOK 27/01 Q1010 FM0430 MOD TURB BLW 5000FT TILL 0600 YBCG 010447Z AUTO 31015G25KT 260V320 9999 // NCD 26/02 Q1009 YBCK 010430Z AUTO 29004KT 240V360 //// // ////// 24/06 Q1014 LRAR 010430Z 14006KT CAVOK 12/10 Q1017 YAMB 010430Z AUTO 29017KT 9999 // NCD 26/00 Q1010 MHLC 010000Z 05002KT 9999 SCT022CB SCT200 29/26 Q1012 A2989 TEMPO -TSRA LRBM 010430Z 10004KT 070V140 CAVOK 13/11 Q1018 YBDG 010430Z AUTO 30011KT 9999 // SCT030 OVC039 13/07 Q1006 MHLE 010000Z 03002KT 9999 FEW024TCU 19/16 TCU NE LRBO 010400Z 00000KT 5000 BR FEW090 10/07 Q1018 WHT GRN YBCS 010430Z 01009KT 9999 FEW027 SCT120 28/23 Q1012 INTER 0530/0730 4000 SHRA FEW008 BKN015 SEGS 010000Z 14015KT 9999 BKN020 23/18 Q1012 RMK A2990 LRBS 010430Z 00000KT 6000 MIEG NSC 12/11 Q1018 NOSIG LRCK 010430Z 20002KT 0300 R18/0900V1800U R36/P2000 BCFG SCT003 BKN013 14/14 Q1018 BECMG 0800 FG SCT015 SEGU 010400Z 22012KT 9999 SCT040 BKN100 24/18 Q1013 NOSIG RMK A2992 YBCV 010430Z AUTO 33005KT 290V010 9999 // NCD 23/05 Q1014 MGTU 010000Z 00000KT 9999 SCT018 FEW020CB OVC070 25/23 CB/PCPN DIST W/NW LRCL 010430Z 12003KT 0800 R25/0600N FG FEW001 08/08 Q1018 MHLM 010400Z 00000KT 9999 FEW024 BKN080 26/26 Q1015 A2997 NOSIG YANG 010430Z AUTO 24009KT 9999 // NCD 25/06 Q1011 LRCT 010400Z VRB03KT 6000 SCT100 08/07 Q1018 WHT WHT YBDV 010430Z AUTO 01011KT 340V040 //// // ////// 28/M02 Q1010 SEJD 302300Z 26005KT 9999 FEW033 SCT300 27/23 Q1009 A2979 LRCV 010430Z 31003KT CAVOK 10/09 Q1017 LQMO 010400Z 13002KT CAVOK 08/06 Q1019 ROAH 010438Z 08010KT 050V120 9999 -SHRA SCT021 BKN030 30/25 Q1013 RMK 3CU021 5CU030 A2992 BGBW 010350Z AUTO 26002KT 9999NDV FEW017/// BKN027/// OVC033/// 02/M01 Q1001 YBGD 010430Z AUTO 18008KT 9999 // NCD 26/10 Q1010 SFAL 301750Z 34018KT 9999 FEW015 BKN080 10/05 Q1020 GMAD 010430Z VRB02KT 8000 FEW010 16/15 Q1012 NOSIG MHNO 010000Z 35008KT 9999 FEW040CB 25/21 CB SW TCU N SE SW HZ GMAG 301800Z 36012KT 6000 NSC 28/13 Q1011 NOSIG FTTA 010400Z 18004KT CAVOK 25/24 Q1011 FTTC 301500Z 10004KT 9999 FEW040 39/06 Q1009 HDAM 010100Z 16005KT CAVOK 30/26 Q1007 FTTD 301500Z 00000KT 9999 FEW040TCU FEW050CB 33/23 Q1009 YBHI 010430Z AUTO 33013KT 9999 // NCD 20/03 Q1009 KZPH 010455Z AUTO 00000KT 5SM HZ CLR A3003 RMK AO2 LTG DSNT SW MGZA 010000Z 00000KT 9999 FEW020 OVC200 29/22 QFE 986.8 SEMC 302300Z 02004KT 9999 SCT030 SCT100 24/20 Q1012 FTTJ 010400Z 02003KT CAVOK 24/18 Q1009 NOSIG YBHM 010430Z AUTO 10011KT 9999 // NCD 25/20 Q1013 LRFT 301500Z VRB03KT 9999 SKC 25/10 Q1020 BLU BLU MHPL 010000Z 36002KT 9999 SCT028TCU 29/25 Q1009 TCU ALL HZ GMAT 301800Z 01011KT CAVOK 21/17 Q1014 NOSIG YARG 010430Z AUTO 30013G23KT 9999 // SCT120 39/09 Q1008 LRIA 010430Z 09007KT CAVOK 13/10 Q1017 BGGH 010350Z AUTO 07002KT 9999NDV -SHSN BKN015/// BKN044/// M00/M01 Q1003 SELT 010400Z 27002KT 9999 BKN030 SCT100 12/12 Q1031 YARM 010430Z AUTO 29021KT 9999 // SCT038 14/05 Q1011 FVBU 010400Z 03009KT CAVOK 19/10 Q1018 NOSIG RODN 010448Z AUTO 08013KT 10SM FEW022 BKN029 BKN038 BKN048 29/28 A2993 RMK AO2 CIG 029V034 YCBA 010430Z AUTO 28013KT 9999 // SCT057 20/06 Q1011 YCBB 010430Z AUTO 29015KT //// // ////// 16/06 Q1011 LQSA 010430Z VRB01KT 9999 5000NW FEW005 05/05 Q1021 NOSIG WSSL 010439Z 22010KT 4000 SHRA FEW012 SCT015TCU 28/24 Q1011 RMK 0430Z Q1012 SEMT 010400Z 23007KT 9999 SCT020 23/21 Q1014 SENL 302300Z 05005KT 9999 TS VCSH SCT016CB 30/24 Q1007 YBKE 010430Z AUTO 31009KT //// // ////// 22/04 Q1011 MHSC 010358Z AUTO 05006KT 9999 BKN065 23/23 A3005 RMK AO2 SLP136 T02320232 $ MHRO 010200Z 00000KT 9999 FEW024CB 26/24 Q1013 A2992 NOSIG YCAR 010430Z AUTO 25011KT 9999 // NCD 21/15 Q1013 YCAS 010430Z AUTO 29010KT //// // ////// 27/02 Q1008 WSSS 010430Z 24006G16KT 190V310 7000 -SHRA FEW013 FEW016TCU FEW018CB SCT020 27/23 Q1012 TEMPO TL0500 4000 -TSRA FVCZ 300900Z 00000KT 9999 SCT035 26/18 Q1022 FVFA 301500Z 08010KT 9000 FEW070 34/02 Q1013 NOSIG MHTE 010000Z 04006KT 9999 BKN028CB BKN080 31/26 Q1010 CB E SW TCU ALL HZ YCBP 010430Z AUTO 36018G28KT 9999 // NCD 31/M09 Q1004 MHTG 010400Z 24004KT 9999 SCT028 SCT250 22/18 Q1020 A3012 NOSIG GMFF 010400Z 18006KT CAVOK 17/08 Q1015 NOSIG YBMA 010430Z AUTO 29005KT 260V330 9999 // NCD 33/02 Q1012 YBKT 010430Z AUTO 04013KT //// // ////// 35/02 Q1009 MHSR 010000Z 32004KT 9999 SCT025CB SCT100 22/20 CB E SE W NW TYCU ALL HZ GMFK 010400Z 22002KT CAVOK 17/16 Q1018 NOSIG GMFM 010400Z 16005KT 8000 NSC 20/10 Q1014 NOSIG BGJN 010350Z AUTO 00000KT 9999NDV FEW110/// OVC150/// M02/M05 Q1000 GMFO 010400Z 30004KT 9999 FEW030 15/11 Q1014 NOSIG YBNA 010430Z AUTO 03014KT 9999 // NCD 23/08 Q1009 YBLT 010430Z AUTO 31015KT 9999 // SCT021 OVC034 OVC040 12/08 Q1005 MHTR 010000Z 00000KT 9999 FEW024TCU 28/24 TCU WSW W HZ YBMK 010430Z AUTO 09011KT 9999 // NCD 27/15 Q1012 SERB 302300Z 00000kt 9999 bkn040 bkn100 13/10 q1026 FVHA 010400Z 06010KT CAVOK 16/08 Q1020 NOSIG SEQM 010400Z 00000KT 6000 -DZ BCFG FEW003 SCT020 OVC080 12/11 Q1029 TEMPO 4000 RMK A3039 YCDO 010430Z AUTO 29011KT //// // ////// 18/08 Q1010 BGKK 010350Z AUTO 36008KT 9999NDV -RA BKN034/// 01/M03 Q1000 YCCY 010430Z AUTO 13008KT 080V140 //// // ////// 32/M02 Q1011 ROIG 010400Z 11010KT 9999 FEW015 SCT/// 30/25 Q1012 LQTZ 010430Z VRB02KT 1500 BR BKN002 07/07 Q1018 SESA 010300Z 22006KT 9999 BKN010 BKN015 22/19 Q1014 YCDU 010433Z AUTO 35020G30KT 9999 // NCD 32/M01 Q0997 YCEM 010430Z AUTO 35007KT //// // ////// 14/12 Q1004 SESD 302300Z 20003KT 9999 SCT030 BKN130 25/22 Q1010 GLRB 010130Z 00000KT 9999 BKN014 25/24 Q1012 NOSIG SERO 010200Z VRB02KT 9999 -RA SCT033 OVC100 25/21 Q1013 YBNS 010430Z AUTO 27011KT 9999 // SCT038 BKN059 BKN070 15/12 Q1001 YBOK 010430Z AUTO 29014KT 9999 // NCD 22/03 Q1013 YCFL 010430Z AUTO 09009KT //// // ////// 29/21 Q1011 SESM 302300Z 33006KT 9999 TS FEW015CB BKN026 21/19 Q1012 RMK A2990 YAYE 010400Z AUTO 34017G27KT 9999 // BKN100 32/M08 Q1007 LROD 010430Z 10005KT CAVOK 12/10 Q1017 YCFS 010430Z AUTO 05014KT 9999 // NCD 21/10 Q1008 SGAS 010400Z 00000KT 9999 SCT010 16/15 Q1015 SEST 010000Z 16012KT 9999 FEW020 SCT030 22/19 Q1011 A2986 HEBA 010200Z 00000KT CAVOK 19/18 Q1014 NOSIG FVKB 010400Z 00000KT CAVOK 25/12 Q1012 NOSIG YBPN 010430Z AUTO 06009KT 9999 // SCT077 30/20 Q1012 LSGC 010420Z AUTO VRB03KT CAVOK 12/06 Q1014 SETN 302300Z 21008KT 9999 SCT023 BKN100 25/22 Q1010 A2983 LROP 010430Z 03003KT 6000 NSC 11/11 Q1017 NOSIG LSGG 010420Z VRB03KT 9999 FEW090 BKN180 16/11 Q1013 NOSIG YCHK 010430Z AUTO 30012KT 250V320 9999 // SCT055 BKN074 28/12 Q1009 HEAR 010200Z 00000KT CAVOK 16/14 Q1013 NOSIG SETU 302300Z 00000KT 4000 -RA FEW006 OVC020 10/10 Q1029 RETS HECA 010430Z 02005KT 2000 BR SCT025 22/19 Q1013 NOSIG HEAT 010300Z 02012KT CAVOK 20/16 Q1011 NOSIG HEAX 010300Z 02008KT 9999 SCT020 24/18 Q1013 NOSIG MHYR 010000Z 02004KT 9999 SCT025TCU 27/20 TCU ALL HZ YBRK 010430Z AUTO 26008KT 9999 // NCD 29/01 Q1012 YBRL 010430Z AUTO 36012KT 350V070 //// // ////// 36/16 Q1008 LSGS 301720Z VRB03KT CAVOK 20/08 Q1015 YBRM 010430Z AUTO 19009KT 9999 // OVC120 25/18 Q1010 YCIN 010430Z AUTO 19005KT 150V230 //// // BKN110 31/10 Q1009 GMMB 010400Z AUTO 18006KT //// R32/P2000N NCD 18/17 Q1014 NOSIG FWCL 010400Z 14011KT 4000 HZ NSC 22/16 Q1017 NOSIG GMMC 302000Z 28008KT 9999 OVC016 20/19 Q1012 NOSIG YBSG 010430Z AUTO 09006KT 060V140 //// // ////// 35/16 Q1008 GMMD 302000Z 18004KT CAVOK 24/06 Q1015 NOSIG GMME 010430Z 21004KT 5000 SCT009 17/16 Q1013 NOSIG HEDF 301200Z 02012KT CAVOK 31/14 Q1013 GMMH 302100Z 02012KT 6000 SKC 20/18 Q1015 NOSIG GMMI 010400Z AUTO 17002KT 9999NDV NCD 15/14 Q1012 NOSIG LRSB 010430Z 11003KT CAVOK 09/08 Q1018 NOSIG LTAC 010420Z VRB02KT CAVOK 07/04 Q1023 NOSIG SGEN 302100Z 11003KT 9999 SCT027 BKN070 16/12 Q1014 KZZV 010353Z AUTO 10007KT 10SM FEW008 BKN050 OVC065 16/14 A3004 RMK AO2 RAE35 SLP170 P0002 T01560144 GMML 010400Z 03005KT 8000 NSC 18/18 Q1014 NOSIG YBRY 010430Z AUTO 30014KT 9999 // NCD 27/09 Q1010 YBTH 010430Z AUTO 29015KT 9999 // SCT030 SCT036 OVC052 11/07 Q1010 ROMY 010400Z 07009KT 9999 FEW020 29/24 Q1012 LTAF 010420Z VRB01KT CAVOK 15/10 Q1015 NOSIG GMMN 010430Z 23005KT CAVOK 17/16 Q1014 NOSIG LTAG 010420Z 01013KT CAVOK 21/01 Q1014 NOSIG SGES 010400Z 00000KT 7000 FEW027 16/16 Q1015 LTAI 010420Z 06005KT 020V080 CAVOK 18/06 Q1014 NOSIG YBSU 010430Z AUTO 29010KT 9999 // NCD 28/01 Q1010 YBTL 010430Z AUTO 06009KT 360V070 9999 // SCT031 30/20 Q1011 LTAJ 010420Z 01009KT 240V030 CAVOK 12/01 Q1017 NOSIG LTBA 010420Z 05007KT 010V120 CAVOK 20/15 Q1017 NOSIG YBUD 010430Z AUTO 01013KT 9999 // NCD 26/08 Q1011 YCKN 010430Z AUTO 07010KT 9999 // SCT115 29/21 Q1011 GMMT 301700Z 12008KT 9999 FEW017 23/20 Q1018 NOSIG LRTC 010430Z AUTO 09002KT 0350 R34/0375V0550N FG FEW001/// BKN003/// 13/13 Q1019 LTAL 301350Z 32004KT 9999 SCT025 BKN070 17/07 Q1025 LRSM 010430Z 10002KT CAVOK 10/10 Q1017 LTBD 010350Z 08005KT CAVOK 13/08 Q1015 FVMV 010300Z 34002KT CAVOK 17/09 Q1016 LTAN 010350Z 32006KT CAVOK 10/02 Q1022 NOSIG LTBF 010350Z 25001KT CAVOK 10/08 Q1018 NOSIG GMMW 010400Z VRB01KT 6000 FEW010 13/11 Q1014 NOSIG GMMX 010430Z 07003KT CAVOK 19/09 Q1014 NOSIG LTAP 010420Z 33002KT 9999 FEW040 07/05 Q1022 NOSIG BGSF 010350Z AUTO 06007KT 9999NDV -RA FEW023/// SCT027/// OVC035/// 01/M01 Q1001 LTBH 010350Z 05005KT 020V080 CAVOK 14/11 Q1017 LTAR 010350Z 12004KT CAVOK 00/M01 Q1024 GMMZ 010400Z VRB01KT CAVOK 18/13 Q1017 NOSIG LTAS 301430Z 26006KT CAVOK 21/12 Q1021 RMK RWY18 33006KT 290V360 LTCA 010350Z 25006KT CAVOK 06/M01 Q1022 NOSIG LTBJ 010420Z VRB01KT CAVOK 12/08 Q1015 NOSIG LTCB 010350Z VRB02KT CAVOK 13/10 Q1022 LTAT 010420Z 16003KT 120V220 CAVOK 08/01 Q1022 NOSIG LTBL 301112Z 27010KT CAVOK 27/09 Q1019 NOSIG RMK RWY17 33007KT 290V010 LTAU 010420Z 04004KT 360V060 CAVOK 05/03 Q1023 NOSIG LTCC 010420Z 35008KT CAVOK 16/00 Q1017 NOSIG LRSV 010430Z 32008KT CAVOK 15/11 Q1017 LRTM 010430Z 08004KT 8000 FEW003 09/08 Q1018 LTCD 010350Z 12001KT 9999 SCT040 00/M01 Q1025 NOSIG YDBY 010430Z AUTO 15005KT //// // ////// 32/11 Q1009 LTAW 301250Z 06008KT 9999 BKN035 18/08 Q1023 LTCE 010420Z VRB02KT 9999 FEW035 M01/M02 Q1027 NOSIG BIBD 301644Z 22003KT 9999 BKN060 07/// Q1001 LTBO 301350Z 11005KT 080V180 CAVOK 27/M04 Q1020 LTCF 010350Z 30005KT CAVOK M02/M03 Q1027 LTAY 010350Z 07002KT CAVOK 07/01 Q1019 LTCG 010420Z 21006G16KT 180V240 9999 FEW035 17/09 Q1023 NOSIG LTAZ 010420Z 25004KT 210V330 CAVOK 06/02 Q1023 LTBQ 010350Z 00000KT 4000 BR FEW012 06/06 Q1018 BECMG 8000 LRTR 010430Z 10005KT 6000 NSC 10/08 Q1017 LTCI 010350Z VRB02KT CAVOK 09/M01 Q1023 NOSIG LTBR 010420Z 00000KT 5000 BR NSC 07/07 Q1018 BECMG TL0600 9999 NSW LSMA 010350Z AUTO VRB02KT 9999NDV FEW240 10/09 Q1013 RMK LTDA 010350Z 26002KT CAVOK 13/11 Q1016 LTBS 010420Z 04005KT CAVOK 13/09 Q1013 NOSIG LTCJ 010420Z 25004KT 220V290 CAVOK 12/01 Q1017 YCMM 010430Z AUTO 01015KT //// // ////// 21/09 Q1000 BIAR 010400Z 00000KT 9000 BR SCT002 03/03 Q1001 LTCK 010350Z VRB05KT 9999 FEW040 11/00 Q1023 LTCL 010350Z VRB01KT CAVOK 14/03 Q1017 LTBU 010420Z 01004KT CAVOK 14/13 Q1018 LSMD 010350Z AUTO 12005KT 9999NDV FEW100 13/09 Q1013 RMK LTCM 010350Z 13015KT 9999 FEW035 18/13 Q1020 LSME 010350Z AUTO 00000KT 9999NDV NCD 11/10 Q1013 RMK BGTL 010358Z AUTO 08007G17KT 040V110 9999 CLR M04/M14 A2964 RMK AO2 SLP024 T10431143 410231115 LTCN 010350Z 09007KT CAVOK 12/01 Q1018 HEGN 010300Z 33008KT CAVOK 23/12 Q1009 NOSIG LTCO 010350Z 36004KT CAVOK 02/M01 Q1028 LTCP 301250Z 33019KT 9999 FEW040 25/02 Q1015 LTBY 010350Z 00000KT CAVOK 05/04 Q1021 LTBZ 010350Z VRB02KT CAVOK 04/01 Q1021 LRTZ 010400Z 15002KT 1500 BR SKC 15/14 Q1018 AMB YLO YCMT 010430Z AUTO 26007KT 230V330 //// // ////// 29/M04 Q1013 YCNK 010430Z AUTO 29012KT //// // ////// 20/05 Q1007 LTCR 010350Z 36017G29KT CAVOK 20/01 Q1014 LTCS 010320Z 02014KT CAVOK 14/M00 Q1018 YCNM 010430Z AUTO 29013KT //// // ////// 20/09 Q1011 LTCT 010350Z 26004KT 240V320 CAVOK 11/02 Q1025 YCOE 010430Z AUTO 05011KT //// // ////// 33/19 Q1010 LTCU 010350Z 34007KT CAVOK 10/00 Q1023 LSMM 010350Z AUTO VRB01KT 9999NDV NCD 09/08 Q1014 RMK LTCV 301850Z VRB04KT 9999 FEW040 21/01 Q1012 YBWP 010430Z AUTO 07006KT 9999 // SCT066 36/18 Q1008 LTCW 010350Z 01005KT 9999 SCT035 07/01 Q1026 LSMP 010350Z AUTO 00000KT 7000NDV SCT180 12/10 Q1013 RMK RORS 010400Z 11009KT 9999 FEW021 32/25 Q1012 LSMS 010350Z AUTO 00000KT ////NDV ////// 10/07 Q1015 RMK MIS YCOM 010430Z AUTO 27017G28KT 9999 // BKN039 OVC046 OVC055 13/05 Q1004 YBWW 010430Z AUTO 28017KT 9999 // NCD 22/02 Q1012 LTFC 010420Z 00000KT CAVOK 07/02 Q1020 YBWX 010430Z AUTO 22016KT //// // ////// 22/12 Q1011 LTFD 010350Z 03006KT CAVOK 16/09 Q1016 YCNY 010430Z AUTO 01009KT //// // ////// 36/01 Q1010 LTFE 010420Z 12003KT CAVOK 11/09 Q1014 NOSIG LTFG 010350Z 13004KT CAVOK 14/11 Q1014 LTFH 010350Z 08004KT 9999 FEW033 10/09 Q1022 NOSIG BIEG 010400Z 02007KT 9999 -RA FEW003 BKN026 OVC047 04/03 Q1003 RPLB 010400Z 23006KT 9999 FEW020 SCT300 31/23 Q1009 NOSIG RMK A2980 LTFJ 010420Z 06005KT CAVOK 16/13 Q1017 NOSIG HEIS 301500Z 36012KT CAVOK 29/18 Q1013 RPLC 010400Z 22002KT 9999 SCT020 BKN300 31/25 Q1011 NOSIG RMK A2985 LTFK 301250Z VRB08KT CAVOK 26/12 Q1019 GMTA 010400Z 00000KT 2600 NSC 19/19 Q1014 NOSIG ROTM 010358Z 09009KT 9999 BKN020 31/26 A2996 RMK SLP130 T03060261 RPLI 010400Z 27004KT 9999 FEW019 31/23 Q1009 NOSIG RMK A2980 FWKI 301400Z 10009KT 9999 FEW033 28/11 Q1017 NOSIG RPLL 010400Z 26008KT 240V310 9999 FEW025 SCT300 31/24 Q1010 NOSIG RMK A2983 RPMD 010400Z 16008KT 9999 SCT016 BKN290 31/25 Q1009 RMK A2980 GMTN 010400Z 10003KT 0900 FG BKN006 20/18 Q1013 NOSIG HEMA 010300Z 32012KT CAVOK 26/14 Q1007 NOSIG GMTT 010430Z 28005KT 0200 FG OVC006 17/15 Q1014 NOSIG RPMR 010400Z 12006KT 9999 SCT018 OVC080 32/26 Q1009 NOSIG RMK A2980 HEMM 010300Z 01013KT CAVOK 23/17 Q1015 NOSIG HELX 010300Z 00000KT CAVOK 23/15 Q1008 NOSIG RPMZ 010400Z 18002KT 9999 FEW017 BKN100 31/26 Q1011 RMK A2985 BIHN 301900Z 03005KT 9999 VCSH FEW015 SCT038 BKN044 06/// Q1004 FVWN 301500Z 08005KT CAVOK 33/09 Q1015 MKJP 010400Z 25004KT 9999 FEW024 30/22 Q1010 MKJS 010400Z 07003KT 9999 FEW022CB 28/24 Q1011 BIIS 301800Z VRB05KT 9999 FEW030 BKN060 06/01 Q1001 LUBL 010430Z AUTO 11003KT 9999 NCD 14/11 Q1017 LUBM 300800Z VRB02KT CAVOK 23/12 Q1020 YDLQ 010430Z AUTO 30011KT //// // ////// 15/08 Q1008 YCWA 010430Z AUTO 25011KT 9999 // SCT068 26/07 Q1010 GOGG 010400Z VRB02KT 9999 FEW023CB BKN130 24/23 Q1011 BIKF 010430Z 16003KT 9999 VCSH FEW016CB SCT030 04/03 Q1001 GOGK 010000Z VRB02KT 8000 BKN130 25/24 Q1013 HEPS 010300Z 03010KT CAVOK 24/21 Q1013 NOSIG GOGS 010300Z VRB02KT 9999 FEW015 SCT130 25/24 Q1010 YCWR 010430Z AUTO 29009KT //// // ////// 14/09 Q1009 HESC 010300Z 00000KT CAVOK 17/04 Q1019 NOSIG HESG 010300Z 32008KT CAVOK 23/11 Q1009 NOSIG HESH 010300Z 36016KT CAVOK 26/17 Q1007 NOSIG YDPO 010430Z AUTO 31021KT 9999 // SCT032 SCT056 SCT100 14/11 Q0995 HESN 010300Z 02003KT CAVOK 22/12 Q1008 NOSIG LSZA 010420Z VRB02KT 9999 SCT050 BKN100 15/14 Q1017 NOSIG LSZB 010420Z 14002KT CAVOK 09/08 Q1013 NOSIG RPVD 010300Z 07006KT 9999 FEW015 BKN250 31/25 Q1009 RMK A2980 LSZC 010420Z AUTO 26004KT 250V310 9999 NCD 11/10 Q1013 LSZG 010420Z AUTO 00000KT 0450 -RA BCFG BKN/// 09/09 Q1013 LSZH 010420Z 16003KT CAVOK 11/10 Q1013 NOSIG HETR 010300Z 30020KT CAVOK 25/18 Q1008 RPVM 010400Z 17007KT 9999 FEW018CB SCT300 32/25 Q1010 NOSIG RMK A2983 CB W AND OHD LSZL 010350Z AUTO 00000KT 7000NDV FEW022 SCT070 BKN086 16/15 Q1016 RMK RPVP 010400Z 13006KT 9999 VCSH FEW017CB FEW019 SCT080 31/25 Q1010 RMK A2983 CB SW AND NNW VCSH SW LSZR 010420Z AUTO VRB01KT CAVOK 11/10 Q1013 LSZS 010420Z AUTO 13004KT 070V190 9999 FEW023 BKN032 BKN060 07/06 Q1019 MMAA 010343Z 00000KT 7SM SCT080 BKN300 27/26 A2993 RMK 8/032 HZY FXMM 301500Z 27005KT 9999 SCT090 21/M07 Q1022 NOSIG YELD 010430Z AUTO 36011KT //// // ////// 31/24 Q1009 CAHR 010400Z AUTO 24005KT 09/05 RMK AO1 SLP301 T00870053 58006 BIRK 010400Z 12004KT 9999 FEW020 OVC030 05/01 Q1001 MMAN 010440Z 34004KT 8SM SCT040 BKN080 23/16 A3013 RMK 8/530 GOOD 010000Z 00000KT 8000 NSC 28/26 Q1012 YFBS 010430Z AUTO 28010KT //// // ////// 17/10 Q1010 GOOG 010000Z 00000KT 8000 NSC 29/27 Q//// MMAS 010342Z 26003KT 10SM SCT040CB BKN200 18/13 A3035 RMK 8/303 LTGICCG 4 QUAD MMCB 302346Z 00000KT 8SM SCT020CB SCT100 BKN250 25/16 A3009 RMK 8/963 DSNT RA N/NE LUKK 010430Z 18006KT 3300 BR BKN003 14/14 Q1018 R08/CLRD// NOSIG FYGB 010400Z AUTO 18001KT //// // ////// 15/M11 Q1021 GOOK 010000Z 00000KT 9999 TS FEW030CB BKN230 29/26 Q1013 YFDF 010430Z AUTO 28011KT 9999 // OVC069 27/13 Q1009 MMCE 010143Z 01007KT 7SM SCT020CB 29/23 A2995 RMK 8/300 MSGTX MMMD CBBC 010400Z AUTO 32002KT 9SM OVC016 10/09 A2993 RMK SLP137 FYGF 010400Z 20002KT CAVOK 19/M09 Q1018 YEML 010430Z AUTO 32006KT 9999 // NCD 29/00 Q1013 MMBT 010050Z 00000KT 7SM SCT030 BKN200 25/22 A2994 RMK 8/401 HZY MMCL 010340Z 00000KT 10SM FEW250 28/24 A2992 RMK 8/004 ISOL CU MMCM 010241Z 00000KT 7SM SCT020 BKN100 23/22 A2999 RMK 8/520 MMCN 010041Z 23009KT 10SM FEW030 SCT200 30/22 A2985 RMK 8/403 CB N NE NW HZY MMCP 010140Z 10007KT 7SM SCT030 27/24 A2995 RMK 8/500 GOOY 010430Z 02007KT CAVOK 28/25 Q1011 NOSIG MMCS 010342Z 20004KT 10SM SKC 20/19 A3010 MMCT 302042Z 00000KT 8SM BKN020TCU 32/24 A2991 RMK 8/200 MSGTX MMMD MMCU 010342Z 00000KT 9SM -RA BKN030CB OVC070 17/17 A3024 RMK 60555 8/36/ CU LWR E MMCV 010140Z 32005KT 10SM SKC 24/18 A3005 RMK ISOL AC MMDO 010242Z 16004KT 8SM SCT020CB BKN080 17/16 A3029 RMK SLP144 52014 971 8/360 MMCZ 010345Z E00000KT 7SM FEW015 SCT250 25/22 A2998 RMK 8/508 BIVM 301800Z 30009KT 9999 FEW015 07/06 Q1001 MMEP 010253Z 00000KT 10SM SCT035 SCT120 20/20 A3009 RMK SLP180 52015 967 8/530 GOSM 010000Z 00000KT CAVOK 30/26 Q1012 GOSP 010000Z 28002KT CAVOK 30/23 Q1012 GOSS 010000Z 36004KT CAVOK 28/26 Q1012 MMGL 010346Z 00000KT 8SM SCT030 BKN090 21/18 A3022 RMK 8/570 GOTK 302100Z 10006KT 9999 TS FEW015 FEW030CB SCT130 28/23 Q1012 MMGM 010141Z 23006KT 10SM FEW020 30/26 A2983 RMK 8/300 FYKM 010400Z 00000KT CAVOK 23/09 Q1013 MMIA 010040Z 00000KT 8SM SCT020 BKN180 26/23 A2997 RMK 6//// 8/207 HZY VA N YERN 010430Z AUTO 32012KT //// // ////// 28/M04 Q1008 FYKT 010400Z AUTO 26004KT //// // ////// 13/M00 Q1019 GOTT 302000Z 08004KT 9999 TS FEW026CB BKN230 29/27 Q1011 MMHO 010350Z 22006KT 10SM SKC 29/20 A2995 RMK ISOL CU HZY NCRG 010400Z 33008KT 9999 -DZ SCT016 BKN100 25/22 Q1012 FYML 010400Z AUTO 21003KT //// // ////// 14/M13 Q1021 YESP 010400Z AUTO 29020KT 9999 // BKN057 OVC070 11/09 Q0995 MMIO 010340Z 00000KT 8SM SCT040 BKN200 15/10 A3028 RMK 8/508 HZY YGBI 010430Z AUTO 07006KT //// // ////// 32/21 Q1010 FYLZ 010400Z AUTO 20017KT //// // ////// 13/07 Q1013 FYOA 301300Z 33002KT CAVOK 38/02 Q1012 YFLI 010430Z AUTO 28021KT 9999 // SCT024 OVC031 16/11 Q0997 MNBL 302300Z 10004KT 7000 TS SCT016CB 29/25 Q1010 CBRA/E/SE/S/SW YGDH 010430Z AUTO 31010KT //// // ////// 19/07 Q1011 FYOO 010400Z AUTO 18003KT //// // ////// 19/M07 Q//// MNCH 302300Z 19004KT 9999 FEW024CB SCT300 30/24 Q1009 CB/N/NW MMMA 010141Z 04005KT 8SM BKN200 25/20 A3002 RMK 8/008 MMLM 010242Z 30008KT 10SM BKN220 28/23 A2992 RMK SLP132 8/004 DSNT CB NE MMMD 010348Z 19006KT 7SM FEW008 SCT020 BKN090 25/22 A3001 RMK 8/570 MMLO 010348Z 04008KT 8SM SCT030 SCT080 BKN200 18/13 A3036 RMK 8/463 FYOW 010400Z AUTO 13001KT //// // ////// 17/M03 Q1015 MMLP 010344Z 00000KT 10SM FEW030 SCT200 28/22 A2996 RMK 8/406 YGEL 010430Z AUTO 26019KT 9999 // NCD 21/10 Q1011 MMLT 010040Z 00000KT 8SM SCT220 30/24 A2985 RMK 8/005 MMML 010346Z 20007KT 10SM SKC 31/11 A2986 RMK SC SW MMMM 010343Z 00000KT 7SM SCT030 SCT080 15/14 A3029 RMK 8/530 MMMT 010150Z 00000KT 10SM BKN080 27/20 A2992 RMK 8/050 MMNL 010140Z 00000KT 10SM SCT200 24/17 A3006 RMK 8/002 YGFN 010430Z AUTO 27009KT 250V310 9999 // NCD 26/01 Q1007 MMMV 302240Z 04006KT 6SM BKN050 24/17 A3010 RMK 8/600 HZY SKBG 010400Z 31003KT 2000 BCFG BKN004 21/21 A2999 RMK AD OPER IMC MMMX 010346Z 21004KT 10SM SCT020 BKN080 17/12 A3042 NOSIG RMK 8/460 CI HZY LWR SC FYRN 010400Z 00000KT CAVOK 20/04 Q1013 MMMY 010347Z 00000KT 12SM BKN040 OVC070 23/17 A3008 RMK 8/57/ SKAR 010400Z 00000KT 9999 SCT020 SCT090 18/18 A3014 MMMZ 010349Z 00000KT 10SM FEW100 SCT230 28/25 A2990 RMK 8/072 HZY RTS MMPA 010140Z 00000KT 6SM BKN300 26/24 A3006 RMK 8/008 HZY SKCC 010400Z 19015KT 9999 FEW020 SCT090 29/20 A2977 MMPB 010144Z 01006KT 9SM SCT020 BKN080 14/12 A3039 RMK 8/570 HZY FYRU 010400Z AUTO 14001KT //// // ////// 19/02 Q1015 MMPE 301457Z RTD 11005KT 10SM SKC 27/23 A2997 SKBO 010435Z VRB02KT T6000 -DZ BKN017 13/11 A3032 SKCG 010400Z 35006KT 9999 SCT015TCU BKN200 29/25 A2979 RMK TCU/SE MMPG 302340Z 00000KT 10SM SCT200 28/14 A3010 RMK 8/001 SKBQ 010300Z 31004KT 9999 SCT015 28/25 A2979 SKCL 010400Z VRB02KT 8000 SCT010 BKN090 20/20 A3007 RMK BR MMPN 302348Z 00000KT 7SM FEW020CB SCT260 21/16 A3017 RMK SLP/// 5//// 9// 6//// 8/903 HZY MMOX 010145Z 31005KT 7SM BKN030 BKN100 OVC200 21/13 A3023 RMK 8/463 MMPQ 302343Z 00000KT 6SM BKN030 31/26 A2990 RMK 8/400 HZY MSGTX MMMD MMPR 010348Z 00000KT 12SM BKN020 OVC070 28/25 A2994 RMK 8/57/ BINOVC MMPS 302345Z 29008KT 4SM -RA BKN010CB BKN070 OVC120 28/25 A2997 RMK SLP/// 5//// 9// 60015 8/96/ YHBA 010430Z AUTO 36011KT 9999 // NCD 25/10 Q1011 SKEJ 010100Z 35006KT 9999 -DZ BKN015TCU 27/26 A2973 RMK TCU W/E YFRT 010430Z AUTO 31022G32KT //// // ////// 28/02 Q0998 BKPR 010430Z VRB01KT 1500 BR SCT006 05/03 Q1020 TEMPO 0600 MMQT 010445Z 08004KT 10SM SCT120 14/13 A3041 RMK 8/030 FYWB 010400Z AUTO 02007KT //// // ////// 11/10 Q1013 MMSD 010340Z 30003KT 12SM SCT150 BKN200 27/22 A2997 RMK 8/038 FYWE 010400Z 36011KT CAVOK 18/M14 Q1021 MNJG 302300Z 36006KT 9999 SCT020 25/18 Q1011 YGLA 010430Z AUTO 03012KT 9999 // NCD 26/11 Q1012 FYWH 010400Z AUTO 19007KT //// // ////// 13/M14 Q1022 TAPA 010400Z 09010KT 9999 FEW017 27/23 Q1011 TEMPO SHRA GQNI 301800Z 22006KT 9999 BKN040TCU 38/16 Q1010 MMSL 010141Z 05004KT 7SM FEW140 BKN220 28/24 A2998 RMK 8/038 ISOL CU MMTC 010340Z 00000KT 10SM BKN030 BKN080 24/19 A3014 RMK 8/460 HZY CB VC YHAY 010430Z AUTO 31012KT //// // ////// 17/09 Q1008 MMRX 010340Z 04003KT 8SM FEW260 22/17 A3006 RMK 8/002 HZY YGLI 010430Z AUTO 28018KT 9999 // SCT039 14/06 Q1012 MMTG 010352Z 29005KT 8SM SCT025 SCT080 BKN300 23/21 A3003 RMK 8/463 GQNO 010430Z 34006KT 6000 NSC 26/23 Q1010 NOSIG MMSP 010346Z 15008KT 8SM SCT015 SCT020 BKN080 17/12 A3034 RMK 8/530 MMTJ 010351Z 24003KT 7SM SKC 20/14 A3000 RMK HZY GQPA 301800Z 28005KT 230V320 8000 VCBLDU NSC 39/15 Q1013 MNJU 302300Z 09004KT 9999 TS SCT020CB SCT080 30/24 Q1011 CB/N/NE/SE/NW MMTM 010340Z 31008KT 7SM BKN070 BKN200 26/24 A3005 RMK 8/078 YFTZ 010430Z AUTO 23008KT //// // ////// 32/12 Q1009 FYWW 010400Z 08007KT CAVOK 17/M12 Q1020 MMTO 010346Z 13003KT 5SM SCT015 BKN070 BKN200 13/10 A3048 RMK 8/432 HZY MMTP 010341Z 36007KT 10SM SCT040 BKN100 OVC200 24/22 A2992 RMK 8/797 FQT LTGIC SKIB 010300Z 31006KT 9999 BKN020 FEW030CB OVC080 25/20 A3000 RMK VCSH/CB/N MMVA 010350Z 15013KT 5SM RA SCT015 BKN070 23/22 A3005 RMK 8/460 RAB35 FQT LTGICCC 2-3 QUADS/ OCNL G19KT MMUN 010347Z 32005KT 7SM SCT015 SCT300 24/24 A3000 RMK 8/508 K04V 010437Z AUTO 34009KT 10SM CLR 11/03 A3033 RMK AO2 K06D 010435Z AUTO 17008G15KT 10SM 14/09 A3013 RMK AO2 K04W 010433Z AUTO 07004KT 10SM OVC008 12/11 A3025 RMK AO2 MNMG 010400Z 16004KT 9999 FEW020 BKN300 26/22 Q1012 A2989 NOSIG GQPP 010400Z 36012KT 7000 NSC 20/18 Q1012 NOSIG K05U 010435Z AUTO 00000KT 10SM CLR 14/03 A3011 RMK A01 SKIP 302300Z 26005KT 8000 RA SCT012 BKN070 09/09 A3035 RETS GQPZ 301800Z 30008KT 260V340 9999 FEW050 37/07 Q1013 MMVR 010347Z 36006KT 7SM FEW012TCU 26/25 A3002 RMK 8/200 HZY SLAL 302300Z 01015KT 9999 FEW017 16/06 Q1026 K08D 010435Z AUTO 14009KT 10SM CLR 13/12 A3004 RMK AO2 LWOH 010430Z 33003KT CAVOK 05/03 Q1021 SLCA 302300Z 00000KT 9999 FEW036 BKN070 32/19 Q1009 SLCB 010400Z 13006KT 9999 FEW033 FEW035CB SCT200 17/05 Q1024 SKLC 010300Z 15008KT 8000 RA SCT003 BKN090 26/25 A2986 RETSRA LXGB 010350Z AUTO 08005KT 7000 // BKN011/// 20/19 Q1014 MNPC 302300Z 01004KT 7000 SCT016 BKN300 30/26 Q1010 HZ NFFN 010400Z 20012KT 9999 SCT030 31/21 Q1011 NOSIG YHID 010430Z AUTO 10014KT 9999 -RA SCT016 30/23 Q1010 SKMD 302300Z 36007KT 9999 VCSH SCT030 SCT035CB SCT200 22/17 A3004 RMK CB/NE/SW/N VCSH NE MMZC 010340Z 00000KT 10SM BKN050 15/12 A3036 RMK 8/100 SLCO 302300Z 03003KT 3000 FU FEW080 BKN200 29/23 Q1006 SLCP 302200Z 33008KT 5000 FU SCT020 BKN200 28/23 Q1009 MMZH 010145Z 00000KT 7SM SCT250 29/23 A2988 RMK 8/001 HZY SKLT 010400Z 00000KT CAVOK 26/25 A2980 MMZO 010046Z 18005KT 10SM BKN210 30/25 A2983 RMK 8/006 HZY SKMR 010200Z 290008KT 9999 FEW018 BKN100 28/25 A2977 K11R 010435Z AUTO 00000KT 10SM CLR 16/14 A3011 RMK AO2 T01630140 YGTE 010430Z AUTO 15003KT 9999 // BKN033 OVC044 33/24 Q1009 K12N 010354Z AUTO 05005KT 12/12 A3026 RMK AO1 SLP248 T01220117 YGTH 010430Z AUTO 29015KT 9999 // SCT043 OVC052 16/08 Q1009 SKMZ 302300Z 13004KT 9999 SCT020 BKN090 18/15 A3023 YHLC 010430Z AUTO 18002KT //// // ////// 35/02 Q1010 MNRS 302300Z 09004KT 9999 SCT012CB SCT016 30/24 Q1009 CB 4/C SLET 302300Z 33007KT 8000 NSC 30/22 Q1005 TBPB 010400Z 10011KT 9000 SCT018 28/24 Q1010 NOSIG SKPC 302300Z 11005KT 9999 TS FEW020CB SCT080 30/25 A2960 RMK CB/N LWSK 010430Z 03002KT CAVOK 07/06 Q1020 NOSIG YGTN 010430Z AUTO 20008KT 9999 // NCD 35/M04 Q1011 SKNV 010300Z VRB02KT 9999 FEW025 28/21 A2980 SKPE 010400Z 12006KT 7000 -DZ BKN012 SCT070 19/17 A3013 RERA RMK AD OPR IMC LYBE 010430Z 20004KT 4000 BR NSC 12/11 Q1018 NOSIG MPBO 010200Z 02006KT 9999 SCT015 BKN080 Q1013 SKPS 302300Z 33004KT 4000 RA BCFG OVC010 17/16 A3012 RMK AD BLW MNM MET YHML 010430Z AUTO 31013KT 9999 // OVC036 13/07 Q1005 MPDA 010300Z 00000KT 9000 DZ SCT015 OVC090 Q1013 RWY WET LYBT 010430Z 19001KT 3000 MIFG BR NSC 11/11 Q1017 NOSIG SKPV 302300Z 00000KT 9999 FEW017 OVC200 29/26 A//// SKRG 010400Z 17004KT 4000 RA BKN010CB BKN070 14/14 A3030 RMK CB SW SKRH 010000Z 32010G20KT 9999 SCT016 OVC070 28/26 A2970 K14Y 010433Z AUTO 00000KT 10SM CLR 10/08 A3023 RMK AO2 NFNA 010400Z 14009KT 110V180 9999 BKN018 BKN047 26/22 Q1013 K0A9 010435Z AUTO 00000KT 5SM BR SCT046 11/10 A3008 RMK AO2 SLJE 302200Z 00000KT 8000 NSC 31/21 Q1009 YIFL 010430Z AUTO 04012KT //// // NCD 29/23 Q1011 K18A 010435Z AUTO 00000KT 10SM CLR 12/09 A3006 RMK AO2 T01180090 SKSM 010400Z 04006KT 9999 FEW020 BKN070 28/24 A2977 YHOO 010430Z AUTO 30008KT //// // ////// 32/14 Q1009 SLJO 302200Z 36010KT 3000 -TSRA BKN015 FEW023CB OVC070 25/25 Q1010 SKSP 010400Z VRB02KT 9999 TS SCT012CB SCT080 25/24 A2989 RMK CB/S YHOT 010430Z AUTO 31015KT 9999 // ////// 08/04 Q1004 SKUC 010100Z 00000KT 9999 SCT015 BKN200 27/26 A2976 TDCF 010000Z 18003KT 9999 FEW022 27/22 Q1009 SKUI 010100Z 15005KT 7000 -TSRA BKN015 FEW018CB OVC070 24/23 A2985 RMK CB/NE NGFU 010400Z 09006KT 9999 SCT020TCU 31/25 Q1008 K0E0 010435Z AUTO 00000KT 10SM CLR 12/04 A3024 RMK AO2 T01160036 K21D 010433Z AUTO 03004KT 10SM OVC049 14/12 A3022 RMK AO2 SLMG 302300Z 18006KT 8000 VCSH FEW020 FEW023CB OVC200 25/23 Q1008 SLLP 010400Z VRB02KT 9999 FEW015 SCT080 07/01 Q1037 YJAB 010430Z AUTO 28005KT //// // ////// 35/21 Q1008 K20U 010435Z AUTO 16004KT 8SM CLR 11/09 A3002 RMK AO2 K20V 010437Z AUTO 00000KT 5SM BR CLR 05/03 A3036 RMK AO2 K0F2 010435Z AUTO 00000KT 10SM CLR 15/13 A3012 RMK AO2 T01470127 SKVP 010200Z 25008KT 9999 FEW020 BKN080 26/23 A2981 K0CO 010445Z AUTO 36012G17KT 10SM CLR 00/M05 A3058 RMK AO2 YHSM 010430Z AUTO 31014KT 9999 // OVC037 14/08 Q1006 SKVV 302300Z 00000KT 9999 FEW023 SCT200 27/22 A2974 K22N 010435Z AUTO 00000KT 10SM 12/11 A3025 RMK AO2 HKEL 010400Z 00000KT 9999 FEW017 SCT240 12/11 YHUG 010430Z AUTO 14002KT //// // ////// 31/M04 Q1012 NFTF 010400Z 14003KT 9999 FEW017 SCT280 25/19 Q1015 SLOR 302100Z 22009KT 9999 FEW020 20/M01 Q1031 K24J 010435Z AUTO 00000KT 17/17 A3007 RMK AO1 NFTL 010400Z 16006KT 9999 FEW010 SCT017 26/21 Q1013 SLPO 302100Z 060102KT 9999 FEW020 17/M01 Q1032 SLPS 302300Z 09004KT 6000 NSC 32/19 Q1006 SLRB 302300Z 36006KT 8000 FEW025CB 27/24 Q1009 NFTV 010400Z 17006KT 9999 SCT017 26/23 Q1013 LYKV 010430Z 00000KT 6000 NSC 08/07 Q1018 NOSIG MPMG 010300Z 27003KT 9000 DZ SCT018 SCT080 25/24 Q1012 RWY WET NOSIG K0J4 010358Z AUTO 00000KT 10SM CLR 14/12 A3009 RMK AO2 SLP188 T01440122 SLRI 302300Z 36008KT 5000 FU FEW020 FEW023CB BKN200 30/23 Q1006 K1A5 010425Z AUTO 00000KT 7SM CLR 08/07 A3011 RMK AO2 T00780071 SLSA 302300Z 09010KT 6000 TS VCSH SCT020 FEW023CB BKN200 26/23 Q1006 K1A6 010435Z AUTO 00000KT 10SM SCT004 10/10 A3009 RMK AO2 T00960096 K1A9 010435Z AUTO 00000KT 10SM CLR 12/10 A3003 RMK AO2 T01210099 SLRQ 302200Z 00000KT 9999 NSC 32/27 Q1004 SLSI 302300Z 00000KT 9999 SCT020 BKN200 26/24 Q1008 LYNI 010430Z 11002KT CAVOK 09/06 Q1019 K1B7 302127Z 09005KT 10SM SKC 26/16 A3004 RMK LAST SLRY 302200Z 00000KT 9999 NSC 33/24 Q1005 SMJP 010400Z 14001KT CAVOK 24/23 Q1010 NOSIG SLTJ 010300Z 00000KT 9999 BKN036 19/13 Q1022 MPPA 010300Z 29005KT 9999 FEW020 SCT100 22/21 Q1012 K28J 010435Z AUTO 27006KT 10SM FEW030 BKN041 23/23 A3002 RMK AO2 TSNO HKJK 010400Z 03002KT 9999 FEW015 15/13 Q1021 K1AM 010358Z AUTO 14005G12KT 10SM BKN140 BKN160 16/08 A3001 RMK AO2 LTG DSNT SW SLP100 T01580075 $ K1AN 010356Z AUTO 12007KT 10SM BKN120 14/09 A3004 RMK AO2 SLP195 T01410088 $ LYPG 010430Z VRB02KT 9999 SCT090 14/11 Q1019 NOSIG SLTR 302300Z 03008KT 8000 FEW020 FEW023CB SCT200 27/23 Q1005 HKKI 010400Z 06006KT 9999 FEW018CB BKN260 19/17 Q1016 K1BM 010358Z AUTO 22010KT 10SM BKN140 17/08 A3002 RMK AO2 LTG DSNT SW SLP149 T01660080 $ K1BN 010356Z AUTO 15009KT 10SM CLR 14/08 A3007 RMK AO2 SLP189 T01430077 PWINO $ K1AW 010358Z AUTO 18004KT 10SM CLR 11/07 A3018 RMK AO2 SLP181 T01130065 $ ZBAA 010430Z VRB02MPS 3500 HZ NSC 23/13 Q1014 NOSIG LZIB 010430Z 05005KT 9999 MIFG NSC 11/10 Q1014 NOSIG SLVM 302000Z 18004KT 9999 NSC 36/18 Q1004 K1F0 010435Z AUTO 00000KT 10SM CLR 13/10 A3011 RMK AO2 K1CM 010358Z AUTO 19002KT 10SM CLR 12/09 A3005 RMK AO2 LTG DSNT SW SLP161 T01230085 $ K1CN 010356Z AUTO 14012KT 10SM CLR 14/07 A3007 RMK AO2 SLP189 T01400074 $ K1BW 010358Z AUTO M 10SM CLR 12/07 A3019 RMK AO2 SLP177 T01200067 $ SLVR 010400Z 34006KT 7000 FEW015 BKN200 26/21 Q1010 HKML 010400Z 18005KT 9999 SCT020 25/21 Q1013 K1DM 010358Z AUTO 21012KT 10SM BKN150 15/10 A2997 RMK AO2 LTG DSNT SW SLP152 T01490098 $ K1DN 010356Z AUTO 14013KT M M CLR 13/08 A3005 RMK AO2 SLP184 T01330075 PWINO $ K1CW 010358Z AUTO 18016KT 10SM CLR 15/07 A3017 RMK AO2 SLP182 T01530073 $ HKMO 010400Z 26011KT 9999 -SHRA BKN018 22/21 Q1014 NOSIG GUCY 010300Z 00000KT 9999 FEW015 BKN110 26/25 Q1011 NOSIG SLYA 302300Z 00000KT 9999 NSC 30/20 Q1010 YJLC 010430Z AUTO 20005KT 150V250 //// // ////// 32/M06 Q1011 NGTA 010400Z 10011KT 9999 SCT018TCU BKN300 30/24 Q1007 TDPD 010000Z 27004KT 9999 SCT018 25/24 Q1011 MPSM 010300Z 30004KT 270V330 9999 SCT020 OVC060 24/23 Q1012 K1EM 010358Z AUTO M 10SM FEW190 14/09 A3000 RMK AO2 LTG DSNT SW SLP154 T01370093 $ K1H2 010435Z AUTO 00000KT 7SM RA SCT007 BKN049 OVC080 16/16 A3001 RMK AO2 T01630163 CERM 010400Z AUTO 00000KT 03/02 RMK AO1 SLP317 T00270019 58001 K1EN 010356Z AUTO 11007KT M M FEW140 12/09 A3002 RMK AO2 SLP180 T01180088 PWINO $ K33V 010435Z AUTO 12005KT 10SM 03/02 A3036 RMK AO2 K1FM 010358Z AUTO 15005KT 10SM FEW110 BKN140 17/05 A3000 RMK AO2 LTG DSNT NE SLP148 T01670047 $ HKNW 010400Z 00000KT 9999 BKN016 15/13 Q1020 MPTO 010400Z 28005KT 9999 SCT018CB SCT090 25/24 Q1011 NOSIG K1FN 010356Z AUTO 14008KT 10SM CLR 12/09 A2995 RMK AO2 SLP184 T01220085 $ K1EW 010358Z AUTO 17012KT 10SM CLR 13/07 A3018 RMK AO2 SLP185 T01260067 $ K0R4 010435Z AUTO 00000KT 10SM CLR 16/13 A3011 RMK AO2 T01550129 NGTT 010400Z 12008KT 9999 FEW020 BKN300 30/24 Q1007 K2A0 010435Z AUTO 00000KT 10SM CLR 12/10 A3006 RMK A01 K1J0 010358Z AUTO 00000KT 10SM CLR 16/14 A3008 RMK AO2 SLP143 T01560144 YIVO 010430Z AUTO 32013KT //// // ////// 21/09 Q1009 LYTV 010430Z VRB01KT CAVOK 12/12 Q1019 K1GM 010358Z AUTO 18006KT 10SM BKN140 BKN170 17/05 A2998 RMK AO2 SLP131 T01660045 $ K1GN 010356Z AUTO 14011KT 10SM SCT120 BKN150 13/09 A3001 RMK AO2 SLP178 T01290091 $ LZKZ 010430Z 36003KT 9999 MIFG NSC 10/09 Q1016 NOSIG K0S9 010435Z AUTO 00000KT 10SM FEW045 FEW050 06/05 A2997 RMK AO2 K1K1 010435Z AUTO 00000KT 5SM BR CLR 14/11 A3013 RMK AO2 T01350110 K1HM 010358Z AUTO 10005KT 10SM FEW160 SCT180 16/06 A2996 RMK AO2 LTG DSNT SE SLP132 T01550060 $ K1HN 010356Z AUTO 12008KT 10SM FEW130 13/09 A3002 RMK AO2 SLP177 T01330093 $ K1GW 010358Z AUTO 15008KT 10SM BKN160 13/08 A3015 RMK AO2 SLP192 T01330079 $ LYUZ 010430Z AUTO 26002KT //// // ////// 10/06 Q1019 LYVR 010430Z 19001KT CAVOK 08/07 Q1017 NOSIG K1L0 010435Z AUTO 00000KT 10SM CLR 18/17 A3008 RMK AO2 T01800170 GVAC 010400Z 04008KT 9999 SCT014 25/22 Q1013 NOSIG K36U 010435Z AUTO 00000KT 10SM CLR 10/05 A3018 RMK AO2 K1IM 010358Z AUTO 28008G11KT 10SM VCTS SCT140 BKN170 15/09 A2997 RMK AO2 SLP143 T01490090 $ K1IN 010356Z AUTO 14013KT 10SM BKN170 12/09 A3002 RMK AO2 SLP176 T01210092 $ K1HW 010358Z AUTO 17010KT 10SM BKN160 15/08 A3015 RMK AO2 SLP194 T01480080 $ SOCA 010430Z AUTO VRB03KT CAVOK 25/23 Q1010 GVBA 301900Z 04010KT 9999 FEW014 SCT200 28/23 Q1014 NOSIG K2C8 010435Z AUTO 15006KT 10SM CLR 14/10 A3017 RMK AO2 K40B 010416Z AUTO 00000KT 03/03 A3044 RMK AO1 SLP315 T00330029 58006 K1JM 010358Z AUTO 14005KT 10SM BKN160 15/06 A2996 RMK AO2 LTG DSNT N AND S SLP142 T01460064 $ ZBHH 010400Z 24003MPS CAVOK 21/12 Q1017 NOSIG K1JN 010356Z AUTO M 10SM FEW120 BKN160 12/09 A3003 RMK AO2 SLP178 T01210091 $ K1IW 010358Z AUTO 15010KT 10SM SCT120 BKN150 15/07 A3015 RMK AO2 SLP191 T01460074 $ K1M4 010356Z AUTO 00000KT 10SM FEW060 14/11 A3010 RMK AO2 SLP210 T01390111 K0V4 010435Z AUTO 00000KT 10SM OVC007 19/18 A3005 RMK AO1 T01860180 K1M5 010435Z AUTO 18004KT 4SM BR SCT055 SCT065 BKN090 14/13 A3003 RMK A01 K40J 010435Z AUTO 00000KT 7SM CLR 16/15 A3006 RMK AO2 LTG DSNT S T01550145 K1KM 010358Z AUTO 05009KT 10SM SCT170 17/09 A3005 RMK AO2 LTG DSNT W SLP149 T01740094 $ K1KN 010356Z AUTO 16016KT 10SM FEW150 SCT170 14/09 A3002 RMK AO2 SLP173 T01360091 $ K1JW 010358Z AUTO 14009KT 10SM BKN130 14/08 A3016 RMK AO2 SLP191 T01430075 $ YKII 010430Z AUTO 27018KT 9999 // SCT015 SCT027 14/11 Q1001 LZPP 010430Z 02005KT 5000 BR NSC 11/10 Q1015 HLLM 010350Z 14003KT 6000 BKN080 24/19 Q1014 K1LM 010358Z AUTO 22007G12KT 10SM FEW160 14/08 A3006 RMK AO2 LTG DSNT W SLP163 T01370084 $ K1LN 010356Z AUTO 14006KT 10SM SCT100 BKN110 13/11 A3004 RMK AO2 SLP178 T01270106 $ K1KW 010358Z AUTO 18010KT 10SM BKN140 12/08 A3014 RMK AO2 SLP185 T01150082 $ K0VG 010430Z AUTO 00000KT 10SM CLR 09/08 A3010 RMK AO2 K2F5 010435Z AUTO 14008KT 10SM CLR 18/11 A3014 RMK AO2 YLBD 010430Z AUTO 32007KT 9999 // NCD 31/12 Q1009 K42J 010435Z AUTO 31004KT 10SM 22/17 A3003 RMK AO1 TSNO MSAC 302250Z 27003KT 9999 FEW033 FEW037CB 31/27 Q1010 A2983 K1P1 010435Z AUTO 00000KT 10SM OVC110 08/07 A3040 RMK AO2 T00820072 K1MM 010358Z AUTO 19004KT 10SM CLR 12/07 A3003 RMK AO2 LTG DSNT SW SLP156 T01220065 $ TFFF 010430Z AUTO VRB02KT 9999 FEW024 25/24 Q1010 K1MN 010356Z AUTO 15013KT M M FEW150 13/10 A3002 RMK AO2 SLP174 T01290095 PWINO $ K1LW 010358Z AUTO M 10SM CLR 14/08 A3020 RMK AO2 SLP189 T01390077 $ K2G4 010445Z AUTO 11016G23KT 3/4SM BR OVC001 10/10 A3013 RMK AO1 K2DP 010441Z AUTO 17007KT 10SM BKN014 25/22 A3006 RMK AO2 BKN V FEW $ K2G9 010435Z AUTO 10005KT 5SM -RA OVC005 11/11 A3016 RMK AO2 LZSL 010430Z 00000KT 0150 R36/0325N FG OVC001 08/08 Q1017 K1NM 010358Z AUTO 24004KT 10SM CLR 13/09 A3000 RMK AO2 LTG DSNT SW SLP151 T01290085 $ K1NN 010356Z AUTO 15014G18KT M M FEW120 BKN160 14/09 A3003 RMK AO2 SLP174 T01350094 PWINO $ K1MW 010358Z AUTO 15003KT 10SM FEW130 13/07 A3016 RMK AO2 SLP195 T01300067 $ TFFR 010430Z AUTO 02004KT 9999 FEW062/// BKN074/// OVC140/// ///TCU 25/23 Q1011 MRLB 010400Z 08007KT CAVOK 24/20 A2991 NOSIG K2I0 010435Z AUTO 00000KT 5SM BR OVC080 15/15 A3001 RMK AO2 T01480148 K1OM 010358Z AUTO M 10SM CLR 18/10 A3000 RMK AO2 LTG DSNT SW SLP136 T01820104 $ K1ON 010356Z AUTO 14012KT 10SM FEW130 BKN150 14/09 A3004 RMK AO2 SLP182 T01420091 PWINO $ K1NW 010358Z AUTO 16010KT 10SM CLR 13/07 A3016 RMK AO2 SLP190 T01340066 TSNO $ YLEC 010430Z AUTO 34017KT //// // ////// 25/01 Q1007 K1R7 010435Z AUTO 00000KT 10SM CLR A3009 RMK AO2 LZTT 010430Z 27005KT 9999 4000NE BCFG NSC 06/06 Q1017 NOSIG MRLM 302000Z 05018KT 7000 DZ VCSH FEW020 BKN110 26/25 A2985 YKMP 010430Z AUTO 25014KT //// // ////// 25/03 Q1007 SMZO 010000Z 02004KT 9999 FEW015 27/25 Q1009 NOSIG K46D 010435Z AUTO 14011KT 10SM CLR 14/10 A3015 RMK AO2 K1OW 010358Z AUTO M 10SM FEW120 13/06 A3019 RMK AO2 SLP183 T01260061 PWINO $ K1S5 010435Z AUTO 27006KT 10SM OVC100 16/00 A2988 RMK AO2 T01600002 K2J9 010415Z AUTO 15/14 A3008 RMK AO1 YKNT 010430Z AUTO 33016KT //// // ////// 31/08 Q1008 MROC 010400Z 00000KT CAVOK 21/16 A3008 NOSIG K46U 010420Z AUTO 00000KT 10SM CLR 09/08 A3021 RMK A01 AYMO 010400Z 18010KT 9999 FEW018 BKN300 30/24 Q1008 K49A 010435Z AUTO 00000KT 10SM CLR A3012 RMK AO2 YKOW 010430Z AUTO 15008KT 9999 // OVC097 37/10 Q1008 K3D2 010435Z AUTO 10006KT 10SM SCT022 SCT085 BKN110 16/13 A3020 RMK AO2 T01600126 K1V4 010354Z AUTO 09/07 A3040 RMK AO1 SLP293 T00890072 YLHI 010430Z AUTO 28013KT 9999 // SCT045 BKN053 21/11 Q1009 K1V6 010430Z AUTO 27008KT 10SM SCT110 15/13 A3023 RMK AO2 SPCL 010400Z VRB02KT 9999 FEW015 29/25 Q1008 RMK PP000 K3AU 010435Z AUTO 07003KT 7SM CLR 13/12 A3013 RMK AO2 YLHR 010430Z AUTO 10010KT //// // NCD 29/21 Q1010 LZZI 010430Z VRB02KT 0200 R06/0500N FG OVC001 09/08 Q1016 YKSC 010430Z AUTO 01012KT 9999 // NCD 17/11 Q1003 AYNZ 010400Z 08026KT 9999 -DZ SCT018 SCT035CB BKN140 28/22 Q1009 RMK MRPV 010000Z 08014KT 9999 FEW040 BKN080 21/15 A3001 NOSIG K3F3 010435Z AUTO 00000KT 10SM CLR 16/14 A3012 RMK AO2 T01570136 PWINO YMBA 010430Z AUTO 02008KT //// // ////// 27/19 Q1013 YLIS 010430Z AUTO 31016KT 9999 // NCD 26/05 Q1008 ZBSJ 010400Z 26001MPS 2200 HZ NSC 22/12 Q1014 BECMG 3000 OAHR 010355Z VRB02KT 8000 CAVOK 17/13 Q1017 RMK BLU YMBD 010430Z AUTO 33010KT 9999 // NCD 18/07 Q1006 YKRY 010430Z AUTO 31014KT 9999 // NCD 23/02 Q1013 K2P2 010435Z AUTO 10007G14KT 10SM BKN022 OVC110 17/13 A3021 RMK AO2 T01660125 ZBTJ 010430Z 24003MPS 210V270 4500 HZ NSC 24/09 Q1015 NOSIG AYPY 010400Z 24006KT 9999 SCT020 BKN280 30/25 Q1008 YMAV 010430Z AUTO 29016KT 9999 // SCT032 SCT040 OVC047 16/10 Q1004 OAKB 010350Z 19002KT 3500 HZ NSC 23/12 Q1022 BECMG 5000 RMK YLO WHT YLLE 010430Z AUTO 30004KT 9999 // NCD 25/M03 Q1011 YMAY 010430Z AUTO 30011KT 9999 // SCT022 BKN032 OVC038 13/09 Q1007 GVNP 010400Z 04011KT 9999 SCT013 26/24 Q1013 NOSIG OBBI 010400Z 30013KT 5000 DU SKC 29/20 Q1006 NOSIG K54J 010435Z AUTO 00000KT 10SM CLR 16/13 A3008 RMK AO2 T01640133 SPGM 302100Z /////KT 9999 FEW040 33/20 Q1006 RMK TX/// BIRD HAZARD RWY19 PP000 YMCO 010430Z AUTO 26008KT //// // ////// 18/09 Q1001 NIUE 010400Z AUTO 13011KT //// // ///////// 26/23 Q1012 YMDG 010430Z AUTO 29017KT //// // BKN035 BKN046 BKN057 16/09 Q1010 MTCH 302100Z 05018KT 7000 SCT022CB BKN060 30/23 Q1011 A2986 SPHI 010400Z 18012KT CAVOK 19/17 Q1015 RMK BIRD HAZARD RWY 19/01 PP000 SPHO 302300Z 31008KT 280V350 9999 FEW050 23/11 Q1020 RMK PP000 MSLP 010350Z 36006KT 9999 FEW027 FEW037CB BKN078 26/24 Q1013 A2991 RMK NOSIG CB LTGIC TO N/NE YMEK 010430Z AUTO 24016KT 9999 // SCT043 20/07 Q1010 K4A6 010435Z AUTO 06003KT 10SM CLR 11/10 A3009 RMK AO2 K3J7 010435Z AUTO 00000KT 10SM CLR 15/11 A3004 RMK AO2 K4A7 010435Z AUTO 00000KT 10SM CLR 11/11 A3009 RMK AO2 T01140114 SPJC 010400Z 16013KT 9999 SCT014 18/15 Q1015 NOSIG RMK PP000 MSLU 302250Z 16003KT CAVOK 35/24 Q1007 A2975 YMEN 010430Z AUTO 28015KT 9999 // SCT043 SCT054 18/09 Q1003 K1YT 010358Z AUTO 21008G15KT 10SM OVC075 19/M02 A2987 RMK AO2 RAB15E18SHRAB18E36 SLPNO T01871019 $ K4A9 010435Z AUTO 00000KT 10SM CLR 10/08 A3008 RMK AO2 K57C 010435Z AUTO 06003KT 10SM BKN006 OVC011 15/15 A3008 RMK AO2 T01490145 SPHY 301900Z /////KT 9999 SCT012TCU SCT070 14/07 Q1036 RMK BIRD HAZARD RWY03/21 PP000 K3K3 010435Z AUTO 09008KT 10SM CLR 14/09 A3012 RMK AO2 YMER 010430Z AUTO 07005KT 040V100 //// // SCT013 SCT035 BKN044 16/12 Q1001 YMES 010430Z AUTO 27021KT 9999 // SCT067 SCT077 17/10 Q1001 SPJI 302100Z 00000KT 9999 FEW040 35/22 Q1012 RMK TX35.8 PP000 YMGB 010430Z AUTO 35008KT //// // ////// 32/22 Q1009 OAMS 010350Z 23016KT 9999 BKN055 OVC110 20/06 Q1019 BLU+ BLU+ YMGD 010430Z AUTO 35011KT 9999 // NCD 32/21 Q1009 SPJL 010300Z 28004KT CAVOK 10/M01 Q1037 RMK PP000 SPJR 302300Z 11004KT 9999 FEW050 16/08 Q1027 RMK PP000 YMHB 010430Z 34008KT 9999 SCT037 17/09 Q0991 ZBYN 010430Z 24001MPS 3000 HZ NSC 22/12 Q1016 NOSIG K2V5 010455Z AUTO 10004KT 10SM CLR 12/07 A3015 RMK AO2 YMIA 010430Z AUTO 32007KT 9999 // NCD 18/07 Q1007 K2V6 010434Z AUTO 13004KT 10SM SCT120 12/00 A3015 RMK AO2 YLRE 010430Z AUTO 06006KT 010V130 9999 // NCD 25/05 Q1014 SPME 010300Z VRB01KT 9999 BKN027 23/20 Q1013 RMK BIRD HAZARD RWY 32/14 PP000 SPLO 302100Z 17006KT 9999 OVC030 19/15 Q1012 RMK TX 21.5 PP000 GVSV 010400Z 06014KT 9000 FEW015 26/23 Q1013 NOSIG K4BM 010437Z AUTO 22006KT 1/4SM FG BKN001 OVC027 03/03 A3055 RMK AO2 K3LF 010435Z AUTO 32007KT 7SM BKN007 OVC012 16/15 A3002 RMK AO2 T01580145 K2W6 010446Z AUTO 07003KT 5SM OVC003 18/18 A3012 RMK AO1 YMHU 010430Z AUTO 02007G19KT 9999 // SCT072 36/22 Q1008 K3N8 010435Z AUTO 13004KT 10SM CLR 12/08 A3021 RMK AO2 T01210080 YMIN 010430Z AUTO 35016KT //// // ////// 19/08 Q1003 SPMS 302300Z 00000KT 9999 FEW015 SCT100 33/22 Q1006 RMK BIRD HAZARD RWY 09/27 PP000 MSSA 010050Z 31006KT 9999 SCT033 FEW037CB 25/19 Q1017 A3003 YNAR 010430Z AUTO 30012KT //// // ////// 16/09 Q1009 MSSM 010050Z 00000KT 9999 FEW040CB 28/26 Q1010 A2983 DAAD 301800Z 12006KT 9999 FEW030 SCT200 23/15 Q1016 YNBR 010430Z AUTO 28011KT //// // BKN059 20/06 Q1012 DAAE 010400Z 27004KT CAVOK 20/17 Q1013 YMMB 010430Z AUTO 29012KT 9999 // OVC047 16/09 Q1003 DAAG 010430Z 25003KT 9999 FEW026 SCT100 18/15 Q1014 MSSS 010350Z 07014KT 1000 +TSRA SCT023 BKN033CB 21/20 Q1017 A3005 DAAJ 010400Z 16008KT 8000 NSC 22/09 Q1020 MUCC 010350Z 08010KT 9000 FEW020 27/24 Q1015 DABB 010430Z 00000KT 9999 FEW023 SCT100 22/19 Q1012 DABC 010430Z 17003KT 9999 FEW026 BKN200 19/14 Q1017 K4I3 010439Z AUTO 13005KT 10SM OVC004 15/15 A3006 RMK AO2 LTG DSNT NW P0001 MUCF 010358Z AUTO 06007KT 25/24 Q1015 K2WX 010356Z AUTO 10007KT 16/08 A2995 RMK AO1 SLP131 T01610078 DAAP 010400Z 21008KT 6000 NSC 26/08 Q1015 YMLT 010430Z AUTO 34019KT 9999 // SCT018 BKN025 BKN032 14/10 Q0994 YMML 010430Z 27012KT 9999 BKN040 SCT055 17/07 Q1004 FM0600 31014KT 9999 SCT050 K4I7 010435Z AUTO 12004KT 4SM BR BKN095 12/12 A3002 RMK AO2 K3R7 010435Z AUTO 00000KT 10SM CLR 18/14 A3008 RMK AO2 T01780138 MUCL 010405Z AUTO 04013KT 29/24 Q1015 DAAS 010400Z 14002KT 9999 SCT030 SCT100 16/14 Q1019 DAAT 010430Z 03005KT 8000 NSC 19/01 Q1022 MUCM 010352Z 06006KT 9000 NSC 25/22 Q1015 YMNG 010430Z AUTO 31013KT 9999 // SCT031 OVC040 14/09 Q1006 TGPY 010400Z 09008KT 9999 FEW018 28/24 Q1009 NOSIG DAAV 010400Z 18006KT 9999 FEW030 23/16 Q1013 DAAY 010000Z 24010KT 8000 BKN030TCU 15/15 Q1021 K5A6 010435Z AUTO 00000KT 7SM CLR 12/12 A3008 RMK AO2 T01220116 SPQT 010400Z 00000KT CAVOK 25/24 Q1008 NOSIG RMK PP000 K65S 010435Z AUTO 00000KT 10SM CLR 13/10 A2989 RMK AO2 SPQU 010400Z 05004KT 360V110 CAVOK 12/01 Q1026 RMK PP000 DABS 010430Z 00000KT 9999 SCT033 SCT230 19/16 Q1019 MUCU 010350Z 02011KT 9000 FEW020 27/20 Q1012 DABT 010400Z 15006KT 9999 SCT026 16/10 Q1019 YMOG 010430Z AUTO 25021KT //// // ////// 22/05 Q1009 K3T5 010435Z AUTO 00000KT 10SM CLR 17/16 A3007 RMK AO2 T01700157 K66R 010435Z AUTO 00000KT 10SM CLR 16/14 A3010 RMK AO2 T01600141 SPRU 010400Z 11007KT 7000 BKN160 18/16 Q1014 RMK BR PP000 K5C1 010435Z AUTO 00000KT 10SM CLR 13/11 A3014 RMK AO1 SPSO 010400Z 22012KT CAVOK 17/15 Q1015 RMK PP000 YMOR 010430Z AUTO 31008KT 260V330 9999 // SCT060 21/06 Q1012 DAEF 301800Z 16014KT 9999 SCT040 33/05 Q1016 SPST 010300Z 36003KT 9999 FEW025 27/23 Q1009 RMK BIRD HAZARD RWY 17/35 PP000 SPTN 010400Z 19003KT 150V240 9999 BKN027 14/12 Q1017 RMK PP000 DAEN 301800Z 22030KT 1000 +TSRA FEW030CB BKN033 25/14 Q1021 YMRB 010430Z AUTO 28009KT 9999 // NCD 30/M03 Q1013 YNGU 010430Z AUTO 02005KT 350V100 //// // ////// 37/16 Q1008 YNHL 010430Z AUTO 30013KT //// // ////// 15/06 Q1006 DAFH 301800Z 16008KT 9999 SCT030 SCT100 19/17 Q1018 MUHA 010355Z 02004KT 8000 FEW035 OVC120 24/21 Q1017 SPTU 010400Z /////KT CAVOK 26/24 Q1008 RMK BIRD HAZARD RWY 01/19 PP000 K4M9 010435Z AUTO 32003KT 10SM 15/15 A3008 RMK AO2 PWINO PNO MUGM 010356Z 35011KT 9999 FEW030 SCT280 28/22 A2989 RMK SLP121 T02800217 MTPP 010000Z 08015KT 9000 FEW026 BKN060 30/21 Q1008 A2978 MUHG 010350Z 06005KT 8000 SKC 26/23 Q1014 K4O4 010435Z AUTO 00000KT 10SM CLR 13/11 A3009 RMK AO2 YMRY 010430Z AUTO 30013KT 9999 // NCD 22/06 Q1001 YMTG 010430Z AUTO 33012KT 9999 // OVC031 13/07 Q1004 YMTI 010430Z AUTO 31011KT //// // ////// 31/17 Q1010 K4MR 010358Z AUTO M 10SM CLR M M RMK AO2 SLPNO $ K5H4 010435Z AUTO 13007KT 10SM BKN120 14/09 A3012 RMK AO2 PWINO PNO SPZA 302130Z 22011KT CAVOK 25/13 Q1012 SPYL 302100Z 20013KT CAVOK 24/18 Q1011 RMK TX 27.2 BIRD HAZARD RWY 17/35 PP000 DBBB 010400Z 28002KT 8000 FEW011 BKN040 25/24 Q1009 NOSIG K6A1 010435Z AUTO 25004KT 10SM 17/11 A3008 RMK AO2 T01650111 K74V 010435Z AUTO 26004KT 10SM CLR 11/09 A3022 RMK AO2 K6A2 010435Z AUTO 00000KT 10SM CLR 13/12 A3008 RMK AO2 SPZO 010400Z 00000KT 9999 NSC 10/03 Q1031 RMK PP000 UAAA 010430Z 35002MPS 9999 SCT050CB OVC100 14/10 Q1019 R88/CLRD65 NOSIG K6B0 010435Z AUTO 14005KT 10SM CLR 14/00 A3037 RMK AO2 T01421001 UAAH 010430Z 27003MPS CAVOK 14/05 Q1019 R23/0///60 NOSIG RMK QFE726/0968 YMYB 010430Z AUTO 30010KT 9999 // NCD 28/04 Q1011 K6B9 010435Z AUTO 09007KT 10SM BKN007 OVC015 11/11 A3027 RMK AO2 UACC 010430Z 27004MPS 9999 BKN007 OVC026CB 08/07 Q1014 R22/2/0350 NOSIG RMK QFE729/0972 K4V0 010435Z AUTO 00000KT 10SM CLR 11/09 A3021 RMK AO2 T01110088 DAOB 010400Z 00000KT 9999 FEW026 14/11 Q1018 TJBQ 010350Z 10007KT 10SM SKC 25/23 A2988 RMK RWY 08 - ATIS OTS DAOF 010400Z 00000KT CAVOK 31/07 Q1013 YNRC 010430Z AUTO 30014KT //// // ////// 14/08 Q1005 UACK 010430Z 03002MPS 350V050 9999 -SHRA SCT024 OVC026CB 04/02 Q1015 R02/290260 NOSIG RMK QFE737/0983 DAOI 010400Z 06004KT 9999 SCT026 21/14 Q1014 K79J 010356Z AUTO 00000KT 10SM CLR 17/14 A3007 RMK AO2 SLP180 T01670139 $ UADD 010430Z 00000MPS 9999 NSC 14/07 Q1018 R13/0///65 NOSIG RMK QFE707/0943 K5M9 010435Z AUTO 27006KT 10SM OVC004 15/15 A3000 RMK AO2 T01510151 DAOL 302200Z 07006KT 9999 FEW023 22/21 Q1016 UACP 010430Z 01004MPS 340V050 9999 FEW030 SCT200 04/M01 Q1016 NOSIG RMK QFE750/1000 DAON 010430Z 00000KT CAVOK 15/11 Q1014 DAOO 010430Z 00000KT 2000 BR FEW023 17/16 Q1014 YPAD 010430Z 34015KT 9999 FEW036 SCT220 18/07 Q1005 NOSIG DAOR 010400Z 00000KT CAVOK 17/14 Q1017 K82C 010435Z AUTO 00000KT 5SM -RA OVC008 14/14 A3016 RMK AO2 T01400135 DAOV 010400Z 00000KT 9999 FEW030 14/12 Q1016 DAOY 010400Z 00000KT CAVOK 11/10 Q1019 OEAB 010400Z 00000KT CAVOK 17/03 Q1023 NOSIG MUSC 010352Z 06003KT 9000 FEW025 25/22 Q1016 OEAH 010400Z 32010KT 5000 DU SKC 25/M04 Q1009 NOSIG YPCC 010430Z AUTO 13015KT 9999 // SCT026 28/21 Q1013 OEBA 010400Z 00000KT CAVOK 21/05 Q1019 NOSIG YOLD 010430Z AUTO 35017KT 9999 // NCD 28/M03 Q1005 YNTN 010430Z AUTO 19008KT 9999 // NCD 38/M02 Q1009 YPBO 010430Z AUTO 22009KT 9999 // NCD 25/06 Q1010 K82V 010435Z AUTO 19007KT 10SM CLR 10/06 A3018 RMK AO2 OEAO 302100Z 36010KT CAVOK 30/M02 Q1012 OEBH 010400Z 00000KT CAVOK 22/00 Q1016 NOSIG OEAR 010400Z 00000KT CAVOK 29/20 Q1007 MWCB 302100Z 10013KT 9999 FEW020 32/24 Q1011 K6I2 010425Z AUTO 17006KT 6SM BR OVC008 14/13 A3003 RMK AO2 YPEA 010433Z AUTO 26022G34KT 6000 SHRA SCT033 BKN045 OVC059 12/09 Q1006 YPED 010430Z AUTO 34013KT 9999 // SCT044 19/09 Q1005 K5R8 010435Z AUTO 00000KT 10SM CLR 15/15 A3009 RMK AO2 T01520146 YOLW 010430Z AUTO 22013KT //// // ////// 26/10 Q1011 YPDN 010430Z 31011KT 9999 FEW040TCU 33/23 Q1009 NOSIG DAUA 010400Z 33010KT 8000 NSC 21/11 Q1012 DAUB 010400Z 10006KT 9999 SCT040 22/18 Q1015 TJIG 302250Z 11006KT 8SM SCT025 BKN060 27/24 A2988 DATM 301200Z 17014KT 6000 FEW046 40/15 Q1014 OEDF 010400Z 29011KT CAVOK 23/00 Q1007 NOSIG DAUE 010300Z 00000KT CAVOK 17/14 Q1013 UAII 010430Z 03003MPS 360V080 CAVOK 19/03 Q1019 R28/0///70 NOSIG RMK QFE727/0969 MWCR 010300Z 05011KT 9999 FEW018 30/26 Q1013 NOSIG DAUG 010400Z 02008KT 9999 SCT040 18/18 Q1015 DAUH 010430Z 00000KT 8000 BKN033 23/16 Q1013 YOOD 010430Z AUTO 35011KT //// // ////// 32/M03 Q1005 DAUI 010400Z 00000KT 5000 NSC 24/14 Q1012 YNWN 010430Z AUTO 23011KT 9999 // NCD 29/02 Q1009 OEDM 301800Z 04010KT CAVOK 29/M01 Q1014 DAUK 010400Z 00000KT 8000 BKN040 21/17 Q1014 DAUL 010400Z 00000KT 9999 SCT030 16/15 Q1017 DAUO 010400Z 04004KT 9999 SCT030 23/18 Q1015 OEDR 010400Z 30009KT 5000 DU SKC 24/01 Q1005 NOSIG MUVR 010353Z VRB02KT 9000 FEW020 BKN090 24/22 Q1016 UBBB 010430Z 33005KT 9999 FEW039CB BKN100 16/14 Q1026 R88/290055 NOSIG YOOM 010430Z AUTO 01009KT 9999 // NCD 25/03 Q1010 DAUT 010400Z 30007KT 9000 NSC 20/16 Q1012 DAUU 010400Z 00000KT 9999 SCT040 SCT100 20/17 Q1013 ZGGG 010430Z VRB02MPS 9999 SCT021 BKN043 27/21 Q1011 NOSIG UBBG 010430Z 28008KT 9999 BKN083 15/07 Q1027 R30/CLRD// NOSIG K6L4 010435Z AUTO 00000KT M1/4SM FG OVC018 13/13 A3007 RMK AO2 ZGHA 010400Z 30002MPS 270V340 3500 -RA BR FEW006 BKN011 OVC050 19/18 Q1015 NOSIG DAUZ 010400Z 10004KT 8000 NSC 24/06 Q1017 UAKK 010430Z 25009MPS 9999 SCT015 BKN073 10/06 Q1015 R23/0///70 NOSIG RMK QFE715/0953 TIST 010353Z 09011KT 10SM CLR 28/24 A2987 RMK AO2 SLP114 T02830239 403390272 UBBL 010400Z 00000KT 9999 BKN100 15/12 Q1026 R33/CLRD// RMK MT OP UBBN 010430Z 01005KT 9999 NSC 12/03 Q1024 R14R/CLRD// NOSIG RMK MT OP QFE693 TISX 010353Z 06008KT 10SM FEW027 FEW047 26/24 A2987 RMK AO2 RAB41E51 SLP114 P0000 T02560244 403110250 K5SM 010434Z AUTO 25003KT 10SM CLR 06/03 A3052 RMK AO2 TSNO UBBQ 010400Z 14002KT 9999 BKN059 13/12 Q1027 R34/CLRD// NOSIG RMK MT OBSC YPGV 010430Z AUTO 04009KT 9999 // NCD 31/22 Q1010 YORG 010430Z AUTO 29016KT 9999 // SCT020 SCT026 OVC039 10/06 Q1010 OEGN 010400Z 00000KT CAVOK 29/21 Q1007 NOSIG K7BM 010435Z AUTO 12003KT 10SM OVC015 10/06 A3046 RMK AO2 UBBY 010400Z 06006KT 9999 FEW040 BKN080 13/06 Q1029 R33/////// NOSIG RMK MT OP OEGS 010400Z 31003KT CAVOK 22/05 Q1013 OEGT 010400Z 25004KT CAVOK 14/03 Q1015 NOSIG OEHL 010400Z 18002KT CAVOK 17/M06 Q1016 NOSIG UBEE 010400Z 13005KT 9999 SCT033 BKN100 15/13 Q1026 R30/CLRD// NOSIG YPKA 010430Z AUTO 28015KT 9999 // NCD 26/13 Q1009 YPKG 010430Z AUTO 29023G33KT 9999 // BKN071 21/02 Q1000 TJNR 010353Z AUTO 08009KT 10SM FEW034 SCT044 BKN120 27/24 A2990 RMK AO2 SLP124 T02720239 403170244 YPJT 010432Z AUTO 24026G46KT 9999 // SCT045 15/04 Q1005 YPLC 010430Z AUTO 01012KT 9999 // NCD 22/08 Q1000 ZHCC 010400Z 12002MPS 080V190 6000 NSC 24/13 Q1016 NOSIG ZGKL 010400Z 07004MPS 9999 SCT033 OVC066 23/16 Q1014 NOSIG UAOO 010430Z 27002MPS 240V300 9999 BKN033CB BKN100 13/09 Q1021 R23/CLRD70 NOSIG RMK QFE753/1005 OEJN 010400Z 30004KT CAVOK 29/26 Q1005 NOSIG YPKS 010430Z AUTO 26012KT 9999 // SCT041 BKN046 OVC056 16/08 Q1010 YPKT 010430Z AUTO 31009KT 280V340 //// // ////// 34/19 Q1009 OEKJ 010400Z 28006KT 7000 SKC 25/01 Q1014 YPKU 010430Z AUTO 31011KT 270V340 9999 // SCT120 38/15 Q1007 YPLM 010430Z AUTO 20013KT 9999 // OVC049 25/11 Q1012 OEKK 302000Z 30006KT CAVOK 24/18 Q1012 NOSIG OEKM 010400Z 26003KT CAVOK 18/M01 Q1023 NOSIG K6R3 010435Z AUTO 00000KT 10SM CLR 15/14 A3010 RMK AO2 T01500142 TJPS 010350Z 06005KT 10SM FEW100 26/22 A2988 K6R6 010353Z AUTO 06004KT 19/15 A3012 RMK AO1 SLP172 T01940150 OEMA 010400Z 05010KT 9000 SKC 28/M04 Q1013 NOSIG K8A0 010435Z AUTO 13005KT 10SM CLR 12/12 A3007 RMK AO2 K96D 010435Z AUTO 15011G15KT 10SM CLR 15/13 A3016 RMK AO2 YPMQ 010430Z AUTO 32010KT 280V360 9999 // BKN084 25/05 Q1007 SUAA 302200Z 11010KT CAVOK 14/08 Q1023 YPOD 010430Z AUTO 29014KT 9999 // SCT021 BKN027 OVC040 13/08 Q1004 OEMK 010400Z 00000KT CAVOK 31/22 Q1006 ZGNN 010400Z VRB03MPS 9999 SCT040 27/16 Q1013 NOSIG OENG 010400Z 00000KT CAVOK 22/01 Q1017 NOSIG UARR 010430Z 22003MPS 4400 BR SCT033 BKN100 08/07 Q1020 R22/LRD70 TEMPO 2000 BR RMK QFE761/1015 TJSJ 010356Z 17003KT 10SM FEW028 26/25 A2988 RMK AO2 RAE06 SLP116 P0000 T02610250 403110250 UASK 010430Z 23006MPS 9999 FEW033CB BKN050 13/02 Q1016 R12/090060 NOSIG RMK QFE736/0982 YPPD 010430Z AUTO 35006KT 9999 // OVC009 22/20 Q1010 YPPF 010430Z AUTO 31010KT 9999 // BKN046 19/11 Q1005 UATE 010430Z 29002MPS 240V350 CAVOK 14/07 Q1027 R30/0///70 NOSIG RMK QFE768/1025 K7L2 010435Z AUTO 15015G21KT 10SM CLR 15/09 A3009 RMK AO2 UATG 010430Z 31003MPS CAVOK 09/07 Q1024 R32/CLRD70 NOSIG RMK QFE770/1027 UASP 010430Z 28005MPS 7000 -RA OVC005 05/04 Q1009 R21/290155 NOSIG RMK QBB160 OBST PT OBSC QFE746/0995 YPPH 010430Z 23024G38KT 9999 VCSH FEW032 SCT044 14/04 Q1005 INTER 0430/0500 26030G45KT 2000 SHRA BKN015 INTER 0500/0730 25025G40KT 4000 SHRA SCT015 FM0430 MOD TURB BLW 3000FT TILL 0500 UASS 010430Z 26012G17MPS 9999 BKN048CB BKN068 14/04 Q1013 R26/0///60 NOSIG RMK QFE741/0989 OEPA 010400Z 33006KT 7000 SKC 20/10 Q1011 NOSIG ZGOW 010400Z 12003MPS 080V140 9999 -SHRA FEW020 FEW040CB BKN050 29/25 Q1011 NOSIG ZHHH 010400Z 28002MPS 240V320 7000 SCT010 20/18 Q1015 NOSIG K8D3 010356Z AUTO 20003KT 09/07 A3018 RMK AO1 SLP221 T00890072 UATT 010430Z 32003MPS 0500 R31/0550 FG VV001 07/06 Q1019 R31/0///60 NOSIG RMK QBB050 QFE744/0992 K7N0 010356Z AUTO 05005KT 10SM 24/14 A3008 RMK AO2 SLP184 T02440139 TSNO PNO $ CMGB 010430Z AUTO 01001KT 12/09 RMK AO1 SLP282 T01230086 57012 CMFM 010400Z AUTO 30001KT 02/02 RMK AO1 SLP320 T00150015 58005 UAUU 010430Z 05003MPS 030V090 CAVOK 08/05 Q1016 R15/290150 NOSIG RMK QFE746/0995 OERF 010400Z 27004KT 8000 SKC 18/M03 Q1012 SUDU 302100Z 11007KT 9999 SCT023 SC080 17/09 Q1020 OERK 010400Z 33004KT CAVOK 23/M02 Q1013 NOSIG OESH 010400Z 10008KT CAVOK 26/M02 Q1012 NOSIG OERR 010400Z 31007KT CAVOK 18/07 Q1014 NOSIG OETB 010400Z 26003KT CAVOK 19/M01 Q1014 NOSIG OESK 010400Z 07003KT CAVOK 19/M03 Q1015 NOSIG UCFL 010400Z 17004MPS 140V200 9999 SCT030CB BKN100 17/09 Q1019 RMK V/G/CH/Z YPTN 010430Z AUTO 33011KT 290V070 9999 // SCT071 BKN120 36/18 Q1008 UCFM 010430Z VRB01MPS 9999 BKN060CB OVC130 15/10 Q1018 R08/CLRD70 NOSIG UCFO 010430Z VRB01MPS 8000 SCT050 BKN100 17/10 Q1018 R12/CLRD70 NOSIG OETF 010400Z 00000KT CAVOK 20/11 Q1018 NOSIG ZGSZ 010400Z 34004MPS 4000 BR FEW040 28/24 Q1010 NOSIG TKPK 010100Z 07012KT 9999 SCT017 27/24 Q1012 TKPN 302200Z 10012KT 9999 SCT018 29/23 Q1010 K7R3 301900Z 36003KT 10SM SKC 27/12 A3008 RMK DA013 OETR 010400Z 06008KT CAVOK 15/01 Q1015 K9A5 010435Z AUTO 00000KT 10SM SCT095 SCT120 13/10 A3009 RMK AO2 T01250101 SVAC 010000Z 00000KT 9999 BKN013 24/21 Q1012 YREN 010430Z AUTO 35010KT //// // ////// 19/04 Q1006 OEWD 010300Z 10010KT CAVOK 25/11 Q1011 NOSIG YPWR 010430Z AUTO 35019KT 9999 // NCD 27/M09 Q1005 OEWJ 010400Z 02004KT 7000 SKC 23/22 Q1005 NOSIG SVBC 010400Z /////KT 9999 FEW010 26/25 Q1009 YPXM 010430Z AUTO 16007KT 9999 // BKN005 OVC010 25/24 Q1013 SVBI 010000Z /////KT 9999 BKN017CB 24/// Q1008 SVBM 010300Z 11013KT 9999 FEW013 SCT070 23/21 Q1011 MYGF 010000Z 00000KT 9999 SCT250 28/27 A2998 SVBS 302300Z 23004KT 9999 SCT013 26/22 Q1010 K9D7 010435Z AUTO 16009KT 10SM FEW050 BKN070 OVC080 14/10 A3015 RMK AO2 OEYN 010400Z 10004KT CAVOK 26/23 Q1004 NOSIG K7W4 010435Z AUTO 00000KT 3SM BKN007 OVC010 19/19 A3007 RMK AO1 T01860186 SVCR 010000Z /////KT 9999 FEW013CBNE FEW016 26/// Q1005 SULS 010300Z 08011KT CAVOK 11/10 Q1025 K7W6 010425Z AUTO 16006KT 10SM CLR 25/23 A3006 RMK AO2 T02450230 SVCU 302300Z 09007KT 9999 SCT013 26/24 Q1012 HTDA 010400Z 00000KT 9999 SCT020 21/20 Q1014 NOSIG K9F2 301652Z 03013KT 7SM SKC 25/12 A3011 SUMU 010400Z 07008KT CAVOK 12/07 Q1023 NOSIG YSBK 010430Z AUTO 29017KT 9999 // SCT062 21/06 Q1005 YSCB 010430Z 32019KT 9999 SCT024 BKN035 12/07 Q1007 TLPC 010000Z 11003KT 9999 FEW024 27/24 Q1011 NOSIG HSOB 301400Z 16004KT 9999 FEW050 37/17 Q1008 SVGD 010000Z 36003KT 9999 BKN017 28/24 Q//// SVFM 302000Z /////KT 9999 BKN050 00/00 Q//// HSNN 301400Z 08008KT CAVOK 36/11 Q1009 SVGI 301200Z /////KT 9999 SCT010 28/22 Q//// YRMD 010430Z AUTO 25005KT 230V290 //// // ////// 32/M05 Q1011 TLPL 010400Z 09010KT 9999 FEW025 28/24 Q1010 TEMPO SHRA YSCO 010430Z AUTO 27017KT //// // ////// 19/06 Q1009 SVGU 010000Z /////KT 9999 FEW013CB 24/23 Q1008 HSPN 301300Z 03010KT CAVOK 24/22 Q1006 MZBZ 010000Z 00000KT 9999 FEW018 29/26 A2994 Q1013 NOSIG RMK LTNG/N HRYR 301500Z 19007KT 9999 FEW023CB SCT025 27/14 Q1015 NOSIG YSDU 010430Z AUTO 29015KT 9999 // SCT047 BKN060 19/09 Q1011 SVJC 302000Z 27010KT 9999 SCT020 XX/XX Q1004 YROM 010430Z AUTO 26011KT 9999 // NCD 23/02 Q1014 YSGE 010430Z AUTO 31011KT //// // ////// 22/02 Q1013 SVJM 010000Z /////KT 9999 BKN020 27/20 Q1010 SUSO 302000Z 17010KT 9999 SCT030 BKN067 20/10 Q1017 MYNN 010400Z 05004KT 9999 VCTS FEW015CB SCT018TCU BKN220 27/25 A3003 RMK CB/LTGICC/S--SW TCU/E/SE K9L2 010356Z AUTO 23010KT 10SM CLR 25/06 A2999 RMK AO2 SLP140 T02500056 $ TNCA 010400Z 10014KT 9999 TSRA SCT012CB BKN015TCU 27/26 Q1005 A2970 NOSIG TNCB 010355Z AUTO 10018KT 9999 BKN015/// 29/25 Q1007 HSSJ 300700Z 18002KT 9999 FEW040 27/18 Q1015 TNCC 010400Z 11014KT 9999 FEW017 28/26 Q1007 NOSIG TNCE 010355Z AUTO 08014KT 040V100 //// // ///////// 27/23 Q1012 RE// SVLF 302000Z 00000KT 9999 SCT060 XX/XX Q1004 DFFD 010400Z VRB02KT CAVOK 23/22 Q1012 NOSIG YSHK 010430Z AUTO 22015KT //// // ////// 23/13 Q1013 ZJHK 010400Z 03003MPS 350V060 9999 SCT023 BKN046 27/21 Q1010 NOSIG SVMC 302300Z 27006KT 9999 FEW010CB/W BKN013 30/26 Q1004 HTKJ 010400Z 00000KT 9999 BKN022 18/14 Q1017 NOSIG HSSS 010430Z 12009KT CAVOK 27/19 Q1008 NOSIG SVMD 010000Z 23006KT 4000 BR OVC010 21/19 Q1021 TNCM 010400Z 08014KT 9999 -SHRA BKN018 28/24 Q1011 A2988 RMK SHWRS SERN QUAD K8W2 010435Z AUTO 02009G14KT 10SM OVC005 A3011 RMK AO1 SVMG 010000Z 07006KT 9999 FEW010 SCT080 27/24 Q1008 SVMI 010400Z 00000KT 9999 SCT016 27/16 QNH1009 NOSIG YSHT 010430Z AUTO 30013KT 9999 // SCT034 OVC042 15/08 Q1006 SVMN 010000Z 11002KT 9999 FEW013 30/// Q1007 UEEE 010430Z 31003MPS 270V340 CAVOK 03/M08 Q1012 R23L/09//60 NOSIG RMK QFE750 SVMT 301200Z 34003KT 9999 SCT010? 27/25 Q1011 OIAA 010430Z 26006KT 1800 DU NSC 21/02 Q1007 K9MN 010434Z AUTO 00000KT 10SM 17/13 A3019 RMK AO1 T01650133 OIAG 010400Z 15002KT 7000 NSC 19/03 Q1007 OIAH 010400Z 00000KT 6000 NSC 18/M05 Q1010 SVPA 010000Z /////KT 9999 FEW013 28/21 Q1010 OIAI 010400Z 13004KT 3000 DU NSC 21/01 Q1006 OIBA 010400Z 18006KT 4000 HZ FEW020 30/23 Q1004 SVPC 301000Z 00000KT 9999 OVC030 Q1012 OIBB 010400Z VRB06KT 3000 DU NSC 25/06 Q1006 A2971 DGAA 010400Z 26010KT 9999 FEW010 SCT024 25/24 Q1011 NOSIG OIAM 010400Z 00000KT CAVOK 18/06 Q1006 HTMW 010400Z 00000KT 9999 SCT018 FEW019CB BKN090 21/19 Q1014 NOSIG HUEN 010400Z 36004KT 9999 SCT018 FEW020CB BKN100 20/19 Q1015 OIBJ 010400Z 01002KT CAVOK 22/04 Q1010 OIBK 010400Z 27004KT 4000 HZ NSC 30/22 Q1004 SVPM 302000Z 06005KT 9999 BKN020 XX/XX Q1008 OIBL 010400Z 00000KT 4000 HZ NSC 31/25 Q1004 OICC 010430Z 25008KT CAVOK 15/M00 Q1015 A2998 NOSIG OIAW 010430Z 28004KT 1300 DU NSC 22/05 Q1006 YSMH 010430Z AUTO 36007KT 9999 // NCD 29/05 Q1012 YSMI 010430Z AUTO 27021KT //// // ////// 14/09 Q0998 OIBP 301500Z 29012KT 6000 NSC 31/22 Q1001 A2957 OIBQ 010400Z 33016KT CAVOK 29/16 Q1006 OICI 010430Z 02010KT CAVOK 18/M00 Q1012 A2990 OICJ 010351Z 30008KT CAVOK 12/00 Q1017 OIBS 010400Z 19006KT 5000 HZ FEW030 31/23 Q1005 OICK 010400Z 12006KT CAVOK 13/M07 Q1012 YTEE 010430Z AUTO 15005KT 130V190 9999 // NCD 30/M02 Q1012 KMG 010430Z AUTO 34016KT 9999 // SCT022 BKN032 OVC043 11/09 Q1004 OIBV 010400Z 33008KT 5000 HZ NSC 29/19 Q1003 YSNF 010430Z AUTO 31010KT 9999 // SCT029 21/16 Q1014 YTEF 010430Z AUTO 29013KT 9999 // NCD 26/12 Q1009 SVSA 302200Z 16004KT 9999 FEW017CB SCT020 SCT100 29/21 Q1006 OICS 010430Z 33010KT 9999 FEW035CB SCT040 14/03 Q1019 YTEM 010430Z AUTO 29012KT //// // ////// 15/09 Q1009 CPBT 010300Z AUTO 02006KT 14/09 RMK AO1 T01400094 UDSG 010430Z 24001KT 9999 NSC 04/00 Q1026 R02/CLRD70 NOSIG YSOL 010430Z AUTO 29008KT 9999 // SCT047 OVC061 26/14 Q1010 YSNW 010430Z AUTO 29022G35KT 9999 // NCD 19/06 Q1003 SVSR 301900Z /////KT 9999 SCT016 BKN300 26/XX Q1009 CPEH 010300Z AUTO 01012KT 14/10 RMK AO1 PK WND 33018/0232 T01380104 YTGM 010430Z AUTO 30007KT //// // ////// 23/M01 Q1013 OIFK 010400Z 00000KT CAVOK 16/05 Q1017 OIFM 010430Z 01008KT 5000 DU NSC 17/03 Q1017 A3003 OIGG 010430Z 27006KT 7000 -RA FEW012CB BKN015 OVC070 15/15 Q1025 YTIB 010430Z AUTO 35012KT //// // ////// 23/01 Q1011 SVVA 302300Z 25005KT 9999 FEW016 BKN060 24/23 Q1015 OIFS 010400Z 04002KT CAVOK 07/M17 Q1018 CPFI 010400Z AUTO 10002KT 13/09 RMK AO1 T01330094 50011 OIGK 010353Z 08004KT 6000 -DZ OVC015 06/04 Q1026 K9V9 010435Z AUTO 14007KT 10SM CLR 14/09 A3012 RMK AO2 T01400091 SVVG 302300Z 09003KT 9999 FEW017 SCT100 SCT300 33/12 Q1002 YSRI 010439Z AUTO 29018G28KT 9999 // SCT062 19/06 Q1006 DFOO 010400Z 20002KT CAVOK 23/21 Q1013 OIHH 010354Z 28002KT CAVOK 09/03 Q1020 SVVL 302100Z 36009KT 9999 SCT020 BKN300 31/19 Q1009 OIHM 010400Z 06019KT CAVOK 13/03 Q1016 OIIE 010400Z 30016KT CAVOK 14/04 Q1018 SVVP 301800Z 11009KT 9999 FEW010 38/19 Q1007 OIHR 010430Z 08008KT CAVOK 13/06 Q1020 OIII 010430Z 28010KT 9999 FEW040 BKN100 15/05 Q1019 A3009 OIIK 010400Z 24002KT 9999 SCT035CB BKN090 15/04 Q1020 PAAD 010435Z AUTO 09004KT 1/4SM FG OVC002 03/03 A3030 RMK AO2 T00280027 YSTH 010430Z AUTO 25010G21KT 9999 // SCT033 16/09 Q0993 OIIP 010400Z 31016KT 9999 SCT040 BKN100 11/07 Q1019 OJAI 010400Z 00000KT 7000 NSC 17/03 Q1017 NOSIG OIIS 010400Z 36010KT CAVOK 18/01 Q1017 PABA 010404Z AUTO 01004KT 3/4SM BR OVC004 02/02 A3033 RMK AO2 FZRANO OIKB 010430Z 07006KT 4500 HZ SCT025 FEW030CB 31/24 Q1006 A2971 PAAK 010436Z AUTO 29036G42KT 10SM OVC024 09/04 A2935 RMK AO1 OJAM 010400Z 00000KT 5000 HZ NSC 17/06 Q1016 NOSIG YSSY 010430Z 29023G33KT CAVOK 22/03 Q1005 FM0530 29020KT CAVOK FM0430 MOD TURB BLW 5000FT ZJSY 010400Z VRB01MPS 9999 BKN050 30/25 Q1009 NOSIG PABE 010353Z 11014KT 10SM CLR 12/03 A2982 RMK AO2 PRESFR SLP098 T01170028 OJAQ 010300Z 35007KT CAVOK 22/15 Q1010 NOSIG PAAQ 010353Z AUTO 00000KT 10SM CLR 07/02 A3028 RMK AO2 SLP258 T00670017 TSNO PABI 010353Z 11010KT 10SM FEW150 SCT200 06/M02 A3028 RMK AO2 SLP275 T00611022 CPIR 010300Z AUTO 35004KT 14/10 RMK AO1 T01350101 OIKK 010400Z 00000KT CAVOK 19/M03 Q1017 A3006 PABL 010436Z 10012G18KT 10SM SCT090 OVC120 08/02 A3004 RMK AO1 YSTW 010430Z AUTO 30014KT 9999 // SCT049 SCT055 BKN067 19/07 Q1011 PACD 010439Z 15024G34KT 2SM -RA BR OVC004 12/12 A2939 RMK AO2 PK WND 15040/0407 VIS 1 1/2V4 P0001 T01220122 $ OIKO 010350Z 00000KT 7000 NSC 31/24 Q1007 OIKQ 010400Z 18010KT 6000 FEW020 31/25 Q1005 PABR 010353Z 10007KT 10SM OVC042 06/04 A3020 RMK AO2 SLP227 T00610039 HTZA 010300Z 00000KT 9999 FEW018 22/20 Q1013 NOSIG OIMB 010400Z 10012KT 8000 NSC 19/04 Q1015 PABT 010353Z 35003KT 10SM BKN110 BKN200 01/M01 A3028 RMK AO2 SLP269 T00111006 OIMC 010400Z 00000KT 9999 SCT035 OVC100 18/09 Q1022 YTMO 010430Z AUTO 07003KT //// // ////// 31/M01 Q1012 OIMD 010400Z 12010KT 8000 NSC 17/06 Q1013 PACM 010356Z AUTO 10014G19KT 10SM OVC070 11/07 A2977 RMK AO2 PRESFR SLP076 T01060067 PABV 010356Z AUTO 00000KT 10SM CLR 07/02 A3029 RMK AO2 SLP267 T00720022 $ YTNG 010430Z AUTO 31010KT 9999 // NCD 28/00 Q1013 PADE 010353Z AUTO 04007KT 10SM OVC090 10/04 A3002 RMK AO2 SLP164 T01000044 TSNO YSWG 010430Z AUTO 29013KT 9999 // SCT021 BKN029 OVC038 13/09 Q1009 YSWH 010430Z AUTO 31014KT 9999 // OVC044 15/07 Q1008 PADG 010156Z 15006KT 15SM SCT035 08/02 A3014 UDYZ 010430Z 15003KT 9999 NSC 10/04 Q1025 R09/000070 NOSIG YTNK 010430Z AUTO 32012KT 9999 // SCT096 35/13 Q1008 OINB 010400Z VRB02KT 9999 SCT020 FEW025CB OVC090 18/16 Q1023 PADK 010436Z AUTO 31016G32KT 10SM SCT037 09/M01 A2962 RMK AO1 PAEC 302049Z 36004KT 30SM FEW180 SCT280 08/M06 A3038 RMK NOSPECI PADL 010356Z 13017G28KT 10SM FEW021 OVC100 10/06 A3004 RMK AO2 SLP177 T01000061 PNO $ OIMM 010430Z 14006KT 9999 FEW025 OVC040 14/09 Q1023 A3021 PACV 010353Z 09003KT 10SM FEW250 06/04 A3030 RMK AO2 SLP261 T00560039 PADM 010356Z AUTO 06017G25KT 10SM CLR 12/04 A2990 RMK AO2 PK WND 06026/0310 SLP134 T01220039 PAED 010358Z AUTO 00000KT 10SM CLR 08/01 A3027 RMK AO2 SLP247 T00750009 OINE 010400Z 18006KT 9999 FEW030 SCT100 15/11 Q1023 OIMN 010400Z 00000KT 9999 FEW025 12/07 Q1023 OING 010400Z 00000KT 9999 FEW040 SCT100 17/13 Q1025 PAEG 010353Z AUTO 11005KT 10SM FEW120 07/M02 A3032 RMK AO2 SLP280 T00671022 TSNO OIMQ 010400Z 18006KT CAVOK 16/06 Q1017 PACZ 010355Z AUTO 10020G33KT 10SM SCT055 BKN200 11/05 A2969 RMK AO2 PK WND 11042/0213 RAB0249E0251DZB0251E0255SHRAB0255E0325 SLP054 T01070054 $ PADQ 010416Z AUTO 16012KT 10SM SCT030 10/05 A3025 RMK AO2 T01000050 TSNO PAEH 010435Z AUTO 12024G48KT 090V150 4SM RA BKN014 11/09 A2968 RMK AO2 PK WND 20059/0404 SLP051 PAEI 010358Z AUTO 00000KT 10SM CLR 03/01 A3024 RMK AO2 SLP250 T00270011 $ NSFA 010400Z 07007KT 9999 SCT026 32/25 Q1011 PAFA 010353Z 00000KT 10SM FEW160 FEW200 05/01 A3025 RMK AO2 SLP251 T00500011 OINK 010400Z 18004KT 9999 FEW030 SCT100 17/11 Q1023 PAFB 010358Z 00000KT 10SM FEW200 04/01 A3025 RMK AO2A SLP251 T00380006 PAEL 010300Z 00000KT 25SM SKC 09/02 A3022 RMK NOSPECI LAST PADU 010432Z 15014G26KT 10SM SCT022 BKN030 BKN035 13/09 A2907 RMK AO2 PK WND 14027/0418 RAE31 EM P0000 OINN 010400Z VRB02KT 9999 FEW020 FEW022CB BKN027 15/14 Q1023 PAEN 010353Z 36004KT 10SM CLR 07/02 A3028 RMK AO2 SLP255 T00670022 PAFE 010436Z AUTO 00000KT 10SM CLR 11/M03 A3015 RMK AO1 OINR 010400Z 22004KT 8000 FEW022CB SCT025 BKN080 16/15 Q1023 RERA PAGA 010358Z AUTO 09009KT 10SM BKN120 07/02 A3014 RMK AO2 SLP214 T00720022 PAFM 010256Z AUTO 11007KT 10SM CLR 08/02 A3025 RMK AO2 SLP258 T00780017 56026 OINZ 010400Z 21004KT 9999 SCT030 BKN090 18/15 Q1024 PAGH 301457Z AUTO 11012KT 10SM OVC041 06/02 A3045 RMK AO2 SLP341 T00560022 56008 SYCJ 010400Z 07004KT CAVOK 25/25 Q1010 NOSIG PAFR 010434Z AUTO 00000KT 10SM CLR 04/02 A3026 RMK AO1 PAFS 010401Z AUTO 05006KT 10SM CLR 08/02 A3014 RMK AO2 SLP228 T00780022 PAGK 010353Z AUTO 00000KT 10SM CLR 01/M07 A3034 RMK AO2 SLP311 T00061067 TSNO PAGL 010436Z AUTO 11014G22KT 10SM FEW110 09/02 A2997 RMK AO1 PAHC 010356Z AUTO 06007KT 10SM CLR 12/04 A2996 RMK AO2 SLP151 T01170039 PNO $ YTRE 010405Z AUTO 29017G27KT 9999 // ////// 24/06 Q1007 PAGM 010436Z AUTO 12030KT 10SM BKN022 BKN035 OVC045 08/07 A2962 RMK AO1 PAGN 010356Z AUTO 00000KT 9SM CLR 08/01 A3020 RMK AO2 SLP216 T00780006 PAGS 010356Z AUTO 29007KT 10SM CLR 11/M06 A3026 RMK AO2 SLP248 T01111061 SYEC 010200Z 05008KT 9999 SCT018 27/24 Q1010 PAHL 010356Z AUTO 36005KT 10SM CLR 07/02 A3018 RMK AO2 SLP229 T00670022 PAHN 010354Z AUTO 06003KT 10SM CLR 08/M01 A3033 RMK AO2 SLP272 T00781006 TSNO PNO PAHO 010353Z 26004KT 10SM CLR 09/06 A3028 RMK SLP253 T00940056 $ VIA AUTODIAL PAHP 010356Z AUTO 10026G30KT 10SM OVC060 11/07 A2970 RMK AO2 PK WND 11030/0352 SLP094 T01110072 PAGY 010353Z AUTO 02007KT 10SM CLR 12/M04 A3035 RMK AO2 SLP277 T01221044 TSNO PAIG 010356Z AUTO 07006KT 10SM CLR 11/05 A3007 RMK AO2 SLP194 T01060050 PNO $ PAII 010356Z AUTO 13028G35KT 10SM SCT110 10/06 A2998 RMK AO2 PK WND 14038/0323 SLP157 T01000061 OISA 010355Z 00000KT CAVOK 11/M09 Q1018 NTAA 010430Z 27003KT 230V310 9999 FEW020 SCT260 27/20 Q1014 WS ALL RWY NOSIG PAIK 010401Z AUTO 09007G15KT 10SM FEW090 09/02 A3015 RMK AO2 SLP250 T00890017 PAIL 010353Z 10016G23KT 10SM CLR 11/02 A3017 RMK AO2 SLP218 T01110022 PAJC 010356Z AUTO 16025G36KT 130V210 10SM -RA OVC011 12/09 A2990 RMK AO2 PK WND 15036/0355 RAB29 PRESFR SLP127 P0000 T01220094 PAIM 010355Z AUTO 21004KT 10SM FEW210 05/00 A3022 RMK AO2 SLP250 T00530004 PAIN 010436Z AUTO 00000KT 10SM CLR 03/M04 A3024 RMK AO1 OISF 010400Z 00000KT CAVOK 18/M01 Q1011 PAHX 010356Z AUTO 11007KT 10SM CLR 11/04 A3001 RMK AO2 SLP166 T01060039 YTTI 010430Z AUTO 26009KT //// // ////// 32/25 Q1010 PAHY 010256Z AUTO 02004KT 10SM OVC110 10/05 A3001 RMK AO2 SLP160 T01000050 53008 YTST 010430Z AUTO 28011KT 9999 // NCD 33/22 Q1009 OISL 010400Z 00000KT CAVOK 24/11 Q1009 PAIW 010358Z AUTO 16031G41KT 10SM SCT015 BKN090 OVC100 09/07 RMK AO2 PK WND 15045/0341 SLPNO T00940072 $ PAJN 010353Z VRB04KT 10SM FEW055 11/M04 A3024 RMK AO2 SLP239 T01061039 DIAD 010400Z 00000KT 8000 BKN011 24/24 Q1011 NOSIG PAKF 010408Z AUTO 3SM -RA BR OVC009 12/11 A2940 RMK AO2 CIG 005V012 P0003 $ CPRO 010400Z AUTO 05012KT 14/11 RMK AO1 PK WND 35017/0329 T01400111 PAKH 010356Z AUTO 14015G19KT 10SM OVC025 11/07 A3025 RMK AO2 SLP245 T01060067 $ OISR 010400Z 28006KT 7000 NSC 22/09 Q1008 PAKI 010356Z AUTO 11031G38KT 10SM CLR 11/07 A2964 RMK AO2 PK WND 12041/0320 SLP037 T01110067 ZLLL 010400Z 20003MPS 160V230 CAVOK 20/05 Q1022 NOSIG OISS 010430Z 00000KT CAVOK 20/M07 Q1014 A2997 OITK 010400Z 25004KT 9999 FEW035 07/03 Q1024 PAKK 010436Z AUTO 07006KT 10SM OVC120 09/M04 A2998 RMK AO1 OKBK 010400Z 32008KT 2000 -HZ SKC 25/M01 Q1009 NOSIG OITL 010400Z 23006KT 9999 FEW005 SCT035 04/04 Q1026 OITM 010400Z VRB02KT 9999 FEW040 11/02 Q1023 PAKN 010354Z 16018G23KT 10SM SCT140 BKN200 11/05 A3003 RMK AO2 PK WND 14027/0321 RAB21E34 SLP170 P0000 T01060050 OITP 010400Z 00000KT 9999 FEW040 SCT080 12/10 Q1024 OISY 010400Z 00000KT CAVOK 10/M09 Q1017 PAKP 010436Z AUTO 19010KT 10SM M01/M06 A3020 RMK AO1 PALG 010356Z 08014G19KT 10SM CLR 12/03 A2990 RMK AO2 SLP299 PWINO FZRANO TSNO RVRNO PALH 010353Z AUTO 13003KT 10SM CLR 08/03 A3029 RMK AO2 SLP257 T00780033 TSNO PAJZ 010356Z AUTO 13010KT 6SM HZ CLR 09/06 A3013 RMK AO2 SLP210 T00940056 $ YTWB 010430Z AUTO 28016KT 9999 // NCD 20/01 Q1014 CPRY 010400Z AUTO 27009KT 13/09 RMK AO1 PK WND 27019/0352 T01290094 OITR 010430Z 02006KT 9999 FEW035 12/M01 Q1023 DIAP 010430Z 24003KT 9999 SCT012 26/24 Q1012 NOSIG PALJ 010050Z 00000KT 40SM SCT200 15/11 A3019 RMK 40150000 EST PASS OPEN NOSPECI PALK 301857Z 00000KT 40SM SKC 07/05 A3040 RMK EST PASS OPEN NOSPECI OITT 010430Z 10012KT 9999 FEW030 11/01 Q1026 A3031 PAKT 010353Z 31009KT 10SM FEW100 08/06 A3000 RMK AO2 SLP160 HARBOR WIND 28015KT T00830061 PAMB 010356Z AUTO 10014G20KT 10SM BKN025 10/07 A3000 RMK AO2 SLP167 T01000067 $ PAKU 010245Z 13005KT 10SM R06/P6000FT FEW012 BKN055 BKN110 05/04 A3030 RMK LAST OITU 010351Z 00000KT CAVOK 10/02 Q1025 PAMC 010353Z AUTO 00000KT 10SM CLR 08/02 A3014 RMK AO2 SLP211 T00830022 TSNO CPST 010400Z AUTO 23010KT 10/09 RMK AO1 0PAST HR M PK WND 23019/0357 P0004 T01040092 50010 DIBK 010400Z VRB02KT 8000 SCT010 24/24 Q1011 NOSIG PAKV 010353Z AUTO 02003KT 10SM CLR 08/03 A3013 RMK AO2 SLP207 T00780028 TSNO PAMD 010436Z AUTO 00000KT 10SM CLR 10/07 A3028 RMK AO1 PAKW 010353Z AUTO 00000KT 10SM CLR 07/04 A3001 RMK AO2 SLP164 T00720044 TSNO $ CPSV 010400Z AUTO 05005KT 13/11 RMK AO1 T01250108 PALP 010045Z 19006KT 10SM SCT055 BKN090 BKN110 06/03 A3031 OITZ 010400Z 06012KT 9999 FEW020 FEW030CB BKN035 10/02 Q1021 PAMH 010356Z VRB04KT 10SM CLR 07/01 A3020 RMK AO2 SLP303 PWINO FZRANO RVRNO PANA 010356Z AUTO 10011KT 10SM CLR 12/03 A2980 RMK AO2 SLP090 T01170033 PAMK 010356Z AUTO 10015KT 10SM CLR 09/04 A2996 RMK AO2 SLP148 T00890039 PANC 010353Z 00000KT 10SM SCT200 06/01 A3028 RMK AO2 SLP255 T00560011 PALU 010355Z AUTO 20031G40KT 10SM OVC085 09/04 A2999 RMK AO2 PK WND 20042/0331 RAB0213E0321SHRAB0309E0314 SLP154 T00940038 DIBU 010400Z 00000KT 8000 FEW013 SCT260 23/22 Q1014 NOSIG PAMR 010353Z 00000KT 10SM CLR 09/01 A3028 RMK AO2 SLP254 T00940006 PANI 010436Z AUTO 11015G21KT 10SM SCT120 12/02 A2992 RMK AO1 UHBB 010430Z 16006MPS 9999 SCT033CB 12/09 Q1002 R36/090060 NOSIG RMK QFE734/0979 DIDK 301700Z ///// 9999 SCT015TCU SCT016 33/26 Q1010 NOSIG DIDL 301700Z ///// 9999 BKN015 31/24 Q1012 NOSIG PANN 010353Z AUTO 00000KT 10SM CLR 06/01 A3022 RMK AO2 SLP243 T00560011 TSNO PAOH 010356Z AUTO 11003KT 10SM CLR 04/01 A3024 RMK AO2 SLP242 T00390006 PANT 010353Z AUTO 32007KT 10SM FEW070 OVC090 09/07 A2999 RMK AO2 SLP155 T00940067 TSNO PAPB 010432Z AUTO 16018G24KT 9SM BKN007 BKN021 OVC025 10/10 A2901 RMK AO2 PK WND 16026/0355 T01000100 TSNO $ PAOM 010353Z 09017KT 10SM FEW007 BKN055 OVC065 08/07 A2992 RMK SLP133 T00830067 VIA AUTODIAL PANV 010436Z AUTO 06007KT 10SM CLR 08/02 A2993 RMK AO1 PANW 010356Z AUTO 21009KT 10SM CLR 09/04 A3008 RMK AO2 SLP204 T00940039 UGKO 010430Z 08006KT CAVOK 14/10 Q1024 R07/09//70 NOSIG PAOO 010356Z AUTO 08027G36KT 10SM OVC060 11/06 A2965 RMK AO2 PK WND 08036/0347 SLP051 T01110061 PAPG 010436Z 21004KT 10SM FEW095 08/01 A3009 RMK AO1 PAPH 010356Z AUTO 13026G34KT 10SM OVC018 11/08 A2987 RMK AO2 PK WND 14049/0325 SLP118 T01110083 PAOR 010353Z AUTO 14004KT 10SM CLR 01/M06 A3033 RMK AO2 SLP305 T00111056 TSNO OIZB 010430Z 34023G35KT 4000 SA NSC 21/06 Q1012 PAOT 010353Z 11015KT 10SM OVC120 08/03 A3007 RMK AO2 SLP183 T00780033 DIGA 301700Z 00000KT 9999 TS BKN013 FEW023CB 31/24 Q1012 NOSIG PAOU 010428Z AUTO 11030G39KT 3SM -RA BR SCT028 BKN044 OVC050 13/12 A2954 RMK AO2 PK WND 11042/0412 P0005 PAPM 010356Z AUTO 09040G53KT 10SM 12/07 A2968 RMK AO2 PK WND 09056/0310 RAB07E25 SLP053 P0000 T01170072 $ CPXL 010400Z AUTO 11008KT 16/11 RMK AO1 T01630110 PAPN 010356Z AUTO 13022G26KT 10SM CLR 11/06 A2997 RMK AO2 PK WND 13026/0349 SLP152 T01060056 PAPO 010356Z AUTO 14023KT 4SM BR SCT044 06/04 A3001 RMK AO2 PK WND 15029/0302 SLP162 T00610039 OIZH 010430Z 36008KT 5000 DU NSC 23/06 Q1016 A3001 PAQH 010356Z AUTO 10026G35KT 10SM FEW110 12/04 A2974 RMK AO2 PK WND 10041/0322 SLP071 T01220044 OIZI 010430Z 00000KT CAVOK 31/11 Q1011 OIZJ 010400Z 09014KT 6000 NSC 29/27 Q1005 PAPT 010241Z 00000KT 25SM BKN100 07/06 A3025 RMK NO SPECI PARC 010336Z AUTO 03004KT 10SM OVC100 M01/M04 A3026 RMK AO1 OIYY 010430Z 31006KT 7000 NSC 20/03 Q1017 UGMS 300900Z /////KT 9999 SCT100 09/03 Q1019 RMK MT OPN QFE 857.4HPA PASA 010436Z AUTO 12021G28KT BKN024 OVC042 09/06 A2969 RMK AO1 PAQT 010353Z AUTO 11006KT 10SM CLR 03/03 A3029 RMK AO2 SLP258 T00330028 TSNO PNO $ PASC 010437Z 08006KT 1 1/2SM R05/3500V5500FT BR OVC043 03/03 A3028 RMK AO2 T00330028 PASD 010436Z AUTO 15025G36KT 3SM SCT018 BKN023 OVC030 14/13 A2958 RMK AO1 YWCA 010430Z AUTO 32014KT //// // ////// 22/04 Q1009 PASH 010436Z AUTO 10013KT 10SM FEW040 SCT055 OVC075 09/04 A2998 RMK AO1 PNO PASI 010353Z 36004KT 10SM CLR 11/M03 A3013 RMK AO2 SLP203 T01111028 YWBL 010430Z AUTO 29012KT 9999 // SCT021 SCT025 OVC040 13/09 Q1004 OLBA 010400Z 12005KT CAVOK 22/12 Q1014 NOSIG PATA 010352Z 02004KT 10SM BKN200 04/02 A3024 RMK AO2 SLP246 T00440022 $ PARS 010356Z AUTO 07007G17KT 10SM CLR 11/04 A2989 RMK AO2 SLP127 T01110044 $ PASK 010356Z AUTO RMK AO2 SLPNO PWINO FZRANO $ PATC 010433Z AUTO 17018KT 10SM BKN012 08/07 A2987 RMK AO2 SLP115 PASL 010436Z AUTO 00000KT 10SM CLR 06/02 A3011 RMK AO1 PASM 010356Z AUTO 04022G28KT 10SM BKN120 11/06 A2982 RMK AO2 PK WND 04028/0356 SLP116 T01060056 PASN 010434Z AUTO 15019G24KT 3SM -RA BR OVC006 11/10 A2899 RMK AO2 RAB16 CIG 003V008 P0000 T01060100 TSNO PATE 010358Z AUTO 09009KT 10SM BKN032 OVC043 10/06 A2991 RMK AO2 SLP143 T01000061 PASO 010353Z AUTO 00000KT 10SM CLR 06/04 A3028 RMK AO2 SLP254 T00610044 TSNO PARY 010356Z AUTO 07009KT 10SM CLR 06/01 A3017 RMK AO2 SLP249 T00610006 PATG 010156Z AUTO 08020KT 10SM SCT030 SCT080 12/07 A3000 RMK AO2 SLP159 T01170072 PATK 010353Z AUTO 00000KT 10SM CLR 07/M01 A3028 RMK AO2 SLP258 T00671011 TSNO $ PATL 010355Z AUTO 00000KT 10SM CLR 08/02 A3016 RMK AO2 SLP223 T00760022 $ PASV 010355Z AUTO 31001KT 10SM CLR 11/M02 A3010 RMK AO2 LTG DSNT NE SLP197 T01141024 MUI 010430Z AUTO 33027KT 9999 // SCT057 14/05 Q1009 PASW 010250Z 00000KT 30SM SCT200 07/02 A3030 RMK MAX 11 LAST NOSPECI YWDH 010430Z AUTO 33005KT 280V360 9999 // NCD 25/03 Q1013 PATO 010353Z AUTO 00000KT 10SM CLR 02/00 A3030 RMK AO2 SLP261 T00170000 TSNO PASX 010436Z AUTO 00000KT 10SM CLR 06/M01 A3025 RMK AO1 PASY 010028Z 26014KT 10SM CLR 10/00 A2980 RMK AO2 WND DATA ESTMD UHHH 010430Z 25004MPS CAVOK 18/04 Q1012 R23L/CLRD60 NOSIG RMK QFE753/1004 PATQ 010256Z AUTO 10009KT 10SM CLR 06/04 A3019 RMK AO2 SLP229 T00560039 58016 TSNO PAVA 302256Z AUTO 12020G26KT 7SM -RA FEW031 OVC048 09/08 A2996 RMK AO2 PK WND 13028/2229 SLP157 T00940083 PNO $ NSTU 012350Z 13007KT 12SM SCT019TCU SCT100 BKN220 31/27 A2988 RMK TCU NE & W-NW SLP120 8/271 T03050274 10305 20254 57014 PAVC 010427Z AUTO 12024G34KT 3SM -RA BR FEW008 OVC013 13/12 A2948 RMK AO2 PK WND 14035/0407 P0002 PAVD 010436Z 08005KT 10SM CLR 06/00 A3029 RMK AO1 0347Z WEA PAUN 010436Z AUTO 08021G28KT 10SM FEW090 09/03 A2996 RMK AO1 DIKO 302100Z 14002KT 9999 SCT013 26/24 Q1016 NOSIG UIAA 010430Z 29010MPS 9999 SCT043CB 03/M08 Q1009 R29/CLRD70 TEMPO 30010G18MPS RMK QFE698 UGSB 010430Z 14014KT 9999 FEW035 14/10 Q1025 R13/CLRD70 NOSIG PAUT 010435Z AUTO 16032G39KT 2SM -RA OVC007 11/10 A2917 RMK AO2 P0002 T01050101 PAVL 010353Z AUTO 09009KT 6SM HZ FEW040 08/03 A3005 RMK AO2 SLP177 T00780033 TSNO PAWD 010353Z AUTO 32003KT 10SM CLR 06/04 A3030 RMK AO2 SLP259 T00560039 TSNO PAWG 010436Z 14004KT 10SM FEW060 SCT080 12/M01 A3009 RMK AO1 WEA PAWI 010353Z AUTO 09009KT 10SM CLR 06/04 A3014 RMK SLP205 T00560044 TSNO VIA AUTODIAL UIBB 010430Z 32003MPS 270V010 9999 BKN040CB M03/M12 Q1020 R30/CLRD60 NOSIG RMK QFE722/0963 UGTB 010430Z 32005KT 280V360 CAVOK 13/08 Q1029 R31L/CLRD70 NOSIG PAWM 010358Z AUTO 11010KT 9SM SCT100 09/04 A2999 RMK AO2 SLP166 T00890044 PAWN 010256Z AUTO 11010KT 10SM CLR 08/03 A3012 RMK AO2 SLP216 T00780028 58023 DIMN 302000Z 00000KT 9999 BKN013 SCT100 24/22 Q1014 NOSIG YWHA 010400Z AUTO 34017KT 9999 // NCD 23/05 Q1004 PAYA 010353Z AUTO 00000KT 10SM CLR 04/01 A3029 RMK AO2 SLP257 T00440006 TSNO PAWS 010436Z 00000KT 10SM CLR 04/02 A3026 RMK AO1 ZLXY 010400Z VRB02MPS 3000 HZ NSC 24/14 Q1016 NOSIG DIOD 302000Z VRB02KT 9999 TS SCT013 FEW023CB/SW 25/22 Q1014 NOSIG UHMA 010430Z 11006G09MPS 4000 -DZ BR OVC007 08/07 Q0995 RMK QFE743/0990 YWGT 010430Z AUTO 31012KT 9999 // SCT023 SCT028 OVC037 13/09 Q1007 YVRD 010430Z AUTO 07013KT //// // ////// 31/21 Q1007 PAZK 010436Z AUTO 02005KT 10SM CLR 02/M05 A3028 RMK AO1 UHMM 010430Z 30002MPS 9999 FEW040 04/M07 Q0999 R10/CLRD70 NOSIG RMK QFE734 YWIS 010430Z AUTO 30010KT //// // ////// 31/00 Q1012 OMAA 010400Z 30004KT 260V320 7000 NSC 30/21 Q1006 NOSIG OMAD 010400Z 33004KT 270V010 7000 FEW036 30/20 Q1006 NOSIG ZMUB 010430Z 30003MPS 260V350 9999 FEW033 08/M04 Q1016 NOSIG RMK QFE654.5 45 MOP OMAL 010400Z 01004KT CAVOK 27/20 Q1008 NOSIG YWLG 010430Z AUTO 28013KT 9999 // SCT068 22/06 Q1011 TQPF 302100Z 09013KT 9999 FEW019 30/23 Q1011 YWLM 010437Z AUTO 30023G33KT 9999 // SCT072 22/04 Q1006 DITB 010400Z 00000KT 99999 SCT013 24/24 Q1012 NOSIG UHPP 010330Z 35002MPS 320V020 9999 -SHRA SCT003 BKN033CB 09/08 Q1001 R34L/290150 NOSIG RMK MT OBSC QFE747/0996 EBBE 010425Z AUTO VRB01KT 9999 FEW021/// SCT025/// BKN031/// 12/11 Q1009 BLU DISP 010400Z 04002KT 8000 SCT013 25/25 Q1012 NOSIG OMDB 010400Z 20005KT 170V240 CAVOK 29/21 Q1006 NOSIG DISS 010400Z ///// 9999 FEW013 24/24 Q1012 NOSIG EBBL 010425Z VRB01KT 9999 BKN060 12/11 Q1010 BLU EBAW 010420Z AUTO 15003KT 9000 -SHRA FEW032/// SCT045/// 12/10 Q1009 UIII 010430Z 24002MPS 170V310 9999 BKN025CB 02/M04 Q1019 R30/CLRD60 NOSIG RMK QFE719/0959 EBCI 010420Z 14003KT 110V170 9999 BKN045 12/11 Q1009 NOSIG EBBR 010420Z 18004KT 9999 SCT025 12/12 Q1009 NOSIG CTCK 010400Z AUTO 07005KT 14/07 RMK AO1 SLP269 T01350074 58010 VAAH 010430Z 30005KT 4000 HZ SCT025 BKN080 28/24 Q1008 BECMG 5000 VABB 010430Z 32007KT 2500 HZ FEW012 SCT018 FEW025TCU OVC080 28/25 Q1008 TEMPO 1500 SHRA KA08 010435Z AUTO 00000KT 10SM CLR 13/11 A3006 RMK AO2 T01290105 OMDW 010400Z 19005KT CAVOK 28/21 Q1007 NOSIG EBCV 010425Z AUTO 17003KT 9999 SCT058/// OVC078/// 12/11 Q1009 BLU UHSS 010430Z 28005MPS 9999 NSC 20/07 Q1013 R01/CLRD70 NOSIG RMK QFE758/1011 OMFJ 010400Z 06002KT 8000 NSC 32/22 Q1006 A2973 VAAU 010300Z 32003KT 6000 SCT020 SCT025 BKN080 24/22 Q1009 EBDT 010425Z AUTO VRB02KT 8000 -RA BKN038/// BKN060/// 12/11 Q1010 BLU VABO 010200Z 29005KT 6000 FEW020 BKN080 26/23 Q1007 VABP 010300Z 09008KT 3000 HZ SCT020 BKN100 26/24 Q1009 NOSIG VABV 301300Z 16007KT 6000 NSC 31/24 Q1005 EBFN 010425Z 20007KT 9999 FEW021 SCT070 BKN130 11/10 Q1008 BLU EBFS 010425Z AUTO VRB02KT 9999 FEW034/// BKN042/// 11/10 Q1010 BLU KA39 010435Z AUTO 12007KT 10SM BKN100 OVC120 27/14 A3000 RMK AO2 DIYO 010300Z 26006KT 9999 BKN010 24/23 Q1013 NOSIG VAEK 010300Z 02004KT 4000 HZ SCT025 BKN100 28/26 Q1008 YWUD 010430Z AUTO 02016KT //// // ////// 27/02 Q1000 YWTN 010430Z AUTO 17003KT //// // ////// 27/00 Q1013 UHWW 010430Z 21006MPS 9999 NSC 20/09 Q1015 R25L/0///70 NOSIG RMK QFE760 TRPG 302200Z 11014KT 9999 FEW014 SCT260 27/24 Q1011 VAID 010300Z 34004KT 2500 BR FEW010 SCT020 BKN100 24/23 Q1010 NOSIG EBLB 010433Z AUTO VRB01KT 9000 -RA BKN014/// OVC060/// 08/08 Q1010 GRN EBLG 010420Z 14005KT 110V200 9999 FEW033 12/10 Q1010 NOSIG YWWL 010430Z AUTO 30012KT //// // ////// 16/08 Q1009 VAJB 010300Z 00000KT 5000 HZ SCT200 26/25 Q1009 VAJJ 010430Z 33014KT 310V020 3000 VCSH FEW012 SCT018 FEW025TCU BKN090 28/24 Q1009 NOSIG UKBB 010430Z 21003MPS CAVOK 10/09 Q1017 R88/CLRD// NOSIG YWYM 010430Z AUTO 30008KT 260V330 //// // ////// 38/15 Q1007 CTNK 010400Z AUTO 11002KT 12/07 RMK AO1 SLP272 T01180069 58008 UKDD 010430Z 22004MPS 190V250 0100 R26/0250N FG VV000 11/11 Q1021 R26/090070 NOSIG UKDE 010430Z 15001MPS 1700 BR SKC 11/11 Q1022 R20/210570 NOSIG YWYY 010430Z AUTO 29017KT 9999 // SCT024 BKN031 BKN055 15/10 Q0996 TTCP 010400Z 00000KT 9999 FEW016 26/21 Q1010 UIUU 010430Z 32006MPS 270V350 9999 BKN043CB 04/M08 Q1018 R26/010095 NOSIG RMK QFE719/0959 EBOS 010420Z 17005KT 9999 FEW025 10/09 Q1008 NOSIG UKDR 010430Z 20005MPS 140V230 0150 R18/0225N FG VV002 12/12 Q1021 R18/09//70 TEMPO 0300 FG VV002 OMRK 010400Z 21007KT CAVOK 30/21 Q1006 A2973 CTRA 010400Z AUTO 18003KT 09/08 RMK AO1 SLP250 T00910084 57007 VANP 010400Z 09008KT 3000 HZ SCT015 SCT100 29/25 Q1008 NOSIG NVSG 010000Z 10010KT 9999 FEW020 BKN300 30/24 Q1014 RMK HZ OMSJ 010400Z 17006KT CAVOK 29/21 Q1007 EDAC 300950Z 33006KT 9999 SCT035 BKN070 17/13 Q1014 NVSS 302300Z 09009KT 9999 FEW025 29/22 Q1015 RMK HZ EDAH 301650Z 25011KT CAVOK 15/08 Q1012 UKHH 010430Z 23002MPS CAVOK 13/08 Q1019 R25/0///67 NOSIG VAPR 300900Z 25006KT 6000 FEW018 SCT020 FEW025 32/23 Q1007 PFCL 010356Z AUTO 12018G24KT SCT023 10/07 A3000 RMK AO2 PK WND 13028/0311 SLP160 T01000067 PWINO $ YYNG 010430Z AUTO 29009KT //// // ////// 14/08 Q1009 ULAA 010430Z 24004MPS 9999 FEW020 08/07 Q0991 R26/290060 NOSIG RMK QFE742/0989 VARK 010300Z 27008KT 6000 FEW080 25/23 Q1008 EDDB 010420Z 08003KT 8000 NSC 09/09 Q1013 NOSIG EDDC 010420Z 13004KT CAVOK 12/10 Q1013 NOSIG EDDE 010420Z 00000KT 9999 -RA BKN033 BKN130 10/09 Q1012 NOSIG EDDF 010420Z 06006KT 9999 -RA FEW002 BKN005 BKN009 13/12 Q1010 NOSIG EDDG 010420Z 12002KT 9999 FEW042 BKN060 10/09 Q1010 NOSIG EDDH 010420Z 15004KT 130V190 9999 MIFG NSC 09/08 Q1011 NOSIG KC07 010437Z AUTO 28006KT 10SM SCT046 SCT065 05/03 A3048 RMK AO2 KAAA 010435Z AUTO 35004KT 7SM SCT015 SCT024 OVC031 17/17 A3002 RMK AO2 P0001 T01660165 PFEL 010358Z AUTO 36005KT 10SM SCT110 09/04 A3002 RMK AO2 SLP172 T00890044 KC09 010435Z AUTO 00000KT 10SM OVC017 17/14 A3004 RMK AO2 T01650143 NVVV 010000Z 09009KT 9999 SCT020 29/21 Q1014 RMK HZ EDDK 010420Z VRB02KT 9999 -RA FEW015 BKN020 OVC060 12/12 Q1010 RERA TEMPO RA EDDL 010420Z 14005KT 110V180 9999 FEW020 BKN028 14/12 Q1010 NOSIG EDDM 010420Z VRB01KT CAVOK 08/08 Q1013 NOSIG EDDN 010420Z 11005KT 080V140 CAVOK 12/12 Q1012 NOSIG KAAF 010353Z AUTO 00000KT 10SM CLR 18/16 A3005 RMK AO2 SLP175 T01830161 $ VCBI 010410Z 24008KT 9999 SCT018 29/22 Q1011 NOSIG EDDP 010420Z 15003KT CAVOK 11/10 Q1012 NOSIG UKKK 010430Z 19001MPS 8000 MIFG NSC 09/09 Q1017 R08/CLRD70 TEMPO 0400 FG VV001 EDDR 010420Z 18007KT 150V210 9999 -RA SCT005 OVC032 13/13 Q1010 NOSIG VAUD 010400Z 05004KT 5000 HZ SCT100 28/21 Q1010 NOSIG EDDS 010420Z VRB02KT CAVOK 14/12 Q1012 NOSIG UKKM 010430Z AUTO 17002MPS 9000 NCD 11/10 Q1016 EDDT 010420Z VRB02KT CAVOK 11/10 Q1013 NOSIG ZPPP 010400Z 22003MPS 190V260 9999 FEW016TCU SCT016 OVC030 18/15 Q1024 NOSIG EDDV 010420Z 15004KT 9999 -RA NSC 12/10 Q1012 TEMPO RA KABE 010351Z 06011KT 10SM OVC008 13/12 A3023 RMK AO2 SLP237 T01330117 EDDW 010420Z 14004KT CAVOK 10/08 Q1011 NOSIG KAAO 010354Z AUTO 05003KT 10SM CLR 15/11 A3013 RMK AO2 SLP197 T01500106 EDFE 301720Z 10003KT CAVOK 14/13 Q1015 UKLI 010430Z 00000MPS CAVOK 09/08 Q1017 R28/090070 NOSIG EDFH 010420Z 14008KT 0300 R21/0600N FG VV/// 12/12 Q1009 KABI 010352Z 15005KT 10SM CLR 18/12 A3013 RMK AO2 SLP187 T01780122 UKLL 010430Z 17001MPS CAVOK 10/09 Q1016 R13/CLRD// NOSIG KC29 010435Z AUTO 04003KT 2 1/2SM OVC003 16/16 A3013 RMK AO1 P0006 T01550155 KAAT 010355Z AUTO 26012KT 10SM SCT090 13/02 A3001 RMK AO2 SLP132 T01330017 KACB 010433Z AUTO 35004KT 10SM BKN110 15/13 A3020 RMK AO2 T01450125 UKLN 010445Z 00000MPS 5000 BR BKN200 12/11 Q1017 R33/09//70 NOSIG EDFM 301920Z VRB02KT 9999 FEW030 SCT045 OVC065 16/13 Q1015 KC35 010435Z AUTO 03004KT 10SM OVC006 14/14 A3014 RMK AO2 T01410141 UKLR 010430Z 00000MPS CAVOK 11/09 Q1016 NOSIG KABQ 010352Z 09004KT 10SM SCT100 19/11 A3019 RMK AO2 SLP160 T01940106 KABR 010353Z AUTO 13006KT 10SM CLR 13/07 A3014 RMK AO2 SLP208 T01280072 KACJ 010435Z AUTO 00000KT 10SM CLR 14/09 A3009 RMK AO2 UKLU 010400Z 00000MPS 9999 SCT200 11/09 Q1016 NOSIG KACK 010424Z AUTO 06018G25KT 2 1/2SM -RA BR OVC004 16/15 A3024 RMK AO2 RAB0356 P0001 T01610150 TSNO KADC 010435Z AUTO 08005KT 10SM CLR 09/08 A3023 RMK AO2 KADF 010356Z AUTO 00000KT 9SM CLR 14/14 A3008 RMK AO2 SLP188 T01390139 KABY 010353Z AUTO 00000KT 10SM CLR 16/12 A3007 RMK AO2 SLP182 T01560122 KADG 010353Z AUTO 08006KT 9SM OVC004 16/16 A3007 RMK AO2 SLP185 T01560156 $ KACP 010435Z AUTO 00000KT 7SM CLR 14/14 A3009 RMK AO2 T01410136 KACQ 010434Z AUTO 03003KT 10SM OVC048 17/12 A3020 RMK AO2 EDHI 301750Z 21006KT CAVOK 12/09 Q1013 KACT 010351Z 00000KT 10SM CLR 15/12 A3009 RMK AO2 SLP185 T01500122 $ EDGS 301850Z 18005KT 9999 SCT004 SCT013 11/11 Q1016 EDHK 301520Z 24010KT CAVOK 14/08 Q1010 KACV 010436Z AUTO 00000KT 10SM BKN018 BKN023 OVC031 14/08 A3011 RMK AO2 T01390083 EDHL 010420Z 17004KT 130V200 CAVOK 08/08 Q1012 KADM 010435Z AUTO 00000KT 10SM CLR 14/13 A3010 RMK AO2 T01380129 UKOH 010430Z VRB02MPS 6000 NSC 12/11 Q1021 NOSIG KACY 010354Z 05016G22KT 10SM OVC007 17/16 A3015 RMK AO2 SLP208 T01720161 KAEG 010435Z AUTO 28006KT 10SM SCT080 15/07 A3023 RMK AO2 T01460066 KAEJ 010435Z AUTO 00000KT 10SM BKN037 BKN070 BKN100 11/07 A3037 RMK AO2 T01090069 KADS 010435Z AUTO 03003KT 10SM CLR 22/11 A3011 RMK AO2 T02150107 DNAA 010100Z VRB01KT 7000 -TSRA SCT008 FEW019CB 22/20 Q1014 NOSIG RMK CB N TS NW EDJA 010420Z 17002KT CAVOK 08/06 Q1013 KADU 010435Z AUTO 00000KT 10SM BKN034 12/11 A3017 RMK AO2 KAEL 010434Z AUTO 11004KT 10SM OVC042 17/13 A3019 RMK AO2 UKON 010400Z 15002MPS 1700 BR NSC 13/13 Q1021 NOSIG KC62 010435Z AUTO 08005KT 7SM BKN008 OVC013 15/14 A3005 RMK AO2 T01500145 UKOO 010430Z 15003MPS CAVOK 16/15 Q1020 R16/090060 NOSIG KADW 010439Z AUTO 07013G17KT 5SM R01R/5000FT BR OVC003 17/16 A3011 RMK AO2 DZE0359 CWAE 010100Z 18005KT 15SM FEW045 13/02 A2991 RMK CU1 CU TR LAST OBS/NEXT 011300UTC WND ESTD SLP137 DENSITY ALT 2400FT KAFF 010358Z AUTO 08003KT 10SM BKN090 BKN100 OVC130 12/11 A3027 RMK AO2 SLP181 T01230110 CWAF 010400Z AUTO 25007KT 08/06 RMK AO1 T00790061 KAFJ 010435Z AUTO 06004KT 10SM OVC090 14/12 A3009 RMK AO1 CWBA 010400Z AUTO 33003KT 13/11 RMK AO1 T01290106 CWAJ 010400Z AUTO 09014G19KT 18/15 RMK AO1 PK WND 09020/0322 SLP188 T01780146 56005 KAFK 010435Z AUTO 00000KT 10SM CLR 14/10 A3016 RMK AO2 T01400100 KAGC 010433Z 09006KT 10SM FEW005 SCT019 BKN070 14/12 A3010 RMK AO2 RAB0355E10 P0000 T01390122 TTPP 010400Z 00000KT C A V O K 26/24 Q1009 NOSIG KAFN 010415Z AUTO VRB05KT 10SM FEW006 BKN020 OVC025 09/07 A3038 RMK AO2 T00890072 CWBE 010400Z AUTO 08013G18KT 16/10 RMK AO1 PK WND 07021/0331 T01620099 KAEX 010353Z 00000KT 6SM BR CLR 16/14 A3007 RMK AO2 SLP185 T01610144 KAFO 010435Z AUTO 18003KT 10SM CLR 08/06 A3021 RMK AO2 TSNO KAFP 010425Z AUTO 00000KT 10SM CLR 15/14 A3003 RMK AO2 T01530143 KC75 010435Z AUTO 00000KT 10SM OVC009 16/15 A3004 RMK AO2 T01600151 CWAQ 010400Z AUTO 13005KT 13/10 RMK AO1 SLP144 T01330103 51003 CWAR 010400Z AUTO 03005KT 11/08 RMK AO1 SOG 03 0004 SLP240 T01070077 PFKT 010358Z AUTO 09016KT 10SM OVC037 10/07 A2992 RMK AO2 SLP133 T01000067 CWCA 010400Z 23007KT 15SM SKC 05/03 A3012 RMK SLP202 CWBK 010400Z AUTO 23005KT 09/06 RMK AO1 SLP297 T00940055 58008 PFKW 010356Z AUTO 11017KT 10SM FEW110 13/02 A2982 RMK AO2 SLP097 T01280017 CWAV 010400Z AUTO 01006KT 09/08 RMK AO1 SLP200 T00920077 53009 KAFW 010353Z 24003KT 10SM SCT240 BKN300 14/12 A3009 RMK AO2 SLP186 T01390117 $ CWCF 010400Z AUTO 13007KT 13/09 RMK AO1 SLP210 T01250089 56005 CWBO 010400Z AUTO 03007KT 13/10 RMK AO1 SLP152 T01280101 53008 CWCI 010400Z AUTO 07012KT 16/12 RMK AO1 SLP253 T01580122 57004 KAGS 010353Z AUTO 00000KT 10SM CLR 14/12 A3004 RMK AO2 SLP172 T01390122 KAIA 010353Z AUTO 17005KT 10SM SCT120 13/08 A3011 RMK AO2 SLP177 T01280083 CWDA 010400Z AUTO 19001KT 06/04 RMK AO1 SLP236 T00560042 58012 CWCJ 010400Z AUTO 04006KT 10/08 RMK AO1 SLP272 T00960082 56008 CWBS 010400Z AUTO 04011KT 14/10 RMK AO1 T01420095 KAIB 010435Z AUTO 00000KT 10SM CLR 11/08 A3029 RMK AO2 EDMA 301850Z 13002KT CAVOK 14/11 Q1016 CWBT 010400Z AUTO 28003KT 05/05 RMK AO1 SLP275 T00500050 56003 KAID 301946Z 00000KT 4SM -RA SCT025 BKN060 17/17 A3001 CWDC 010400Z AUTO 02004KT 03/M02 RMK AO1 SLP298 T00301017 53009 CWBU 010400Z AUTO 36007KT 12/10 RMK AO1 SLP165 T01160099 53005 CWBV 010400Z AUTO 34005KT 11/08 RMK AO1 SLP306 T01130079 58006 KAHN 010351Z AUTO 00000KT 10SM CLR 12/11 A3005 RMK AO2 SLP174 T01220111 EDLN 301820Z VRB02KT CAVOK 11/08 Q1014 CWCO 010400Z AUTO 11003KT 14/08 RMK AO1 SLP236 T01440081 58008 KAIG 010435Z AUTO 05007KT 10SM OVC110 13/11 A3022 RMK AO2 T01300105 CWBY 010400Z AUTO 27004KT 08/07 RMK AO1 SLP275 T00820073 58004 EDLP 010420Z 13003KT 9999 -RA BKN040 11/09 Q1011 RERA KAHQ 010435Z AUTO 00000KT 4SM HZ CLR 12/09 A3016 RMK AO2 T01170090 CWBZ 010400Z AUTO 08003KT 14/09 RMK AO1 SLP275 T01440089 58008 UMBB 010400Z 20001MPS 7000 NSC 14/12 Q1014 NOSIG OOMS 010350Z 09007KT 8000 SCT020 29/26 Q1006 NOSIG KD07 010356Z AUTO 15016KT 18/09 A3000 RMK AO1 SLP157 T01780089 CWDJ 010400Z AUTO 00014KT 12/09 RMK AO1 SLP161 T01190088 50002 KAIK 010435Z AUTO 28003KT 10SM CLR 15/10 A3008 RMK AO2 KBAB 010358Z AUTO 14015KT 10SM BKN220 18/06 A2996 RMK AO2 SLP148 T01830055 $ CWDK 010400Z AUTO 34008KT 11/10 RMK AO1 1016 SLP171 T01130097 50010 CWCT 010400Z AUTO 04010KT 09/08 RMK AO1 SLP186 T00940079 51011 CWEB 010400Z AUTO 14004KT 10/09 RMK AO1 SLP146 T00960089 57006 KBAC 010435Z AUTO 15010KT 10SM SCT038 13/10 A3018 RMK AO2 KBAD 010358Z AUTO 15002KT 10SM CLR 17/14 A3008 RMK AO2 SLP188 T01660137 EDLV 010420Z 13004KT CAVOK 12/12 Q1009 PFNO 010358Z AUTO 10019G23KT 10SM OVC080 09/03 A3011 RMK AO2 SLP200 T00890028 CWEE 010300Z AUTO 05/05 RMK AO1 SLP313 T00520051 50000 KBAF 010353Z AUTO 01012KT 7SM -RA OVC007 10/09 A3034 RMK AO2 SLP275 P0001 T01000094 TSNO EDLW 010420Z 12002KT 9999 BKN043 11/08 Q1010 KAIO 010435Z AUTO 01004KT 10SM OVC029 13/12 A3016 RMK AO2 CWEF 010400Z AUTO 28016KT 12/10 RMK AO1 PK WND 28020/0310 SLP278 T01230098 58008 CWDO 010400Z AUTO 31002KT 06/04 RMK AO1 SLP244 T00640037 58004 EDMO 301750Z 18001KT CAVOK 13/09 Q1017 KAJG 010435Z AUTO 00000KT 7SM BKN080 15/14 A3001 RMK AO2 T01490141 CWDQ 010400Z AUTO 12002KT 07/06 RMK AO1 SLP315 T00720064 58003 CWEH 010400Z AUTO 08006KT 13/10 RMK AO1 SLP151 T01330095 52005 EEEI 010350Z 20012KT 9999 FEW029 SCT040 11/08 Q1001 NOSIG KBAK 010145Z 16004KT 10SM SCT065 13/13 A3002 RMK LAST KAIT 010432Z AUTO 07004KT 10SM OVC007 12/09 A3024 RMK AO2 KBBB 010434Z AUTO 00000KT 10SM CLR 10/07 A3021 RMK AO2 CWDT 010400Z AUTO 32004KT 08/08 RMK AO1 SLP323 T00790075 56002 CWEK 010400Z AUTO 04003KT 11/09 RMK AO1 SLP143 T01070089 53008 CWEL 010400Z AUTO 20002KT 12/08 RMK AO1 SLP134 T01170075 55005 NWWW 010430Z AUTO 19011KT 9999 NCD 30/15 Q1014 NOSIG CWDV 010400Z AUTO 04001KT 06/06 RMK AO1 SLP285 T00600057 58002 CWFD 010435Z AUTO 36031G45KT 330V030 3/4SM //// OVC002 M03/M03 A2953 KBAN 010352Z AUTO 00000KT 10SM 12/M03 A3015 RMK AO2 SLP141 T01171033 $ KAJO 010356Z AUTO 33003KT 10SM CLR 24/11 A2996 RMK AO2 SLP149 T02390111 $ KBBF 010435Z AUTO 10007G13KT 070V130 10SM SCT045 26/15 A3005 RMK A01 ULLI 010430Z 20003MPS 9999 SCT033 09/07 Q1001 R28L/090060 NOSIG CWFF 010400Z AUTO 07003KT 11/08 RMK AO1 SLP162 T01070079 55000 KBBG 010435Z AUTO 00000KT 10SM CLR 13/11 A3012 RMK AO2 KD25 010435Z AUTO 08005KT 10SM CLR 12/11 A3025 RMK AO2 T01150112 CWEP 010400Z AUTO 23005KT 08/06 RMK AO1 SLP303 T00780058 58005 KAKH 010354Z AUTO 00000KT 10SM CLR 14/11 A3004 RMK AO2 SLP167 T01390111 KAIZ 010356Z AUTO 00000KT 10SM SCT050 14/13 A3011 RMK AO2 SLP218 T01390128 CWDZ 010400Z AUTO 04012KT 13/08 RMK AO1 PK WND 05023/0335 T01280075 CWEQ 010400Z AUTO 23001KT 11/08 RMK AO1 SOG 04 3007 SLP177 T01060078 KAJR 010435Z AUTO 00000KT 10SM CLR 14/08 A3007 RMK AO2 T01350083 CWER 010400Z AUTO 01004KT RMK AO1 CWFJ 010400Z AUTO 31006KT 13/06 RMK AO1 T01270057 KALB 010351Z 36005KT 10SM BKN033 OVC045 11/09 A3036 RMK AO2 RAE12 SLP281 P0000 T01110089 KBCB 010430Z AUTO 08006KT 10SM OVC003 17/17 A3012 RMK AO2 T01680165 TSNO CWGB 010400Z AUTO 12011KT 13/09 RMK AO1 SLP129 T01290090 56007 CWEU 010400Z 28007KT 15SM BKN120 M09/M11 A3011 RMK AC7 SLP201 CWGD 010400Z AUTO 12013G20KT 15/10 RMK AO1 PK WND 12029/0309 SLP214 T01490096 55001 KBCE 010353Z AUTO 26004KT 10SM CLR 07/06 A3034 RMK AO2 SLP186 T00720056 CWEW 010400Z AUTO 02004KT 13/08 RMK AO1 SLP297 T01260077 58007 KAKO 010353Z AUTO 14008KT 10SM FEW100 15/07 A3017 RMK AO2 SLP183 T01500072 KBAX 010435Z AUTO 08007KT 7SM OVC005 13/13 A3017 RMK AO2 T01310129 KBBP 010435Z AUTO 00000KT 7SM CLR 17/16 A3003 RMK AO2 KBAZ 010351Z AUTO 33003KT 10SM CLR 16/12 A3009 RMK AO2 SLP183 T01610122 EDNY 010420Z 00000KT CAVOK 09/09 Q1013 EDOP 301320Z 22015KT 9999 FEW038 BKN070 18/10 Q1011 KAKQ 010434Z AUTO 00000KT 7SM BKN005 BKN030 OVC038 23/22 A3005 RMK AO2 T02330222 KAJZ 010335Z AUTO 05005KT 10SM CLR 16/09 A3023 RMK AO2 T01570090 CWFQ 010400Z AUTO 16003KT 12/06 RMK AO1 SLP283 T01150057 57009 CWEZ 010400Z AUTO 21008KT 11/08 RMK AO1 SLP135 T01060084 55004 KALI 010353Z AUTO 00000KT 10SM CLR 19/15 A3007 RMK AO2 SLP181 T01890150 TSNO KAKR 010354Z AUTO VRB04KT 10SM OVC012 16/13 A3007 RMK AO2 SLP181 T01560128 KAMA 010353Z 17016KT 10SM CLR 19/09 A3012 RMK AO2 SLP157 T01940094 ULMM 010430Z 17003MPS 9000 -SHRA BKN015CB 07/04 Q0977 R13/290150 NOSIG RMK QFE726 KD39 010432Z AUTO 09004KT 10SM CLR 11/10 A3022 RMK AO2 T01100095 KALK 010356Z AUTO 00000KT 10SM CLR 18/11 A3022 RMK AO2 SLP153 T01780111 $ KBCK 010435Z AUTO 00000KT 10SM OVC031 16/16 A3017 RMK AO2 T01550155 CWGL 010400Z AUTO 10008KT 14/08 RMK AO1 SLP249 T01430081 58011 KALM 010435Z AUTO 16005KT 10SM CLR 17/15 A3017 RMK AO2 CWGM 010400Z AUTO 10001KT 08/06 RMK AO1 T00810056 KBDE 010353Z AUTO 10006KT 6SM BR CLR 09/08 A3026 RMK AO2 SLP256 T00940083 TSNO $ KBBW 010353Z AUTO 13005KT 10SM CLR 12/09 A3015 RMK AO2 SLP203 T01220089 KALN 010435Z AUTO 31005KT 10SM OVC008 16/16 A3004 RMK AO2 T01600155 KALO 010354Z 32003KT 10SM OVC039 14/13 A3015 RMK AO2 SLP210 T01440133 KAMG 010353Z AUTO 00000KT 10SM CLR 14/13 A3004 RMK AO2 SLP171 T01440133 KBDG 010435Z AUTO 36006KT 10SM CLR 12/09 A3031 RMK AO1 T01160091 KBDH 010435Z AUTO 09005KT 10SM CLR 14/11 A3021 RMK AO2 NZAA 010430Z AUTO 04012KT 9999 BKN017/// 17/14 Q1016 NOSIG OOSA 010350Z 23003KT 200V280 9999 SCT025 27/22 Q1009 WS R07 NOSIG CWHI 010300Z AUTO 36008KT 10/08 RMK AO1 T01000082 CWGR 010400Z AUTO 25007KT 10/08 RMK AO1 SLP286 T01030082 58010 ZSAM 010400Z 04003MPS 010V070 9999 SCT033 32/23 Q1011 NOSIG KALS 010352Z AUTO 03009KT 10SM -RA FEW021 BKN050 OVC070 12/08 A3030 RMK AO2 WSHFT 0337 RAB16 SLP184 P0001 T01170078 KBEA 010435Z AUTO 00000KT 10SM CLR 17/15 A3008 RMK AO2 T01690146 KBCT 010253Z 32003KT 10SM SCT027 25/24 A3002 RMK LAST KANB 010353Z AUTO 00000KT 10SM CLR 12/08 A3009 RMK AO2 SLP186 T01220083 KD50 010435Z AUTO 09004KT 10SM CLR 10/10 A3003 RMK AO2 CWGT 010400Z AUTO 11005KT 13/09 RMK AO1 SLP134 T01270094 55004 KBDL 010351Z 36011KT 2SM BR OVC007 11/09 A3032 RMK AO2 SFC VIS 5 RAE36 SLP268 P0000 T01060094 $ CWHL 010400Z AUTO 03010G31KT 10/09 RMK AO1 6PAST HR 3007 PK WND 05071/0347 SLP145 P0002 T00990087 50006 KBED 010356Z AUTO 03010KT 4SM -RA BR OVC006 12/11 A3035 RMK AO2 SLP289 P0004 T01220111 KAND 010356Z AUTO 15003KT 10SM CLR 13/10 A3004 RMK AO2 SLP167 T01330100 CWID 010400Z AUTO 00000KT 02/M02 RMK AO1 SLP341 T00221020 51003 CWHM 010400Z AUTO 04003KT 12/08 RMK AO1 T01200075 EDQM 301750Z 35006KT CAVOK 14/10 Q1016 KALW 010353Z AUTO 29005KT 10SM CLR 16/06 A2984 RMK AO2 SLP104 T01610056 KANE 010434Z AUTO 03004KT 10SM CLR 13/12 A3022 RMK AO2 KBDN 010435Z AUTO 00000KT 10SM CLR 10/M02 A2997 RMK AO2 LTG DSNT SW KAMN 010431Z AUTO 04007G14KT 270V090 10SM OVC009 15/15 A3014 RMK AO2 T01510148 CWGW 010400Z AUTO 36002KT 09/08 RMK AO1 5000 SLP178 T00910080 50006 CWHN 010430Z AUTO 04007KT 340V080 9SM BKN014 OVC022 07/05 A3014 KALX 010435Z AUTO 00000KT 10SM CLR 14/14 A3009 RMK AO2 LTG DSNT S T01400140 CWGX 010400Z AUTO 07005KT 10/10 RMK AO1 SOG 03 5005 SLP227 T01040099 CWHO 010400Z AUTO 00026KT RMK AO1 57032 KD55 010435Z AUTO 16015KT 10SM FEW120 15/11 A3015 RMK AO2 CWHP 010400Z AUTO 26011KT 08/07 RMK AO1 SLP269 T00800069 58008 CWIG 010400Z AUTO 07004KT RMK AO1 CWGY 010400Z AUTO 06005KT 11/08 RMK AO1 SLP179 T01050076 51013 KBEH 010353Z AUTO 10007KT 10SM OVC010 16/14 A3006 RMK AO2 CIG 009V014 SLP178 T01610139 CWGZ 302000Z VRB04KT 14SM FEW004 M03/M11 A3000 RMK ST1 ST TR -2.1/-6.2/0.0/17/SNW CVR/MED PACK/LAST OBS/NEXT 011200 SLP167 CWHQ 010400Z AUTO 04003KT 09/06 RMK AO1 T00940060 ULPB 010400Z AUTO 20002MPS 170V240 9999 NCD 07/05 Q0996 RMK QFE743/0991 KBDR 010409Z AUTO 03011KT 10SM BKN014 OVC020 14/11 A3026 RMK AO2 T01390111 KD57 010435Z AUTO 10006KT 10SM CLR 14/07 A3003 RMK AO2 CWII 010400Z AUTO 14013KT 13/11 RMK AO1 PK WND 14017/0343 T01300106 KANJ 010355Z AUTO 09005KT 10SM CLR 14/08 A3028 RMK AO2 SLP251 T01440078 CWIJ 010400Z AUTO 29013KT M03/M05 RMK AO1 PK WND 29018/0302 SLP289 T10311050 52004 KD60 010415Z AUTO 14009KT 10SM CLR 13/12 A3006 RMK AO2 KANK 010435Z AUTO 14006KT 10SM BKN090 12/09 A3042 RMK AO1 T01240085 OPKC 010355Z 27012KT 6000 SCT020 28/22 Q1009 NOSIG CWHT 010400Z AUTO 08001KT M03/M09 RMK AO1 SLP323 T10311086 55004 CWJB 010400Z AUTO 02003KT 11/08 RMK AO1 T01120078 CWIK 010400Z AUTO 16017G23KT 13/11 RMK AO1 6PAST HR 6003 PK WND 16023/0347 SLP172 P0002 T01340112 50009 EDSB 010420Z 12005KT 9999 VCSH FEW044 SCT062 BKN084 15/14 Q1010 KBDU 010437Z AUTO 36003KT 10SM CLR 13/09 A3018 RMK AO2 UKWW 010430Z 21002MPS CAVOK 13/10 Q1017 NOSIG CWJC 010400Z AUTO 02010KT M01/M03 RMK AO1 SOG 00 3010 SLP306 T10121033 ULOO 010430Z 20004MPS P5000 FEW020 09/08 Q1007 R19/190070 NOSIG RMK QFE751 CWIL 010400Z AUTO 34007KT 01/ A3014 RMK SLP216 KBFD 010353Z AUTO 11007KT 10SM OVC007 12/12 A3020 RMK AO2 SLP226 T01170117 CWHV 010400Z AUTO 00000KT 08/06 RMK AO1 SLP308 T00760058 58005 CWJD 010400Z AUTO 18002KT 09/07 RMK AO1 SLP184 T00870074 56004 UMGG 010430Z 22004MPS 9999 FEW043 BKN080 14/12 Q1015 R28/CLRD// NOSIG KAMW 010353Z AUTO 04004KT 10SM OVC022 16/14 A3016 RMK AO2 SLP209 T01610144 NZAP 010400Z 03009KT 45KM SCT031 14/10 Q1017 RMK ALT VATSIM USE ONLY KBFF 010353Z AUTO 11006KT 10SM CLR 12/08 A3011 RMK AO2 SLP180 T01170083 CXAF 010400Z AUTO 05007KT 07/04 RMK AO1 T00710035 TUPJ 010200Z 10011KT 9999 FEW019 29/23 Q1012 CXAG 010400Z AUTO 06010KT 08/06 RMK AO1 PK WND 06018/0308 T00780057 CWIP 010400Z AUTO 27007KT 14/ RMK AO1 T0142 KANQ 010455Z AUTO 09005KT 15/09 A3005 RMK KAOH 010411Z AUTO 08007KT 10SM BKN009 OVC070 16/16 A3002 RMK AO2 LTG DSNT NW CIG 007V011 T01560156 CWJH 010400Z AUTO 06006KT 10/09 RMK AO1 SOG 00 5008 SLP209 T01010092 KBFI 010353Z 15004KT 10SM CLR 14/06 A2995 RMK AO2 SLP141 T01390061 $ OPLA 012355Z 00000KT 4000 FU NSC 27/23 Q1007/A29.74 BECMG 3000 BR CWJI 010400Z AUTO 13006KT 13/10 RMK AO1 SLP156 T01270100 51002 KAPA 010353Z 17005KT 10SM FEW140 14/08 A3022 RMK AO2 SLP185 T01390078 PHBK 010356Z AUTO 33003KT 10SM CLR 30/18 A3000 RMK AO2 SLP161 T03000183 EEKA 010350Z 23009KT 180V280 9999 SCT030 12/07 Q1001 CXBA 010400Z AUTO 03008KT 09/08 RMK AO1 T00890081 CXAJ 010400Z AUTO 02008KT 07/05 RMK AO1 T00670054 CWIS 010400Z AUTO 07001KT 03/03 RMK AO1 SLP320 T00320029 58007 CXAK 010400Z AUTO 02009KT 10/08 RMK AO1 T00980075 KAPC 010354Z AUTO 00000KT 10SM CLR 16/08 A3005 RMK AO2 SLP166 T01560083 KBFL 010354Z 33005KT 10SM CLR 27/07 A2994 RMK AO2 SLP131 T02670072 KBFM 010353Z AUTO 00000KT 10SM CLR 17/15 A3008 RMK AO2 SLP186 T01720150 KBGD 010351Z AUTO 16011G18KT 10SM CLR 19/10 A3009 RMK AO2 SLP160 T01940100 CWKD 010300Z AUTO 26003KT 07/06 RMK AO1 SLP323 T00670060 KBGE 010435Z AUTO 00000KT 10SM CLR 16/13 A3007 RMK AO2 KANW 010435Z AUTO 16008KT 10SM CLR 14/07 A3013 RMK AO2 T01350073 CWIW 010400Z AUTO 20004KT 09/07 RMK AO1 SLP165 T00860070 53006 EEKE 010350Z AUTO 26010KT 230V310 9999NDV FEW026 13/09 Q1004 KAOO 010438Z AUTO 04006KT 4SM -RA BR OVC004 12/12 A3018 RMK AO2 RAB19 P0002 T01220122 $ KAPF 010353Z AUTO 15003KT 10SM CLR 26/23 A3003 RMK AO2 SLP167 T02610228 KBGF 010435Z AUTO 17003KT 10SM CLR 12/11 A3008 RMK KAPG 302353Z 07015KT 7SM OVC012 17/15 A3016 RMK LAST CWJO 010400Z AUTO 08001KT 08/08 RMK AO1 SLP322 T00810075 58005 CWIX 010400Z AUTO 05003KT 06/06 RMK AO1 SLP310 T00620061 58004 NZCH 010430Z AUTO 07011KT 9999 NCD 17/08 Q1009 NOSIG NZCI 010318Z 01012KT 30KM VCSH FEW030 BKN080 16/13 Q1016 RMK NZNR VATSIM USE ONL CWIY 010400Z AUTO 22001KT 04/03 RMK AO1 SLP316 T00420031 58003 CWKG 010400Z AUTO 05003KT 07/06 RMK AO1 SLP306 T00650061 58007 CWIZ 010400Z AUTO 03002KT 13/10 RMK AO1 T01300100 CWKH 010400Z AUTO 11/02 RMK AO1 SLP127 T01140017 55006 CXBI 010400Z AUTO 10010G15KT 14/08 RMK AO1 PK WND 13019/0301 SLP252 T01390080 58008 CWJR 010400Z AUTO 03003KT 14/11 RMK AO1 SLP132 T01430106 58006 CXCA 010400Z AUTO 00000KT 09/09 RMK AO1 SLP271 T00920086 57009 KBHB 010356Z AUTO 00000KT 10SM CLR 07/06 A3045 RMK AO2 SLPNO T00670056 NZCM 302355Z 03011KT 9999 SCT035 SCT075 BKN140 M20/M27 A2902 RMK SNB2230E05 SLP833 FATA MORGANA S-SW CWKK 010400Z AUTO 09004KT 14/13 RMK AO1 SLP277 T01410131 57007 CXAT 010300Z AUTO 32008KT M02/M04 RMK AO1 SLP160 T10221042 CXBK 010400Z AUTO 14012KT 12/10 RMK AO1 SLP154 T01200095 51003 CWLB 010400Z AUTO 06007KT 09/05 RMK AO1 3009 SLP231 T00860052 50003 CWJT 010400Z AUTO 00000KT 10/08 RMK AO1 SLP289 T00980078 58010 KBHC 010435Z AUTO 00000KT 10SM CLR 15/15 A3004 RMK AO2 PNO CWLC 010400Z AUTO 18003KT 11/10 RMK AO1 T01060098 CWJU 010400Z AUTO 03010G15KT 11/07 RMK AO1 PK WND 04018/0342 SLP153 T01070073 51005 KBGM 010353Z 09006KT 3SM BR OVC002 09/09 A3027 RMK AO2 SLP255 T00940094 EDTL 301750Z 08002KT CAVOK 17/12 Q1015 CXCD 010400Z AUTO 03007KT 01/M00 RMK AO1 4PAST HR M P0009 T00121004 50083 CWJV 010400Z AUTO 08001KT 11/07 RMK AO1 SLP102 T01080066 57004 CWKM 010400Z AUTO 31013KT A3032 KAPN 010354Z AUTO 07008KT 10SM BKN110 16/13 A3023 RMK AO2 SLP236 T01610128 KBFW 010434Z AUTO 00000KT 10SM SCT060 12/09 A3027 RMK AO2 DNKN 010400Z 25005KT CAVOK 24/21 Q1012 NOSIG CWLE 010400Z AUTO 31009KT 11/09 RMK AO1 SLP162 T01100094 51015 CWJW 010400Z AUTO 35006KT 08/07 RMK AO1 7PAST HR 1003 SLP174 P0014 T00760069 50039 VCRI 010410Z 27018KT 230V290 9999 FEW017 31/18 Q1010 NOSIG CXBO 010400Z AUTO 03005KT RMK AO1 CWKO 010400Z AUTO 18008KT 13/10 RMK AO1 SLP161 T01270101 53004 CWJX 010400Z AUTO 09007KT 11/08 RMK AO1 SLP162 T01080080 52009 UMII 301600Z 25005MPS 9999 FEW030 BKN300 14/09 Q1009 R23/290050 NOSIG UNAA 010430Z 34002MPS 9999 SCT024CB 03/M02 Q1014 R02/090065 NOSIG RMK QFE738 CWKP 010400Z AUTO ///// M03/ A3031 RMK SLP297 KBGR 010353Z 00000KT 10SM FEW120 BKN250 08/07 A3044 RMK AO2 SLP308 T00830067 CXBR 010400Z AUTO 33004KT 12/07 RMK AO1 T01190067 CWLI 010400Z AUTO ///// 7SM //// BKN009 OVC046 02/01 A3024 KARA 010353Z AUTO 00000KT 10SM CLR 17/14 A3008 RMK AO2 SLP186 T01720139 KBHK 010351Z AUTO 13006KT 10SM CLR 13/08 A3001 RMK AO2 SLP153 T01330083 KARB 010444Z AUTO 02008KT 5SM BR OVC004 14/14 A3007 RMK AO2 T01440139 CXDB 010400Z AUTO 25005KT 11/06 RMK AO1 T01120064 CXCK 010400Z AUTO 04001KT M03/M07 RMK AO1 SLP333 T10301069 55005 NZDN 010437Z 10008KT 8KM SCT005 OVC010 11/10 Q1009 RMK VATSIM USE ONLY KBID 010356Z AUTO 06017G24KT 6SM -RA BR OVC005 16/15 A3024 RMK AO2 PK WND 05027/0300 SLP244 P0001 T01560150 401610150 KBHM 010353Z 00000KT 10SM CLR 16/10 A3010 RMK AO2 SLP187 T01560100 CWLM 010400Z AUTO 24009KT 10/09 RMK AO1 2PAST HR 5007 SLP138 P0001 T01020089 50006 KBIE 010435Z AUTO 11004KT 10SM CLR 14/11 A3016 RMK AO2 T01400112 CXBW 010300Z AUTO 09005KT 14/08 RMK AO1 T01440084 CWME 010400Z AUTO 16002KT 11/09 RMK AO1 SLP140 T01050086 53001 KBIF 010358Z AUTO 17004KT 10SM CLR 21/16 A3014 RMK AO2 SLP157 T02060162 $ CWKW 010400Z AUTO ///// A2978 KAQO 010430Z AUTO 00000KT 10SM CLR 17/17 A3015 RMK AO2 EDVE 301950Z 00000KT CAVOK 11/10 Q1014 KAQP 010355Z AUTO 11004KT 10SM CLR 11/07 A3020 RMK AO2 CWKX 010400Z AUTO 34007KT 03/M04 RMK AO1 SLP289 T00321044 53005 KARG 010435Z AUTO 28003KT 10SM OVC065 18/13 A3007 RMK AO1 OPNH 010400Z 13505KT 5000M HZ NSC 28/23 Q.1007 KAPY 010435Z AUTO 00000KT 10SM CLR 21/16 A3007 RMK AO2 T02140162 KD95 010433Z AUTO 09007KT 10SM OVC008 13/13 A3014 RMK AO2 T01330126 CXCP 010400Z AUTO 02010KT 11/10 RMK AO1 9PAST HR M PK WND 32028/0311 P0004 T01120095 50009 CWLP 010400Z AUTO 25003KT 09/ RMK AO1 SLP134 T0094 57006 EDTY 301750Z 30004KT CAVOK 16/12 Q1016 KBIH 010356Z AUTO 02004KT 10SM CLR 19/M02 A3000 RMK AO2 SLP120 T01891022 UNBB 010430Z 17003MPS 9000 -RA BKN027 08/07 Q1008 R24/290151 NOSIG RMK QFE734 KAQR 010435Z AUTO 00000KT 10SM CLR 12/12 A3010 RMK AO2 CXDI 010400Z AUTO 07003KT 14/11 RMK AO1 SLP209 T01370106 56008 OPMT 010250Z 13004KTS 4000 FU NSC 30/22 Q1006 NOSIG KBIJ 010435Z AUTO 00000KT 10SM CLR 15/12 A3007 RMK AO2 VEBD 010330Z 06004KT 6000 SCT025 BKN090 29/26 Q1010 NOSIG CXCS 010400Z AUTO 05013KT 10/08 RMK AO1 PK WND 05017/0359 T01000084 CXEA 010400Z AUTO 18001KT 11/10 RMK AO1 SLP260 T01130098 55005 CWLS 010400Z AUTO 10010G19KT 13/08 RMK AO1 PK WND 08019/0354 SLP226 T01300084 58010 CWMJ 010400Z AUTO 34002KT 11/09 RMK AO1 SLP287 T01110089 58009 CWNB 302100Z AUTO RMK AO1 CXDK 010400Z AUTO 36001KT M03/M04 RMK AO1 SLP331 T10301035 56005 KBIL 010353Z 22009KT 10SM BKN180 19/08 A3002 RMK AO2 SLP139 T01940078 EDVK 301750Z 18004KT CAVOK 13/11 Q1015 KBJC 010347Z 23005KT 30SM BKN120 15/08 A3019 KE11 010435Z AUTO 15004KT 10SM CLR 16/11 A3014 RMK AO2 T01590108 CWNC 010400Z AUTO 11014G20KT 16/11 RMK AO1 PK WND 12021/0344 SLP245 T01620107 58012 CXEC 010400Z AUTO 06011G17KT 09/06 RMK AO1 PK WND 05017/0356 SLP209 T00880058 52010 KASD 010353Z AUTO 00000KT 10SM CLR 17/16 A3006 RMK AO2 SLP180 T01720156 KCAD 010434Z AUTO 08011G15KT 10SM DZ BKN007 OVC010 13/12 A3015 RMK AO2 T01310123 KAQV 010356Z AUTO 00000KT 6SM BR CLR 14/13 A3007 RMK AO2 SLP183 T01390128 KARM 010435Z AUTO 00000KT 10SM CLR 17/13 A3009 RMK AO2 T01650130 CWND 010617Z M01/M01 RMK T10121007 CWMM 010400Z AUTO 19001KT 11/08 RMK AO1 SLP141 T01060078 53002 DNMM 010400Z 00000KT 5000 TS BR FEW007 FEW017CB 23/22 Q1012 TEMPO 3000 KAQW 010405Z AUTO 11014KT 10SM SCT024 BKN048 OVC060 11/06 A3035 RMK AO2 T01060061 KASE 010353Z 21005KT 10SM FEW075 08/04 A3034 RMK AO2 SLP191 T00830044 KCAE 010356Z 24003KT 10SM CLR 17/12 A3003 RMK AO2 SLP165 T01670122 CWNE 010400Z AUTO 23012KT 13/07 RMK AO1 SLP294 T01290071 58008 KAQX 010435Z AUTO 00000KT 10SM CLR 16/15 A3004 RMK AO2 VEBI 010430Z 00000KT 5000 BR SCT020 SCT100 26/21 Q1015 NOSIG KASG 010148Z 00000KT 10SM SKC 17/12 A3013 CWLX 010400Z AUTO 01007KT 01/ A2984 RMK SLP121 KCAG 010353Z AUTO 00000KT 10SM CLR 09/07 A3026 RMK AO2 SLP205 T00940067 $ CXDP 010400Z AUTO 04009KT 08/06 RMK AO1 T00750064 CXEG 010400Z AUTO 09/08 RMK AO1 T00900077 CWLY 010400Z AUTO VRB06G15KT 9SM CLR 14/M00 A2984 RMK SLP111 DENSITY ALT 800FT KASH 010356Z AUTO 01005KT 10SM OVC014 11/10 A3039 RMK AO2 SLP302 T01110100 401560078 UMKK 010430Z 23003MPS 8000 FEW030 10/10 Q1012 R24/CLRD70 NOSIG RMK QFE758/1011 CWMQ 010400Z AUTO 06001KT 10/08 RMK AO1 SLP160 T00970075 51007 CWNH 010400Z AUTO 17002KT 08/06 RMK AO1 SLP309 T00820063 58005 ZSHC 010430Z 24001MPS 2200 R07/1400N BR BKN009 BKN020 27/23 Q1013 NOSIG VEAT 010430Z 00000KT 6000 FEW020 33/26 Q1008 NOSIG KARR 010414Z AUTO 01004KT 9SM FEW008 FEW017 OVC024 17/15 A3005 RMK AO2 T01670150 KBJI 010432Z AUTO 12006KT 10SM CLR 11/08 A3024 RMK AO2 T01060082 PFWS 010356Z AUTO 15030G38KT 10SM SCT120 10/05 A3005 RMK AO2 PK WND 16040/0336 SLP181 T01000050 KBIS 010352Z 13008KT 10SM CLR 17/07 A3007 RMK AO2 SLP183 T01670072 KBJJ 010433Z AUTO 12006KT 7SM -RA OVC015 14/13 A3007 RMK AO2 RAB26 P0002 T01440133 KASJ 010425Z AUTO 00000KT 10SM CLR 21/21 A3005 RMK AO2 T02110208 VECC 010430Z 15006KT 3500 HZ SCT020 SCT025 32/28 Q1008 NOSIG KCAK 010351Z 12009KT 10SM OVC010 15/12 A3007 RMK AO2 SLP182 T01500122 KBKB 010354Z AUTO 00000KT 10SM CLR 14/13 A3006 RMK AO2 SLP208 T01440133 KART 010356Z AUTO 08003KT 10SM OVC060 13/09 A3031 RMK AO2 SLP264 T01280094 VEBN 010430Z 08004KT 4000 HZ SCT025 31/27 Q1008 CWMT 010400Z AUTO 01002KT M00/M04 RMK AO1 SLP326 T10041041 55001 CWNK 010400Z AUTO 14010KT 14/12 RMK AO1 T01440115 KASL 010435Z AUTO 00000KT 10SM CLR 13/11 A3011 RMK AO1 T01270110 CWNL 010400Z AUTO 10007KT 17/11 RMK AO1 SLP243 T01690106 58007 CWOC 010400Z AUTO 34006KT 11/07 RMK AO1 SLP290 T01070072 57007 KBKD 010430Z AUTO 12006KT 10SM CLR 16/11 A3011 RMK AO2 T01630106 KARV 010430Z AUTO 07003KT 10SM CLR 14/11 A3025 RMK AO2 T01380111 KBIV 010353Z AUTO 07008KT 10SM OVC008 16/14 A3009 RMK AO2 CIG 006V010 SLP189 T01610144 CWOD 010400Z AUTO 00000KT 04/04 RMK AO1 6004 SLP297 T00350042 50030 CWNM 010400Z AUTO 12003KT 14/08 RMK AO1 SLP120 T01390079 58007 ZSFZ 010400Z 05008MPS 9999 SCT013 30/25 Q1012 NOSIG KARW 010435Z AUTO 00000KT 7SM CLR 20/18 A3003 RMK AO2 KCBE 010448Z AUTO 00000KT 4SM SCT007 BKN016 15/15 A3019 RMK AO1 KBKE 010353Z AUTO 17009KT 10SM FEW120 19/M01 A2984 RMK AO2 SLP089 T01891011 KASN 010435Z AUTO 00000KT 10SM CLR 12/10 A3009 RMK AO2 T01220100 CXDW 010400Z AUTO 15008KT 15/11 RMK AO1 SLP210 T01460110 56005 CWOE 010400Z AUTO 07010KT 15/09 RMK AO1 SLP146 T01540088 50002 KCAO 010355Z AUTO 29008KT 10SM BKN100 17/10 A3016 RMK AO2 SLP157 T01670100 KCBF 010435Z AUTO 00000KT 10SM CLR 14/12 A3017 RMK AO2 KBIX 010358Z AUTO 30001KT 10SM CLR 20/16 A3006 RMK AO2 SLP182 T02040159 $ KBKF 010358Z 20007KT 10SM FEW100 FEW200 14/09 A3021 RMK AO2A SLP175 T01390090 KCBG 010436Z AUTO 05005KT 10SM OVC007 13/10 A3021 RMK AO2 VEBS 010330Z 09003KT 2000 HZ SCT018 FEW030CB BKN100 28/26 Q1007 BECMG 5000 HZ CWNP 010400Z AUTO 06002KT 12/09 RMK AO1 SOG 00 8003 SLP118 T01210087 CWMZ 010400Z AUTO 11021G26KT 16/10 RMK AO1 PK WND 11027/0304 SLP245 T01550097 58007 CWNQ 010400Z AUTO 06005KT 12/06 RMK AO1 SLP294 T01200055 57005 KCAR 010354Z AUTO 00000KT 10SM CLR 06/04 A3044 RMK AO2 SLP314 T00560044 KCCA 010435Z AUTO 00000KT 10SM CLR 14/14 A3009 RMK AO2 KCBK 010435Z AUTO 12005KT 10SM CLR 11/07 A3017 RMK AO2 KAST 010355Z AUTO 12003KT 10SM FEW043 SCT075 BKN100 13/07 A2997 RMK AO2 SLP149 T01330072 CXET 010400Z AUTO 10007KT 14/08 RMK AO1 SLP243 T01380079 58008 KBKL 010411Z 11007KT 10SM OVC014 16/13 A3008 RMK AO2 T01610133 KATL 010352Z 00000KT 10SM CLR 16/10 A3007 RMK AO2 SLP178 T01610100 EFET 010420Z AUTO 24008KT 9999 -SHRA OVC068 06/04 Q0977 CWPC 010400Z AUTO 07012KT 13/10 RMK AO1 PK WND 07017/0306 SLP225 T01340098 58009 KCAV 010435Z AUTO 00000KT 10SM OVC038 15/14 A3018 RMK AO2 PWINO KCBM 010358Z AUTO 29003KT 10SM CLR 15/12 A3006 RMK AO2 SLP181 T01450117 $ CXFM 010400Z AUTO 08004KT 13/09 RMK AO1 T01320093 CWPD 010400Z AUTO 21003KT 02/02 RMK AO1 SLP300 T00230022 58006 UMMG 010400Z 20002MPS 8000 NSC 11/10 Q1014 NOSIG VEDG 301100Z 12006KT 6000 FEW015 FEW020 31/25 Q1003 NOSIG KASW 010435Z AUTO 07006KT 10SM OVC009 15/12 A3004 RMK AO2 CWPE 010400Z AUTO 03001KT 06/05 RMK AO1 SLP307 T00600051 58007 KBLF 010429Z AUTO 00000KT 4SM BR BKN002 OVC020 13/12 A3011 RMK AO2 T01280122 KASX 010403Z AUTO 06010KT 1/4SM FG VV002 11/11 A3028 RMK AO2 T01110111 CWPF 010445Z AUTO 17005KT 11/08 RMK AO1 T01100084 KAUG 010353Z AUTO 00000KT 10SM CLR 09/05 A3044 RMK AO2 SLP310 T00890050 KATP 010435Z AUTO 08018KT 10SM FEW029 FEW038 FEW046 27/21 A3002 RMK A01 KBLH 010352Z AUTO 20004KT 10SM CLR 32/12 A2986 RMK AO2 SLP104 T03220117 KAUH 010435Z AUTO 00000KT 10SM CLR 12/08 A3017 RMK AO2 T01160081 PHHI 010358Z AUTO VRB01KT 10SM SCT030 25/19 A3003 RMK AO2 SLP160 T02460194 $ NZGS 010258Z 32009KT 30KM SCT036 BKN065 18/11 Q1017 RMK VATSIM USE ONLY CXGH 010400Z AUTO 18014KT 14/11 RMK AO1 PK WND 17020/0339 T01360112 CWNZ 010400Z AUTO 11003KT 06/06 RMK AO1 SLP292 T00600056 58007 OPPS 010430Z 36006KT 3000 HZ SKC 29/22 Q1010 KBLI 010353Z 15004KT 10SM CLR 09/07 A2993 RMK AO2 SLP144 T00940072 NZHK 010400Z 01014KT 45KM BKN070 16/12 Q1013 RMK ALT VATSIM USE ONLY CXFR 010400Z AUTO 05018KT 01/01 RMK AO1 7PAST HR M PK WND 05024/0323 P0003 T00130007 50045 ULWC 010430Z 24005MPS CAVOK 07/06 Q1003 R21/290060 NOSIG RMK QFE742/0990 KATS 010435Z AUTO 19007KT 10SM CLR 16/15 A3012 RMK AO2 KCDA 010435Z AUTO 00000KT 10SM CLR 07/06 A3041 RMK AO2 T00740055 KBKS 010435Z AUTO 05004KT 10SM CLR 20/13 A3008 RMK AO1 T02030132 KE38 010435Z AUTO 22003KT 10SM CLR 17/15 A3026 RMK AO2 T01680147 PFYU 010250Z 00000KT 10SM FEW120 04/M01 A3032 CXHA 010400Z AUTO 12003KT 17/14 RMK AO1 SLP173 T01690143 57009 UMMM 010400Z 26002MPS CAVOK 13/10 Q1014 ///// RMK QFE741 KATT 010351Z AUTO 00000KT 10SM CLR 19/13 A3011 RMK AO2 SLP187 T01890128 EFHA 010420Z AUTO 21010KT 9999 RA BKN025 08/07 Q0994 KBKT 010435Z AUTO 14007KT 120V190 10SM OVC004 A3005 RMK AO1 UNEE 010430Z 05004MPS CAVOK 03/M04 Q1012 R23/CLRD60 NOSIG RMK QFE736 CWPK 010400Z AUTO 06001KT 05/05 RMK AO1 SLP313 T00520048 58006 KBMC 010430Z AUTO 35003KT 10SM 16/10 A3008 RMK AO1 T01610100 KCDC 010353Z AUTO 00000KT 10SM CLR 14/07 A3018 RMK AO2 SLP165 T01440067 KAVC 010436Z AUTO 15004KT 10SM OVC005 21/21 A3010 RMK AO2 T02130213 NZHN 010430Z 01010KT 25KM FEW025 SCT032 17/12 Q1016 RMK VATSIM USE ONLY KCDD 010355Z AUTO 00000KT 10SM CLR 05/04 A3032 RMK AO2 KBKV 010353Z AUTO 00000KT 10SM -RA SCT033 BKN043 OVC060 24/20 A3005 RMK AO2 RAB47 SLP174 P0000 T02440200 $ KBLM 010356Z AUTO 04010G19KT 4SM -RA BR OVC005 16/15 A3021 RMK AO2 SLP234 P0001 T01560150 KAUM 010436Z AUTO 00000KT 10SM OVC036 16/12 A3019 RMK AO2 CXHD 010400Z AUTO 03008KT 09/08 RMK AO1 T00920075 KBKW 010438Z AUTO 00000KT 6SM BR FEW001 BKN024 OVC030 13/13 A3010 RMK AO2 CIG 002 RWY19 T01330128 KAUN 010435Z AUTO 14007KT 10SM CLR 14/04 A3005 RMK AO1 KATW 010435Z AUTO 04008KT 5SM BR OVC006 15/15 A3015 RMK AO2 P0001 EDXW 301650Z 26016KT 9999 VCTS SCT035CB 15/09 Q1009 KAUO 010356Z AUTO 00000KT 10SM CLR 16/10 A3009 RMK AO2 SLP206 T01560100 KCCO 010435Z AUTO 00000KT 10SM CLR 14/12 A3009 RMK AO2 T01380121 KBKX 010401Z AUTO 12007KT 10SM CLR 13/08 A3018 RMK AO2 SLP235 T01280078 CXHF 010400Z AUTO 12/08 RMK AO1 T01220079 CWPO 010400Z AUTO 15011KT 14/10 RMK AO1 SOG 08 6007 SLP211 T01440096 DNPO 301200Z 19006KT 9999 BKN011 FEW020CB 29/26 Q1012 NOSIG KBMG 010353Z AUTO 15004KT 10SM CLR 12/11 A3001 RMK AO2 SLP160 T01220106 EFHF 010420Z AUTO 21009KT 170V250 CAVOK 11/07 Q0998 KATY 010353Z AUTO 12008KT 10SM CLR 14/07 A3018 RMK AO2 SLP217 T01440072 CWOY 010400Z AUTO 15004KT 13/09 RMK AO1 SOG 00 5000 SLP162 T01270093 UMMS 010430Z 23002MPS CAVOK 12/11 Q1014 R31/CLRD// NOSIG NZHS 010318Z 01012KT 30KM VCSH FEW030 BKN080 16/13 Q1016 RMK NZNR VATSIM USE ONL CWQH 010400Z AUTO 04004KT 10/08 RMK AO1 T00990076 KBMI 010448Z AUTO 02009KT 7SM BKN005 OVC014 16/15 A3003 RMK AO2 CIG 003V010 KCCR 010353Z 24007KT 10SM CLR 16/08 A3006 RMK AO2 SLP166 T01610078 NZHT 010400Z 04016KT 30KM SCT010 15/12 Q1011 RMK ALT VATSIM USE ONLY CWPR 010400Z AUTO 35006KT 14/02 RMK AO1 SLP106 T01410018 51011 KBNA 010353Z 20004KT 10SM FEW047 BKN080 15/13 A3005 RMK AO2 SLP172 T01500133 KCDJ 010352Z AUTO VRB04KT 17/13 A3015 RMK AO1 SLP202 T01670133 KAUS 010353Z 00000KT 10SM SCT250 15/14 A3009 RMK AO2 SLP186 T01500139 CWPS 010400Z AUTO 17/13 RMK AO1 SLP202 T01690131 56006 CWRA 010400Z AUTO 34009KT 10/08 RMK AO1 SLP236 T00960077 50002 KAVK 010435Z AUTO 12005KT 10SM BKN017 BKN023 OVC028 16/10 A3012 RMK AO2 CXIB 010400Z AUTO 26004KT 12/03 RMK AO1 SLP289 T01200031 57005 CWQK 010400Z AUTO 26016KT 11/11 RMK AO1 PK WND 26019/0301 SLP137 T01090109 55006 KBML 010352Z AUTO 00000KT 10SM CLR 05/04 A3043 RMK AO2 SLP313 T00500039 KBLU 010352Z AUTO 17007KT 10SM CLR 11/M01 A3014 RMK AO2 SLP151 T01061011 TSNO EFHK 010420Z 21010KT 9999 FEW025 10/06 Q0998 NOSIG KAVL 010354Z AUTO 00000KT 10SM CLR 13/09 A3009 RMK AO2 SLP173 T01280089 KCCU 010436Z AUTO 30003KT 10SM SCT013 BKN026 BKN031 06/02 A3056 RMK AO2 KCEC 010435Z AUTO 17011KT 9SM -RA BKN023 BKN032 OVC080 13/09 A3010 RMK AO2 RAB30 P0000 T01330089 EEPU 301250Z 24021G34KT 210V270 9999 SCT036 15/07 Q0999 KBLV 010358Z AUTO 32007KT 10SM FEW009 16/16 A3002 RMK AO2 CIG 065 RWY14R SLP167 T01630163 OPRN 010330Z 05006KT 3000 HZ NSC 26/21 Q1012.0/29.88 CXHM 010300Z AUTO 07007KT 15/10 RMK AO1 PK WND 08017/0203 SLP223 T01460104 58007 PGRO 010350Z 15007KT 140V2000 7SM SCT011 BKN080 29/25 A2985 KAUW 010354Z AUTO 03004KT 10SM FEW035 BKN120 14/11 A3019 RMK AO2 SLP228 T01440106 KCEF 010444Z AUTO 03010KT 10SM OVC005 10/09 A3032 RMK AO2 RAE0359DZB0359E16 PHJH 010350Z 05017G23KT 15SM FEW030 FEW045 25/20 A3000 RMK LAST CWQO 010400Z AUTO 21008KT 07/05 RMK AO1 T00740052 CWRF 010400Z AUTO ///// A3001 CWPX 010400Z AUTO 02007KT M1/4SM //// OVC002 M06/M06 A3015 KCCY 010455Z AUTO 05005KT 10SM OVC024 16/14 A3017 RMK AO2 KAVP 010416Z VRB06KT 10SM BKN013 OVC047 13/10 A3023 RMK AO2 T01280100 KAWG 010435Z AUTO RMK AO2 PNO PWINO CXHP 010400Z AUTO 06007KT 05/04 RMK AO1 5PAST HR M P0002 T00490036 50025 CWQP 010400Z AUTO 12019KT 16/10 RMK AO1 PK WND 11024/0347 SLP257 T01580099 58009 KBMQ 010353Z AUTO 03004KT 10SM CLR 16/12 A3013 RMK AO2 SLP192 T01610117 $ KAVQ 010435Z AUTO 26003KT 10SM CLR 23/14 A3002 RMK AO2 T02340135 CWPZ 010400Z AUTO 02003KT 07/M01 RMK AO1 SLP185 T00671011 53006 CWRH 010400Z AUTO ///// M02/ A2974 RMK SLP101 KCDR 010353Z AUTO 21014KT 10SM CLR 19/08 A3004 RMK AO2 SLP162 T01940078 CXHR 010400Z AUTO 01007KT 10/08 RMK AO1 T00960082 CWQR 010400Z AUTO 28010KT 09/09 RMK AO1 T00880088 KCDS 010353Z AUTO 14008KT 10SM CLR 18/11 A3011 RMK AO2 SLP179 T01780106 KAXA 010435Z AUTO 00000KT 10SM OVC040 16/13 A3018 RMK AO2 OPSK 010400Z 00000KT 4000 HZ NSC 31/24 QNH 1006 CWRJ 010400Z AUTO 01004KT 10/08 RMK AO1 T00960081 51014 CWQS 010400Z AUTO 03006KT 11/08 RMK AO1 0004 SLP132 T01060080 50032 CWSA 010400Z AUTO 35010KT 9SM CLR 14/11 A3039 RMK SLP293 EGAA 010420Z 00000KT 9999 FEW046 05/05 Q1005 KBMT 010435Z AUTO 00000KT 10SM CLR 17/15 A3009 RMK AO2 T01670147 CYAB 301900Z 30006KT 25SM FEW020 FEW100 FEW210 M00/M05 A2998 RMK SC1AC1CC1 SC TR SLP154 CWRK 010400Z AUTO 29001KT 11/08 RMK AO1 SLP273 T01060082 58011 ORBD 010355Z 34006KT 4400 DU SCT000 20/M01 A2976 RMK DU SCT000 SLP076 WND DATA/ALSTG/SLP ESTMD UMOO 010400Z 22001MPS CAVOK 11/09 Q1014 NOSIG KAWM 010353Z AUTO 33003KT 9SM CLR 16/12 A3006 RMK AO2 SLP178 T01560122 EGAC 302020Z 21005KT 9999 FEW035 11/07 Q1006 PGSN 010354Z 14008KT 10SM SCT020 31/26 A2984 RMK AO2 SLP126 T03060256 KCFD 010435Z AUTO 00000KT 10SM CLR 15/14 A3011 RMK AO2 T01470136 CWRM 010400Z AUTO 05006KT 08/08 RMK AO1 5PAST HR 0004 SLP188 P0006 T00810079 50015 CWSD 010400Z AUTO 20003KT 07/06 RMK AO1 SLP302 T00660055 58008 CWQV 010400Z AUTO 30002KT 10/08 RMK AO1 T00970081 KCDW 010353Z AUTO 06006KT 10SM OVC010 13/12 A3025 RMK AO2 CIG 008V013 SLP250 T01330117 TSNO KCFE 010434Z AUTO 04005KT 10SM CLR 13/11 A3022 RMK AO2 T01300105 CWRN 010400Z AUTO 31011KT 13/09 RMK AO1 SLP300 T01270087 58006 EGAE 301720Z 24005KT 190V270 9999 FEW030 12/08 Q1005 KAVX 010351Z AUTO 24007KT 10SM CLR 22/01 A3002 RMK AO2 SLP136 T02220006 TSNO KBNO 010427Z AUTO 34004KT 7SM BKN021 14/M01 A2994 RMK AO2 T01391006 KAWO 010435Z AUTO 00000KT 10SM CLR 08/02 A2997 RMK AO1 CWRO 010400Z AUTO 05008KT 10/ RMK AO1 SLP143 T0095 51003 CWSF 010400Z AUTO 24002KT 11/08 RMK AO1 SLP287 T01140076 58003 NZKI 010400Z 25002KT 30KM BKN100 16/11 Q1011 RMK ALT VATSIM USE ONLY CWSG 010000Z AUTO 24008KT 10/08 RMK AO1 SLP301 T01040076 53001 PHJR 010353Z 05007KT 10SM BKN055 28/19 A3002 RMK AO2 SLP171 T02780189 ORBI 010230Z 31007KT 2600 DU NSC 21/02 Q1007 KAXH 010435Z AUTO 00000KT 10SM CLR 16/15 A3009 RMK AO2 T01560145 VEGK 010330Z 12008KT 3000 BR FEW010 SCT012 29/26 Q1009 BECMG 4000 KBOI 010353Z 14014KT 10SM CLR 23/04 A2984 RMK AO2 SLP077 T02280039 CYAH 010400Z AUTO 22004KT 9SM CLR 05/03 A3040 RMK SLP308 PGUA 010358Z AUTO 17012KT 10SM FEW014 30/25 A2986 RMK AO2 SLP102 T03010250 $ NZKK 010344Z 02012KT 30KM VCSH FEW013 SCT018 BKN035 17/14 Q1016 RMK NZAA VATSIM OPST 010400Z 13004KT 1500 FU NSC 30/25 Q1010 BECMG 2000 RH78 KCFJ 010435Z AUTO 08003KT 5SM BR SCT008 OVC090 13/13 A3000 RMK AO2 T01320132 CXKA 010400Z AUTO 03001KT 06/06 RMK AO1 SLP281 T00620058 58006 KBOK 010356Z AUTO 13004KT 10SM OVC021 12/08 A3009 RMK AO2 RAB35E50 SLP205 P0000 T01220078 CYBB 302300Z 02007KT 10SM VCFG OVC009 01/M00 A3002 RMK ST8 VIS W 2/1.7/0.3/TR/TR/SNW CVR/TR LOOSE LAST STFD OB NEXT 011500Z SLP170 KBPC 010435Z AUTO 16011KT 10SM CLR 17/10 A3010 RMK AO2 CWRT 010400Z AUTO 21001KT 07/07 RMK AO1 T00690069 50014 CWSK 010400Z AUTO 08001KT 08/06 RMK AO1 SLP133 T00770060 51003 EGBB 010420Z 17003KT CAVOK 07/07 Q1006 KCEU 010354Z AUTO 26006KT 10SM CLR 16/09 A3005 RMK AO2 SLP169 T01610089 KCGC 010435Z AUTO 00000KT 10SM OVC044 23/20 A3004 RMK AO2 LTG DSNT S CWRU 010400Z AUTO 13006KT 10/09 RMK AO1 SLP128 T01000090 56005 CWSL 010400Z AUTO 26002KT 09/08 RMK AO1 SLP110 T00930078 56003 CYBC 010400Z AUTO 26005KT 9SM FEW080 07/07 A3040 RMK SLP297 CYBD 010100Z VRB02KT 15SM VCSH BKN068CB 11/08 A2994 RMK CB6 OCNL -SHRA CB ALQDS LAST OBS/NEXT 011300UTC/ SLP141 KCGE 010443Z AUTO 06005KT 3SM OVC004 18/18 A3011 RMK AO1 VDPP 010430Z 31004KT 220V020 9999 SCT015 FEW017CB 31/24 Q1008 CB CYAM 010400Z 08006KT 15SM FEW090 SCT280 14/08 A3027 RMK AC1CI2 SLP255 KAXN 010353Z AUTO 09008KT 10SM CLR 13/10 A3023 RMK AO2 SLP243 T01280100 EFIV 010420Z AUTO 21009KT 170V230 9999 BKN023 OVC062 06/05 Q0976 KCEW 010353Z AUTO 00000KT 10SM CLR 14/13 A3008 RMK AO2 SLP185 T01440128 PHKO 010353Z 22007KT 10SM SCT044 BKN050 28/22 A2996 RMK AO2 SLP144 T02830222 KBNW 010435Z AUTO 04005KT 6SM BR OVC014 15/14 A3016 RMK AO2 KCGF 010245Z 11008KT 10SM OVC015 16/15 A3009 KAXO 301620Z 03014KT 7SM SCT030 26/16 A3014 CXKE 010400Z AUTO 06001KT 12/08 RMK AO1 SLP273 T01190077 57007 EGBE 301650Z 22009KT 9999 5000E VCSH FEW028 SCT038CB 14/10 Q1010 EFKE 010420Z AUTO 23007KT 200V260 CAVOK 08/04 Q0983 EFJO 010420Z AUTO 18006KT CAVOK 07/05 Q0993 KBPG 010435Z AUTO 13006KT 10SM CLR 18/11 A3015 RMK AO2 T01770105 KCEY 010435Z AUTO 28005KT 10SM 15/15 A3003 RMK AO1 CWTG 010400Z AUTO 27009KT 09/08 RMK AO1 SLP291 T00880079 58006 CWSP 010400Z AUTO 29012KT 10/10 RMK AO1 SLP143 T01020096 56006 CWRY 010400Z AUTO 27001KT 12/09 RMK AO1 SLP145 T01240087 54000 CYBG 010400Z 20003KT 25SM OVC250 07/06 A3045 RMK CI3 SLP317 ZSNB 010400Z 17004MPS 140V210 9999 SCT026 31/23 Q1013 NOSIG KCEZ 010353Z AUTO 07004KT 10SM CLR 11/08 A3024 RMK AO2 SLP192 T01060078 PHLI 010353Z 05013KT 10SM SCT024 SCT038 27/22 A3005 RMK AO2 SLP173 T02670217 CWRZ 010400Z AUTO 06002KT 11/08 RMK AO1 SLP279 T01120075 56008 VEGT 010430Z 00000KT 5000 HZ SCT020 BKN100 31/26 Q1009 NOSIG KBPI 010353Z AUTO 25004KT 10SM CLR 09/04 A3026 RMK AO2 SLP188 T00940044 KCGI 010353Z AUTO 27007KT 10SM SCT065 OVC095 16/14 A3003 RMK AO2 SLP168 T01560139 CXKI 010400Z AUTO 09/09 RMK AO1 SLP294 T00920089 57010 CWSR 010400Z AUTO 33007KT 11/09 RMK AO1 SLP178 T01060092 51014 EFKI 010420Z AUTO 21005KT 150V290 CAVOK 06/04 Q0988 KCHA 010353Z 00000KT 10SM FEW150 15/10 A3008 RMK AO2 SLP183 LAST T01500100 KBOS 010429Z 05013KT 10SM BKN011 OVC034 14/14 A3034 RMK AO2 RAE08 P0000 T01440139 KCFS 010435Z AUTO 07004KT 5SM -RA OVC007 13/13 A3014 RMK AO2 T01330130 KAXS 010435Z AUTO 12006KT 10SM CLR 17/12 A3012 RMK AO2 T01700115 NZMC 010400Z 04016KT 30KM SCT010 15/12 Q1011 RMK ALT NZHT VATSIM USE ONLY CYAS 302100Z 27012KT 15SM -RA BKN031 OVC090 04/03 A2997 RMK SC7AS1 LAST STFD OBS/NEXT 011200UTC SLP158 EGBJ 301750Z 21005KT 9999 FEW040 13/10 Q1010 CWSS 010400Z AUTO 00000KT 06/05 RMK AO1 SLP312 T00600054 58005 KBPK 010353Z AUTO 00000KT 10SM CLR 16/13 A3009 RMK AO2 SLP184 T01560128 KE80 010435Z AUTO 00000KT 10SM CLR 18/14 A3019 RMK AO2 T01790135 CXLB 010400Z AUTO 32005KT 11/09 RMK AO1 SLP307 T01100093 58003 CWST 010400Z AUTO 11004KT 08/06 RMK AO1 SLP302 T00750056 58007 CYCB 010400Z 02006KT 12SM SCT004 OVC005 M01/M02 A3021 RMK SF4ST4 CIG RAG SLP234 CYBK 010400Z 28013KT 15SM BKN054 02/M01 A3024 RMK SC7 SLP243 CYAT 010400Z AUTO 18003KT 9SM CLR 10/07 A3037 RMK SLP287 EFKK 010420Z AUTO 19005KT CAVOK ///// Q//// PGUM 010354Z 16009KT 10SM SCT019 31/26 A2985 RMK AO2 SLP099 T03110256 $ KAZC 010435Z AUTO 10SM CLR 14/12 A3020 RMK AO2 KCHD 010347Z 09012KT 10SM FEW120 28/14 A2995 RMK LAST CYBL 010400Z 30003KT 15SM SCT100 BKN170 08/07 A2992 RMK AC4AC3 LAST OBS/NEXT 011300 UTC SLP137 CXLC 010400Z AUTO 28006KT M00/M05 RMK AO1 SLP315 T10031050 55000 KCFV 010352Z AUTO 00000KT 10SM CLR 12/11 A3012 RMK AO2 SLP196 T01220111 EGCC 010420Z 14004KT 9999 BKN041 09/07 Q1005 NOSIG KAXV 010432Z AUTO 05004KT 7SM OVC005 16/16 A3001 RMK AO2 LTG DSNT E NZMF 010336Z 23009KT 40KM FEW060 18/08 Q1007 RMK NZQN VATSIM USE ONLY CYCD 010400Z 00000KT 20SM SCT120 BKN210 09/07 A2993 RMK AC3CI3 LAST OBS/NEXT 011300 UTC SLP137 CXKM 010400Z AUTO 06009KT 10/08 RMK AO1 T01010077 VEGY 010430Z 09006KT 4500 HZ FEW020 SCT250 31/25 Q1009 BECMG 5000 HZ KBOW 010435Z AUTO 00000KT 10SM CLR 22/22 A3003 RMK AO2 KAZE 010435Z AUTO 00000KT 10SM CLR 16/15 A3005 RMK AO2 T01610145 CWSW 010100Z VRB05KT 15SM -TSRA OVC065CB 15/08 A3002 RMK CB8 FRQ LTGIC /LAST STFD OBS/NEXT 011300Z PRESRR SLP173 DENSITY ALT 4500FT CYAW 302053Z 00000KT 15SM FEW180 FEW230 OVC270 17/06 A3044 RMK AC1CS1CI1 DA-104FT CONTRAILS LAST OBS/NEXT 031000 UTC SLP308 CWTN 010400Z AUTO 35003KT 12/05 RMK AO1 SLP307 T01160051 58004 CYBN 010437Z AUTO 10006KT 9SM BKN024 OVC033 OVC076 14/10 A3025 EETN 010420Z 21009KT 9999 FEW020CB SCT027 10/08 Q1001 NOSIG KAXX 010435Z AUTO 04005KT 10SM CLR 06/01 A3036 RMK AO2 T00630007 ZSNJ 010400Z 29002MPS 180V330 1000 R25/1000VP2000U -RA BR BKN005 OVC026 21/21 Q1014 NOSIG CYCG 010400Z 03003KT 320V120 15SM FEW120 SCT230 14/11 A2988 RMK AC1CI2 LAST OBS/NEXT 011300UTC SLP123 DENSITY ALT 1800FT EFJY 010420Z AUTO 19005KT 150V230 CAVOK 07/05 Q0992 CYAY 010400Z AUTO 19006KT 9SM CLR 02/01 A3021 RMK SLP234 CYAZ 010100Z 29005KT 12SM FEW020 FEW023 BKN230 12/09 A2997 RMK SC1SC1CI6 SC TR LAST STFD OBS/NEXT 011300UTC SLP149 CYBQ 010400Z AUTO 14009KT 9SM OVC085 08/05 A3026 RMK SLP264 KCGS 010444Z AUTO 06004KT 5SM OVC007 16/16 A3013 RMK AO1 CYBR 010420Z 10005KT 15SM OVC077 13/11 A3011 RMK AC8 SLP206 PHMK 010354Z 05009G23KT 10SM CLR 27/21 A3002 RMK AO2 PK WND 05028/0319 SLP168 T02670206 KAYS 010435Z AUTO 00000KT 10SM CLR 17/16 A3005 RMK AO2 LTG DSNT S T01690160 CYDA 010300Z 00000KT 20SM FEW060 SCT080 BKN140 02/M02 A3040 RMK SC1AC2AC4 CLIMAT 6.3/-6.2/0.0 LAST STFD OBS/NXT 011300Z SLP321 VEIM 010400Z 35003KT 4000 BR SCT016 FEW025CB BKN100 26/22 Q1013 NOSIG KBPT 010353Z 00000KT 10SM CLR 16/14 A3007 RMK AO2 SLP183 T01610144 EFKS 010420Z AUTO 23010KT 190V270 9999 OVC018 06/04 Q0983 EFMA 010420Z AUTO 25012KT 220V290 9999 FEW026 11/07 Q0998 KCHK 010435Z AUTO 00000KT 10SM CLR 16/12 A3012 RMK AO2 KBQK 010435Z AUTO 00000KT 10SM CLR 19/17 A3004 RMK AO2 CXKT 010300Z AUTO 19003KT 06/05 RMK AO1 SLP317 T00620050 51001 CWTT 010400Z AUTO 01003KT 10/08 RMK AO1 T01000080 CYDB 010400Z AUTO 00000KT 9SM CLR M03/M10 A3034 RMK SLP333 ZSOF 010400Z VRB01MPS 6000 -RA BKN004 OVC033 18/18 Q1015 BECMG TL0500 BKN005 EFKT 010420Z AUTO 22007KT 180V250 9999 FEW044 BKN145 05/02 Q0979 CYCK 010400Z AUTO 12009G15KT 9SM OVC018 17/15 A3009 RMK SLP192 DENSITY ALT 800FT KCIC 010435Z AUTO 14016G20KT 10SM CLR 18/05 A2998 RMK AO1 CYDC 010100Z 26009KT 25SM SCT060TCU BKN100 BKN220 20/M02 A2982 RMK TCU4AC2CI1 CONTRAILS LAST STFD OB/NEXT 01 1300UTC SLP095 DENSITY ALT 3500FT CXLL 010400Z AUTO 16001KT M03/M04 RMK AO1 SLP338 T10271039 56003 CWTU 010400Z AUTO ///// 05/ A3003 RMK SLP193 EETU 010350Z AUTO /////KT //// R26///// ////// ///// Q//// KBRD 010353Z AUTO 08004KT 9SM BKN007 11/09 A3025 RMK AO2 SLP251 T01060094 KCID 010443Z AUTO 02007KT 10SM SCT012 BKN021 OVC040 16/15 A3012 RMK AO2 T01560150 EFKU 010420Z AUTO 19008KT CAVOK 08/06 Q0992 CYBU 010400Z AUTO 35008KT 9SM CLR 12/10 A2999 RMK SLP168 CYBV 302100Z 16007G20KT 15SM FEW035 SCT150 BKN220 16/09 A3021 RMK SC1AC2CS2 LAST OBS/NEXT 031200Z SLP237 CXMD 010400Z AUTO 16007KT 15/10 RMK AO1 SLP211 T01470104 55002 CWVD 010400Z AUTO 32030KT M02/ A2965 RMK SLP084 PHNG 010419Z 06009G20KT 10SM OVC060 27/21 A3001 RMK AO2 T02670211 $ KAZO 010353Z AUTO VRB03KT 10SM OVC007 16/14 A3008 RMK AO2 CIG 006V010 SLP183 T01560139 EGCN 010420Z 05001KT 1900 R20/0900 BCFG FEW001 05/04 Q1007 CYBW 010423Z AUTO 01005KT 5SM BR OVC009 09/09 A3005 RMK LTNG DIST NW SLP201 DENSITY ALT 4000FT KCHO 010353Z 05008KT 8SM OVC006 17/16 A3008 RMK AO2 RAB04E13 SLP183 P0000 T01720161 CYCO 010421Z 29012KT 15SM VCSH FEW012 BKN026 OVC040 M01/M03 A3035 RMK SF1SC6SC2 SF TR SLP280 CYDF 010400Z VRB02KT 15SM SKC 05/05 A3029 RMK SLP258 CYBX 010400Z 02004KT 15SM SKC 04/02 A3021 RMK SLP234 CWVF 010445Z AUTO 12009KT 12/ RMK AO1 T0124 KF05 010435Z AUTO 14004KT 10SM CLR 18/10 A3011 RMK AO1 T01780100 KBQP 010435Z AUTO 00000KT 10SM CLR 14/14 A3009 RMK AO2 T01380135 CYCP 010100Z 33002KT 15SM FEW008 SCT060TCU BKN140 11/09 A2991 RMK SF1TCU3AC2 SF TR LAST OB/NEXT 011300 UTC SLP145 DENSITY ALT 2300FT CXMG 010400Z AUTO 04009KT 06/M01 RMK AO1 T00591013 CWTY 010400Z AUTO 01004KT 12/08 RMK AO1 SLP294 T01190077 58003 CWUP 010400Z AUTO 31025KT M01/ A2973 RMK SLP095 EFLP 010420Z AUTO 20007KT 170V240 CAVOK 07/06 Q0997 KCGZ 010435Z AUTO 05006KT 10SM CLR 26/12 A2998 RMK AO1 CYCQ 010100Z VRB02KT 3SM -RA BR FEW008 OVC017 02/01 A3023 RMK FG1ST1SC6 FG ALG RVR S-W FG BNK W LAST STFD OBS/NEXT 011300Z SLP266 CWVH 010400Z AUTO 24016KT A3021 CXMI 010400Z AUTO 36004KT 10/08 RMK AO1 SLP305 T01000084 58005 CWVI 010400Z AUTO 03009KT 09/07 RMK AO1 SLP197 T00930068 51012 ZSPD 010430Z 16004MPS 120V200 9999 BKN016 30/25 Q1014 NOSIG KDAA 010441Z AUTO VRB02KT 7SM R32/5500FT OVC006 18/17 A3011 RMK AO2 DZB22E41 EFMI 010420Z AUTO 20005KT 150V240 CAVOK 07/05 Q0995 KCHS 010356Z 00000KT 10SM CLR 21/18 A3003 RMK AO2 SLP169 T02060178 CWWA 010400Z AUTO 01003KT 10/04 RMK AO1 SLP136 T00980040 58005 CWUS 010400Z AUTO 28007KT 14/M00 RMK AO1 SLP093 T01371004 58005 KDAB 010353Z 23004KT 10SM SCT150 23/21 A3000 RMK AO2 SLP159 T02280211 PHNL 010353Z 04016KT 10SM FEW030 SCT055 BKN250 26/19 A3001 RMK AO2 SLP161 T02610189 CWWB 010400Z AUTO 05020KT 15/12 RMK AO1 PK WND 04023/0356 SLP230 T01460121 57010 KBRL 010353Z AUTO 36007KT 10SM OVC010 15/15 A3009 RMK AO2 CIG 008V012 SLP188 T01500150 CYDL 010400Z AUTO 35009G17KT 310V020 9SM OVC050 03/M03 A3027 RMK SLP273 EGEC 301620Z 24012KT 9999 FEW016CB SCT028 13/07 Q1005 CXMM 010400Z AUTO 02011KT 08/M01 RMK AO1 SLP261 T00811008 53006 CYED 010400Z AUTO 05010G16KT 9SM OVC014 OVC032 09/06 A3010 RMK SLP213 KCIN 010435Z AUTO 08005KT 10SM BKN024 OVC042 16/13 A3016 RMK AO2 EGDM 010350Z AUTO 08005KT 1500 FEW210/// 07/07 Q1006 NZNP 010325Z 36015KT 20KM VCSH FEW020 SCT025 BKN030 16/13 Q1015 RMK VATSIM USE O CWVN 010400Z AUTO 06004KT 10/09 RMK AO1 SLP149 T00950086 53004 CWWE 010400Z AUTO 32005KT 09/09 RMK AO1 SLP308 T00930087 58007 CYDN 010400Z AUTO 19005KT 9SM BKN110 OVC160 15/11 A3008 RMK SLP193 DENSITY ALT 1000FT CWUW 010400Z AUTO 32006KT ////SM //// OVC050 M03/M03 A2978 KBRO 010353Z 02005KT 10SM CLR 24/19 A3005 RMK AO2 SLP174 T02440194 PHOG 010354Z 06012G18KT 10SM FEW030 SCT050 27/21 A3001 RMK AO2 PK WND 05029/0321 SLP166 T02670206 KBQX 010435Z AUTO 04005G13KT 10SM FEW045 25/13 A3008 RMK A01 NZOH 010407Z 18006KT 30KM -SHRA FEW016 BKN050 14/13 Q1015 RMK NZPM VATSIM USE ON CXMO 010400Z AUTO 03009KT 10/08 RMK AO1 T00990075 VDSR 010430Z 28007KT 270V330 9999 FEW015 31/25 Q1008 CWWF 010400Z AUTO 14009KT 11/09 RMK AO1 SLP171 T01090094 50001 CWUX 010400Z AUTO 13001KT 05/04 RMK AO1 SLP313 T00510035 58006 CYCX 010400Z 00000KT 15SM SCT200 05/04 A3044 RMK CI4 DA-1444FT SLP309 KDAG 010350Z AUTO 25013KT 10SM CLR 28/08 A2996 RMK AO2 SLP120 T02830083 NZNR 010318Z 01012KT 30KM VCSH FEW030 BKN080 16/13 Q1016 RMK VATSIM USE ONLY ORER 010200Z 03008KT 7000 NSC 23/M01 Q1012 NOSIG CWVP 010400Z AUTO 13004KT 15/08 RMK AO1 SLP148 T01450082 50004 CYDP 302300Z 27013G19KT 15SM FEW080 SCT230 10/M04 A3013 RMK AS2CS1 LAST STAFFED OB/ NEXT 010800 SLP205 CYEG 010400Z 04011KT 15SM BKN010 OVC012 09/06 A3009 RMK SC5SC3 SLP207 CYCY 010400Z AUTO 33022KT 9SM BKN020 00/M02 A2981 RMK SLP098 NZNS 010416Z 03012KT 25KM VCSH FEW005 BKN012 BKN025 15/13 Q1013 RMK VATSIM USE O CWVQ 010400Z AUTO 03002KT 14/09 RMK AO1 SLP284 T01370092 58007 CYDQ 010444Z AUTO 36006KT 1 1/2SM -SN OVC006 01/01 A3022 RMK SLP265 KF17 010435Z AUTO 00000KT 10SM CLR 16/15 A3010 RMK AO2 T01550148 KCIR 010435Z AUTO 25005KT 10SM SCT022 SCT040 BKN100 16/15 A3004 RMK AO2 T01630152 EGDR 010350Z AUTO 25010KT 9999 // FEW020/// BKN038/// 12/09 Q1004 UNKL 010430Z 10005MPS 9999 BKN030 01/M06 Q1018 R11/CLRD65 NOSIG RMK QFE738 ZSQD 010400Z VRB01MPS CAVOK 27/10 Q1016 NOSIG KBTA 010435Z AUTO 13003KT 10SM CLR 14/12 A3017 RMK AO2 T01400120 PGWT 010354Z 16007KT 7SM SCT015 SCT050 BKN120 BKN160 30/26 A2982 TVSV 010300Z 09006KT 9999 FEW018 27/23 Q1012 CWXA 010400Z AUTO 05003KT 09/07 RMK AO1 SLP191 T00890074 53012 KCKB 010353Z 07006KT 10SM FEW038 FEW049 14/13 A3007 RMK AO2 SLP176 T01390128 NZNV 010421Z 13015KT 25KM HZ FEW005 SCT014 13/11 Q1008 RMK VATSIM USE ONLY CWWK 010400Z AUTO 03001KT 10/09 RMK AO1 SLP142 T00970093 55001 CWVT 010400Z AUTO 05011G16KT 10/06 RMK AO1 PK WND 04020/0312 SLP242 T01000058 55000 CYEK 010400Z AUTO 34005KT 9SM CLR 01/M00 A3037 RMK SLP285 KDAL 010353Z 05004KT 10SM BKN240 19/13 A3009 RMK AO2 SLP184 T01940128 $ CYFB 010400Z 31005KT 15SM FEW015 SCT040 M01/M02 A2984 RMK SC1SC3 SC TR AURBO SLP108 KCIU 010356Z AUTO 08010KT 10SM CLR 14/08 A3027 RMK AO2 SLP276 T01440083 KCKC 010433Z AUTO 01003KT 10SM CLR 08/04 A3032 RMK AO2 VEKO 010300Z 02004KT 4000 HZ SCT025 BKN100 28/26 Q1008 CWXC 010400Z AUTO 04001KT 04/04 RMK AO1 SLP309 T00380038 58004 CWVU 010400Z AUTO 36003KT 11/09 RMK AO1 SLP321 T01120087 58007 CYFC 010400Z AUTO 00000KT 9SM CLR 05/05 A3044 RMK SLP309 CXNM 010400Z AUTO 26006KT 06/04 RMK AO1 T00550044 KDAN 010435Z AUTO 00000KT 10SM FEW009 BKN013 OVC023 21/21 A3004 RMK AO2 T02110206 CYEN 010400Z 08009KT 15SM FEW090 SCT230 12/11 A3003 RMK AC1CI3 AC TR SLP180 PHNY 010356Z AUTO 05015G23KT 10SM CLR 23/19 A3005 RMK AO2 SLP155 T02330189 KCKF 010435Z AUTO 00000KT 10SM CLR 16/12 A3007 RMK AO2 T01550120 EGFF 010420Z AUTO 17008KT 140V210 9999 -RA BKN041/// //////TCU 12/09 Q1004 EGEO 301620Z 04003KT 9999 FEW016CB SCT025 10/08 Q1005 EGDX 010350Z AUTO 18007KT 9999 OVC050/// 12/09 Q1004 RERA CXNP 010400Z AUTO 19004KT 05/05 RMK AO1 SLP312 T00500047 58005 CXMY 010400Z AUTO 03/03 RMK AO1 T00320026 EGDY 010350Z AUTO 09005KT 9999 FEW025/// SCT050/// BKN180/// 10/09 Q1005 RERA KCKI 010435Z AUTO 00000KT 16/15 A3004 RMK AO2 PWINO KCJR 010435Z AUTO 36005KT 3SM RA OVC004 18/18 A3012 RMK AO2 P0002 T01780178 CWXI 010400Z AUTO 21013KT 09/08 RMK AO1 SLP226 T00900080 58011 CYER 010400Z AUTO 06005KT 9SM SCT110 OVC140 09/08 A3030 RMK SLP262 KDCA 010352Z 05012KT 10SM SCT004 OVC007 18/18 A3012 RMK AO2 DZE02RAB02E27 SLP200 P0000 T01830178 CWWS 010400Z AUTO 15010G18KT 14/11 RMK AO1 PK WND 14019/0327 SLP191 T01410108 56009 CXPA 010400Z AUTO 06015KT 03/03 RMK AO1 PK WND 07025/0346 T00340030 50005 NZPM 010407Z 18006KT 30KM -SHRA FEW016 BKN050 14/13 Q1015 RMK VATSIM USE ONLY KBTL 010353Z AUTO 06006KT 10SM OVC005 16/15 A3008 RMK AO2 SLP184 T01560150 CYET 010445Z AUTO 07010KT 4SM BR OVC005 07/06 A3009 RMK SLP213 CXOL 010400Z AUTO 33009KT 10/08 RMK AO1 T00950081 CWXL 010400Z AUTO 10010KT 15/11 RMK AO1 T01530112 CXPC 010400Z AUTO 14/08 RMK AO1 SLP249 T01400084 58003 CWWU 301000Z 34023G37KT 15SM FEW024 SCT035 09/05 A3007 RMK SC2SC1 LAST OBS/NXT 010700Z SLP183 KBTM 010353Z AUTO 11005KT 10SM CLR 09/06 A3010 RMK AO2 SLP169 T00940061 KCKM 010455Z AUTO 00000KT 9SM 14/13 A3008 RMK A01 VELP 010430Z 05004KT 3500 BR SCT015 BKN200 27/24 Q1009 BECMG 5000 HZ CYEV 010442Z 19004KT 6SM -RASN OVC015 03/02 A3025 RMK ST8 SLP252 EGGD 010420Z AUTO 15006KT 9999 -RA FEW029/// BKN041/// //////TCU 10/08 Q1005 KDAW 010351Z AUTO 02003KT 10SM OVC070 11/06 A3041 RMK AO2 SLP296 T01110061 KCLE 010351Z 11007KT 10SM OVC012 16/13 A3009 RMK AO2 SLP188 T01610128 KCKN 010434Z AUTO 14008KT 10SM CLR 13/11 A3020 RMK AO2 KDBN 010435Z AUTO 00000KT 10SM CLR 12/10 A3008 RMK AO2 NZPP 010400Z 01006KT 8000 SHRA BKN028 15/12 Q1015 RMK ALT VATSIM USE ONLY CYGE 010000Z 36003KT 280V020 20SM -TSRA FEW055CB SCT100 BKN180 BKN210 12/10 A2995 RMK CB2AC2AS1CI2 CB N-E OCNL LTGIC LAST STFD OBS/NEXT 011200Z SLP156 DENSITY ALT 2800FT KBUF 010443Z 07010KT 10SM BKN020 BKN070 13/10 A3020 RMK AO2 T01280100 VELR 010300Z 18002KT 5000 HZ FEW020 SCT100 29/28 Q1010 NOSIG CYFO 302300Z 11003KT 090V190 15SM SCT150 BKN300 18/11 A3003 RMK ACC4CI1 LAST OBS/NEXT 011100UTC SLP178 DENSITY ALT 1400FT CWWX 010400Z AUTO 14015G20KT 17/12 RMK AO1 PK WND 13022/0328 SLP237 T01680117 58008 KBTP 010435Z AUTO 10008KT 10SM OVC009 13/11 A3015 RMK AO1 KCKP 010435Z AUTO 00000KT 10SM OVC044 13/13 A3018 RMK AO2 T01320128 KDAY 010356Z 19007KT 10SM FEW001 SCT230 14/13 A3002 RMK AO2 SLP164 T01390133 KDBQ 010353Z AUTO 02006KT 10SM OVC005 15/14 A3014 RMK AO2 SLP204 T01500144 CYGH 302300Z 20006KT 20SM FEW030 BKN083 05/M00 A3044 RMK CU1AC7 CU TR 4.8/0.3/0.0 LAST STFD OBS/NXT 011300UTC SLP317 CWWZ 010400Z AUTO 09014KT 14/11 RMK AO1 PK WND 10017/0300 SLP231 T01410111 58008 KBTR 010353Z 00000KT 10SM CLR 18/16 A3007 RMK AO2 SLP183 T01780156 KCLI 010435Z AUTO 05006G14KT 10SM OVC033 16/11 A3018 RMK AO2 CYFR 302200Z 34013G19KT 15SM SCT030 03/M04 A3048 RMK SC4 /TR/ LAST STFD OBS/NEXT031400Z SLP334 CWXR 010400Z AUTO 32019KT M00/ A3034 RMK SLP284 KCMA 010355Z 28004KT 9SM CLR 19/16 A2995 RMK AO2 SLP150 T01890156 NZRC 010421Z 13015KT 25KM HZ FEW005 SCT014 13/11 Q1008 RMK NZNV VATSIM USE ONLY CYHA 301900Z 30009KT 15SM FEW025 BKN100 06/M00 A2997 RMK SC1AS7 SC TR LAST STFD OBS/NEXT 10101200 UTC SLP154 CWZA 010400Z AUTO 03001KT 13/09 RMK AO1 SLP140 T01300086 53005 CWYJ 010400Z AUTO 22001KT 10/08 RMK AO1 SLP136 T00950080 55007 CYFS 010400Z 15002KT 15SM FEW110 M02/M05 A3050 RMK AC1 AC TR AURBO SLP343 CYGK 010300Z 06005KT 15SM OVC070 14/10 A3032 RMK AC8 LAST STFD OBS/NEXT 011000UTC SLP268 CYFT 302000Z 27008KT 15SM FEW025 12/00 A3021 RMK CU1 TR CU LAST OBS/NEXT010900 UTC SLP235 VEMN 010430Z 34003KT 5000 HZ SCT018 FEW025CB BKN100 31/26 Q1010 NOSIG CWYK 010400Z AUTO ///// 03/ A2976 RMK SLP110 KDDC 010352Z AUTO 14007KT 10SM CLR 15/07 A3014 RMK AO2 SLP190 T01500072 KCLL 010353Z AUTO 00000KT 10SM CLR 19/12 A3009 RMK AO2 SLP186 T01940122 NZQN 010336Z 23009KT 40KM FEW060 18/08 Q1007 RMK VATSIM USE ONLY CXPL 010400Z AUTO 32004KT 10/10 RMK AO1 T01040098 CWYL 010400Z AUTO 28003KT 07/06 RMK AO1 3PAST HR SOG 00 3010 SLP171 P0001 T00690058 50003 CYGL 010400Z 20006KT 15SM SCT080 08/07 A3041 RMK AC3 SLP308 KCKV 010352Z AUTO 24003KT 10SM SCT017 15/14 A3003 RMK AO2 SLP166 T01500139 EFOU 010420Z AUTO 20008KT CAVOK 06/05 Q0986 KCLM 010353Z AUTO 29005KT 10SM FEW060 10/07 A2996 RMK AO2 SLP145 T01000072 KBTV 010354Z 13005KT 10SM -RA BKN130 OVC150 14/04 A3038 RMK AO2 RAB46 SLP286 P0000 T01390044 KDCM 010415Z AUTO 00000KT 10SM CLR 15/08 A3005 RMK AO2 LTG DSNT SE KCMD 010435Z AUTO 03003KT 10SM CLR 10/09 A3009 RMK AO2 T00990085 PWINO CWYM 010400Z AUTO 34006KT M01/ A2961 RMK SLP071 CYHD 010400Z AUTO VRB02KT 9SM CLR 11/10 A3029 RMK SLP270 KBVE 010351Z AUTO 00000KT 10SM CLR 21/18 A3008 RMK AO2 SLP184 T02060178 CYHE 010400Z AUTO 24004KT 9SM BKN065 13/08 A2993 RMK SLP136 EGHE 301720Z 23012KT 9999 FEW021 14/10 Q1011 KF44 010435Z AUTO 00000KT 10SM CLR 13/12 A3009 RMK AO2 VEMR 010430Z 00000KT 4000 BR FEW008 SCT018 FEW025CB BKN100 27/25 Q1010 NOSIG CXOX 010400Z AUTO 02008KT 10/09 RMK AO1 2PAST HR 0000 SLP193 P0001 T01010092 50002 EFPO 010420Z AUTO 25012KT 9999 SCT030/// BKN038/// 11/05 Q0994 CWZG 010400Z AUTO 34003KT 09/08 RMK AO1 3PAST HR 3020 SLP184 P0005 T00900079 50013 CXOY 010400Z AUTO 08005KT 10/09 RMK AO1 T01020087 CYGP 010400Z 00000KT 15SM SKC 06/05 A3037 RMK SLP287 EGGP 010420Z 11004KT 080V150 9999 -SHRA FEW024 SCT033 10/08 Q1005 KCMH 010428Z 17004KT 10SM BKN025 BKN090 16/16 A3003 RMK AO2 T01560156 KDDH 010354Z AUTO 01004KT 10SM BKN038 OVC050 11/03 A3035 RMK AO2 RAB05E15 SLP278 P0000 T01060033 KCKZ 010435Z AUTO 06009G14KT 10SM OVC006 13/13 A3023 RMK AO2 KF46 010435Z AUTO 00000KT 10SM CLR 18/12 A3009 RMK AO2 T01820115 KBVI 302047Z 06004KT 5SM -RA SCT016 BKN020 OVC050 15/14 A3010 RMK LAST CYGQ 010400Z 00000KT 12SM SKC 08/08 A3036 RMK SLP290 KBUR 010353Z 22003KT 10SM CLR 27/05 A2995 RMK AO2 SLP128 T02670050 KCMI 010434Z AUTO 10004KT 10SM FEW006 BKN030 OVC038 16/15 A3001 RMK AO2 T01610150 EGHH 302320Z 12001KT CAVOK 07/07 Q1009 CYGR 010200Z 27007KT 15SM SKC 11/10 A3040 RMK LAST STFD OBS/NEXT 010900 UTC SLP297 EGHI 302150Z 00000KT 9999 MIFG FEW040 07/07 Q1010 KCLS 010435Z AUTO 00000KT 10SM SCT060 BKN070 OVC090 12/09 A2999 RMK AO2 KCLT 010352Z 00000KT 10SM CLR 17/11 A3004 RMK AO2 SLP166 T01670106 KCNB 010434Z AUTO 00000KT 10SM CLR 09/08 A3021 RMK AO2 T00870075 CXRB 010400Z AUTO 35016G22KT M09/M10 RMK AO1 PK WND 34024/0320 SLP234 T10881104 51005 CYGT 302100Z 35012KT 15SM FEW020 00/M02 A2989 RMK SC1 SC TR 0.9/0/0.0.TR/LAST STFD OBS NEXT 01 1500Z SLP127 CYHK 010400Z AUTO 33005KT 9SM OVC014 00/M00 A3012 RMK SLP205 KDCU 010353Z AUTO 00000KT 10SM CLR 13/12 A3007 RMK AO2 SLP181 T01330117 KDEC 010437Z AUTO 01008KT 10SM SCT009 BKN013 OVC025 17/16 A3001 RMK AO2 T01720156 KCNC 010435Z AUTO 35004KT 10SM 15/14 A3014 RMK AO2 KBUU 010435Z AUTO 02003KT 10SM RA SCT008 BKN015 OVC021 15/14 A3009 RMK AO2 T01450142 CWZL 010400Z AUTO 09010KT 12/10 RMK AO1 SLP139 T01150096 53006 KBWD 010435Z AUTO 00000KT 10SM BKN038 15/13 A3012 RMK AO2 KDED 010435Z AUTO 23003KT 10SM CLR 23/21 A3001 RMK AO2 LTG DSNT SW NZRO 010327Z 35010KT 20KM -SHRA BKN012 BKN025 13/12 Q1018 RMK VATSIM USE ONLY CYHM 010400Z 06015KT 15SM OVC033 13/11 A3019 RMK SC8 SLP227 CYGV 010429Z AUTO 28005KT 6SM BR SCT240 07/07 A3032 RMK SLP270 KCLW 010435Z AUTO 00000KT 10SM CLR 25/21 A3003 RMK AO2 PHSF 010356Z AUTO 26011G16KT 10SM CLR 17/12 A3031 RMK AO2 SLP159 T01660117 $ KBVN 010435Z AUTO 00000KT 10SM CLR 09/07 A3016 RMK AO2 T00900069 CWZN 010400Z AUTO 34006KT 11/08 RMK AO1 SLP252 T01090079 51010 CYGW 010416Z AUTO 22006KT 190V260 9SM -RA BKN070 OVC086 12/09 A3035 RMK SLP279 KBVO 010353Z AUTO 00000KT 10SM CLR 11/09 A3012 RMK AO2 SLP193 T01110094 EGGW 010420Z AUTO 17002KT 1500 BR FEW004 09/09 Q1006 CYGX 010400Z 07005KT 030V120 1/2SM FG OVC002 10/10 A3019 RMK ST8 SLP233 CWZO 010400Z AUTO 16012KT RMK AO1 ZSSS 010430Z 17004MPS 8000 BKN020 28/24 Q1013 NOSIG KBWG 010353Z AUTO 00000KT 4SM BR SCT011 BKN085 14/13 A3003 RMK AO2 SLP166 T01440133 KBUY 010411Z AUTO 00000KT 1/4SM FG VV001 18/18 A3003 RMK AO2 T01830183 KDCY 010435Z AUTO 00000KT 7SM SCT100 11/11 A3000 RMK AO2 T01120112 CWYY 010400Z AUTO 07001KT 14/08 RMK AO1 SOG 00 8012 SLP093 T01400081 KDEH 010435Z AUTO 00000KT 10SM BKN006 OVC010 15/15 A3015 RMK AO2 UNNT 010430Z 04006MPS CAVOK 03/M04 Q1012 R07/090070 R34/090070 NOSIG RMK QFE749/0998 CXRH 010400Z AUTO 05004KT 03/ RMK AO1 SOG 13 T0026 CWZQ 010440Z AUTO 14009KT 09/07 RMK AO1 T00900068 KBWI 010354Z 07015G24KT 5SM -DZ BR OVC006 17/16 A3014 RMK AO2 SLP205 P0000 T01670156 EGHQ 301950Z 17007KT 9999 FEW041 11/08 Q1010 KCNI 010435Z AUTO 00000KT 10SM CLR 12/07 A3010 RMK AO2 KBXA 010435Z AUTO 00000KT 10SM CLR 16/14 A3009 RMK AO2 T01550138 KBVS 010435Z AUTO 00000KT 10SM BKN049 BKN055 09/07 A2996 RMK A01 CWZS 010400Z AUTO 13001KT 05/04 RMK AO1 SLP308 T00530044 58003 EGJA 301820Z 24005KT 9999 FEW025 14/13 Q1012 EFSA 010420Z AUTO 21005KT 140V270 CAVOK 08/06 Q0995 KCNK 010355Z AUTO 05004KT 10SM CLR 13/10 A3015 RMK AO2 SLP204 T01280100 CYIK 301800Z /////KT 15SM FEW014 FEW020 SCT045 BKN100 06/02 A2993 RMK ST1CF1SC2AC3 ST TR SLP141 EGJB 010420Z 21011KT 9999 VCSH FEW017 13/10 Q1007 KBVU 010435Z AUTO 00000KT 10SM 27/09 A2997 RMK AO2 CXRL 010400Z AUTO 06008KT 07/05 RMK AO1 PK WND 05018/0326 T00690048 CXSC 010400Z AUTO 09004KT 12/10 RMK AO1 T01200102 UNOO 010430Z 03004MPS 9999 SCT033CB 03/M03 Q1014 R07/290050 NOSIG RMK QFE752 CYHU 010400Z AUTO 03005KT 9SM BKN130 OVC150 13/09 A3037 RMK SLP285 KCNM 010353Z AUTO 14004KT 10SM CLR 17/14 A3010 RMK AO2 SLP154 T01720144 KCOD 010435Z 26003KT 10SM CLR 14/08 A3013 RMK AO2 SLP300 PWINO FZRANO RVRNO CWZV 010400Z AUTO 14001KT 11/08 RMK AO1 SLP120 T01060077 56005 KDEN 010353Z 18006KT 10SM SCT100 BKN150 15/08 A3019 RMK AO2 SLP165 T01500078 KCOE 010356Z AUTO 35005KT 10SM FEW090 17/11 A2984 RMK AO2 SLP113 T01670106 NZTG 010416Z 01009KT 25KM VCSH SCT015 SCT026 16/13 Q1018 RMK VATSIM USE ONLY NZSP 302350Z 07009KT 9999 BKN032 M59/ A2842 RMK CLN AIR 07009KT ALL WNDS GRID SDG/HDG CXSE 010400Z AUTO 28004KT M07/M09 RMK AO1 SLP296 T10731088 51011 CWZW 010400Z AUTO 03005KT 01/M06 RMK AO1 SOG 04 5000 SLP325 T00101057 CYIN 010400Z AUTO 15002KT 9SM CLR 01/M01 A2987 RMK SLP147 KCMX 010353Z AUTO 07006KT 10SM CLR 14/08 A3027 RMK AO2 SLP253 T01390078 KCNO 010353Z AUTO 23007KT 9SM CLR 26/11 A2996 RMK AO2 SLP140 T02560111 KBVX 010435Z AUTO 28005KT 10SM CLR 15/13 A3009 RMK AO1 KCOF 010358Z AUTO 23002KT 10SM CLR 25/23 A3002 RMK AO2 LTG DSNT NE SLP170 T02470228 $ CYJF 302200Z 36004KT 320V060 15SM SCT065 SCT180 08/M03 A3053 RMK CU3AC1 11/1.60/0 LAST OB/NEXT 021400 UTC SLP349 KBVY 010353Z AUTO 05006KT 10SM OVC011 14/13 A3036 RMK AO2 RAB14E50 SLP276 P0000 T01390133 CYIO 010400Z AUTO 17015KT 9SM FEW021 M04/M05 A2992 RMK SLP138 EFRO 010420Z AUTO 21011KT CAVOK 03/02 Q0981 KCMY 010435Z AUTO 09008KT 10SM BKN022 OVC030 15/13 A3018 RMK AO2 T01480131 KBWP 010435Z AUTO 11007KT 10SM CLR 13/08 A3019 RMK AO1 CYHY 010400Z 00000KT 15SM SCT045 01/M04 A3051 RMK SC4 SLP344 ZUCK 010400Z 27003MPS 220V330 3000 HZ FEW026 28/20 Q1014 NOSIG KDEQ 010438Z AUTO 00000KT 2 1/2SM BR CLR 12/12 A3007 RMK AO2 VIS 1 3/4V4 T01220122 CYHZ 010400Z 00000KT 15SM BKN260 10/04 A3044 RMK CS6 SLP310 CWZZ 010416Z AUTO 34015G21KT 4SM //// FEW017 SCT038 BKN055 03/00 A2975 KDFI 010407Z AUTO 05005KT 10SM OVC012 16/14 A3004 RMK AO2 LTG DSNT S T01610144 EFSI 010420Z AUTO 17004KT 140V240 9999 BKN045 07/06 Q0991 CYKA 010400Z 06003KT 030V130 40SM -SHRA BKN080CB OVC120 14/08 A2986 RMK CB5AC3 SLP119 DENSITY ALT 1300FT KDET 010353Z 06009KT 10SM OVC011 14/14 A3010 RMK AO2 SLP193 T01390139 $ EGKA 301850Z 23011KT 9999 FEW025 15/11 Q1011 EGJJ 010420Z 22010KT 9999 SCT019 13/11 Q1007 NOSIG KBXK 010435Z AUTO 00000KT 10SM CLR 27/12 A2995 RMK AO1 KF70 010435Z AUTO 00000KT 10SM CLR 23/12 A3001 RMK AO1 KCNU 010352Z AUTO 00000KT 10SM CLR 13/12 A3012 RMK AO2 SLP195 T01330117 EGKB 301920Z 20007KT 9999 FEW025 12/10 Q1012 EHAK 010425Z AUTO 22007KT 190V250 9999 NSC 15/09 Q1007 CXSL 010400Z AUTO 05008KT 07/06 RMK AO1 PK WND 06017/0321 T00710056 KCOM 010435Z AUTO 00000KT 10SM CLR 17/13 A3013 RMK AO2 T01650130 KCNW 301155Z 00000KT 10SM SKC 12/10 A3021 CYKD 010426Z 32004KT 210V330 7SM OVC035 04/03 A3027 RMK SC8 SLP252 KBWW 010435Z AUTO 14011KT 10SM CLR 14/09 A2991 RMK AO2 CXTD 010400Z AUTO 23004KT 09/08 RMK AO1 SLP314 T00940075 56005 CYIV 010400Z 16005KT 15SM SKC 12/09 A3020 RMK SLP235 KCON 010351Z AUTO 03005KT 10SM OVC048 12/04 A3040 RMK AO2 RAB37E46 SLP297 P0000 T01220039 KDEW 010353Z AUTO 30007KT 10SM -RA FEW055 BKN085 BKN110 16/09 A2984 RMK AO2 LTG DSNT N RAB44 PRESFR SLP098 P0000 T01610089 PHTO 010411Z 36003KT 4SM -RA BR FEW005 OVC014 23/22 A3003 RMK AO2 P0004 T02280217 EHAM 010425Z 15005KT 9999 FEW030 11/10 Q1008 NOSIG CYKF 010400Z AUTO 08016G24KT 9SM OVC009 12/11 A3019 RMK SLP226 CZBF 010400Z 22002KT 15SM SKC 06/06 A3040 RMK SLP299 KCNY 010353Z AUTO 00000KT 10SM CLR 18/12 A3014 RMK AO2 SLP166 T01780117 KBYG 010353Z AUTO 25009KT 10SM CLR 17/06 A3011 RMK AO2 SLP146 T01720061 KBYH 302050Z 32008G14KT 10SM BKN055 23/12 A3003 RMK LAST CYKG 302100Z 28013G18KT 40SM OVC070 04/M01 A2990 RMK AC8 SLP136 CXSP 010400Z AUTO 03008KT 07/07 RMK AO1 T00650067 KCOQ 010435Z AUTO 08005KT 2 1/2SM BR OVC002 11/09 A3026 RMK AO2 CXTH 010400Z AUTO 03011KT 08/06 RMK AO1 T00820064 VEPT 010400Z 15010KT 4000 HZ FEW020 SCT025 33/27 Q1007 NOSIG KBYI 010353Z AUTO 17003KT 10SM CLR 18/08 A3000 RMK AO2 SLP125 T01830078 TSNO VERC 010430Z 11008KT 5000 HZ SCT015 SCT025 BKN100 27/23 Q1013 NOSIG CXSR 010400Z AUTO 04008KT M01/M01 RMK AO1 9PAST HR 1004 SLP242 P0007 T10061006 50053 KCOS 010354Z 25009KT 10SM FEW060 BKN110 15/11 A3026 RMK AO2 RAB08E27 SLP171 P0000 T01500111 NZTU 010400Z 13003KT 3000 DZ BKN007 11/11 Q1011 RMK ALT VATSIM USE ONLY CYLA 302100Z 29009G15KT 250V030 15SM -SHRA BKN044 BKN090 10/03 A3000 RMK SC6AC1 LAST STFD OBS/NEXT 011200UTC SLP161 CYKJ 010415Z AUTO VRB02KT 9SM -RA SCT026 BKN039 BKN047 OVC065 08/06 A3021 RMK SLP254 KCOT 010353Z AUTO 13003KT 10SM CLR 21/13 A3009 RMK AO2 SLP180 T02110133 KCQB 010435Z AUTO 00000KT 10SM CLR 12/09 A3012 RMK AO2 KCPK 010435Z AUTO 00000KT 7SM SCT055 OVC110 22/22 A3006 RMK AO2 T02210217 CYJT 010400Z VRB02KT 15SM BKN012 10/09 A3033 RMK SC7 SLP274 EGKK 010420Z VRB02KT 7000 FEW002 SCT039 10/10 Q1007 KCOU 010354Z AUTO 36007KT 10SM OVC048 17/14 A3010 RMK AO2 SLP189 T01670139 EHBK 010425Z AUTO 18003KT 150V210 9999 NSC 12/10 Q1010 NOSIG KCQC 010353Z AUTO 29010KT 10SM CLR 11/04 A3027 RMK AO2 SLP177 T01110039 KBYL 010435Z AUTO 13004KT 7SM FEW050 10/10 A3007 RMK AO1 CYLC 301900Z 29015G22KT 15SM BKN015 BKN100 02/M02 A2989 RMK SC5AS2 3.1/0.6/2.4/0 LASTSTFD/NXTSTFD031100Z SLP126 CYKL 010400Z AUTO 27019G28KT 9SM CLR 05/02 A3021 RMK SLP253 EGLC 010420Z AUTO 12004KT 9999 NCD 13/11 Q1007 CYLD 010100Z 00000KT 15SM SKC 10/08 A3037 RMK LAST OBS/NEXT 01 1000Z SLP301 KDFW 010353Z 00000KT 10SM BKN240 BKN300 21/10 A3009 RMK AO2 SLP181 T02110100 $ CXTN 010400Z AUTO 29002KT M05/M05 RMK AO1 SLP301 T10451050 55002 KCQF 010435Z AUTO 00000KT 10SM CLR 15/15 A3008 RMK AO2 CYKO 302100Z 31024G34KT 15SM OVC008 04/M01 A3006 RMK SC8 SLP181 CXTO 010400Z AUTO 14/11 RMK AO1 SLP240 T01430110 56008 EGLF 302050Z 01001KT 7000 R24/0900 MIFG 09/09 Q1011 CXTP 010400Z AUTO 30005KT 07/05 RMK AO1 SOG 00 8002 SLP238 T00730053 CYKP 010400Z AUTO 19003KT 9SM CLR 10/09 A3036 RMK SLP282 OSDI 010400Z 00000KT CAVOK 10/M06 Q1017 EFTP 010420Z AUTO 20009KT 9999 FEW026 BKN180 08/06 Q0995 CYKQ 302100Z 30003KT 15SM FEW030 FEW070 17/10 A3046 RMK SC1AC1 LAST OBS/NEXT 021300 UTC SLP316 CYLH 010400Z AUTO 19005KT 9SM CLR 10/08 A3033 RMK SLP281 KCPR 010353Z AUTO 18004KT 10SM CLR 09/05 A3014 RMK AO2 SLP164 T00940050 NZWB 010315Z 30010KT 20KM VCSH SCT030 SCT050 15/12 Q1013 RMK VATSIM USE ONLY KCPS 010353Z 30007KT 10SM BKN013 OVC032 17/16 A3004 RMK AO2 RAE38 SLP171 P0004 T01720156 KBYS 010355Z AUTO 25014G23KT 10SM CLR 27/05 A2997 RMK AO2 SLP106 WND DATA ESTMD T02660050 PWINO $ CYLJ 010000Z 05012KT 4SM -DZ BR OVC004 11/09 A3005 RMK SF8 LAST STFD OB/NXT 011200UTC SLP195 CYMA 010400Z VRB02KT 15SM BKN100 00/M04 A3038 RMK AC7 SLP328 EFVA 010420Z AUTO 17003KT 9999 BKN066/// 06/04 Q0990 KCPT 010435Z AUTO 00000KT CLR 16/12 A3012 RMK AO2 CYLK 010000Z 30005KT 25SM BKN020 02/M05 A3042 RMK SC6 3.5/-2.0/1.0/LAST STFD OBS/NXT 011400Z SLP317 ORMM 010300Z 26006KT 3000 DU NSC 17/M01 Q1007 TEMPO 2000 CZDB 010400Z AUTO 04001KT 04/03 RMK AO1 8005 SLP313 T00410030 50003 CYLL 010414Z AUTO 02007KT 9SM BKN008 BKN015 OVC038 10/08 A3008 RMK SLP203 EGMC 010420Z 08002KT 9999 -RA FEW020 SCT030 11/09 Q1007 EFTU 010420Z AUTO 26014G24KT 9999 BKN026/// BKN042/// 11/06 Q0996 EGLL 010420Z VRB02KT 9999 NSC 10/10 Q1007 NOSIG KCQM 010435Z AUTO 00000KT 10SM CLR 07/06 A3029 RMK AO2 CXTV 010400Z AUTO 22009KT 03/02 RMK AO1 2PAST HR 6017 SLP244 P0001 T00250018 50013 VERP 010330Z 12009KT 5000 HZ SCT010 BKN020 BKN080 27/24 Q1008 NOSIG KDHN 010353Z AUTO 00000KT 10SM CLR 15/12 A3010 RMK AO2 SLP189 T01500122 KDGW 010353Z AUTO 12006KT 10SM CLR 12/08 A3012 RMK AO2 SLP160 T01220078 EGMD 010420Z AUTO VRB01KT 9999 FEW039/// SCT049/// 11/11 Q1007 KCPW 010445Z AUTO 10SM CLR 02/02 A3058 RMK AO2 KCRE 010353Z AUTO 25003KT 10SM CLR 24/21 A3002 RMK AO1 SLP166 T02390206 KBZN 010356Z 21009KT 10SM FEW110 15/06 A3006 RMK AO2 SLP158 T01500056 KCRG 010353Z AUTO 00000KT 10SM CLR 25/23 A3001 RMK AO2 LTG DSNT NE SLP161 T02500228 KBYY 010435Z AUTO 00000KT 10SM CLR 17/16 A3009 RMK AO2 T01770162 ORNI 010300Z 29012KT 4000 DU NSC 22/02 Q1007 NOSIG CYKY 010400Z 03005KT 15SM FEW040 09/08 A3001 RMK SC1 SLP176 CZCP 010446Z AUTO 00000KT 2 1/2SM //// BKN008 OVC012 M00/M01 A3036 CYKZ 010400Z 11011G20KT 15SM FEW020 OVC029 14/10 A3024 RMK SF1SC7 SLP245 CYMH 010400Z AUTO 21006KT 9SM CLR 02/02 A3018 RMK SLP221 NZWK 010327Z 35010KT 20KM -SHRA BKN012 BKN025 13/12 Q1018 RMK NZRO VATSIM USE ON CZCR 010400Z AUTO 23005KT 08/06 RMK AO1 SLP305 T00750060 58003 KDIJ 010356Z AUTO 26003KT 10SM CLR 09/06 A3021 RMK AO2 SLP196 T00940061 CYMJ 010007Z 13008KT 10SM FEW120 FEW160 20/12 A2997 RMK ACC1AC2 LAST OBS/NEXT 031000 UTC SLP155 KDHT 010353Z AUTO 20006KT 10SM CLR 16/09 A3011 RMK AO2 SLP153 T01560089 KCQT 010447Z AUTO 00000KT 10SM CLR 22/14 A2995 RMK AO2 SLP138 T02170144 CYNA 010445Z AUTO VRB02KT 5/8SM -RA BR CLR 03/03 A3030 RMK SLP261 KDIK 010356Z AUTO 13009KT 10SM CLR 13/08 A3000 RMK AO2 SLP160 T01280078 CXWB 010400Z AUTO 33004KT M00/M01 RMK AO1 SLP192 T10021011 51008 CYLT 010400Z 15006KT 1 1/2SM -SN OVC010 M11/M12 A3003 RMK ST8 SLP173 EFUT 010420Z 21007KT 180V240 CAVOK 07/06 Q0997 CYNC 302000Z 21006KT 180V240 15SM FEW015 SCT048 15/09 A3048 RMK SC1SC2 LAST STFD OBS/NEXT 021600Z SLP325 CYLU 301900Z 29013G19KT 240V310 10SM -RA SCT016 BKN021 OVC029 05/01 A3019 RMK ST4SC3SC1 LAST STFD OBS/NEXT 031200UTC SLP228 NZWN 010430Z AUTO 35013KT 320V030 9999 BKN017/// 15/12 Q1014 NOSIG EHDL 010425Z AUTO VRB01KT 9999 FEW015CB BKN055 OVC064 12/10 Q1009 BLU TXKF 010355Z 09009KT 9999 VCSH FEW017 SCT050 SCT300 26/23 Q1022 CYND 010100Z 05004KT 15SM OVC130 14/08 A3038 RMK AC8 LAST STFD OBS/NEXT 011100 UTC SLP290 CXVM 010400Z AUTO 05007KT 10/08 RMK AO1 T01020082 CYMM 010400Z AUTO 02013KT 9SM OVC120 08/M01 A3027 RMK SLP269 KCQW 010435Z AUTO 00000KT 10SM CLR 15/15 A3003 RMK AO2 NZWP 010344Z 02012KT 30KM VCSH FEW013 SCT018 BKN035 17/14 Q1016 RMK NZAA VATSIM CXVN 010400Z AUTO 08006KT 14/10 RMK AO1 SLP220 T01430095 58008 CYNE 010400Z AUTO 13004KT 9SM FEW140 11/08 A3011 RMK SLP207 CYLW 010400Z AUTO VRB02KT 9SM CLR 11/07 A2982 RMK SLP104 KCQX 010410Z AUTO 06014G20KT 2SM -RA BR OVC004 15/15 A3030 RMK AO2 P0000 T01500150 CYMO 010400Z AUTO 12004KT 9SM CLR 12/09 A3040 RMK SLP296 KCSG 010351Z AUTO 00000KT 10SM CLR 17/09 A3007 RMK AO2 SLP178 T01670094 KCRP 010351Z 08004KT 10SM BKN250 22/15 A3006 RMK AO2 SLP179 T02170150 NZWR 010344Z 02012KT 30KM VCSH FEW013 SCT018 BKN035 17/14 Q1016 RMK NZAA VATSIM KCRQ 010353Z AUTO 00000KT 9SM CLR 22/19 A2996 RMK AO2 SLP143 T02170189 NZWS 010400Z 04011KT 10KM SHRA BKN016 15/13 Q1013 RMK ALT VATSIM USE ONLY EGNH 301950Z 24011KT 9999 FEW029 12/08 Q1008 EHEH 010430Z AUTO 16005KT 120V200 9999 FEW015CB OVC065 12/11 Q1009 BLU 15005KT 9999 -DZ SCT040 BKN060 TEMPO 3000 BR KCRS 010353Z AUTO 00000KT 10SM CLR 17/12 A3010 RMK AO2 SLP190 T01670117 $ KEBA 010435Z AUTO 29003KT 10SM CLR 16/13 A3007 RMK AO2 T01630127 NZWU 010407Z 18006KT 30KM -SHRA FEW016 BKN050 14/13 Q1015 RMK NZPM VATSIM USE ON CYOA 302300Z 29018KT 15SM FEW025 BKN033 M01/M04 A3029 CZFA 010100Z 32004KT 280V350 30SM FEW070 FEW130 05/M08 A3039 RMK AC1AC1 CLIMAT 5.9/-6.3/0.0 LAST STFD OBS/NXT 011300Z SLP336 KDKB 010435Z AUTO 04004KT 7SM BKN005 OVC008 16/15 A3007 RMK AO2 T01560152 EGNJ 010420Z AUTO 00000KT 8000 NCD 07/06 Q1006 KCTB 010356Z AUTO 14004KT 10SM SCT100 16/09 A2998 RMK AO2 SLP139 T01610089 CYMT 010100Z VRB02KT 15SM FEW030 11/09 A3045 RMK CU2 OPN FOR MEDEVAC SLP323 CYMU 302100Z 23017G22KT 15SM FEW005 FEW060 SCT140 SCT260 08/07 A3033 RMK ST1SC2AC1CI1 ST TR CI TR LAST STFD OBS/NEXT 01 1200 UTC SLP278 CYOC 302000Z 26009G17KT 35SM FEW025 BKN038 BKN058 03/M00 A3041 RMK ST2SC4SC1 CLIMAT 3.8/-0.5/TRCM/TRMWE/LAST STFD OBS/NXT 011300Z SLP317 CZEL 010400Z AUTO 09020G27KT 12/10 RMK AO1 PK WND 10027/0354 SLP228 T01190096 58013 KCSM 010353Z 14008KT 10SM CLR 18/11 A3013 RMK AO2 SLP189 T01780106 CZEM 302000Z VRB02KT 15SM FEW015 OVC050 14/10 A3050 RMK SC1SC7 LAST STFD OBS/NEXT 021400 UTC SLP329 CXWM 010400Z AUTO 11005KT 14/07 RMK AO1 T01400074 CYNM 010400Z AUTO 17002KT 9SM CLR 07/07 A3042 RMK SLP309 CYOD 010400Z 02007KT 8SM -DZ SCT008 OVC014 08/08 A3014 RMK SF3SC5 CIG VRB 10-18 SLP222 EGNM 010420Z 00000KT CAVOK 07/07 Q1005 KCRW 010354Z 00000KT 6SM BR BKN055 16/14 A3006 RMK AO2 SLP173 VLY FG T01560144 EHDV 010425Z AUTO 18004KT 9999 FEW045/// 15/09 Q1007 EHFD 010425Z AUTO 23009KT 9999 NSC 15/07 Q1007 KEAN 010435Z AUTO 20005KT 10SM CLR 12/09 A3012 RMK AO2 T01240090 CXVW 010400Z AUTO 04010KT 05/04 RMK AO1 2PAST HR M PK WND 05018/0301 P0005 T00520043 50012 CXWN 010400Z AUTO 11002KT 14/10 RMK AO1 SLP218 T01380103 56006 EGMW 301550Z 21012KT 9999 BKN049 18/07 Q1010 KCRX 010435Z AUTO 00000KT 10SM 14/13 A3005 RMK AO2 CYMX 010400Z 02003KT 350V100 25SM OVC110 13/07 A3038 RMK AC8 SLP292 EGNO 301720Z 27006KT 9999 FEW025 13/08 Q1008 KEBG 010435Z AUTO 03003KT 10SM CLR 22/17 A3007 RMK AO2 T02180166 KCSQ 010435Z AUTO 00000KT 10SM OVC028 15/13 A3016 RMK AO2 UNTT 010430Z 06008MPS CAVOK 03/M06 Q1015 R03/090060 NOSIG RMK QFE745 KEAR 010435Z AUTO 00000KT 10SM CLR 12/06 A3015 RMK AO1 EGNR 301950Z 17005KT 9999 FEW028 11/07 Q1009 KCTJ 010435Z AUTO 00000KT 10SM CLR 12/12 A3013 RMK AO2 T01180115 KCUB 010353Z AUTO 00000KT 10SM CLR 17/13 A3004 RMK AO2 SLP169 T01720128 CYPA 010400Z 02005KT 320V040 15SM FEW150 SCT200 11/10 A3000 RMK AC2CI2 SLP171 CYOJ 010400Z 36008KT 15SM SCT140 BKN180 02/M04 A3041 RMK AC4AC3 LAST STFD OBS/NEXT 011300 UTC SLP321 KDKK 010420Z AUTO 05006KT 10SM SCT022 BKN065 13/11 A3016 RMK AO2 T01330111 EGPA 010420Z AUTO 24003KT 9999 NCD 07/06 Q1006 EGNS 010420Z 02006KT 360V060 9999 FEW018 08/07 Q1004 NOSIG KEAT 010355Z AUTO 18005KT 10SM BKN100 18/06 A2984 RMK AO2 SLP099 T01830061 EGNT 010350Z 00000KT 9999 FEW040 05/05 Q1006 EGPB 010420Z AUTO 02003KT 9999 -RA BKN027/// OVC047/// 08/07 Q1005 KEAU 010356Z AUTO 04006KT 10SM OVC043 15/12 A3020 RMK AO2 SLP228 T01500117 TSNO CYPC 302300Z 28006KT 15SM SCT014 BKN024 BKN200 02/M02 A3041 RMK SF3SC2CI1 2.0/-1.2/0/LAST OBS/NXT 011300Z SLP300 ZUGY 010400Z 04002MPS 9999 SCT023 BKN043 23/16 Q1018 NOSIG KCSV 010353Z AUTO 00000KT 10SM SCT075 12/09 A3008 RMK AO2 SLP179 T01170094 EGPC 302320Z AUTO 26004KT 9999 NCD 06/04 Q1006 CZFM 302300Z 27004KT 240V320 35SM SCT080 BKN160 BKN240 09/M01 A3033 RMK AC3AC2CC1 9.5/0.2/0.0/0/LAST OBS/NXT 011300Z SLP275 CZEV 010400Z AUTO 20004KT 03/01 RMK AO1 3PAST HR SOG 00 6014 SLP257 P0005 T00290013 50018 CYPD 010400Z AUTO 01002KT 9SM CLR 05/04 A3041 RMK SLP303 EGNV 302050Z 16002KT 9999 FEW030 09/06 Q1008 EGPD 010420Z VRB02KT 9999 SCT038 08/06 Q1006 EGOM 010350Z AUTO 02003KT 9999 -RA BKN070/// SCT110/// 06/06 Q1005 CZFN 302300Z 27007KT 240V310 30SM FEW020 BKN080 07/M01 A3047 RMK SC1AC6 7.9/6.9/0 LAST STFD OBS/NEXT 031500UTC SLP328 CYPE 010400Z 05013KT 15SM -RA FEW006 BKN009 OVC020 02/01 A3027 RMK SF2SC4SC2 SLP276 EGPE 010420Z 25003KT 9999 -RA FEW020 SCT040 05/05 Q1007 KDLF 010358Z AUTO 16004KT 10SM BKN230 22/17 A3008 RMK AO2 SLP176 T02150173 CYOO 010400Z AUTO 10013KT 9SM OVC034 15/10 A3025 RMK SLP246 EGPF 010420Z AUTO 25003KT 0250 R23/0450 FG VV/// 04/04 Q1006 EGNX 010420Z 16005KT 140V210 CAVOK 08/07 Q1006 KECG 010354Z 15005KT 10SM FEW110 23/22 A3006 RMK AO2 SLP179 T02330222 CYPG 302200Z 15013G18KT 15SM BKN140 BKN250 18/11 A3017 RMK AC6CI1 LAST OBS/NEXT 031100 UTC SLP224 KDLH 010433Z 10007KT 1 3/4SM R09/5500VP6000FT BR OVC002 10/10 A3026 RMK AO2 VIS 3/4 RWY 27 T01000100 EHGG 010425Z AUTO 10003KT 080V140 7000 NCD 07/07 Q1009 BECMG 9999 TEMPO 4000 BR EGOP 010350Z AUTO 24018G30KT 9000 // SCT018/// SCT050/// 12/09 Q1003 KCUH 010435Z AUTO 00000KT 10SM CLR 13/09 A3011 RMK AO2 T01270094 CXYH 010400Z AUTO M02/M04 RMK AO1 SLP323 T10161038 55003 CYPH 010400Z AUTO 32011KT 9SM OVC017 04/01 A3027 RMK SLP255 EGPH 010420Z VRB01KT CAVOK 03/03 Q1006 EGPI 010420Z AUTO 08007KT 9999 NCD 05/04 Q1005 KEBS 010435Z AUTO 08003KT 10SM FEW018 OVC031 16/14 A3015 RMK AO2 KDMA 010358Z AUTO 12006KT 10SM BKN140 22/15 A3006 RMK AO2 SLP141 T02240152 CHINO RWY30 $ CYQA 010400Z AUTO 09004KT 040V130 9SM FEW140 12/09 A3028 RMK SLP259 CZFS 010400Z AUTO 15001KT M02/M05 RMK AO1 SLP342 T10151051 55003 EHFS 010425Z AUTO 19011KT 9999 BKN043/// BKN048/// 14/11 Q1008 EGOS 010350Z AUTO 07001KT 9999 BKN060/// 08/07 Q1005 EGQA 300950Z 21007KT 9999 FEW025 SCT040 10/// Q1002 BLU KCVB 010435Z AUTO 34003KT 10SM CLR 18/13 A3012 RMK AO2 T01770133 CYQB 010400Z 02002KT 15SM FEW130 OVC190 11/06 A3044 RMK AC1CI7 SLP310 KEDC 010435Z AUTO 00000KT 2 1/2SM HZ FEW047 20/14 A3011 RMK AO2 EGPK 010350Z 09002KT 9999 FEW030 07/06 Q1006 KCVC 010435Z AUTO 00000KT 10SM CLR 12/10 A3007 RMK AO2 KDLL 010435Z AUTO 02007KT 3SM DZ OVC004 14/13 A3014 RMK AO2 T01400132 KCUL 010435Z AUTO 00000KT 10SM BKN023 OVC032 14/14 A3000 RMK AO2 T01370137 CYPL 010200Z 15006KT 15SM BKN230 11/09 A3032 RMK CI5 LAST STFD OBS/NEXT 011100Z SLP281 EGPL 301550Z 30003KT 9999 FEW018 13/07 Q1004 CXZC 010400Z AUTO 12002KT 11/09 RMK AO1 SLP294 T01140094 58006 CYQD 010400Z 12006KT 15SM SKC 13/10 A3002 RMK AURBO SLP172 VGEG 010400Z 00000KT 6000 FEW018 BKN100 32/25 Q1008 NOSIG KDLN 010353Z AUTO 30005KT 10SM BKN110 13/05 A3007 RMK AO2 SLP148 T01330050 KEDE 010425Z AUTO 14006KT 10SM SCT110 24/24 A3006 RMK AO2 T02410241 EGPM 010420Z AUTO 22003KT 9999 NCD 06/03 Q1005 EGOV 010350Z AUTO 06004KT 9999 -RA SCT012/// BKN046/// 10/09 Q1004 CYOW 010400Z 06007KT 15SM SCT150 13/07 A3035 RMK AC3 SLP281 EGPN 302050Z 31002KT 9999 FEW040 09/08 Q1006 KDKX 010435Z AUTO 00000KT 10SM CLR 12/11 A3007 RMK A01 CYQF 010400Z 01007KT 10SM BKN010 OVC040 10/08 A3006 RMK SC6SC2 SLP201 CYPO 010400Z AUTO 19002KT 9SM FEW110 SCT140 11/10 A3030 RMK SLP264 KCTY 010430Z AUTO 00000KT 10SM CLR 17/16 A3004 RMK AO2 LTG DSNT S KECP 010153Z 30003KT 10SM CLR 18/13 A3003 RMK AO2 SLP181 T01780128 KCVG 010352Z 20004KT 10SM FEW050 OVC080 14/12 A3003 RMK AO2 SLP165 T01390122 EGPO 010420Z AUTO 29002KT 9999 NCD 02/01 Q1007 KDLP 010435Z AUTO VRB04KT 10SM CLR 26/14 A3006 RMK A01 KCTZ 010425Z AUTO 00000KT 5SM BR SCT044 22/22 A3003 RMK AO2 T02210221 CYQG 010400Z 05007KT 7SM -RA OVC012 15/14 A3009 RMK SC8 SLP189 KCVH 010430Z AUTO 32009KT 10SM CLR 14/09 A3010 RMK AO1 KDMH 010354Z AUTO 17/14 A3016 RMK AO1 SLP212 T01720144 CYOY 010400Z AUTO 34003KT 9SM CLR 07/06 A3043 RMK SLP310 CYQH 010400Z 04002KT 20SM FEW030 01/M05 A3040 RMK SC2 SLP329 CYPQ 010400Z AUTO 07006KT 050V110 9SM OVC050 14/09 A3027 RMK SLP255 EHFZ 010425Z AUTO 16004KT 110V200 9999 NSC 15/09 Q1007 CYQI 010400Z 09003KT 15SM OVC200 09/09 A3043 RMK CI8 SLP305 CYPR 010434Z AUTO 32007KT 310V100 7SM -RA FEW042 OVC050 10/09 A2995 RMK PRESFR SLP144 KDLS 010353Z AUTO 30016G23KT 10SM FEW120 18/06 A2993 RMK AO2 PK WND 29026/0324 SLP133 T01780061 EHGR 010425Z AUTO 18004KT 120V190 9999 FEW015CB BKN068 OVC074 12/11 Q1009 BLU KEDJ 010425Z AUTO 11005KT 10SM SCT007 SCT012 BKN025 15/15 A3002 RMK AO1 KECS 010435Z AUTO 11009KT 10SM CLR 18/06 A3008 RMK AO2 KCWA 010435Z AUTO 06010KT 7SM BKN031 OVC037 15/11 A3020 RMK AO2 CYRA 010000Z 29008G15KT 250V320 15SM BKN030 03/M06 A3043 RMK SC5 3.7/-0.1/0/0 SNW CVR/NIL LAST STFD OBS/NEXT 011500 UTC SLP323 KCUT 010353Z AUTO 00000KT 10SM CLR 12/06 A3016 RMK AO2 SLP161 T01170061 CYQK 010400Z 16007KT 4SM BR SKC 10/10 A3027 RMK SLP259 EGQK 010350Z AUTO 21003KT 9999 OVC050/// 06/05 Q1006 CYRB 010400Z 36024KT 15SM SKC M09/M12 A3022 RMK SLP243 KCWC 010435Z AUTO 00000KT 10SM CLR 19/11 A3012 RMK AO2 T01860112 KECU 010435Z AUTO 00000KT 10SM CLR 19/13 A3016 RMK AO2 CYQL 010400Z 31012G18KT 15SM FEW120 SCT210 15/10 A2996 RMK AC2CI2 LAST STFD OBS/NXT 011200Z SLP148 DENSITY ALT 3600FT KEED 010356Z AUTO A2988 RMK AO2 SLPNO PWINO $ EGQL 010350Z 28004KT CAVOK 04/03 Q1006 BLU EGPU 010420Z AUTO 23001KT 9999 NCD 07/06 Q1005 CYQM 010400Z 23007KT 15SM SKC 06/05 A3043 RMK SLP307 KDMN 010353Z AUTO 23004KT 10SM CLR 19/15 A3017 RMK AO2 SLP157 T01940150 KCVN 010435Z 21006KT 10SM CLR 14/08 A3015 RMK AO1 EGQM 010350Z AUTO 14002KT 9999 FEW070/// 06/05 Q1006 CYPW 010200Z 00000KT 20SM FEW035 FEW140 BKN250 10/09 A2994 RMK CU1AC1CI6 CU TR AC TR LAST STFD OBS/NEXT011300UTC SLP142 KDMO 010353Z AUTO 05005KT 10SM OVC041 15/13 A3012 RMK AO2 SLP197 T01500128 KCVO 010435Z 00000KT 10SM 10/06 A3003 RMK AO1 KCWF 010435Z 00000KT 10SM CLR 17/15 A3008 RMK AO2 T01700150 PWINO CYPX 010438Z AUTO 30013G20KT 9SM -RA BKN026 04/00 A3019 RMK SLP227 CYPY 010400Z AUTO 36008KT 9SM OVC200 05/M01 A3040 RMK SLP309 KDLZ 010437Z AUTO 12006KT 10SM BKN008 OVC016 13/13 A3003 RMK AO2 CYQQ 010400Z 00000KT 20SM OVC130 11/09 A2993 RMK AC8 SLP136 KCWI 010407Z AUTO 36008KT 10SM FEW007 SCT024 OVC055 16/14 A3010 RMK AO2 TSNO CYQR 010400Z 13013KT 15SM FEW170 12/10 A2999 RMK AC2 SLP170 KCVS 010358Z AUTO 19007KT 10SM CLR 17/11 A3014 RMK AO2 SLP159 T01650108 $ CYRJ 010400Z 26003KT 240V310 25SM FEW220 07/06 A3044 RMK CI1 SLP314 EGQS 010350Z 19003KT CAVOK 05/04 Q1006 BLU NOSIG EHJA 010425Z AUTO 19006KT 9999 NSC 15/09 Q1007 OTBD 010400Z 31009KT 280V350 9000 NSC 29/17 Q1006 NOSIG CYSB 010400Z 08007KT 15SM SCT120 BKN200 12/07 A3033 RMK AC4CI3 SLP277 KDNL 010353Z AUTO 31007KT 10SM CLR 21/08 A3005 RMK AO2 SLP173 T02060078 $ CYQT 010446Z 29004KT 3SM R07/2800VP6000FT/U BR BKN001 07/07 A3031 RMK ST6 SLP270 KEDU 010435Z AUTO 22006KT 10SM CLR 17/04 A3002 RMK AO1 CYRL 010200Z 16005KT 15SM FEW220 12/10 A3025 RMK CI2 LAST STFD OBS/NEXT 010900UTC SLP256 CYSC 010400Z AUTO 09004KT 9SM OVC150 11/07 A3040 RMK SLP301 CYQU 010400Z 06012G20KT 4SM -RA BR BKN005 OVC010 04/03 A3014 RMK SF7SC1 SLP232 EGSC 301850Z 22002KT 9999 FEW040 13/07 Q1010 KEFD 010350Z 00000KT 10SM CLR 20/13 A3009 KCVW 010345Z AUTO 05004KT 10SM CLR 21/16 A3006 RMK A01 CXZV 010400Z AUTO 31004KT 09/07 RMK AO1 SLP288 T00940071 50000 CYQV 010400Z AUTO 15011G16KT 9SM SCT160 14/10 A3002 RMK SLP177 DENSITY ALT 1700FT KDMW 010445Z AUTO 08006KT 7SM OVC006 15/M17 A3015 RMK AO2 LTG DSNT E KEEN 010356Z AUTO 36006KT 10SM BKN022 OVC037 08/07 A3039 RMK AO2 RAE39 SLP313 P0001 T00780072 KCWN 010406Z AUTO 23015G20KT 10SM OVC070 13/06 A3023 RMK AO2 SHRAE06 $ KCXE 010435Z AUTO 13003KT 10SM OVC004 22/21 A3004 RMK AO1 T02200210 KEDW 010358Z 22010KT 40SM FEW110 24/06 A2999 RMK AO2A SLP136 T02400061 KDNN 010435Z AUTO 00000KT 10SM CLR 10/10 A3008 RMK AO2 CYQW 010400Z AUTO 31004KT 9SM CLR 08/08 A3006 RMK SLP195 KEEO 010353Z AUTO 05005KT 10SM CLR 09/07 A3027 RMK AO2 SLP195 T00940067 KCVX 010434Z AUTO 08009KT 10SM OVC110 16/13 A3025 RMK AO2 T01600127 EHHW 010425Z AUTO 21010KT 9999 FEW015/// 15/11 Q1008 CYQX 010400Z 28006KT 20SM FEW030 SCT057 08/06 A3024 RMK SC2SC2 SLP247 CYSF 010400Z AUTO 04003KT 9SM SCT230 05/M00 A3033 RMK SLP287 OTBH 010358Z 32010KT 6000 DU CLR 27/15 A2974 RMK AO2A SLP072 T02670154 CZHY 010400Z AUTO 24001KT 02/M03 RMK AO1 SLP336 T00211030 51002 CYQY 010400Z 25007KT 15SM FEW250 06/06 A3038 RMK CI1 SLP291 EGSH 010420Z AUTO 20002KT 1600 RA NCD 09/09 Q1007 CYRQ 010400Z AUTO 05007KT 9SM FEW150 BKN180 11/07 A3040 RMK SLP299 CYQZ 010400Z AUTO 00000KT 9SM CLR 04/03 A2991 RMK SLP152 KDPA 010422Z 04005KT 10SM OVC019 16/14 A3005 RMK AO2 T01610144 KDNS 010435Z AUTO 00000KT 10SM OVC039 12/12 A3015 RMK AO2 CYSJ 010400Z 06003KT 15SM BKN220 04/04 A3044 RMK CI6 SLP311 KEET 010353Z AUTO 00000KT 10SM CLR 14/10 A3007 RMK AO2 SLP180 T01390100 OSKL 010400Z 34015KT CAVOK 19/00 Q1013 ORSU 010100Z 03020G30KT 8000 NSC 21/01 Q1013 KEFK 010435Z AUTO 00000KT 10SM CLR 09/07 A3040 RMK AO2 T00860073 CYRT 010400Z 29012G17KT 15SM BKN032 02/M02 A3028 RMK SC5 SLP260 CYSK 302200Z 22016KT 15SM FEW120 SCT240 BKN250 10/07 A3033 RMK AC1CS2CC3 12.1/5.6/0.0/SNW CVR/NIL/LAST OBS/NXT SLP272 EGTC 301650Z 25007KT 9999 FEW045 16/09 Q1010 KCWV 010435Z AUTO 00000KT 10SM CLR 14/14 A3005 RMK AO2 T01380138 KDNV 010435Z AUTO 05004KT 10SM -RA BKN023 BKN049 OVC055 15/15 A2998 RMK AO2 T01520150 CZKD 010400Z AUTO 06004KT 11/11 RMK AO1 SLP210 T01140110 55002 CYSM 010400Z 34006KT 15SM SKC M00/M05 A3047 RMK SLP334 CYRV 010400Z AUTO VRB02KT 9SM OVC110 11/10 A2988 RMK SLP127 EHKD 010440Z AUTO VRB02KT 9000 BR FEW015CB SCT076 BKN085 10/10 Q1008 BLU 15003KT 7000 BR FEW040 BECMG SCT025CB BKN040 KEGE 010435Z AUTO 08003KT 10SM CLR 10/06 A3031 RMK AO1 CYSN 010100Z 08013KT 15SM OVC040 15/10 A3023 RMK SC8 LAST STFD OBS/NEXT 01 1100UTC SLP238 CYTE 010400Z AUTO 29013G18KT 9SM CLR 01/M01 A2991 RMK SLP135 KCXO 010353Z AUTO 00000KT 10SM CLR 14/13 A3009 RMK AO2 SLP187 T01440133 EGTE 010020Z VRB01KT CAVOK 07/07 Q1008 KCXP 010435Z AUTO 21006KT 10SM CLR 17/M02 A3007 RMK AO2 CYSP 302100Z 09008KT 15SM FEW170 20/09 A3037 RMK AC1 AC S HRZN LAST STFD OBS/NEXT 011200UTC SLP291 DENSITY ALT 1300FT CYTH 010400Z 09004KT 15SM FEW150 10/09 A3013 RMK AC1 SLP214 KEGI 010355Z 00000KT 10SM CLR 15/13 A3007 RMK AO2A SLP184 T01470125 $ EHJR 010425Z AUTO 14005G07KT //// ///////// 16/10 Q1007 W///H13 OSLK 010400Z 05004KT CAVOK 16/06 Q1014 KEHA 010428Z AUTO 13010KT 15/07 RMK AO1 PK WND 15 000 T01500073 CYUA 010427Z AUTO 29013G19KT 2 1/2SM //// BKN005 OVC009 03/03 A3027 EGSS 010420Z AUTO 15004KT 8000 FEW043 10/10 Q1007 KEFT 010435Z AUTO 01008KT 5SM BR OVC003 14/14 A3010 RMK AO2 CYUB 010400Z 19008KT 8SM -DZ SCT006 OVC013 03/03 A3024 RMK ST4SC4 SLP240 EGTK 302120Z 22004KT 140V240 CAVOK 09/08 Q1010 KDPL 010425Z AUTO 00000KT 4SM BR CLR 22/22 A3004 RMK AO2 EGUB 010350Z AUTO 11005KT 9999 // FEW190/// 07/07 Q1006 KEHC 010435Z AUTO 36015KT 10SM CLR 25/12 A3005 RMK A01 CYTL 010400Z AUTO 16007KT 9SM CLR 12/09 A3027 RMK SLP260 KDOV 010358Z AUTO 04010KT 10SM OVC007 18/ A3015 RMK AO2 SLP213 $ KCXY 010407Z AUTO 07009KT 8SM OVC009 15/13 A3019 RMK AO2 CIG 006V014 T01500128 CYSY 302300Z 02005KT 15SM SCT100 BKN250 M05/M07 A3038 RMK AS4CI2 LAST OBS/NEXT 011300Z SLP300 KDQH 010435Z AUTO 00000KT 10SM CLR 16/12 A3006 RMK AO2 VGHS 010430Z 00000KT 4500 HZ SCT015 BKN100 29/25 Q1008 NOSIG CYTQ 302100Z 26026G34KT 15SM SCT050 BKN072 BKN240 12/02 A3003 RMK SC4AC2CI1 LAST STFD OBS/NEXT 011200UTC SLP173 CYTR 010400Z 06004KT 15SM BKN054 OVC079 15/10 A3029 RMK SC7AC1 SLP259 KCYS 010353Z AUTO 25007KT 10SM BKN075 11/08 A3022 RMK AO2 SLP177 T01110078 KDRA 010355Z AUTO 11006KT 10SM CLR 22/04 A3000 RMK AO2 SLP116 T02220039 CYTS 010400Z 03005KT 15SM SKC 07/05 A3037 RMK SLP292 EGVA 010445Z AUTO 06004KT 0800 R09/1000 FG CLR 07/07 A2970 RMK AO2 DZE05DZB06E07 VISNO RWY09 $ EHMA 010425Z AUTO 19014KT 9999 FEW040 12/10 Q1008 EICK 010430Z 32011KT 9999 FEW003 BKN004 07/07 Q1004 TEMPO 3000 BKN003 KCZL 010435Z AUTO 00000KT 10SM CLR 12/09 A3008 RMK AO2 T01210089 CYVC 010400Z 01010KT 10SM -DZ OVC005 10/10 A3008 RMK ST8 SLP199 CYUL 010400Z 03006KT 15SM FEW130 BKN150 14/08 A3037 RMK AC2AC5 SLP285 KEGV 010435Z AUTO 08007KT 10SM SCT047 12/08 A3025 RMK AO2 T01170084 EGUL 010358Z AUTO 10002KT 9999 SCT065 SCT095 08/08 A2972 RMK AO2 SLP067 T00790079 $ CZMD 010400Z AUTO 18003KT 9SM BKN240 11/08 A3025 RMK SLP255 EHKV 010425Z AUTO 15009KT 120V180 9999 NSC 16/11 Q1008 KEHO 010425Z AUTO 00000KT 10SM CLR 13/12 A3004 RMK AO2 T01250120 EGUN 010358Z AUTO 13003KT 9999 SCT065 BKN085 09/09 A2972 RMK AO2 SLP067 T00890089 EGUO 301350Z 25013KT 9999 SCT025 16/08 Q1012 BLU EHMG 010425Z AUTO 19016KT 9999 FEW019CB 16/11 Q1008 CYTZ 010400Z AUTO 09021G27KT 9SM SCT013 BKN022 BKN027 OVC031 14/11 A3024 RMK SLP241 KEHR 010435Z AUTO 00000KT 5SM SCT006 OVC012 15/13 A2999 RMK AO1 KDRI 010435Z AUTO 00000KT 10SM CLR 16/14 A3010 RMK AO2 T01560142 CZMJ 010400Z AUTO 13009KT 12/10 RMK AO1 SOG 00 3001 SLP163 T01210099 CYWA 010400Z AUTO 12003KT 9SM CLR 15/10 A3035 RMK SLP280 CYUS 010444Z AUTO 03004KT 5SM //// OVC006 M00/M01 A3010 KEIK 010435Z AUTO 00000KT 10SM CLR 12/07 A3017 RMK AO2 T01230072 KCZT 010435Z AUTO 14004KT 10SM CLR 20/12 A3008 RMK AO2 CYUT 302200Z 30007KT 25SM -SHSN FEW012 BKN020 OVC040 01/M01 A2997 RMK SF1ST6SC2 SF TR 1.2/-0.1/TR/0.0 SNW CVR/NIL LAST STFD OBS/NXT 011400Z SLP151 EIDL 301900Z VRB02KT CAVOK 09/07 Q1007 CYVL 010400Z AUTO 17008KT 9SM OVC075 01/00 A3034 RMK SLP297 KDRM 010435Z AUTO 08008KT 10SM CLR 16/11 A3025 RMK AO2 T01640105 CYVM 010400Z AUTO 36007KT 330V130 9SM SCT034 OVC095 02/00 A2976 RMK SLP079 CYWE 010403Z AUTO 28008KT 9SM OVC024 M01/M03 A3039 RMK SLP321 KDRO 010353Z AUTO 00000KT 10SM CLR 10/07 A3027 RMK AO2 SLP204 T01000067 EHLW 010425Z AUTO 17006KT 9999 BKN080 BKN086 BKN093 11/10 Q1009 BLU KFAF 010408Z AUTO 11005KT 10SM SCT008 SCT021 BKN100 24/23 A3004 RMK AO2 $ EGVN 010350Z 00000KT 0100 FG BKN000 07/07 Q1006 NOSIG EGUW 010350Z AUTO 17006KT 9000 SHRA BKN047/// BKN100/// 10/10 Q1007 CYVO 010400Z AUTO 01002KT 9SM CLR 08/06 A3039 RMK SLP303 CYUX 010400Z AUTO 33008KT 9SM SCT040 M01/M02 A2996 RMK SLP148 EGVO 010350Z 15006KT CAVOK 07/07 Q1006 BLU KEHY 010435Z AUTO 10SM 11/02 A3024 RMK AO2 CYVP 010400Z 28012G23KT 15SM FEW038 SCT050 SCT085 04/M03 A3005 RMK SC1SC2AC1 SLP179 CYWG 010400Z 14011G18KT 15SM BKN170 14/11 A3017 RMK AC6 SLP222 CYUY 010400Z 08004KT 15SM SKC 06/04 A3039 RMK SLP301 KCZZ 010352Z AUTO 05003KT 18/11 A3003 RMK AO1 SLP138 T01830106 EGVP 010350Z AUTO 32001KT 0300 // BKN001/// BKN210/// 05/05 Q1006 CYWH 010400Z 21004KT 150V240 15SM OVC070 12/08 A2993 RMK AC8 LAST STFD OBS/NEXT 011300 UTC SLP136 CYVQ 010400Z 10005KT 30SM BKN087 05/M01 A3040 RMK AC7 SLP301 KEIR 301435Z AUTO 08014KT 10SM BKN045 24/17 A3013 RMK A01 CYVR 010400Z 10005KT 20SM FEW110 SCT210 10/07 A2993 RMK AC2CS2 SLP136 KDTA 010435Z AUTO 17006KT 10SM CLR 13/06 A3011 RMK AO1 CYWJ 302300Z 29005KT 20SM SCT022 OVC080 03/M00 A3046 RMK SC3AC5 CIG RAG 3.0/2.5/3.0/0 SNW CVR/NIL LAST STFD OBS/NEXT 011300 UTC SLP332 KDRT 010353Z AUTO 12004KT 10SM CLR 22/16 A3007 RMK AO2 SLP171 T02170161 CZMT 010000Z VRB02KT 15SM FEW006 FEW012 SCT085 SCT200 11/08 A2995 RMK CU1CU1AC1CI1 SH W LAST OBS/NEXT 011400 UTC SLP144 CYVT 010400Z 05012G18KT 15SM OVC018 10/05 A3017 RMK SC8 LAST STFD OBS/NEXT 011200 UTC SLP233 CYWK 010400Z AUTO 30007KT 9SM CLR 05/02 A3034 RMK SLP293 CZMU 010400Z AUTO 05010KT 08/06 RMK AO1 PK WND 06017/0345 T00780063 CYWL 010400Z 33008KT 15SM SKC 07/03 A2988 RMK SLP144 CYXC 010400Z VRB02KT 25SM FEW055CB FEW080 BKN140 11/09 A2997 RMK CB1AC2AC3 CB TR SLP152 DENSITY ALT 3200FT EGXC 010430Z 15002KT 3000 MIFG FEW060 BKN200 07/06 Q1006 YLO1 KFAM 010446Z AUTO 30004KT 10SM FEW017 SCT025 OVC039 16/14 A3007 RMK AO2 KDSM 010354Z 05006KT 10SM OVC027 17/13 A3015 RMK AO2 DZE32 SLP207 P0000 T01720133 CYVV 010400Z 09010G20KT 15SM SCT090 15/09 A3023 RMK AC3 SLP239 CYXE 010400Z 36009KT 15SM SKC 10/10 A3000 RMK SLP174 EIDW 010430Z 35005KT 9999 FEW022 SCT100 BKN140 08/07 Q1003 TEMPO 5000 BKN010 EGXE 010350Z AUTO 25003KT 0550 FG FEW002/// BKN220/// 05/04 Q1006 KFBG 010436Z AUTO 00000KT 8SM OVC001 22/21 A3002 RMK AO2 $ CYXH 010400Z AUTO 07006KT 9SM CLR 15/11 A2993 RMK SLP142 DENSITY ALT 2800FT KFAR 010353Z 12007KT 10SM CLR 14/09 A3019 RMK AO2 SLP223 T01440089 KDUA 010435Z AUTO 00000KT 10SM CLR 16/11 A3011 RMK AO2 KELA 010435Z AUTO 00000KT 10SM CLR 16/15 A3008 RMK AO2 T01630147 CYXJ 010400Z 02012G18KT 4SM -SN OVC007 01/M00 A3026 RMK SC8 SLP280 KFAT 010353Z 31013KT 10SM CLR 23/06 A2996 RMK AO2 SLP142 T02280056 KDUB 010435Z AUTO 00000KT 10SM CLR 10/03 A3025 RMK AO2 CYYB 010400Z AUTO 09007KT 9SM FEW120 OVC140 12/08 A3033 RMK SLP277 KFBL 010434Z AUTO 01006KT 10SM OVC050 16/12 A3020 RMK AO2 KDTL 010434Z AUTO 14006KT 10SM CLR 12/08 A3023 RMK AO2 KDUC 010435Z AUTO 00000KT CLR 15/11 A3012 RMK AO2 PWINO TSNO KEKM 010050Z 06011KT 10SM OVC009 16/14 A3005 RMK AO2 LAST CZOL 010400Z AUTO 07005KT 09/06 RMK AO1 T00870062 CZPC 010400Z AUTO 31010KT 9SM BKN210 BKN230 10/07 A3000 RMK SLP160 DENSITY ALT 4100FT CYXL 010400Z 00000KT 15SM SKC 06/06 A3030 RMK SLP274 CYYC 010416Z 34008KT 5SM BR BKN017 OVC032CB 11/08 A3006 RMK SC6CB2 OCNL LTNG E-SE SLP201 DENSITY ALT 3700FT KELD 010353Z AUTO 00000KT 10SM CLR 14/14 A3008 RMK AO2 SLP184 T01440139 $ KDSV 010354Z AUTO 14008KT 10SM OVC018 13/09 A3025 RMK AO2 SLP251 T01330094 EGWU 010350Z AUTO 17001KT 9999 // BKN070/// 09/09 Q1007 KDTN 010353Z AUTO 10003KT 10SM CLR 18/14 A3008 RMK AO2 SLP184 T01830144 KEKN 010351Z AUTO 00000KT 10SM FEW021 FEW050 SCT065 13/12 A3010 RMK AO2 SLP193 T01330117 CYYD 010400Z 32006KT 15SM BKN055 08/01 A3004 RMK SC7 SLP188 EGYD 010350Z AUTO 14003KT 0100 // FEW001/// BKN170/// 06/06 Q1006 CYXN 302200Z 29019G25KT 15SM BKN018 04/M03 A3026 RMK SC5 5.5/0.2/0/0 LAST STFD OB/NXT 011400Z SLP249 EGYE 301350Z 24012KT 9999 SCT025 BKN250 ///// Q1009 BLU CYYE 010400Z 30006KT 15SM BKN120 03/M03 A3045 RMK AC7 SLP334 KDTO 010353Z AUTO 35004KT 10SM CLR 15/12 A3009 RMK AO2 SLP185 T01500117 KEKO 010356Z AUTO 02007KT 10SM CLR 18/08 A3003 RMK AO2 SLPNO T01780078 $ OTHH 010400Z 33012KT 9000 NSC 28/16 Q1006 NOSIG CYYF 010400Z 34009KT 220V020 15SM SCT083 BKN110 14/03 A2978 RMK AC3AC4 SLP089 DENSITY ALT 1400FT KFAY 010403Z AUTO 19004KT 1/4SM FG VV002 22/21 A3002 RMK AO2 T02170211 RVRNO KDUG 010356Z AUTO 36009KT 10SM FEW090 16/13 A3016 RMK AO2 SLP162 T01610133 CYWY 302200Z 27005KT 260V360 15SM SCT043 08/M03 A3052 RMK CU4 8.1/-0.8/0/0 LAST OBS/NXT 031400Z SLP347 CYXP 302200Z 31008KT 250V330 15SM FEW020 FEW090 02/M02 A2970 RMK SC1AC1 3.3/1.5/0.0/0 LAST STFD OBS/NEXT 011500 SLP059 CYYG 010400Z 26005KT 15SM SKC 10/06 A3042 RMK SLP304 EGXP 010350Z AUTO 13004KT 7000 // BKN170/// 07/07 Q1006 KEKQ 010356Z AUTO 35007KT 280V040 9SM CLR 10/10 A3007 RMK AO2 SLP208 T01000100 401890083 PNO $ KDUH 010435Z AUTO 00000KT 10SM OVC018 17/16 A3006 RMK AO2 T01670156 EHPG 010425Z AUTO VRB06KT 9999 FEW025 16/10 Q1007 KFCH 010435Z AUTO 9SM CLR 21/07 A2998 RMK A01 CYXQ 302200Z 05005KT 030V110 30SM FEW240 06/M04 A3045 RMK CI1 CLIMAT 6.5/-8.0/0.0/LAST STFD OBS/NXT 011600Z SLP346 EGYH 300950Z 24022KT 9999 FEW020 15/10 Q1011 BLU CYYH 010400Z 36004KT 15SM FEW030 M03/M04 A3013 RMK SC1 SC TR SLP207 KFCI 010355Z AUTO 11003KT 5SM SCT020 OVC025 23/16 A3006 RMK AO1 KFBR 010435Z AUTO 22009KT 10SM CLR 12/05 A3029 RMK AO2 T01200045 KDUJ 010353Z AUTO 11011G20KT 10SM OVC006 12/11 A3016 RMK AO2 SLP212 T01220106 KDTS 010353Z AUTO 35006KT 10SM CLR 23/14 A3006 RMK AO2 SLP180 T02330144 CYXR 010400Z AUTO 35004KT 9SM SCT240 09/06 A3036 RMK SLP289 KEKS 010435Z AUTO 16007KT 10SM SCT095 SCT120 12/06 A3015 RMK A01 EGXS 010350Z AUTO /////KT 9999 // FEW080/// SCT210/// 09/08 Q1006 CYYJ 010400Z 13004KT 110V200 30SM SCT070 BKN088 BKN110 11/10 A2993 RMK AC3AC3AC1 SLP136 CYXS 010400Z AUTO 35011G16KT 9SM SCT050 BKN085 06/01 A2993 RMK SLP166 KELK 010435Z AUTO 16003KT 10SM CLR 16/11 A3011 RMK AO2 T01620108 CYXT 010400Z 36014KT 15SM BKN090 12/04 A2997 RMK AC6 SLP156 KFCM 010353Z AUTO 02005KT 10SM CLR 15/11 A3019 RMK AO2 SLP224 T01500111 KELM 010353Z AUTO 05007KT 10SM OVC010 12/10 A3025 RMK AO2 CIG 008V012 SLP243 T01220100 CYYL 010441Z AUTO 05014KT 1 1/4SM -RA BR OVC003 08/08 A3012 RMK SLP218 EGXU 010350Z AUTO 02002KT 5000 // FEW060/// OVC170/// 06/05 Q1006 CYXU 010400Z 08013G19KT 15SM OVC016 13/12 A3015 RMK SC8 SLP213 KDTW 010416Z 04008KT 2 1/2SM -RA BR OVC005 14/14 A3009 RMK AO2 TWR VIS 4 P0000 T01440144 KELN 010353Z AUTO 33022G29KT 10SM OVC100 15/04 A2990 RMK AO2 PK WND 33029/0352 SLP121 T01500044 EGYM 010350Z AUTO 13002KT 9999 SCT090/// BKN190/// 07/06 Q1007 EGXV 010350Z AUTO 01002KT 5000 BKN170/// 05/05 Q1006 CYYN 010400Z AUTO 35003KT 9SM CLR 13/10 A2999 RMK SLP160 DENSITY ALT 3000FT CYZE 010415Z AUTO 10012G21KT 9SM OVC120 16/10 A3026 RMK SLP249 KELO 010433Z AUTO 00000KT 10SM CLR 06/05 A3029 RMK AO2 EGXW 010440Z 20002KT 0500 FG BKN180 07/07 Q1006 RED EHQE 010425Z AUTO 14006KT 9999 FEW018 FEW022CB 16/10 Q1008 CYZF 010400Z 30004KT 270V340 15SM OVC035 01/M06 A3048 RMK SC8 SLP337 CYXX 010400Z 00000KT 10SM FEW180 10/08 A2994 RMK AC1 SLP140 KELP 010351Z 18005KT 10SM FEW150 FEW250 21/16 A3015 RMK AO2 SLP156 T02060156 KEKY 010356Z AUTO 16003KT 10SM 13/10 A3008 RMK AO2 SLP202 T01330100 $ CYXY 010400Z 26006KT 15SM SKC 00/M08 A3038 RMK SLP332 EGYP 010350Z 29004KT 9999 FEW006 SCT014 BKN025 07/05 Q1022 GRN CYXZ 010000Z 06004KT 15SM FEW300 15/10 A3035 RMK CI1 LAST OBS/NEXT 011100UTC SLP286 EGXZ 010350Z AUTO 16003KT 8000 SCT180/// 06/06 Q1006 CYZH 010409Z AUTO 14005KT 9SM -RA BKN040 OVC048 06/04 A3021 RMK SLP252 CYYQ 010400Z 09007KT 15SM OVC090 05/03 A3035 RMK AC8 SLP280 CYYR 010400Z 27008KT 15SM SKC 05/M00 A3021 RMK AURBO SLP231 KFCS 010418Z AUTO 23014KT 10SM CLR 16/06 A3019 RMK AO2 WSHFT 05 RAE0359DZB0359E00RAB00 KFDK 302347Z 02008KT 2 1/2SM BR OVC005 16/16 A3018 CZPS 010400Z AUTO 03006KT 08/08 RMK AO1 T00840075 KEMK 010435Z AUTO 06011KT 10SM SCT044 26/15 A3005 RMK A01 KDVK 010435Z AUTO 00000KT 10SM SCT011 11/11 A3005 RMK AO2 CYYT 010400Z 33011KT 15SM FEW060 08/05 A3021 RMK SC2 SLP235 KDVL 010356Z AUTO 15012KT 10SM CLR 16/08 A3014 RMK AO2 SLP224 T01560083 KEMM 010359Z AUTO 01003KT 10SM 11/05 A3028 RMK AO2 CYYU 010400Z 00000KT 15SM SKC 07/06 A3037 RMK SLP295 KEND 010438Z AUTO 06003KT 10SM SCT240 15/10 A3010 RMK AO2 KDVN 010352Z AUTO 02008KT 10SM FEW009 BKN041 OVC050 16/14 A3010 RMK AO2 SLP194 T01560144 EHRD 010425Z AUTO 15003KT 9999 NSC 11/10 Q1008 NOSIG CYYW 010400Z AUTO 00000KT 2SM BR BKN001 04/04 A3035 RMK ICG MISG SLP283 KDUX 010435Z AUTO 13007KT 10SM CLR 17/09 A3011 RMK AO2 T01660093 KDVO 010435Z AUTO 27014G21KT 230V290 10SM CLR 16/09 A3008 RMK AO2 KDVP 010359Z AUTO 10006KT 10SM CLR 13/10 A3021 RMK AO2 KEMP 010353Z AUTO 00000KT 10SM CLR 14/11 A3013 RMK AO2 SLP201 T01390106 KELY 010353Z AUTO 19008KT 10SM CLR 12/02 A3016 RMK AO2 SLP136 T01220022 CYYY 010400Z 19006KT 15SM FEW240 09/06 A3042 RMK CI2 SLP304 CYZP 010433Z AUTO 08013KT 9SM SCT012 BKN028 BKN038 OVC060 12/09 A2993 RMK SLP136 KDWH 010353Z AUTO 00000KT 10SM CLR 17/15 A3008 RMK AO2 SLP184 T01670150 KELZ 010424Z AUTO 12008KT 1 3/4SM BR OVC002 11/10 A3024 RMK AO2 T01060100 CYYZ 010400Z 09012G19KT 40SM -DZ SCT008 OVC015 13/12 A3024 RMK SF4SC4 PCPN VRY LGT SLP242 KFDR 010353Z AUTO 13006KT 10SM CLR 17/12 A3009 RMK AO2 SLP177 T01670117 CYZR 010400Z AUTO 10008KT 9SM OVC019 14/12 A3013 RMK SLP205 KFFA 010425Z AUTO 14004KT 10SM SCT017 24/24 A3006 RMK AO2 T02430243 KEMT 010149Z 21007KT 10SM CLR 27/10 A2994 EHSA 010425Z AUTO 24006G13KT 7000 ///////// 15/10 Q1007 W18/H8 CYZS 010400Z 24004KT 15SM SCT050 M02/M03 A3006 RMK SC3 SLP187 KDVT 010353Z 00000KT 10SM CLR 29/08 A2994 RMK AO2 SLP116 T02890078 CYZT 010400Z 18005KT 15SM FEW220 06/06 A2993 RMK CI2 SLP139 KFFC 010353Z AUTO 00000KT 10SM CLR 12/11 A3008 RMK AO2 SLP186 T01170106 KENL 010435Z AUTO 00000KT 5SM BR OVC007 17/17 A3000 RMK AO2 T01670166 CYZU 010400Z 09008G16KT 12SM -DZ OVC006 07/06 A3013 RMK ST8 LAST OBS/NEXT 011200Z SLP226 EHSC 010425Z AUTO 20014G15KT //// ///////// 16/12 Q1007 W19/H8 KEMV 010435Z AUTO 10003KT 21/21 A3006 RMK AO2 PWINO CYZV 010400Z 30004KT 15SM SKC 07/05 A3038 RMK SLP290 KFDW 010435Z AUTO 28003KT 10SM CLR 15/13 A3004 RMK AO1 KEOE 010435Z AUTO 22003KT 10SM CLR 14/13 A3008 RMK AO2 CYZW 010100Z 10006KT 070V130 30SM SCT057 06/M05 A3037 RMK SC4 CLIMAT 8.0/-3.4/0.0/LAST STFD OBS/NXT 011600Z SLP321 CYZX 010400Z 00000KT 15SM FEW150 BKN250 06/04 A3046 RMK AC1CI5 WNDY HILL 08003KT SLP316 KFDY 010428Z AUTO 07009KT 7SM -RA FEW009 BKN016 OVC090 17/14 A3002 RMK AO2 P0002 T01670144 KFEP 010435Z AUTO 35006KT 10SM OVC011 15/14 A3011 RMK AO2 T01500137 CZRP 010400Z AUTO 28012KT M10/M12 RMK AO1 SLP304 T11031119 50000 CYZY 010400Z AUTO 34010G24KT 290V010 9SM BKN036 BKN065 OVC078 06/M02 A3011 RMK SLP220 KDYA 010455Z AUTO 00000KT 10SM A3007 RMK AO2 CZSJ 010400Z AUTO 10003KT 9SM BKN210 OVC230 09/09 A3023 RMK SLP248 KDYB 302215Z AUTO 21003KT 10SM CLR 28/18 A2997 RMK AO1 KEOK 010435Z AUTO 33004KT 10SM OVC010 16/15 A3009 RMK AO2 KFET 010435Z AUTO 00000KT 4SM HZ CLR 14/10 A3017 RMK AO2 T01440104 CZTB 010400Z AUTO 23004KT 06/06 RMK AO1 SLP273 T00640064 56007 KDWU 010435Z AUTO 00000KT 1/2SM OVC002 13/11 A3004 RMK AO1 KFFL 010435Z AUTO 36005KT 10SM OVC013 16/14 A3011 RMK AO2 PWINO KENV 010435Z AUTO 04005KT 10SM CLR 19/09 A3003 RMK AO1 KFFM 010434Z AUTO 11004KT 10SM CLR 12/08 A3022 RMK AO2 CZSM 010200Z AUTO 31005KT 02/M10 RMK AO1 SLP319 T00181095 51012 KENW 010441Z AUTO 08008KT 10SM -RA FEW008 OVC017 16/15 A3008 RMK AO2 P0002 T01610150 KFEW 010358Z AUTO 30002KT 10SM FEW075 09/08 A3024 RMK AO2 SLP194 T00920077 $ KDWX 010435Z AUTO 06003KT 10SM CLR 09/05 A3029 RMK AO2 T00890051 VHHH 010430Z 33009KT 3500 BR FEW012 SCT020 28/24 Q1010 NOSIG KFFO 010358Z 36001KT 10SM R05L/3000FT MIFG FEW025 BKN040 14/14 A3002 RMK AO2A VIS LWR NW-NE SLP167 T01370137 PLCH 010400Z 12018KT 9999 FEW018CB SCT020 26/22 Q1009 CZSP 010400Z AUTO 20005KT 08/06 RMK AO1 SLP310 T00820063 58003 KEPH 010353Z AUTO 23006KT 10SM SCT100 15/04 A2984 RMK AO2 RAB09E19 SLP104 P0000 T01500044 ZUUU 010400Z VRB01MPS CAVOK 28/20 Q1015 NOSIG KDXR 010414Z AUTO 04007KT 4SM -RA BR OVC009 11/11 A3029 RMK AO2 RAB0356 CIG 007V011 P0000 T01110106 KH78 301500Z 04009KT 20SM BKN025 27/21 A3008 RMK SEAS 2-3 KEQA 010435Z AUTO 09004KT 10SM CLR 14/11 A3013 RMK AO2 KFFT 010431Z AUTO 14004KT 9SM BKN014 BKN025 OVC075 13/12 A3002 RMK AO2 RAE16 P0003 T01330117 KDZB 010435Z AUTO 00000KT 10SM CLR 16/12 A3011 RMK AO2 T01600120 KFHB 010435Z AUTO 30003KT 10SM CLR 26/24 A3000 RMK AO1 CZST 010100Z 04009KT 15SM OVC085 13/04 A3005 RMK AC8 LAST STFD OBS/NEXT 011300Z/ SLP177 KDYL 010354Z AUTO 03008KT 10SM OVC005 14/13 A3022 RMK AO2 SLP233 T01390133 FABL 010400Z 35003KT 300V030 CAVOK 03/M08 Q1018 NOSIG FABM 300647Z 10001KT CAVOK 14/M03 Q1025 KFGN 010434Z AUTO 15008KT 10SM CLR 13/11 A3024 RMK AO2 EIKN 301930Z 14002KT 9999 FEW015 FEW020CB BKN046 08/07 Q1006 NOSIG KDXX 010433Z AUTO 11003KT 10SM CLR 11/08 A3019 RMK AO2 KFFX 010432Z AUTO 09010G16KT 10SM OVC010 15/14 A3011 RMK AO2 T01480140 KFFZ 010247Z 33006KT 40SM FEW100 SCT150 A2991 PKMJ 302252Z 05009KT 15SM FEW015 SCT050 BKN300 29/24 A2984 KDYR 010435Z AUTO 10SM CLR RMK AO1 KDYS 010358Z AUTO 11006KT 10SM FEW180 OVC210 18/13 A3011 RMK AO2 SLP168 T01760134 $ KDZJ 010435Z AUTO 10SM A3011 RMK AO2 KDYT 010434Z AUTO 04010KT 10SM OVC005 12/11 A3028 RMK AO2 VIAG 010100Z VRB01KT 5000 BR FEW025 SCT100 27/27 Q1008 NOSIG CZUM 010400Z AUTO 27004KT 9SM CLR 03/00 A3026 RMK SLP264 EIME 010400Z 00000KT 9999 SCT018 BKN100 07/06 Q1003 KFGX 010435Z AUTO 17004KT 10SM OVC060 13/11 A3006 RMK AO2 T01270112 KFIG 010354Z AUTO 08009KT 4SM BR OVC003 12/12 A3020 RMK AO2 SLP227 T01220122 $ EIKY 301830Z 15004KT 130V190 9999 -RA SCT020CB BKN027 10/09 Q1005 PKMR 010355Z 06010KT 15SM FEW015 SCT050 BKN300 32/26 A2974 RMK SLP073 T03160259 KERI 010351Z AUTO 07005KT 10SM BKN021 OVC065 17/13 A3012 RMK AO2 SLP200 T01670128 KFHR 010353Z AUTO 00000KT 10SM CLR 09/07 A2996 RMK AO2 SLP144 T00890067 FACT 010400Z 18007KT 9999 BKN035 14/11 Q1021 NOSIG EHVK 010425Z AUTO 09001KT 9999 FEW015CB BKN070 OVC077 12/11 Q1009 BLU KESC 010356Z AUTO 05005KT 10SM FEW110 17/11 A3024 RMK AO2 SLP261 T01720111 KFHU 010358Z AUTO 09003KT 10SM CLR 16/13 A3021 RMK AO2 SLP174 T01610130 CZVL 010405Z AUTO 03008KT 9SM OVC016 08/06 A3011 RMK SLP216 EHVL 010425Z AUTO 19010KT 9999 FEW015CB BKN059 BKN065 13/11 Q1008 BLU KGAD 010356Z AUTO 00000KT 10SM CLR 11/10 A3009 RMK AO2 SLP207 T01110100 FACV 010431Z 13004KT CAVOK 04/01 Q1020 KFIN 010435Z AUTO 10SM CLR A3000 RMK AO2 TSNO KESF 010433Z AUTO 00000KT 3SM BR CLR 14/14 A3008 RMK AO2 T01440139 KGAF 010435Z AUTO 14009KT 10SM CLR 14/11 A3019 RMK AO2 VIAR 010430Z VRB02KT 3000 BR NSC 32/25 Q1010 NOSIG KEQY 010353Z AUTO 00000KT 10SM CLR 15/12 A3003 RMK AO2 SLP171 T01500117 KGAG 010353Z AUTO 14006KT 10SM CLR 18/10 A3011 RMK AO2 SLP179 T01830100 KI16 010435Z AUTO 7SM OVC003 15/13 A3013 RMK AO2 T01450128 KGAI 010435Z AUTO 08004KT 5SM OVC004 16/ A3017 RMK AO1 KFKA 010434Z AUTO 05004KT 10SM BKN029 OVC036 15/12 A3019 RMK AO2 T01510116 KFIT 010416Z AUTO 01004KT 2 1/2SM RA BR BKN008 OVC014 12/09 A3037 RMK AO2 T01170094 PNO KI19 010430Z AUTO 20004KT 10SM CLR 13/12 A3004 RMK AO2 KETB 010435Z AUTO 07009G16KT 5SM DZ OVC005 20/20 A3011 RMK AO2 KETC 010425Z AUTO 00000KT 7SM SCT007 SCT012 BKN080 21/21 A3005 RMK AO2 T02140212 FAEL 010400Z 27004KT 9999 FEW047 12/10 Q1018 KGBD 010435Z AUTO 12004KT 10SM CLR 13/06 A3014 RMK AO1 KERV 010435Z AUTO 00000KT 10SM CLR 14/12 A3013 RMK AO2 T01350116 KESN 010153Z 07011G18KT 3SM BR OVC006 18/17 A3016 VICG 010430Z 12004KT 1500 BR SKC 30/27 Q1011 BECMG 2000M EINN 010430Z 32006KT 9999 BKN005 BKN050 09/08 Q1005 TEMPO 3000 KGAO 010435Z AUTO 00000KT 10SM CLR A3007 RMK AO2 FAEO 010357Z 06009KT 2000 BCFG BKN010 12/11 Q1021 VIBR 010400Z 00000KT 6000 NSC 24/16 Q1016 EHWO 010425Z AUTO 17002KT 9999 BKN045 OVC071 13/11 Q1008 BLU KERY 010434Z AUTO 04003KT 10SM OVC090 13/10 A3026 RMK AO2 T01270101 KGBG 010435Z AUTO 36009G14KT 10SM OVC007 16/15 A3007 RMK AO2 T01560145 FADY 300652Z 16003KT CAVOK 15/M15 Q1022 KETH 010355Z AUTO 12004KT 10SM CLR 09/08 A3021 RMK AO2 VIDD 010430Z 07009KT 2500 HZ SCT100 32/25 Q1009 NOSIG KEST 010352Z AUTO 08005KT 10SM OVC041 16/12 A3019 RMK AO2 SLP220 T01610122 KGBK 010435Z AUTO 05009G17KT 10SM FEW036 SCT042 OVC055 27/21 A3002 RMK A01 KGCC 010353Z AUTO 15004KT 10SM CLR 11/09 A3006 RMK AO2 SLP154 T01110089 KFKL 010435Z 12011KT 10SM 13/10 A3014 RMK AO1 KFLD 010433Z AUTO 05007KT 10SM OVC011 16/15 A3013 RMK AO2 RAE22 P0001 T01610150 KGCD 010435Z AUTO 26013KT 10SM BKN090 16/03 A2992 RMK AO2 T01610027 KFKN 010435Z AUTO 00000KT 10SM BKN013 OVC028 22/21 A3006 RMK AO2 T02230213 KEUF 010358Z AUTO 00000KT 10SM CLR 13/11 A3006 RMK AO2 SLP177 T01330106 KEUG 010354Z 11003KT 10SM BKN037 13/07 A3003 RMK AO2 SLP171 T01330067 KFLG 010357Z 00000KT 10SM CLR 09/08 A3031 RMK AO2 SLP193 T00890083 KI35 010435Z AUTO 00000KT 1/4SM OVC001 10/10 A3008 RMK AO1 FAGG 010434Z 27010KT 4500 -RA FEW020 SCT025 BKN030 11/10 Q1020 KFKR 010435Z AUTO 09003KT 7SM SCT006 BKN060 OVC080 16/15 A3003 RMK AO2 T01620154 KFKS 010433Z AUTO 06005KT 10SM -RA SCT050 SCT065 OVC100 15/12 A3016 RMK AO2 T01500123 KEVB 010147Z 17008KT 10SM BKN025 23/21 A3004 RMK LAST KGCK 010354Z AUTO 12012KT 10SM FEW085 SCT110 17/08 A3011 RMK AO2 SLP177 T01670078 KGDB 010432Z AUTO 07003KT 10SM CLR 13/09 A3021 RMK AO2 T01330094 VIDN 010400Z 21003KT 2000 BR NSC 28/24 Q1012 KFLL 010437Z 00000KT 10SM TS FEW030 SCT100 25/24 A3002 RMK AO2 LTG DSNT ALQDS TSB35 FRQ LTGIC DSNT E-SE AND S CB DSNT E-SE AND S T02500244 KEUL 010356Z AUTO 10007KT 10SM CLR 21/05 A2982 RMK AO2 SLP079 T02110050 KGCM 010435Z AUTO 00000KT 10SM CLR 12/09 A3011 RMK AO2 FAGM 301000Z 32015KT 9000 HZ NSC 23/09 Q1024 VIDP 010430Z 11006KT 3000 HZ FEW100 32/24 Q1010 BECMG 3000 KFME 010445Z AUTO 08007KT 3SM OVC005 16/15 A3016 RMK AO1 KGCN 010354Z AUTO 00000KT 10SM CLR 10/08 A3029 RMK AO2 SLP191 T01000083 KFLO 010353Z AUTO 00000KT 10SM CLR 18/17 A3003 RMK AO2 SLP166 T01830167 KFLP 010435Z AUTO 00000KT 10SM CLR 14/12 A3008 RMK AO1 KFMH 010435Z AUTO 06017G23KT OVC005 15/14 RMK AO2 PWINO FZRANO TSNO KGDJ 010435Z AUTO 00000KT 10SM CLR 15/12 A3012 RMK AO2 T01500117 CZZJ 010400Z AUTO 00000KT 07/06 RMK AO1 2PAST HR 0006 SLP217 P0001 T00680063 50004 KEWB 010353Z AUTO 05012KT 4SM -RA BR OVC007 15/14 A3027 RMK AO2 CIG 005V010 SLP251 P0002 T01500139 KFNB 010353Z AUTO 00000KT 10SM CLR 14/12 A3015 RMK AO2 SLP206 T01390117 URFF 010430Z 12002MPS CAVOK 11/09 Q1022 R19/010095 NOSIG KEVM 010433Z AUTO 00000KT 10SM CLR 07/07 A3029 RMK AO2 T00730066 KGED 010354Z AUTO 06008KT 2SM BR OVC004 19/19 A3013 RMK AO2 SLP203 T01890189 $ KFMM 010435Z AUTO 10004KT 10SM CLR 12/06 A3016 RMK AO2 T01220055 KFMN 010353Z 24004KT 10SM CLR 16/09 A3020 RMK AO2 SLP193 T01610089 KGEG 010353Z 17005KT 10SM FEW095 SCT110 OVC150 19/08 A2986 RMK AO2 RAB11E28 PRESRR SLP102 P0000 T01890083 KGDP 010351Z AUTO 25012KT 10SM CLR 16/14 A3024 RMK AO2 SLP182 T01610139 KFLY 010435Z AUTO 28003KT 10SM SCT120 12/09 A3028 RMK AO2 T01160090 KGFA 010358Z AUTO 15003KT 10SM FEW110 SCT150 BKN170 19/04 A2996 RMK AO2 LTG DSNT S SLP130 T01870040 TSNO $ KFOA 010435Z AUTO 00000KT 7SM -RA SCT007 BKN055 OVC090 17/16 A3000 RMK AO2 P0001 T01680163 FAHS 300900Z AUTO 05005KT //// // ////// 23/16 Q1020 KEWK 010356Z AUTO 07004KT 10SM CLR 14/11 A3014 RMK AO2 SLP199 T01440106 $ KFNL 010435Z AUTO 14003KT 10SM CLR 17/08 A3016 RMK AO1 FAJB 010400Z AUTO 23002KT //// // ////// 10/M05 Q1019 KEVV 010440Z AUTO 35003KT 3SM BR FEW002 BKN017 BKN100 13/12 A3001 RMK AO2 T01330122 TSNO KFOD 010435Z AUTO 10005KT 10SM FEW029 SCT036 OVC049 16/12 A3018 RMK AO1 KGDV 010356Z AUTO 10004KT 10SM CLR 16/11 A2998 RMK AO2 SLP146 T01610111 VIGG 010430Z 16003KT 3500 BR NSC 28/24 Q1014 DRRM 301800Z 14004KT 7000 NSC 33/17 Q1010 KEVW 010353Z AUTO 17005KT 10SM SCT110 11/04 A3026 RMK AO2 SLP183 T01110044 KEWN 010354Z AUTO 16003KT 10SM SCT016 24/22 A3005 RMK AO2 SLP176 T02390222 KFOE 010353Z AUTO 00000KT 10SM CLR 13/11 A3013 RMK AO2 SLP200 T01330111 KI63 010435Z AUTO 32006KT 10SM OVC011 16/15 A3006 RMK AO2 T01550147 DRRN 010400Z 25003KT CAVOK 28/22 Q1009 NOSIG KFMY 010353Z AUTO 06004KT 10SM CLR 24/23 A3003 RMK AO2 SLP172 T02390228 EISG 301830Z 15005KT 100V190 9999 SCT023 BKN044 BKN055 11/08 Q1005 EKAH 010420Z AUTO 21004KT 180V240 9999NDV NCD 09/07 Q1009 KEWR 010430Z 03014G21KT 10SM SCT007 OVC011 14/13 A3023 RMK AO2 DZE13 P0000 T01390128 KI67 010435Z AUTO 00000KT 10SM SCT085 OVC090 12/11 A3003 RMK AO1 FAIR 301641Z 29018G44KT 9999 -RA SCT035 24/02 Q1020 KGFK 010353Z 14009KT 10SM FEW160 BKN200 14/10 A3018 RMK AO2 SLP223 T01440100 KFNT 010431Z AUTO 08010KT 10SM OVC009 14/13 A3013 RMK AO2 CIG 007V011 T01390128 $ KFOK 010415Z AUTO 04010KT 3SM -RA BKN008 OVC013 16/14 A3024 RMK AO2 P0000 T01560144 TSNO KI69 010434Z AUTO 00000KT 10SM SCT030 SCT050 OVC060 13/13 A3004 RMK AO2 T01250125 KGEU 010247Z 00000KT 10SM FEW090 FEW120 SCT200 30/12 A2993 RMK LAST DRRT 301800Z 24004KT CAVOK 36/10 Q1010 KGFL 010353Z AUTO 30006KT 7SM -RA OVC039 10/08 A3038 RMK AO2 SLP291 P0002 T01000083 KGEV 010430Z AUTO 00000KT 10SM CLR 11/10 A3010 RMK AO2 T01060100 KEYE 010407Z AUTO 15003KT 10SM SCT010 OVC080 15/13 A3000 RMK AO2 T01500133 KGGE 010435Z AUTO 00000KT 10SM CLR 17/17 A3004 RMK AO2 KEYF 010425Z AUTO 17003KT 7SM CLR 21/21 A3003 RMK AO2 T02120212 VIGR 010300Z 00000KT 4000 HZ FEW100 29/26 Q1009 KGGG 010353Z AUTO 18003KT 10SM CLR 16/13 A3008 RMK AO2 SLP183 T01560128 KGEY 010353Z AUTO 14007KT 10SM CLR 18/09 A3005 RMK AO2 SLP153 T01780089 KI75 010435Z AUTO 00000KT 10SM OVC025 16/14 A3015 RMK AO2 T01570135 KGEZ 010353Z AUTO 18004KT 10SM CLR 14/11 A3000 RMK AO2 SLP158 T01390106 KGGI 010435Z AUTO 02004KT 10SM SCT009 OVC014 15/13 A3015 RMK AO2 T01510134 EKBI 010420Z 09003KT 4000 BCFG FEW040 05/05 Q1009 FALA 010400Z 21003KT 190V250 CAVOK 13/M01 Q1018 NOSIG KFPK 010435Z AUTO 05012KT 5SM BR OVC005 15/14 A3008 RMK AO2 T01510141 KFOT 010430Z AUTO 15004KT 10SM CLR 12/09 A3013 RMK AO1 KGHB 010435Z AUTO 06015KT 10SM SCT036 BKN042 BKN050 26/19 A3005 RMK A01 KFQD 010425Z AUTO 31003KT 10SM CLR 11/11 A3006 RMK AO2 T01120112 FAKM 010400Z 26003KT CAVOK 08/M10 Q1017 FALE 010400Z 21002KT 9999 -RA SCT030 BKN048 17/14 Q1017 NOSIG KEXX 010425Z AUTO 00000KT 10SM CLR 14/14 A3004 RMK AO2 T01380138 KEZF 010435Z AUTO 07005KT 5SM -RA OVC004 19/19 A3008 RMK AO2 T01890189 FAKN 010400Z AUTO 06004KT //// // ////// 16/14 Q1018 KGGP 010435Z AUTO 06004KT 10SM BKN014 OVC022 15/13 A3003 RMK AO2 KGHG 010435Z AUTO 06011G18KT 2 1/2SM -RA FEW004 SCT008 OVC013 15/15 A3032 RMK AO2 KFOZ 010432Z AUTO 00000KT 10SM CLR 07/06 A3027 RMK AO2 WAAA 010430Z 27007KT 220V310 9999 FEW019 33/25 Q1009 NOSIG PKWA 010440Z AUTO 06011KT 10SM SCT021 31/25 A2978 RMK AO2 T03090245 EKCH 010420Z 23006KT 9999 FEW020 12/10 Q1010 NOSIG KFPR 010353Z AUTO 00000KT 10SM CLR 23/22 A3003 RMK AO2 SLP170 T02280222 KGIC 010435Z AUTO 22004KT 10SM CLR 13/03 A2984 RMK AO1 KEZM 010435Z AUTO 00000KT 7SM CLR 13/13 A3009 RMK AO2 T01320132 KEYW 010353Z AUTO 02006KT 10SM FEW110 27/24 A3002 RMK AO2 SLP166 T02720239 KGGW 010353Z AUTO 10006KT 10SM CLR 16/11 A2994 RMK AO2 SLP136 T01610111 FALM 301000Z 06005KT CAVOK 27/// Q1020 KGIF 010353Z AUTO 15003KT 10SM SCT032 BKN042 25/21 A3005 RMK AO2 SLP174 T02500211 KFRG 010353Z AUTO 05010KT 10SM OVC009 15/14 A3023 RMK AO2 CIG 007V012 SLP236 T01500139 URKA 010430Z 14003MPS CAVOK 11/10 Q1023 R04/010070 RMK QFE763/1018 KFRI 010358Z AUTO 00000KT 10SM CLR 12/12 A3014 RMK AO2 SLP203 T01230122 KEZS 010435Z AUTO 04007KT 10SM BKN020 OVC035 17/12 A3019 RMK AO2 T01650121 EKEB 010420Z AUTO 12005KT 9999NDV SCT034/// BKN062/// BKN120/// 10/08 Q1009 KFRM 010356Z AUTO 08004KT 10SM OVC043 17/12 A3019 RMK AO2 SLP224 T01670117 KFSD 010356Z 04003KT 10SM BKN250 11/08 A3018 RMK AO2 SLP220 T01060078 $ VIJP 010430Z 09006KT 4000 HZ FEW100 31/23 Q1010 BECMG 5000 KHAE 010435Z AUTO 34004KT 10SM BKN008 OVC011 16/15 A3009 RMK AO2 FAMM 010400Z 14002KT 9999 FEW030 SCT100 14/M12 Q1018 NOSIG KGHW 010434Z AUTO 07005KT 10SM CLR 11/09 A3022 RMK AO2 KFSE 010435Z AUTO 00000KT 10SM CLR 07/07 A3023 RMK AO2 FALW 010400Z AUTO 23003KT //// // ////// 11/09 Q1021 KHAF 010435Z AUTO 35004KT 9SM OVC017 13/13 A3013 RMK AO2 PMDY 010356Z AUTO 12005KT 10SM CLR 28/23 A3012 RMK AO2 SLP199 T02830228 EIWF 301900Z 21006KT 180V270 9999 SCT018CB SCT030 11/10 Q1007 R21/1///// URKK 010430Z 09002MPS 060V150 0100 R05C/M0200N FG VV001 10/09 Q1024 R05C/290050 TEMPO 0300 FG BKN002 RMK QBB050 OBST OBSC QFE765 KHAI 010435Z AUTO 04003KT 7SM OVC010 16/15 A3006 RMK AO2 T01570150 KFRR 010435Z AUTO 35004KT 2 1/2SM OVC003 14/14 A3012 RMK AO1 P0001 KFSI 010358Z AUTO 09003KT 10SM CLR 17/12 A3010 RMK AO2 SLP188 T01710124 VIJU 010430Z VRB02KT 2000 BR FEW030 31/26 Q1010 NOSIG USCC 010430Z 24001MPS 4300 BR OVC003 07/06 Q1017 R27/000060 TEMPO 0300 FG VV002 RMK QBB090 QFE743 VILD 010430Z 09002KT 1500 BR FEW040 30/26 Q1010 FAOB 010400Z AUTO 32006KT //// // ////// 11/09 Q1020 VIKO 010200Z 09002KT 5000 HZ BKN030 BKN100 29/23 Q1008 KFSM 010353Z AUTO 00000KT 10SM CLR 18/11 A3008 RMK AO2 SLP184 T01830111 TSNO VILH 010230Z CALM 6000 SKC 09/M08 Q1029 NOSIG KHAO 010353Z AUTO 00000KT 4SM BR CLR 11/09 A3003 RMK AO2 SLP170 T01060094 KFSO 010435Z AUTO 14004KT 10SM CLR 11/09 A3037 RMK AO2 T01110088 KFTG 010247Z 18008KT 10SM SCT120 BKN160 15/05 A3020 KHBG 010353Z AUTO 29003KT 10SM CLR 16/15 A3008 RMK AO2 SLP183 T01610150 KHBI 010420Z AUTO 00000KT 10SM CLR 15/14 A3007 RMK AO2 T01510143 VILK 010400Z 09005KT 4500 HZ FEW020 SCT100 32/27 Q1008 BECMG 5000 HZ KGKJ 010353Z AUTO 10008KT 10SM -RA OVC012 14/11 A3011 RMK AO2 RAB45 SLP197 P0000 T01390111 TSNO WADD 010430Z 24007KT 9999 FEW017CB FEW017 32/25 Q1009 NOSIG RMK CB TO NE USCM 010430Z 06002MPS 9999 NSC 07/06 Q1017 R01/090065 NOSIG RMK QFE724 KGJT 010353Z AUTO 11003KT 10SM CLR 16/11 A3018 RMK AO2 SLP173 T01560111 KFST 010353Z AUTO 16006KT 10SM FEW075 20/14 A3013 RMK AO2 SLP163 T02000144 KFTK 010448Z AUTO 15001KT 1SM R18/2400FT BR VV001 11/11 A3000 RMK AO2 VIS 1V1 1/2 VV V BKN $ KGLD 010353Z AUTO 13009KT 10SM CLR 14/07 A3014 RMK AO2 SLP185 T01390067 KHCD 010433Z AUTO 04004KT 10SM CLR 14/11 A3021 RMK AO2 T01360112 URMG 301900Z 32002MPS CAVOK 13/08 Q1024 R26/000070 NOSIG RMK QFE753/1005 KFSW 010435Z AUTO 34003KT 10SM 16/14 A3010 RMK AO2 KFTN 010435Z AUTO RMK A01 PNO KGLE 010435Z AUTO 00000KT 10SM 15/11 A3013 RMK AO2 T01450111 FAPE 010400Z 26015KT CAVOK 12/08 Q1018 NOSIG KGLH 010353Z AUTO 00000KT 10SM CLR 16/12 A3007 RMK AO2 SLP190 T01610117 KHBR 010353Z AUTO 16006KT 10SM CLR 17/12 A3012 RMK AO2 SLP187 T01720117 URML 010430Z 21004MPS 9999 NSC 16/09 Q1026 R32/01//70 NOSIG RMK QFE769/1026 FAOR 010430Z 20004KT CAVOK 12/06 Q1020 NOSIG WADL 010430Z VRB02KT 9999 SCT016 32/24 Q1010 NOSIG DRZA 301800Z 10008KT 4200 DU NSC 36/06 Q1013 URMM 010430Z VRB01MPS 4700 1100NW BR SCT001 06/06 Q1026 R30/000070 NOSIG RMK QBB050 MT OBSC QFE741/0988 KGKT 010435Z AUTO 00000KT 10SM CLR 10/08 A3007 RMK FBFT 010400Z 32004KT CAVOK 24/12 Q1014 URMN 010430Z 21001MPS 9999 NSC 11/08 Q1026 R24/010070 NOSIG RMK QFE732 KFUL 010353Z 29003KT 10SM CLR 24/10 A2994 RMK AO2 SLP137 T02390100 KHDC 010435Z AUTO 00000KT 10SM CLR 16/13 A3007 RMK AO2 URMO 301530Z 08003MPS 9999 BKN048 14/06 Q1023 R10/010070 NOSIG RMK QFE723/0964 KHBV 010435Z AUTO 07003KT 10SM CLR 22/14 A3009 RMK AO2 T02150139 ZWSH 010400Z 31003MPS 280V340 CAVOK 22/05 Q1017 NOSIG KFVE 010353Z AUTO 32004KT 10SM CLR 10/04 A3044 RMK AO2 SLP310 T01000039 KFTW 010353Z 00000KT 10SM CLR 19/13 A3009 RMK AO2 SLP184 T01890128 KHDE 010435Z AUTO 00000KT 10SM CLR 12/07 A3016 RMK AO2 T01200066 FAPN 010400Z AUTO 28001KT //// // ////// 14/M07 Q1016 KHCO 010434Z AUTO 14009KT 10SM CLR 14/12 A3019 RMK AO2 KGKY 010353Z AUTO 00000KT 10SM CLR 15/12 A3009 RMK AO2 SLP185 T01500117 KFTY 010353Z 00000KT 10SM CLR 13/11 A3008 RMK AO2 SLP180 T01330111 FAPP 010400Z 06008KT CAVOK 15/11 Q1017 NOSIG URMT 010430Z 23002MPS CAVOK 10/10 Q1025 R25/010070 NOSIG RMK QFE730 KGLR 010353Z AUTO VRB06KT 10SM SCT095 BKN120 14/11 A3022 RMK AO2 SLP234 T01440111 FAPR 301814Z 24002KT 9999 TS FEW040CB SCT100 22/02 Q1019 KGLS 010352Z AUTO 00000KT 10SM CLR 23/13 A3009 RMK AO2 SLP187 T02280133 KFWA 010354Z 05009KT 9SM OVC008 15/14 A3004 RMK AO2 RAB32E42 SLP169 P0000 T01500139 $ KGMJ 010435Z AUTO 00000KT 10SM CLR 13/12 A3012 RMK AO2 KGNA 010356Z AUTO 02004KT 14/03 A3029 RMK AO1 SLP258 T01390028 KFWB 010435Z AUTO 00000KT 10SM CLR 14/12 A3011 RMK AO2 KFWC 010435Z AUTO 00000KT OVC006 15/15 A3000 RMK AO1 T01480148 PWINO KGNC 010435Z AUTO 00000KT 10SM SCT120 18/11 A3015 RMK AO2 T01770110 KHDN 010435Z AUTO 14003KT 10SM CLR 10/05 A3028 RMK AO1 KGLW 010435Z AUTO 21003KT 7SM OVC080 14/14 A3003 RMK AO2 T01400140 KHDO 010351Z AUTO 04004KT 10SM CLR 18/12 A3010 RMK AO2 SLP181 T01830122 KHEF 010435Z 06006KT 5SM OVC006 18/18 A3011 RMK AO1 KGLY 010435Z AUTO 00000KT 9SM FEW040 12/11 A3012 RMK AO2 ZYCC 010400Z 24012MPS CAVOK 24/07 Q1009 NOSIG KHEI 010353Z AUTO 11006KT 10SM CLR 14/08 A3003 RMK AO2 SLP165 T01390078 DRZR 301800Z 06004KT CAVOK 35/12 Q1011 FASB 300645Z 05005KT CAVOK 16/M05 Q1023 KGMU 010353Z AUTO 29003KT 10SM CLR 18/08 A3005 RMK AO2 SLP168 T01780083 KHFD 010353Z 01010KT 4SM -RA BR OVC006 11/11 A3031 RMK AO2 SLP263 P0002 T01110111 KFXE 010440Z 29003KT 10SM VCTS CLR 24/23 A3003 RMK AO2 LTG DSNT E-SW TSE34 T02440233 KFWN 010353Z AUTO 03009KT 5SM BR OVC006 12/12 A3027 RMK AO2 SLP251 T01170117 KHFF 010356Z AUTO 00000KT 10SM CLR 17/17 A3002 RMK AO2 SLP179 T01720165 KFVX 010435Z AUTO 30003KT 4SM RA OVC004 20/19 A3005 RMK AO2 P0001 T01950192 KHEQ 010435Z AUTO 14008KT 10SM CLR 15/08 A3015 RMK AO2 KGNR 010356Z AUTO 00000KT 09/05 A3042 RMK AO1 SLP306 T00940050 KHFJ 010430Z AUTO 00000KT 10SM CLR 12/11 A3011 RMK AO2 KFWS 010435Z AUTO 00000KT 10SM CLR 15/12 A3012 RMK AO2 T01450120 DTKA 010400Z 05003KT 010V120 8000 SCT020 23/18 Q1013 NOSIG KGOK 010353Z AUTO 00000KT 10SM CLR 13/11 A3011 RMK AO2 SLP193 T01330106 EKKA 010420Z AUTO 17005KT 9999NDV FEW031/// 08/07 Q1008 FCBB 010400Z 26004KT 8000 FEW010 BKN023 24/21 Q1012 NOSIG KGNV 010353Z AUTO 30003KT 10SM BKN050 OVC060 23/17 A3004 RMK AO2 SLP168 T02330167 KGON 010356Z AUTO 03011KT 3SM -RA BR OVC010 16/13 A3025 RMK AO2 RAB01 SLP243 P0004 T01560133 USHH 010430Z 12003MPS CAVOK M00/M04 Q1022 R06/010060 NOSIG RMK QFE763 FBKE 010400Z 11006KT CAVOK 19/06 Q1014 KGOO 010435Z AUTO 00000KT 10SM CLR 13/00 A3008 RMK AO1 KFYG 010415Z AUTO 00000KT 8SM FEW029 SCT041 BKN046 17/15 A3006 RMK AO2 KGOP 010430Z AUTO 00000KT 8SM CLR 16/12 A3014 RMK AO2 KHEY 010353Z AUTO 00000KT 10SM CLR 16/13 A3007 RMK AO2 SLP070 T01560128 KGPH 010455Z AUTO 00000KT 10SM CLR 12/12 A3013 RMK AO2 KHEZ 010435Z AUTO 00000KT 10SM CLR 16/13 A3008 RMK AO1 KGPI 010355Z 00000KT 10SM CLR 15/10 A2989 RMK AO2 SLP113 T01500100 KFYJ 010435Z AUTO 08007KT 10SM SCT007 SCT029 OVC055 23/22 A3008 RMK AO2 T02260221 KGOV 010435Z AUTO 08009KT 10SM SCT024 SCT090 OVC110 15/12 A3020 RMK AO2 T01460115 KGPM 010435Z AUTO 00000KT 10SM CLR 20/10 A3011 RMK AO2 T02000103 KFYM 010435Z AUTO 00000KT 10SM OVC001 13/11 A3007 RMK A01 KHHF 010435Z AUTO 10003KT 10SM CLR 16/12 A3012 RMK AO2 T01610117 KFXY 010435Z AUTO 00000KT 10SM OVC041 15/11 A3018 RMK AO2 KFZG 010435Z AUTO 00000KT 10SM 15/15 A3008 RMK AO2 T01530153 KHHG 010435Z AUTO 00000KT 10SM OVC007 15/14 A3002 RMK AO2 T01470140 WAHS 010430Z 34008KT 7000 FEW017 31/25 Q1009 NOSIG UTAA 010400Z 33003KT 270V010 9999 FEW050CB BKN050 BKN070 16/07 Q1024 R30L/CLRD70 NOSIG KHGR 010353Z AUTO 04009KT 9SM -RA OVC008 16/13 A3015 RMK AO2 RAE30B49 SLP217 P0001 T01560133 KGRB 010443Z AUTO 05010KT 7SM -RA FEW020 BKN025 OVC040 17/16 A3017 RMK AO2 RAB29 P0001 T01670156 KGPT 010353Z AUTO 00000KT 10SM CLR 18/16 A3006 RMK AO2 SLP179 T01830161 KHIB 010440Z AUTO 31004KT 1/2SM FG CLR 04/04 A3028 RMK AO2 T00390039 DTMB 010430Z 27005KT 5000 SCT023 23/23 Q1016 NOSIG KFYV 010353Z 00000KT 10SM CLR 12/12 A3013 RMK AO2 SLP197 T01170117 KGRD 010356Z AUTO 25003KT 10SM CLR 15/09 A3006 RMK AO2 SLP173 T01500094 KK02 010435Z AUTO 30006KT 10SM BKN011 BKN018 OVC022 16/16 A3004 RMK AO2 T01600155 KHIE 010352Z AUTO 05004KT 10SM CLR 09/03 A3040 RMK AO2 SLP299 T00940033 KHIF 010358Z AUTO 11010KT 10SM CLR 19/07 A3010 RMK AO2 SLP147 T01860074 KGRF 010358Z AUTO 26004KT 10SM BKN047 BKN120 BKN150 14/07 A2997 RMK AO2 SLP153 T01400069 $ URRR 010430Z VRB01MPS 1700 R04/1600U MIFG BR SCT001 09/09 Q1024 R04/CLRD70 TEMPO 0100 FG OVC001 RMK QBB050 MAST OBSC QFE761/1015 WAJJ 010430Z 18005KT 9999 FEW012CB FEW013 32/23 Q1007 FAUP 010400Z 00000KT CAVOK 09/02 Q1018 NOSIG KGPZ 010443Z AUTO VRB05KT 9SM BKN004 09/09 A3028 RMK AO2 KHII 010430Z AUTO 11009KT 10SM CLR 32/10 A2988 RMK AO2 UTAK 010400Z 00000KT CAVOK 14/10 Q1025 R34/CLRD70 NOSIG KGRI 010353Z AUTO 14003KT 10SM CLR 12/07 A3017 RMK AO2 SLP218 T01220072 KHHR 010353Z 25005KT 10SM CLR 22/16 A2995 RMK AO2 SLP139 T02170161 VISM 010400Z 00000KT 4000 BR NSC 23/19 Q1020 ZWWW 010430Z VRB01MPS CAVOK 20/07 Q1017 NOSIG UTAM 010400Z 03006KT CAVOK 14/07 Q1022 NOSIG RMK SC07 KGSB 010358Z AUTO 12004KT 10SM CLR 22/22 A3001 RMK AO2 SLP165 T02230223 $ KIAB 010358Z AUTO 08004KT 10SM CLR 18/09 A3013 RMK AO2 SLP198 T01760090 KGRK 010358Z AUTO 00000KT 10SM OVC240 19/11 A3010 RMK AO2 SLP186 T01900106 FAWB 010400Z VRB02KT 8000 HZ SCT030 08/00 Q1016 FAUT 010400Z 15003KT 9999 OVC025 13/10 Q1018 KIAD 010352Z 05008KT 4SM -DZ BR OVC006 17/16 A3012 RMK AO2 DZE22B51RAB22E50 SLP197 P0001 T01670161 KHHV 010435Z AUTO 06012KT 10SM BKN046 26/16 A3004 RMK A01 KHHW 010435Z AUTO 00000KT 10SM CLR 16/11 A3009 RMK AO2 T01590112 FBMN 010400Z 07003KT CAVOK 23/05 Q1011 KHIO 010353Z 20004KT 10SM OVC070 14/06 A3000 RMK AO2 SLP160 T01390061 VISR 010330Z VRB02KT 3000 FU SKC 18/11 Q1021 NOSIG KIAG 010417Z AUTO 08010KT 10SM FEW013 SCT020 BKN070 13/10 A3020 RMK AO2 T01330100 KFZY 010354Z AUTO 11003KT 6SM BR OVC008 11/10 A3030 RMK AO2 RAB00E10 CIG 006V010 SLP261 P0000 T01110100 URSS 010430Z 05005MPS 9999 NSC 13/09 Q1023 R02/090070 R06/090070 NOSIG RMK R06/08006MPS QFE766 ZYHB 010400Z 21010G15MPS CAVOK 21/10 Q1006 NOSIG KGSH 010353Z AUTO 06005KT 10SM OVC010 16/13 A3005 RMK AO2 SLP175 T01560133 KIAH 010353Z 00000KT 10SM CLR 17/14 A3008 RMK AO2 SLP186 T01720139 KHJH 010435Z AUTO 00000KT 10SM CLR 09/08 A3016 RMK AO2 T00940080 DTNH 010430Z 11002KT 3500 BR FEW020 SCT026 23/22 Q1016 UTAT 010400Z VRB04KT CAVOK 13/09 Q1023 R26CLRD70 NOSIG KGRR 010353Z 08010KT 10SM OVC007 16/14 A3010 RMK AO2 SLP193 LAST T01560139 KHKA 010353Z AUTO 31003KT 10SM OVC070 17/14 A3006 RMK AO2 SLP178 T01670144 UTAV 010400Z 36006KT CAVOK 13/06 Q1022 NOSIG KGTB 010358Z AUTO 11003KT 10SM OVC060 12/09 A3031 RMK AO2 DZB04E08RAB08E16DZB16E23 SLP265 P0000 T01240089 FAWK 010400Z AUTO 18003KT //// // ////// 11/02 Q1019 EKOD 301750Z 20006KT 9999 FEW035 12/11 Q1009 FAVV 010400Z AUTO /////KT //// // ////// 10/// Q1018 KGTF 010353Z 14007KT 10SM FEW120 18/05 A2996 RMK AO2 SLP126 T01830050 KHJO 010353Z AUTO 32013KT 10SM CLR 24/04 A2996 RMK AO2 SLP144 T02390044 KGSO 010419Z 00000KT 1/4SM FG VV001 17/17 A3004 RMK AO2 T01720172 RVRNO KGSP 010353Z AUTO 00000KT 10SM CLR 16/08 A3003 RMK AO2 SLP161 T01610083 KGRY 010435Z AUTO 05020KT 10SM FEW031 SCT037 BKN043 26/20 A3004 RMK A01 WALL 010400Z 26003KT 7000 -RA FEW018CB SCT020 24/24Q1010 RMK CB TO S UTDD 010430Z 28004MPS 250V310 4400 HZ FEW025 SCT029CB OVC033 19/10 Q1020 R09/CLRD// NOSIG RMK QFE696/0929 KHLC 010353Z AUTO 07006KT 10SM CLR 12/09 A3015 RMK AO2 SLP202 T01170089 TSNO KGUC 010435Z 32006KT 10SM CLR 08/04 A3035 RMK AO2 SLP302 PWINO FZRANO RVRNO VITX 010330Z 99901KT 6000 NSC 14/M06 Q1031 NOSIG RMK AC KIBM 010435Z AUTO 16006KT 10SM CLR 11/08 A3017 RMK AO2 T01130080 KHLG 010353Z AUTO 10009KT 10SM -RA SCT046 OVC100 15/13 A3008 RMK AO2 SLP186 P0001 T01500128 URWA 010430Z 28002MPS CAVOK 10/02 Q1026 R27/010070 NOSIG RMK QFE771/1029 UTDK 010430Z 05003MPS 5000 HZ BKN028 OVC034 21/11 Q1020 R01/09//70 RMK QFE707/0943 KGTR 010435Z 00000KT 10SM CLR 14/09 A3006 RMK AO1 UTDL 010430Z 27008MPS 9999 FEW066CB BKN150 OVC200 17/09 Q1018 88CLRD70 N0SIG RMK QFE726/0968 KIDA 010353Z AUTO 00000KT 10SM CLR 12/08 A3008 RMK AO2 SLP166 T01170083 KHKS 010353Z AUTO 00000KT 10SM CLR 18/13 A3008 RMK AO2 SLP179 T01830128 WAMM 010430Z 32008KT 280V350 9999 SCT022 31/24 Q1009 NOSIG KGTU 010435Z 00000KT 10SM CLR A3009 RMK AO1 KICL 010435Z AUTO 10SM 14/12 A3017 RMK AO2 PWINO KGUL 010435Z AUTO 03004KT 10SM SCT043 26/17 A3005 RMK A01 KHLN 010353Z 16004KT 10SM OVC110 21/06 A3000 RMK AO2 SLP148 T02110056 KGVE 010436Z AUTO 04004KT 10SM OVC008 17/17 A3008 RMK AO1 URWI 010430Z 20003MPS CAVOK 10/04 Q1025 KGUP 010353Z AUTO 00000KT 10SM CLR 12/09 A3028 RMK AO2 SLP160 T01220094 KHKY 010353Z AUTO 00000KT 10SM CLR 15/11 A3004 RMK AO2 SLP154 T01500106 UTFA 010430Z 25004KT 6000 FEW011 18/11 Q1017 R88/09//70 UTDT 010430Z VRB01MPS 9000 FEW066CB BKN150 21/10 Q1018 35CLRD70 RMK QFE724/0965 KICR 010353Z AUTO 14010KT 10SM CLR 16/08 A3011 RMK AO2 SLP190 T01560078 KGUR 010435Z AUTO 07005KT 10SM CLR 17/12 A3010 RMK AO2 T01660118 KIDI 010435Z AUTO 11008G15KT 070V130 10SM OVC011 14/13 A3016 RMK A01 KHLR 010358Z AUTO 00000KT 10SM FEW240 20/10 A3008 RMK AO2 SLP178 T01960102 KGUS 010443Z AUTO 05008KT 8SM R05/5500FT -DZ OVC009 15/15 A3000 RMK AO2 DZB38 KICT 010353Z 00000KT 10SM SCT200 SCT250 14/12 A3012 RMK AO2 SLP195 T01440117 KHNB 010435Z AUTO 15004KT 10SM 12/10 A3001 RMK AO1 KGWB 010435Z AUTO 04004KT 10SM OVC007 15/13 A3004 RMK AO2 USNN 010430Z 09004MPS CAVOK 03/M04 Q1024 R03/0///65 NOSIG RMK QFE764 KGVL 010353Z AUTO 27003KT 10SM CLR 14/09 A3008 RMK AO2 SLP178 T01440094 UTFF 010400Z 00000KT 9999 NSC 18/09 Q1017 R99/CLRD70 KHND 010356Z AUTO 17008KT 10SM SCT100 28/08 A2998 RMK AO2 SLP129 T02780078 KHMN 010358Z AUTO 14006KT 10SM CLR 20/16 A3014 RMK AO2 SLP155 T01990155 VISNO RWY07 $ KHLX 010435Z AUTO 00000KT 10SM CLR 13/12 A3008 RMK AO2 T01340121 KGUY 010353Z AUTO 13008KT 10SM CLR 17/09 A3009 RMK AO2 SLP156 T01720094 KIDP 010435Z AUTO 00000KT 10SM CLR 12/10 A3012 RMK AO2 WBGB 010400Z 16004KT 9999 SCT014 BKN150 32/25 Q1010 KGXA 010355Z AUTO 30005KT 10SM CLR 21/06 A3005 RMK AO2 SLP135 WND DATA ESTMD T02140056 TSNO $ KIFA 010435Z AUTO 04003KT 10SM OVC039 16/14 A3018 RMK AO2 T01550135 KHOB 010435Z AUTO 16006KT 10SM CLR 16/13 A3015 RMK AO2 KGVT 010435Z AUTO 00000KT 10SM CLR 15/12 A3010 RMK AO2 UTFN 010430Z 16002KT 5000 BR OVC050 16/12 Q1017 R28/CLRD70 NOSIG URWW 010430Z 24007MPS CAVOK 10/05 Q1023 R24/010070 NOSIG EKRK 010420Z AUTO 22004KT 9999NDV SCT060/// 09/08 Q1010 EKSB 010420Z AUTO 19006KT 9999NDV BKN060/// 12/10 Q1009 WAOO 010400Z AUTO 24006KT 210V290 9999NDV NCD 32/23 Q1010 WBGG 010430Z 09005KT 020V140 9999 SCT018 BKN150 32/25 Q1009 NOSIG KIEN 010352Z AUTO 20010KT 10SM CLR 19/09 A3007 RMK AO2 SLP165 T01890089 KHOE 010435Z AUTO 00000KT 10SM CLR 14/13 A3005 RMK AO2 EKRN 010420Z AUTO 25015KT 9999NDV NCD 15/12 Q1012 KGWO 010353Z AUTO 00000KT 10SM CLR 14/12 A3007 RMK AO2 SLP181 T01390117 KGXF 010358Z 13008KT 10SM FEW070 FEW100 30/13 A2990 RMK AO2A SLP112 T02990130 KHMZ 010435Z AUTO 00000KT 10SM SCT012 OVC017 13/13 A3016 RMK AO2 P0003 T01320125 KGWR 010435Z AUTO 13008KT 10SM CLR 12/09 A3017 RMK AO1 KHNR 010435Z AUTO 30004KT OVC026 13/13 A3020 RMK AO2 KIER 010435Z AUTO 00000KT 10SM CLR 15/15 A3008 RMK AO2 T01490149 DTTA 010430Z 17003KT 9999 FEW026 24/21 Q1015 NOSIG KGYB 010435Z AUTO 00000KT 10SM CLR 15/13 A3013 RMK AO2 T01500128 DTTB 010400Z 10002KT 9999 SCT020 22/21 Q1015 FBSK 010300Z 17004KT 090V200 9999 -TSRA FEW030CB BKN070 19/07 Q1015 TEMPO 7000 TSRA USPP 010430Z 16004MPS 9999 BKN040 08/05 Q1011 R21/090060 NOSIG RMK QFE748 DTTD 010400Z AUTO 32004KT 280V360 NCD 23/18 Q1016 KGWW 010425Z AUTO 00000KT 10SM CLR 21/21 A3003 RMK AO2 T02130213 KHON 010355Z AUTO 13007KT 10SM CLR 13/08 A3014 RMK AO2 SLP207 T01280078 EKSN 301350Z 24016KT 9999 SHRA SCT032CB 12/09 Q1003 WBGR 010400Z 23007KT 9999 SCT016 SCT150 BKN300 31/24 Q1010 DTTF 010100Z 04006KT 9999 FEW026 22/21 Q1016 KHOP 010435Z AUTO 19003KT 10SM BKN009 OVC015 15/15 A3001 RMK AO2 CIG 009V011 KIFP 010435Z AUTO 00000KT 10SM CLR 30/09 A2988 RMK AO2 WBGS 010400Z 03005KT 9999 FEW018 BKN150 32/24 Q1009 DTTG 010400Z 36006KT 0200 FG FEW020 SCT030 22/22 Q1015 NOSIG FBSP 010400Z 00000KT CAVOK 20/15 Q1014 EKSP 010420Z 17004KT 9999 FEW030 SCT060 BKN110 09/08 Q1009 KHNZ 010425Z AUTO 15004KT 10SM BKN009 21/20 A3004 RMK AO2 T02050196 KGYH 010435Z AUTO 00000KT 10SM CLR 13/09 A3005 RMK AO2 KGYI 010430Z AUTO 00000KT 10SM CLR 16/12 A3011 RMK AO2 T01640118 DTTJ 010430Z 35005KT 6000 SCT020 25/23 Q1014 NOSIG KHOT 010353Z AUTO 00000KT 10SM CLR 17/12 A3008 RMK AO2 SLP180 T01670122 DTTK 010400Z 00000KT 6000 BKN013 22/20 Q1015 KHOU 010353Z 00000KT 10SM CLR 19/14 A3008 RMK AO2 SLP190 T01890139 KGYL 010434Z AUTO 03003KT 10SM CLR 14/12 A3020 RMK AO2 T01400121 DTTL 010400Z AUTO 15006KT 110V190 NCD 24/22 Q1015 KIGM 010351Z AUTO 14012KT 10SM CLR 21/ A3007 RMK AO2 SLP119 T0211 $ WBGY 010400Z 09005KT 9999 SCT023 BKN150 31/24 Q1009 KHPN 010356Z 04007KT 8SM BKN009 OVC015 12/11 A3025 RMK AO2 SLP245 T01220111 DTTN 010400Z 19003KT 8000 SCT020 SCT030 23/20 Q1015 KGXY 010435Z 36006KT 10SM CLR 10/06 A3017 RMK AO1 KHQG 010435Z AUTO 12009KT 10SM CLR 16/09 A3011 RMK AO2 T01600090 KGZH 010353Z AUTO 00000KT 10SM CLR 14/13 A3008 RMK AO2 SLP183 T01440133 KIGQ 010435Z AUTO 07006KT 10SM SCT014 BKN032 OVC065 16/16 A3005 RMK AO2 T01580155 KGYR 010347Z VRB03KT 10SM FEW070 FEW150 SCT200 29/13 A2994 RMK LAST KHQI 010435Z AUTO 05010G17KT 10SM CLR 25/14 A3006 RMK A01 DTTR 301800Z 32004KT 8000 FEW026 27/17 Q1017 KK88 010435Z AUTO 00000KT 10SM CLR 13/13 A3013 RMK AO1 T01270126 KIIB 010435Z AUTO 03004KT 10SM OVC037 15/13 A3014 RMK AO2 KGZL 010435Z AUTO 00000KT 10SM CLR 13/08 A3010 RMK AO2 KHQM 010353Z AUTO 09004KT 9SM SCT015 BKN055 OVC070 12/11 A2998 RMK AO2 SLP157 T01170106 KGZN 010420Z AUTO 13004KT 10SM CLR 17/11 A3013 RMK AO2 EKVD 010420Z AUTO 18004KT //// ///////// 10/09 Q1009 KIGX 010446Z AUTO 00000KT 2 1/2SM BR BKN007 BKN065 19/19 A3004 RMK AO2 T01940194 WARR 010430Z 08010KT 9999 BKN020 32/25 Q1009 NOSIG USRR 010430Z 10004MPS 7000 NSC 03/M04 Q1024 R07/CLRD60 NOSIG RMK QFE763 DTTX 010300Z 34005KT 5000 SCT023 SCT030 23/23 Q1015 KGYY 010435Z AUTO 06007KT 10SM BKN014 BKN019 OVC060 17/16 A3005 RMK AO2 T01700158 EKVG 010420Z AUTO 10001KT 9999NDV FEW033/// 03/01 Q1006 DTTZ 010400Z 05008KT 7000 BKN030 24/22 Q1015 NOSIG KHRI 010353Z AUTO 25015G21KT 10SM SCT110 19/03 A2985 RMK AO2 SLP106 T01890028 KHSA 010155Z 00000KT 10SM CLR 16/13 A3005 UUBC 010430Z 26002MPS CAVOK 12/10 Q1013 R13/290050 NOSIG RMK QFE742/0989 KHRJ 010425Z AUTO 00000KT 7SM OVC003 22/22 A3003 RMK AO2 T02170217 KGZS 010435Z AUTO 00000KT 10SM FEW049 BKN055 OVC070 12/12 A3006 RMK A01 EKVJ 301350Z 26022KT 9999 SCT024 14/10 Q1006 KHSB 010435Z AUTO 00000KT 10SM SCT015 SCT024 BKN039 14/14 A3001 RMK AO2 T01370137 KHRL 010352Z 03005KT 10SM CLR 22/19 A3005 RMK AO2 SLP174 T02220189 KJAC 010435Z 03004KT 10SM CLR 06/06 A3023 RMK AO1 KHQU 010435Z AUTO 00000KT 10SM CLR 14/12 A3010 RMK AO1 T01440120 KIJD 010352Z AUTO 03007KT 6SM BR OVC010 13/12 A3030 RMK AO2 RAE43 CIG 008V015 SLP260 P0002 T01330122 KHSD 010435Z AUTO 00000KT 10SM CLR 16/12 A3012 RMK A01 KHSE 010351Z AUTO 16010KT 10SM CLR 26/23 A3007 RMK AO2 SLP181 T02560233 TSNO KHRO 010353Z AUTO 26005KT 10SM CLR 14/12 A3011 RMK AO2 SLP190 T01390117 ELLX 010420Z 06008KT 7000 RA FEW001 BKN005 11/11 Q1009 NOSIG KHSG 010435Z AUTO 21003KT 10SM OVC100 14/08 A3011 RMK AO2 T01370077 USSS 010430Z 18002MPS 150V210 9999 OVC007 06/06 Q1017 R26R/220055 TEMPO OVC005 RMK QFE742/0989 KHQZ 010435Z AUTO 00000KT 10SM CLR 20/10 A3010 RMK AO1 T01980104 WBKK 010430Z 23007KT 9999 FEW014 SCT140 BKN270 32/25 Q1010 NOSIG KHSI 010353Z AUTO 00000KT 6SM HZ CLR 11/07 A3017 RMK AO2 SLP214 T01110067 WBKL 010400Z 21005KT 160V260 9999 FEW013 BKN290 31/25 Q1011 KL18 010435Z AUTO 00000KT 10SM CLR 19/17 A2999 RMK AO2 KHRT 010358Z AUTO 02003KT 10SM CLR 17/14 A3006 RMK AO2 SLP181 T01710137 UUBP 010430Z 00000MPS 9000 SCT033 12/11 Q1014 R16/CLRD70 NOSIG RMK QFE743/0990 KJAN 010354Z 00000KT 10SM CLR 17/13 A3008 RMK AO2 SLP183 T01720133 KHRX 010435Z AUTO 19008G16KT 10SM CLR 19/11 A3014 RMK AO2 T01860111 KHSP 010435Z AUTO 08004KT 1/4SM -RA OVC002 08/08 A3013 RMK AO2 USTR 010430Z 09002MPS 050V120 CAVOK 02/M01 Q1019 R12/CLRD65 NOSIG RMK QFE755/1007 KIIY 010435Z AUTO 00000KT 10SM CLR 16/10 A3006 RMK AO2 KIKG 010435Z AUTO 00000KT 10SM CLR 18/15 A3008 RMK AO2 T01800150 WBKS 010400Z 08005KT 030V130 9999 FEW016 SCT140 BKN270 30/25 Q1010 KJAQ 010435Z AUTO 00000KT 10SM CLR 12/06 A3006 RMK AO1 T01210058 WATT 010430Z 31009KT 9999 FEW016CB SCT017 33/24 Q1010 NOSIG RMK CB TO NE WBKT 010400Z 15006KT 9999 FEW014 SCT140 BKN270 30/26 Q1010 KHUA 010358Z AUTO 20004KT 10SM FEW075 13/11 A3006 RMK AO2 SLP179 T01260109 KJAS 010435Z AUTO 00000KT 10SM CLR 16/15 A3011 RMK AO2 T01550149 KJCA 010435Z AUTO 00000KT 10SM CLR 14/10 A3006 RMK AO2 UUDD 010430Z 25003MPS 230V300 CAVOK 10/08 Q1012 R32L/290095 R32R/290094 NOSIG KHST 010358Z AUTO 00000KT 10SM CLR 25/24 A3003 RMK AO2 LTG DSNT NE-S SLP172 T02530235 KIKK 010435Z AUTO 00000KT 7SM SCT007 BKN013 OVC044 15/15 A3004 RMK AO2 T01530150 WBKW 010400Z 15005KT 090V230 9999 FEW017 BKN140 30/25 Q1010 UUBW 010430Z 25002MPS CAVOK 11/09 Q1011 R30/////// NOSIG KHTL 010353Z AUTO 09013G19KT 9SM RA SCT008 BKN060 OVC095 13/12 A3020 RMK AO2 SLP230 P0004 T01330117 KJAU 010435Z AUTO 00000KT 10SM FEW055 11/10 A3010 RMK A01 KHSV 010353Z 12003KT 10SM FEW080 14/10 A3007 RMK AO2 SLP179 T01390100 KILE 010356Z AUTO 00000KT 10SM CLR 17/12 A3011 RMK AO2 SLP208 T01670117 KHUF 010434Z 18005KT 10SM BKN017 BKN022 OVC029 14/13 A3000 RMK AO2 T01440133 $ KJAX 010356Z 30004KT 10SM FEW025 FEW250 21/20 A3001 RMK AO2 LTG DSNT NE SLP163 CONS LTGICCCCG DSNT NE CB DSNT NE T02110200 KHTO 010435Z AUTO 05009G20KT 020V080 5SM -RA OVC006 15/15 A3022 RMK AO2 T01510145 KIJX 010435Z AUTO 30004KT 7SM BKN008 BKN019 OVC026 16/16 A3005 RMK AO2 T01610155 KILG 010351Z AUTO 05017KT 10SM OVC013 17/14 A3018 RMK AO2 SLP220 T01670144 KL35 010435Z AUTO 00000KT 10SM CLR 10/05 A3027 RMK AO2 KJBR 010353Z AUTO 00000KT 10SM OVC065 18/14 A3006 RMK AO2 SLP179 T01830139 UUDL 010430Z 23003MPS CAVOK 09/08 Q1007 NOSIG RMK QFE747 KHTS 010446Z 09005KT 1 1/4SM BR OVC070 12/11 A3005 RMK AO2 KL38 010435Z AUTO 00000KT 10SM CLR 16/16 A3007 RMK AO2 T01620157 KIKT 010435Z AUTO 03007KT 8SM CLR 25/15 A3005 RMK A01 UUEE 010430Z 24003MPS CAVOK 09/09 Q1011 R24R/290145 R24L/290151 NOSIG KHUL 010353Z AUTO 00000KT 10SM CLR 03/03 A3044 RMK AO2 SLP311 T00330033 FCOU 300600Z 00000KT 9999 FEW010 23/22 Q1012 KILM 010353Z AUTO 17003KT 10SM SCT080 23/23 A3003 RMK AO2 SLP168 T02330228 KIKV 010435Z AUTO RMK AO2 PNO PWINO KHUM 010435Z AUTO 00000KT 10SM CLR 16/16 A3007 RMK AO2 T01600157 KJDD 010435Z AUTO 00000KT 10SM CLR 14/12 A3009 RMK AO2 KIKW 010433Z AUTO 06006KT 3SM DZ BKN006 OVC012 14/14 A3015 RMK AO2 T01370135 KILN 010354Z AUTO 18003KT 9SM CLR 11/11 A3003 RMK AO2 SLP173 T01060106 FCPP 010300Z 20004KT 4000 SCT007 OVC020 24/23 Q1012 NOSIG KHUT 010352Z 00000KT 10SM CLR 12/10 A3014 RMK AO2 SLP192 T01220100 KJCT 010351Z AUTO 00000KT 10SM CLR 16/13 A3013 RMK AO2 SLP175 T01610133 UTNN 010430Z 28007KT CAVOK 13/05 Q1024 R33/CLRD60 NOSIG KIML 010353Z AUTO 14010KT 10SM CLR 14/07 A3015 RMK AO2 SLP197 T01440072 EKYT 010420Z 20007KT CAVOK 10/09 Q1007 KHWD 010354Z 29014KT 10SM CLR 16/09 A3009 RMK AO2 SLP197 T01560089 KIND 010354Z 15006KT 10SM SCT006 BKN080 BKN240 14/13 A3000 RMK AO2 SLP158 T01390133 KJDN 010448Z AUTO 30006KT 13/11 A2997 RMK AO1 SLP143 T01330111 KHVN 010353Z AUTO 02011KT 10SM SCT007 OVC023 12/11 A3027 RMK AO2 RAE21 SLP248 P0000 T01220111 KJEF 010353Z AUTO 28003KT 10SM OVC050 17/13 A3010 RMK AO2 SLP179 T01720133 KINF 010435Z AUTO 00000KT 7SM BKN040 BKN050 OVC110 22/21 A3003 RMK AO2 LTG DSNT SW ZYTL 010430Z 14006MPS CAVOK 24/14 Q1016 NOSIG KHVR 010353Z AUTO 07005KT 10SM CLR 16/11 A2994 RMK AO2 SLP137 T01560111 UTNU 010430Z 28008KT 8000 NSC 14/06 Q1024 R31/CLRD70 NOSIG KHVS 010435Z AUTO 00000KT 10SM CLR 16/13 A3003 RMK AO2 KIMS 010431Z AUTO 00000KT 7SM SCT018 SCT023 OVC090 12/11 A3004 RMK AO1 KINJ 010435Z AUTO 00000KT 10SM CLR 16/10 A3011 RMK AO2 T01580096 KINK 010353Z AUTO 13006KT 10SM CLR 19/13 A3010 RMK AO2 SLP157 T01940133 PWINO TSNO KIMT 010354Z AUTO 36005KT 10SM FEW060 OVC110 13/10 A3025 RMK AO2 SLP244 T01330100 KIOB 010435Z AUTO 14004KT 10SM BKN044 OVC050 12/11 A3006 RMK AO2 KINL 010355Z AUTO 12005KT 9SM CLR 07/06 A3028 RMK AO2 VIS 1/4 RWY 31 SLP265 T00670056 KHXD 010435Z AUTO 00000KT 10SM CLR 19/19 A3004 RMK AO2 KHWO 010353Z AUTO 00000KT 10SM CLR 25/24 A3004 RMK AO2 LTG DSNT E SLP172 T02500239 KJER 010406Z AUTO 08006KT 10SM -RA SCT065 BKN085 OVC100 15/13 A3003 RMK AO2 LTG DSNT N AND NW P0000 T01500128 OYAT 301200Z 35012KT 9999 FEW025 34/07 Q//// KHYA 010444Z AUTO 05012G19KT 3SM -RA BR BKN008 OVC012 15/14 A3026 RMK AO2 P0003 T01500144 KINS 010358Z AUTO VRB01KT 10SM FEW100 25/03 A3000 RMK AO2 SLP118 T02500033 KJES 010435Z AUTO 00000KT 10SM CLR 16/15 A3005 RMK AO2 KJFK 010351Z 04014KT 6SM -DZ BR SCT008 OVC012 15/13 A3023 RMK AO2 RAE0257DZB47 SLP235 P0000 T01500133 KINT 010445Z AUTO 00000KT 1/4SM FG VV001 17/16 A3005 RMK AO2 T01670161 ZYTX 010430Z 21009MPS 180V240 CAVOK 26/07 Q1013 NOSIG ENAL 010420Z 27007KT 9999 -SHRA FEW019 SCT025 BKN060 08/04 Q1002 KHWV 010440Z AUTO 02005KT 7SM -RA BKN008 BKN012 OVC020 15/14 A3022 RMK AO2 RAB06 P0001 T01500144 TSNO KINW 010356Z AUTO 00000KT 10SM FEW120 14/12 A3020 RMK AO2 SLP189 T01390117 ENAN 010420Z AUTO 29019KT 9999NDV BKN014/// BKN017/// OVC055/// 09/07 Q0981 KHWY 010435Z AUTO 03004KT 3SM -DZ OVC004 18/16 A3010 RMK AO2 T01780155 KJGG 010435Z AUTO 11003KT 5SM CLR 24/23 A3007 RMK AO1 KHYI 010435Z 00000KT 10SM CLR 15/13 A3012 RMK AO1 FDJR 010400Z AUTO 17003KT //// // ////// 14/11 Q1019 KIPJ 010430Z AUTO 00000KT 10SM CLR 12/12 A3004 RMK AO2 T01240118 FDLB 010400Z AUTO 19003KT //// // ////// 18/14 Q1021 KIPL 010353Z AUTO 24011KT 10SM CLR 32/13 A2983 RMK AO2 SLP103 T03220133 ENAT 010350Z AUTO 17002KT 9999 -RA ///041/// 07/06 Q0974 RMK WIND 700FT 18004KT ENBL 301950Z 24004KT 9999 SCT015 BKN025 06/04 Q0998 KHZD 010435Z AUTO 00000KT 10SM OVC075 15/14 A3003 RMK A01 KIOW 010352Z AUTO 03009KT 10SM SCT013 SCT037 OVC055 17/14 A3013 RMK AO2 SLP203 T01670139 KHZE 010435Z AUTO 08004KT 10SM CLR 13/07 A3006 RMK AO2 ENBN 010420Z AUTO 31010KT 280V340 3900NDV +RA FEW011/// SCT022/// BKN028/// 09/08 Q0991 KJFX 010435Z AUTO 00000KT 11/11 A3008 RMK AO2 PWINO ENBO 010420Z 29018KT 9999 FEW008CB SCT020TCU BKN060 10/07 Q0986 UTSA 010430Z 33006KT 290V360 9999 NSC 16/03 Q1020 R07/CLRD70 NOSIG KJFZ 010435Z AUTO 00000KT 1/2SM FG OVC002 13/13 A3010 RMK AO2 T01290129 UTSB 010430Z 33006KT CAVOK 16/07 Q1021 R01/CLRD70 NOSIG WBSB 010430Z 21008KT 9999 FEW016 FEW017CB BKN280 33/24 Q1010 NOSIG KHYR 010353Z AUTO 00000KT 10SM CLR 11/09 A3026 RMK AO2 SLP252 T01060094 ENBR 010420Z VRB01KT 9999 -SHRA FEW015TCU SCT025 BKN035 07/06 Q1004 RMK WIND 1200FT 17009KT KHYS 010435Z 10006KT 10SM CLR 13/05 A3014 RMK AO1 ENBS 302020Z 15011KT 9999 FEW013 SCT030 BKN062 08/06 Q0971 RESH KIPT 010354Z AUTO 00000KT 10SM OVC022 14/13 A3022 RMK AO2 SLP233 T01390133 OYDM 301200Z VRB02KT 9999 OVC030 24/00 Q//// KHZL 010435Z AUTO 09006KT 10SM OVC007 11/10 A3026 RMK AO2 PWINO ENBV 302050Z VRB01KT 9999 -RA FEW025 SCT055 09/07 Q0971 KHYW 010435Z AUTO 00000KT 7SM CLR 19/18 A3004 RMK AO2 KJHN 010435Z AUTO 13010KT 10SM CLR 15/09 A3011 RMK AO2 T01530092 ENCN 010420Z 05004KT 360V070 CAVOK 05/04 Q1006 KHYX 010434Z AUTO 04007KT 10SM OVC010 13/12 A3014 RMK AO2 UTSK 010430Z 29005KT 260V320 CAVOK 15/06 Q1020 R16/CLRD70 KHZR 010435Z AUTO 10SM CLR 16/14 A3008 RMK AO2 T01550139 KM08 010440Z AUTO 00000KT 10SM BKN036 OVC041 14/13 A3006 RMK A01 KIRK 010355Z AUTO 35005KT 10SM OVC032 16/13 A3013 RMK AO2 SLP203 T01610133 KJHW 010435Z AUTO 13009KT 10SM SCT014 BKN110 13/10 A3016 RMK AO1 KHZX 010432Z AUTO 09003KT 10SM OVC007 10/10 A3027 RMK AO2 KHZY 010353Z AUTO 11007KT 10SM OVC015 15/13 A3012 RMK AO2 SLP197 T01500133 UTSS 010430Z VRB02KT 9999 NSC 14/08 Q1020 R88/CLRD70 NOSIG UTST 010430Z 24012KT 4700 HZ BKN066CB 19/06 Q1019 R88/CLRD70 NOSIG VLLB 010400Z 36002KT 4000 BR SCT010 SCT050 OVC070 26/24 Q1011 NOSIG ENDR 010420Z AUTO 29024KT 10/04 Q0997 KIRS 010435Z AUTO 06003KT 7SM BKN007 OVC011 15/14 A3005 RMK AO2 T01510141 KJKA 010435Z AUTO 00000KT 10SM CLR 15/15 A3007 RMK AO2 T01500150 FDMS 301300Z 09008KT 9999 SCT014 FEW040CB 27/16 Q1014 NOSIG KM19 010356Z AUTO 33004KT 5SM BR FEW070 17/14 RMK AO2 SLPNO T01670144 $ OYGD 300700Z 07003KT 9999 SCT025 29/22 Q1009 ENEK 010420Z 25006KT CAVOK 12/07 Q1007 W15/S4 ENFB 010420Z AUTO 31013KT 9999NDV SCT025/// BKN048/// 09/06 Q1004 W///S5 KM21 010435Z AUTO 00000KT 10SM SCT010 SCT034 OVC100 13/13 A3001 RMK AO2 T01250125 ENDU 010420Z 26009KT 9999 -RA FEW008 SCT020 BKN035 08/06 Q0979 RMK WIND 1100FT 28015KT WIND 2200FT 27024KT KISM 010356Z 24003KT 10SM SCT055 24/23 A3004 RMK AO2 SLPNO T02390228 FDMV 010300Z AUTO 00000KT //// // ////// 18/16 Q1022 KISN 010352Z AUTO 13005KT 10SM CLR 16/09 A2998 RMK AO2 SLP153 T01560094 KISO 010425Z AUTO 15003KT 10SM CLR 22/22 A3004 RMK AO2 T02240219 FEFF 010400Z VRB02KT CAVOK 22/22 Q1009 NOSIG KM25 010435Z AUTO 25004KT 5SM BR SCT025 SCT045 SCT090 15/15 A3004 RMK AO2 KISP 010356Z 04013G17KT 4SM BR OVC008 14/14 A3023 RMK AO2 RAB14E33 SLP235 P0001 T01440139 LBBG 010430Z 24005KT 3500 BR FEW011 12/12 Q1018 BECMG 5000 BR KISQ 010435Z AUTO 07005KT 10SM SCT100 BKN120 14/11 A3024 RMK AO2 T01440107 KITH 010356Z AUTO 10005KT 10SM OVC012 11/09 A3027 RMK AO2 RAE04 SLP253 P0000 T01060094 UTTT 010430Z 20005KT 170V230 7000 FEW053CB 17/12 Q1019 R08R/CLRD70 NOSIG KJKJ 010434Z AUTO 13005KT 10SM CLR 13/09 A3020 RMK AO2 KM30 010435Z AUTO 28005KT 7SM RA SCT008 BKN012 OVC030 17/16 A3003 RMK AO2 T01670157 VLLN 010400Z 32002KT 5000 BR SCT017 OVC100 27/24 Q1012 NOSIG KJKL 010353Z AUTO 00000KT 10SM CLR 13/09 A3007 RMK AO2 SLP177 T01280089 ENFL 010420Z AUTO 12008KT 9999NDV DZ BKN011/// BKN044/// OVC054/// 08/07 Q1003 ENGC 010420Z 32010KT 9999 SCT025 BKN050 09/04 Q1004 W09/S4 ENEV 010350Z AUTO VRB04KT 9999 BKN031/// OVC036/// 09/06 Q0982 RMK WIND 1400FT 25011KT KISW 010354Z AUTO 07009KT 10SM OVC021 16/12 A3020 RMK AO2 SLP225 T01560122 KM33 010435Z AUTO 00000KT 5SM BR FEW015 SCT023 OVC070 15/14 A3006 RMK A01 OYHJ 301200Z 26015KT 9999 SCT020 FEW030CB 26/16 Q//// KITR 010353Z AUTO 13012KT 10SM SCT120 15/07 A3015 RMK AO2 SLP181 T01500067 OYIB 301100Z 22004KT 9999 SCT025 SCT030CB 26/12 Q1014 KM40 010435Z AUTO 00000KT 8SM CLR 13/13 A3008 RMK AO2 FEFT 301000Z 00000KT 9999 BKN023 28/21 Q1011 UUMO 010430Z 25003MPS CAVOK 10/09 Q1012 R26/290350 NOSIG RMK QFE743/0991 KJLN 010353Z AUTO 00000KT 10SM CLR 13/12 A3011 RMK AO2 SLP193 T01330122 ENHD 010420Z AUTO 12007KT 9999 SCT018/// BKN026/// BKN044/// 09/08 Q1004 ENGM 010420Z VRB02KT CAVOK 02/M02 Q1002 NOSIG ENHE 010420Z 32026KT 9999 SCT023 08/04 Q0995 W///S6 ENHF 010350Z 24004KT 9999 SCT006 BKN009 07/07 Q0973 RMK WIND 1254FT 27009KT FDPP 010000Z AUTO 06003KT //// // ////// 16/15 Q1021 UUOB 010430Z 23004MPS CAVOK 12/10 Q1018 R29/090060 NOSIG KIWA 010349Z 16005KT 20SM SKC 26/15 A2997 ENHK 301350Z 00000KT 9999 -RA FEW015 BKN026 08/07 Q0972 KIWD 010356Z AUTO 08004KT 10SM SCT001 11/11 A3027 RMK AO2 SLP255 T01110106